ENHM 300750Z 32023KT 9999 -RA FEW008CB SCT020 BKN040 11/10 Q0994 RERA W13/S4 UUOK 300800Z 07004MPS 030V100 CAVOK 25/18 Q1013 R12/CLRD70 NOSIG RMK QFE741/0989 KJMR 300813Z AUTO 00000KT 1SM BR VV007 12/11 A2997 RMK AO2 KIWI 300801Z AUTO 00000KT 1 1/2SM BR OVC001 14/13 A2989 RMK AO2 VIS 3/4V4 T01440133 PPIT 300756Z AUTO 04011KT 10SM OVC090 17/14 A2999 RMK AO2 SLP156 T01720139 KJMS 300756Z AUTO 01008KT 10SM BKN100 BKN120 17/14 A3003 RMK AO2 SLP165 T01670144 KIXA 300800Z AUTO 00000KT 10SM OVC120 20/19 A2999 RMK AO2 UUOO 300800Z 07004MPS 020V110 CAVOK 27/12 Q1012 R12/090070 NOSIG RMK QFE745 KIXD 300753Z AUTO 12007KT 10SM CLR 22/19 A2998 RMK AO2 LTG DSNT E AND W SLP138 T02170194 ENHV 300750Z 18011KT 9999 -RA FEW030 BKN060 11/09 Q1012 KM63 300758Z AUTO 11009KT 9SM CLR 25/10 A3011 RMK AO2 SLP119 T02500102 PPIZ 300756Z AUTO 05009KT 8SM OVC038 10/07 A3006 RMK AO2 TSNO T01000072 SLP182 $ KIYA 300815Z AUTO 00000KT 10SM CLR 22/22 A2993 RMK AO2 T02220222 ENKB 300750Z 07009KT 9999 FEW050 SCT094 BKN120 16/08 Q0999 FDSK 300700Z VRB02KT CAVOK 18/09 Q1025 NOSIG KJNX 300755Z AUTO 00000KT 10SM OVC110 21/21 A2998 RMK AO2 LTG DSNT S VLPS 300800Z 18006KT 9999 SCT020 FEW023TCU FEW200 31/25 Q1007 TCU W NOSIG KIZA 300748Z AUTO 25003KT 5SM BR BKN003 11/10 A2991 RMK AO2 ENLA 300750Z AUTO 24023KT 9999NDV FEW015/// 15/11 Q1000 W///S4 KJOT 300755Z AUTO 00000KT 10SM CLR 14/13 A3005 RMK AO2 T01390134 FDST 300600Z AUTO 01006KT //// // ////// 17/08 Q//// KJQF 300800Z AUTO 00000KT 10SM SCT043 BKN065 BKN070 20/19 A3003 RMK AO2 LBGO 300800Z AUTO VRB03KT 9999 FEW034/// 27/19 Q1016 NOSIG KIZG 300754Z AUTO 31004KT 1/4SM FG VV002 13/13 A2991 RMK AO2 SLP126 T01280128 ENKR 300750Z 17009KT 9999 -RA BKN007 14/13 Q1014 RMK WIND 731FT 16013KT ENLK 300650Z VRB01KT CAVOK 17/12 Q1008 KM91 300625Z AUTO 00000KT 10SM SCT038 15/15 A3005 RMK A01 KN03 300815Z AUTO 00000KT 10SM CLR 09/09 A3005 RMK AO2 ENMH 300250Z 00000 9999 FEW006 SCT012 BKN040 10/09 Q1014 VLSK 300800Z 18002KT 6000 SCT020 SCT083 30/25 Q1008 NOSIG KLAA 300753Z AUTO 25006KT 10SM CLR 18/16 A3006 RMK AO2 WSHFT 0708 SLP126 T01780156 TSNO $ FDUS 300600Z AUTO 30002KT //// // ////// 08/03 Q1027 ENNA 300750Z 18009KT 9999 -RA FEW004 SCT041 BKN053 14/13 Q1012 RMK WIND 1800FT 17017KT ENML 300750Z 09005KT CAVOK 16/10 Q0998 ENNE 300750Z 12014KT CAVOK 12/11 Q1003 W///S4 KLAF 300754Z AUTO 00000KT 10SM CLR 12/12 A3006 RMK AO2 SLP178 T01220117 ENOA 300750Z 05015KT 8000 2000NE -RA FEW008 OVC015 OVC024 11/11 Q0995 W///S3 ENMS 300750Z 16007KT 080V200 9999 SCT048 20/09 Q1006 RMK WIND 412FT VRB06KT KLBB 300753Z 18008KT 10SM FEW080 FEW250 24/17 A3009 RMK AO2 SLP131 FRQ LTGIC DSNT N-NE CB DSNT N-NE MOV SE T02390167 KJSL 300800Z AUTO 19007KT 140V230 10SM FEW020 28/23 A2993 RMK A01 ENNK 300750Z VRB02KT CAVOK 18/12 Q1008 KLAL 300815Z AUTO 00000KT 7SM SCT003 23/23 A2999 RMK AO2 KJTC 300815Z AUTO 34006KT 10SM VCTS FEW002 FEW016 OVC060 16/12 A3033 RMK AO2 LTG DSNT NW-NE KLAM 300815Z AUTO 24005KT 10SM SCT120 19/06 A3034 RMK AO2 T01920060 ENNM 300750Z 16008G18KT 100V270 CAVOK 20/07 Q1004 KLAN 300753Z 00000KT 10SM CLR 12/08 A3005 RMK AO2 SLP173 T01170083 $ KLBE 300815Z AUTO 00000KT 10SM CLR 12/12 A3010 RMK AO2 KLBF 300807Z AUTO 22010KT 10SM VCTS SCT070 18/15 A3008 RMK AO2 LTG DSNT SW-NW TSE01 T01780150 KJSO 300815Z AUTO 00000KT 10SM CLR 24/21 A3001 RMK AO2 T02450210 LATI 300820Z 01002KT CAVOK 29/17 Q1015 NOSIG KLAR 300753Z AUTO 14005KT 10SM SCT120 11/08 A3031 RMK AO2 SLP150 T01110083 TSNO VMMC 300800Z 17011KT 9999 FEW020 SCT030 31/27 Q1008 NOSIG KLAS 300756Z 07014KT 10SM FEW100 FEW160 BKN200 34/08 A2985 RMK AO2 SLP073 OCNL LTGIC DSNT NE T03440083 404330294 KJST 300754Z AUTO 23004KT 10SM CLR 11/08 A3011 RMK AO2 SLP192 T01110083 KLBL 300815Z 06012KT 10SM CLR 19/15 A3010 RMK AO1 LTG DSNT E ENOL 300750Z 13014KT CAVOK 18/08 Q1002 NOSIG KJSV 300815Z AUTO 07003KT 10SM CLR 21/17 A3001 RMK AO2 KLAW 300753Z AUTO 00000KT 10SM CLR 22/19 A2999 RMK AO2 SLP143 T02170189 TSNO KLAX 300753Z VRB03KT 7SM FEW006 19/17 A2987 RMK AO2 SLP111 T01890167 402390183 $ KLCG 300815Z AUTO 34003KT 10SM CLR 19/18 A2997 RMK AO2 T01870180 KLCH 300753Z AUTO 03004KT 10SM CLR 24/22 A2992 RMK AO2 SLP140 T02390222 KLCI 300756Z AUTO 25005KT 10SM CLR 17/14 A2992 RMK AO2 SLP145 T01670139 PNO $ KN38 300815Z AUTO VRB03KT 10SM CLR 11/10 A3007 RMK AO2 ENQA 300750Z AUTO 08019KT 9999NDV -SHRA BKN032/// OVC060/// 12/10 Q0996 RESHRA W09/S4 KLBT 300807Z AUTO 00000KT 10SM BKN024 22/20 A2996 RMK AO2 T02170200 KLCK 300815Z AUTO 00000KT 10SM CLR 13/12 A3006 RMK AO2 T01270115 ENQC 300750Z AUTO 06015KT 5000NDV +SHRA BKN037/// 12/11 Q0995 W///S4 ENOV 300750Z 24004KT 9999 -RA BKN061 13/12 Q0998 RMK WIND 2175FT 12015KT KLBX 300753Z AUTO 00000KT 8SM CLR 25/24 A2992 RMK AO2 SLP130 T02500239 KLCQ 300815Z AUTO 00000KT 10SM CLR 23/23 A2997 RMK AO2 VLVT 300800Z 09002KT 7000 -DZ SCT010 SCT016 OVC083 27/25 Q1005 NOSIG KLDJ 300815Z AUTO 00000KT 10SM CLR 19/14 A2999 RMK AO2 T01880140 KKLS 300815Z AUTO 03004KT 10SM FEW019 13/08 A3025 RMK AO1 ENRA 300750Z 09006KT 9999 FEW048TCU SCT080 19/11 Q1007 KLEB 300759Z AUTO 00000KT 1 3/4SM BR OVC001 14/13 A2995 RMK AO2 VIS 3/4V5 T01390128 KJVL 300815Z AUTO 00000KT 10SM CLR 13/11 A3003 RMK AO2 KLDM 300815Z AUTO 00000KT 10SM CLR 10/10 A3002 RMK AO2 T01030101 KLEE 300753Z AUTO 22004KT 10SM CLR 25/22 A2998 RMK AO2 SLP150 T02500222 KJWG 300815Z AUTO 00000KT 10SM CLR 23/23 A3002 RMK AO2 T02270225 ENQR 300750Z AUTO 14011KT 9999NDV OVC052/// 12/10 Q0997 W///S4 KN60 300752Z AUTO 03006KT 14/13 A3012 RMK AO1 SLP193 T01440133 UUWW 300800Z VRB01MPS CAVOK 24/13 Q1015 R01/000070 NOSIG ENSB 300750Z 27007KT 9999 FEW008 BKN025 06/04 Q1016 NOSIG RMK WIND 1400FT VRB02KT UWGG 300800Z 36003MPS 310V060 CAVOK 22/09 Q1015 R36L/090070 NOSIG RMK QFE754 ENRM 300750Z 13010KT CAVOK 20/08 Q1003 ENSD 300750Z 12004KT 080V170 9999 FEW007 SCT060 BKN110 14/10 Q0998 RMK WIND 1138FT 08009KT KJVW 300815Z AUTO 00000KT 8SM CLR 22/19 A2996 RMK AO2 KJWN 300815Z AUTO 00000KT 10SM CLR 16/16 A3004 RMK LCEN 300750Z 28007KT 9999 FEW025 32/15 Q1010 NOSIG ENSE 300750Z AUTO 16012KT 9999NDV -RA BKN049/// 12/10 Q0997 W///S4 ENSF 300750Z AUTO 15014KT 9999NDV -RA OVC059/// 12/10 Q0997 W///S4 ENRO 300750Z 14013KT 110V170 9999 SCT035 BKN047 13/06 Q1005 ENSG 300750Z 05004KT 9999 -SHRA SCT030 BKN042 11/09 Q1000 RMK WIND 3806FT 13017KT ENSH 300750Z 12010KT CAVOK 17/10 Q1008 KJXI 300815Z AUTO 00000KT 10SM TS CLR 22/20 A2999 RMK AO2 LTG DSNT NW T02180204 KLFI 300758Z AUTO 03004KT 10SM FEW050 22/19 A3000 RMK AO2 SLP166 T02180192 $ KLGA 300751Z 30005KT 10SM CLR 22/15 A2995 RMK AO2 SLP143 T02170150 ENRS 300720Z 06014KT CAVOK 11/09 Q1007 KLFK 300753Z AUTO 00000KT 6SM BR CLR 23/22 A2996 RMK AO2 SLP141 T02280217 KLGB 300753Z 00000KT 9SM OVC010 20/17 A2987 RMK AO2 SLP114 T02000172 402940194 ENSK 300750Z 05008KT CAVOK 15/11 Q1008 KLGC 300815Z AUTO 00000KT 10SM CLR 22/22 A2996 RMK AO2 T02210221 EPBC 300800Z 21002KT CAVOK 28/15 Q1015= ENSL 300750Z 26020KT 9999 SCT014 13/10 Q0998 W11/S3 ENTC 300750Z VRB02KT CAVOK 15/10 Q1009 NOSIG RMK WIND 2600FT 17017KT KLGD 300815Z AUTO 30015KT 10SM CLR 23/03 A3003 RMK AO1 LBPD 300800Z AUTO VRB04KT 9999 NCD 27/17 Q1016 NOSIG KLEW 300804Z AUTO 00000KT 1SM BR VV002 13/13 A2990 RMK AO2 PNO $ KJXN 300756Z AUTO 23003KT 10SM CLR 12/09 A3005 RMK AO2 SLP173 T01170094 KLEX 300754Z AUTO 05003KT 10SM FEW049 17/13 A3007 RMK AO2 SLP175 T01670128 ENSO 300750Z 19012KT 140V240 5000 SHRA BKN027CB 13/11 Q0996 KJWY 300815Z AUTO 00000KT 10SM CLR 22/22 A3000 RMK AO2 T02230216 KJYG 300815Z AUTO 00000KT 10SM CLR 16/14 A2997 RMK AO2 LTG DSNT W ENRY 300750Z 15013KT 5000 SHRA SCT006 BKN011 12/11 Q1006 TEMPO BKN008 ENSR 300750Z 35005KT CAVOK 16/12 Q1009 WIND 1119FT 28004KT ENSS 300750Z 15011KT 9999 -RA FEW034 12/12 Q1014 RMK WIND 500FT 18016KT KLFT 300753Z 00000KT 10SM CLR 23/22 A2993 RMK AO2 SLP135 T02330222 ENST 300750Z 13008KT 080V190 CAVOK 21/09 Q1005 RMK WIND 300FT 12015KT KJYL 300815Z AUTO 00000KT 5SM BR CLR 23/22 A2998 RMK AO2 T02340223 KJYM 300814Z AUTO 00000KT 10SM CLR 13/10 A3005 RMK AO2 T01260102 UUYY 300800Z 35003MPS 9999 SCT036 18/10 Q1014 R01/CLRD61 NOSIG RMK QFE751/1001 EPCE 300800Z 26004KT 190V310 CAVOK 21/13 Q1014 RMK 209 061 3/3 = KJYO 300815Z AUTO 29004KT 10SM CLR 16/15 A3006 RMK AO2 ENTO 300750Z 16015KT 4700 DZ FEW003 BKN009 OVC013 13/13 Q1005 ENUG 300750Z AUTO 09008KT 020V120 0100NDV FG /// 10/10 Q1010 W09/S3 KJZI 300815Z AUTO 00000KT 9SM SCT023 SCT030 SCT037 23/23 A2996 RMK AO2 LTG DSNT NE-SE KJYR 300755Z AUTO 00000KT 10SM CLR 20/18 A2998 RMK AO2 EPDA 300800Z 24003KT 140V320 9999 FEW189 BKN200 20/12 Q1013 RMK 200 060 5/2 = ENVA 300750Z 13012KT CAVOK 19/08 Q1003 TEMPO 15015G25KT RMK WIND 670FT 13014G24KT FGBT 300800Z VRB02KT 8000 FEW010 BKN100 27/24 Q1016 KLGU 300751Z AUTO 21009KT 10SM CLR 23/11 A3009 RMK AO2 SLP123 T02280106 KLIC 300755Z AUTO 08003KT 10SM CLR 16/12 A3021 RMK AO2 SLP147 T01610117 KLHM 300815Z AUTO 17004KT 10SM CLR 20/10 A2981 RMK AO1 ENVD 300750Z 12007KT 9999 RA FEW004 BKN010 13/13 Q1014 EPDE 300800Z 18004KT 9999 SCT080 BKN200 28/13 Q1015 RMK 279 039 5/4= KJZP 300815Z AUTO 32003KT 10SM CLR 22/10 A3003 RMK AO2 T02150096 KLHQ 300753Z AUTO 00000KT 10SM CLR 12/11 A3008 RMK AO2 SLP183 T01170111 EPBY 300800Z 12005KT 070V150 CAVOK 23/16 Q1013 ENVH 300750Z AUTO 23021KT 9999NDV SCT018/// 13/10 Q1003 W///S4 UWKD 300800Z 34006MPS 9999 BKN036 20/10 Q1012 R29/CLRD70 NOSIG RMK QFE748/0997 UWKE 300800Z 33005MPS 9999 BKN023 16/10 Q1010 R21/090070 NOSIG RMK QFE741/0988 VOBG 300800Z 27015G25KT 9999 SCT012 OVC080 26/20 Q1010 KMAE 300753Z AUTO 31005KT 10SM CLR 22/12 A2983 RMK AO2 SLP096 T02170122 404000194 KLHW 300758Z AUTO 00000KT 10SM OVC150 23/22 A2994 RMK AO2 SLP141 T02310221 KLHX 300753Z AUTO 27009KT 10SM CLR 19/15 A3014 RMK AO2 SLP140 T01890150 $ KMAF 300753Z AUTO 13004KT 10SM CLR 23/17 A3008 RMK AO2 SLP134 T02280172 KLJF 300813Z AUTO 00000KT 10SM CLR 17/15 A2996 RMK AO2 LBSF 300800Z 31004KT 270V040 CAVOK 25/15 Q1018 NOSIG DXNG 300800Z 21007KT 9999 SCT005 25/22 Q1019 NOSIG KLHZ 300755Z AUTO 00000KT 7SM SCT090 20/20 A3003 RMK AO2 VOCB 300800Z 23010KT 8000 SCT015 SCT080 31/19 Q1009 NOSIG KMAI 300753Z AUTO 17003KT 10SM CLR 24/23 A2994 RMK AO1 SLP137 T02390233 ENVR 300550Z 01011KT CAVOK 12/10 Q1008 VOBL 300800Z 28017KT 8000 SCT010 SCT015 BKN080 26/21 Q1011 NOSIG VOBM 300700Z 29014KT 8000 SCT008 SCT015 BKN080 26/22 Q1011 KLIT 300753Z 00000KT 10SM CLR 23/21 A3002 RMK AO2 SLP166 T02330206 KO22 300815Z AUTO 00000KT 10SM CLR 16/03 A2990 RMK AO1 KMAN 300815Z AUTO 29007KT 10SM 26/11 A2989 RMK A01 KMAO 300815Z AUTO 00000KT 7SM BKN015 BKN023 21/20 A2996 RMK AO2 LTG DSNT SE AND S VOCI 300800Z 27008KT 5000 HZ SCT012 SCT018 BKN080 31/27 Q1008 NOSIG KMBG 300752Z AUTO 00000KT 9SM CLR 16/14 A3003 RMK AO2 SLP158 T01560139 UWKS 300800Z 33005MPS 9999 BKN020 20/09 Q1013 R24/010060 NOSIG RMK QFE745 VNKT 300820Z 21004KT 9999 FEW015 FEW025CB SCT030 BKN100 27/21 Q1009 NOSIG CB T0 N AND NW VOCL 300800Z 25013KTG23KT 3000 SHRA SCT004 SCT010 OVC080 28/25 Q1008 NOSIG KMCB 300753Z AUTO 00000KT 10SM CLR 22/21 A2995 RMK AO2 SLP136 T02220206 KMBL 300756Z AUTO 08004KT 10SM CLR 07/07 A3001 RMK AO2 SLP183 T00670067 KMCC 300815Z AUTO 14006KT 9SM CLR 18/11 A2984 RMK AO2 KMCD 300815Z AUTO 21006KT 10SM SCT080 15/08 A2997 RMK AO2 T01510082 KMAW 300815Z AUTO 00000KT 10SM CLR 20/16 A3004 RMK AO2 KMCE 300753Z AUTO 00000KT 10SM CLR 21/11 A2981 RMK AO2 SLP093 T02110111 403830183 TSNO EPGD 300800Z 27005KT 230V320 CAVOK 22/11 Q1014 VOBZ 300800Z 29010G20KT 6000 SCT015 SCT020 OVC080 30/24 Q1000 NOSIG KMBO 300815Z AUTO 00000KT 10SM CLR 21/20 A2997 RMK AO2 PWINO KMCF 300758Z AUTO 00000KT 10SM CLR 27/26 A2997 RMK AO2 SLP152 T02650255 KLKR 300815Z AUTO 00000KT 6SM BR FEW007 BKN011 21/21 A2998 RMK AO2 PWINO KMCI 300753Z 12007KT 10SM SCT075 SCT180 22/18 A2996 RMK AO2 LTG DSNT N SLP135 T02220178 KMBS 300753Z 23004KT 10SM CLR 13/08 A3004 RMK AO2 SLP169 T01330083 KMCJ 300815Z AUTO 00000KT 10SM SCT030 27/24 A2990 RMK AO1 KLLJ 300755Z AUTO 00000KT 10SM CLR 17/10 A3013 RMK AO2 SLP129 T01670100 LCLK 300800Z 17010KT 150V210 9999 FEW035TCU 29/23 Q1010 NOSIG KMCK 300753Z AUTO 09009KT 10SM FEW060 OVC100 18/15 A3008 RMK AO2 LTG DSNT SE SLP163 T01780150 UWLW 300800Z 31004MPS 270V020 8000 FEW033 21/11 Q1012 R02/CLRD60 NOSIG RMK QFE752 KLKU 300815Z AUTO 00000KT 10SM OVC050 19/17 A3004 RMK AO2 KLKV 300815Z 35013G18KT 10SM CLR 18/06 A3018 RMK AO1 KMDD 300755Z AUTO 14007KT 10SM CLR 25/17 A3008 RMK AO2 T02460169 KMCN 300753Z AUTO 23004KT 10SM CLR 23/21 A2995 RMK AO2 SLP136 T02280206 TSNO KMCO 300753Z 21004KT 10SM FEW055 FEW300 24/23 A2998 RMK AO2 SLP149 T02390228 KMDH 300752Z AUTO 00000KT 10SM SCT090 16/14 A3006 RMK AO2 SLP175 T01560139 KLLQ 300753Z AUTO 02003KT 10SM CLR 22/19 A3000 RMK AO2 SLP154 T02220194 KMDJ 300815Z AUTO 19011KT 10SM SCT021 SCT026 SCT032 28/24 A2993 RMK A01 KMEB 300752Z AUTO 00000KT 7SM FEW013 23/22 A2998 RMK AO2 SLP148 T02280217 KLNC 300815Z AUTO 00000KT 10SM CLR 23/20 A2999 RMK AO2 T02280203 KLND 300753Z AUTO 31012G21KT 10SM CLR 20/07 A3024 RMK AO2 SLP164 T02000067 KMCW 300753Z AUTO 14004KT 10SM FEW030 SCT040 17/16 A3001 RMK AO2 SLP151 T01720161 $ KO54 291635Z AUTO 00000KT 10SM CLR 25/09 A3005 RMK AO1 KLMO 300813Z AUTO 00000KT 7SM CLR 18/12 A3017 RMK AO2 T01800115 KMCX 300815Z AUTO 00000KT 10SM CLR 13/10 A3006 RMK AO2 T01300098 KMDQ 300815Z AUTO 00000KT 10SM CLR 17/13 A3002 RMK AO2 KMEH 300756Z AUTO 00000KT 10SM CLR 12/07 A3012 RMK AO2 SLP175 T01220072 402890083 KMEI 300758Z AUTO 34004KT 10SM CLR 22/19 A2996 RMK AO2 SLP142 T02220194 KMDS 300810Z AUTO 00000KT 10SM OVC120 19/19 A2997 RMK AO2 KLMT 300753Z AUTO 29008KT 10SM CLR 16/10 A3016 RMK AO2 SLP166 T01610100 403170100 KLNK 300754Z AUTO 18004KT 10SM CLR 22/20 A2995 RMK AO2 SLP128 T02220200 KMDT 300756Z 33006KT 10SM FEW080 19/13 A3002 RMK AO2 SLP164 T01890128 KLNL 300815Z AUTO 00000KT 10SM CLR 10/10 A3000 RMK AO2 T01030100 LDDU 300800Z 19007KT 150V230 CAVOK 27/16 Q1016 NOSIG UWOO 300800Z 27006MPS 9999 SCT040 24/05 Q1009 R26/CLRD65 NOSIG RMK QFE746/0995 KMFD 300752Z AUTO 18003KT 10SM CLR 12/10 A3007 RMK AO2 SLP179 T01170100 KMEM 300754Z 06004KT 10SM CLR 24/16 A3002 RMK AO2 SLP162 T02440161 ENZV 300750Z 21019G29KT 170V230 9999 VCSH FEW010CB BKN012 BKN018 14/11 Q0997 RESHRA TEMPO SHRA KMDW 300753Z 21006KT 10SM CLR 18/08 A3005 RMK AO2 SLP167 T01830083 KMFE 300753Z AUTO 17004KT 10SM FEW017 FEW100 27/24 A2993 RMK AO2 SLP135 T02670239 KLNN 300815Z AUTO 00000KT 10SM CLR 11/10 A3004 RMK AO1 T01110098 LBWN 300800Z 32010KT 280V360 9999 FEW033 27/19 Q1014 NOSIG UWOR 300800Z 30007MPS 9999 BKN050 24/08 Q1008 R25/CLRD65 NOSIG RMK QFE733/0977 KLNP 300815Z AUTO 00000KT 10SM CLR 16/14 A3010 RMK AO2 KMDZ 300815Z AUTO 17003KT 10SM CLR 11/11 A2999 RMK AO2 T01060106 KMFI 300754Z AUTO 00000KT 10SM CLR 13/12 A3000 RMK AO2 SLP157 T01330117 KLNR 300756Z AUTO 00000KT 10SM CLR 13/12 A3003 RMK AO2 SLP161 T01280117 KMER 300815Z AUTO 10SM CLR 19/11 A2982 RMK AO1 EPIR 300800Z 17010KT CAVOK 25/15 Q1014 RMK 254 054 3/2 = KLNS 300753Z AUTO 26005KT 10SM CLR 16/14 A3003 RMK AO2 SLP166 T01610139 KO69 300815Z AUTO 00000KT 5SM CLR 11/10 A2991 RMK AO1 DXSK 300600Z 00000KT 9999 SCT010 BKN120 23/22 Q//// KLOL 300753Z AUTO 17008KT 10SM CLR 19/M06 A3001 RMK AO2 SLP115 T01941056 403890156 $ KLPC 300756Z AUTO 29007KT 5SM BR OVC004 12/11 A2993 RMK AO2 SLP138 T01170111 401830117 KMGC 300815Z AUTO 00000KT 10SM BKN065 10/10 A3006 RMK AO2 VOGO 300530Z 2710G15KT 6000 VCSH FEW008 SCT012 FEW020TCU BKN070 28/24 Q1007 TEMPO 1500 SHRA/RA KLOM 300815Z AUTO 00000KT 10SM CLR 17/13 A3000 RMK AO1 KMEV 300815Z AUTO 11005KT 10SM CLR 12/03 A3012 RMK AO2 KMGE 300758Z AUTO 32005KT 10SM SCT110 24/16 A2996 RMK AO2 SLP134 T02350163 $ KMGG 300814Z AUTO 00000KT 10SM CLR 15/13 A2997 RMK AO2 T01450129 LCPH 300800Z 27010KT 9999 FEW030 29/24 Q1010 KMEZ 300815Z AUTO 00000KT 2SM CLR 20/20 A3004 RMK AO2 KMFR 300753Z AUTO 19003KT 10SM CLR 20/07 A3011 RMK AO2 SLP186 T02000072 403330150 KLOR 300753Z AUTO 00000KT 10SM CLR 23/22 A2994 RMK AO2 SLP135 T02280217 $ KMGJ 300654Z AUTO 00000KT 10SM CLR 16/14 A2997 RMK AO2 SLP145 T01610144 TSNO KLOT 300755Z AUTO 16005KT 10SM CLR 14/11 A3005 RMK AO2 T01440112 KLOU 300753Z AUTO 00000KT 10SM CLR 17/14 A3005 RMK AO2 SLP172 T01670139 EPLB 300800Z 14005KT 090V170 CAVOK 27/15 Q1016 EPKK 300800Z 25003KT 190V310 CAVOK 26/15 Q1016 KMGM 300753Z AUTO 00000KT 10SM CLR 23/21 A2994 RMK AO2 RAE00 SLP135 P0000 T02330211 KMFV 300815Z AUTO 00000KT 7SM CLR 18/16 A3001 RMK AO2 KMHE 300753Z AUTO 32004KT 10SM FEW110 20/18 A2996 RMK AO2 SLP138 T02000183 KMGN 300814Z AUTO 00000KT 10SM CLR 10/08 A2999 RMK AO2 T01050082 FHAW 300750Z 14010KT 9999 FEW022 24/18 Q1018 BLU NOSIG VOHS 300800Z 27020KT 5000 HZ BKN015 BKN100 28/23 Q1006 NOSIG KLOZ 300753Z AUTO 01003KT 10SM CLR 16/13 A3005 RMK AO2 SLP164 T01610128 KO86 300815Z AUTO 28005KT 10SM CLR 19/10 A3002 RMK AO1 KLPR 300753Z AUTO 21003KT 10SM CLR 13/09 A3006 RMK AO2 SLP178 T01280089 TSNO KMGR 300754Z AUTO 00000KT 5SM BR CLR 23/22 A2997 RMK AO2 KMIA 300753Z VRB03KT 10SM SCT022 SCT060 SCT090 BKN200 27/24 A2999 RMK AO2 RAE0658 SLP156 98639 P0000 T02670239 LCRA 300650Z 25010KT 9999 FEW030 28/22 Q1010 NOSIG EPKS 300800Z 20006KT CAVOK 24/15 Q1013 RMK 240 056 6/5= KMHK 300752Z AUTO 00000KT 10SM CLR 23/20 A2994 RMK AO2 SLP126 T02280200 KLQK 300815Z AUTO 07003KT 10SM CLR 20/19 A2998 RMK AO2 T02040188 KMIB 300758Z AUTO 01007KT 10SM CLR 14/13 A3013 RMK AO2 SLP204 T01420126 EPMB 300800Z 27002KT 9999 FEW100 SCT200 23/15 Q1014 RMK 229 060 3/2= EPLK 300800Z 20006KT 9999 FEW040 SCT200 27/13 Q1015 RMK 270 041 3/1= KMIC 300753Z AUTO 00000KT 10SM CLR 16/12 A2995 RMK AO2 SLP139 T01560117 KMHL 300815Z AUTO 14005KT 10SM CLR 21/17 A2999 RMK AO2 LTG DSNT N EPKT 300800Z 17003KT 100V250 CAVOK 27/14 Q1015 KLRD 300756Z 13005KT 10SM SCT060 BKN085 27/23 A2995 RMK AO2 SLP140 T02720233 EPLL 300800Z 18006KT 130V220 9999 SCT040 27/13 Q1015 VOHY 300800Z 31018KT 6000 SCT015 SCT025 BKN100 30/22 Q1006 NOSIG KMGW 300753Z AUTO 00000KT 8SM CLR 13/11 A3010 RMK AO2 SLP186 T01280106 KMIE 300753Z AUTO 00000KT 10SM CLR 14/11 A3007 RMK AO2 SLP175 T01440111 KLRF 300758Z AUTO 00000KT 10SM CLR 20/19 A3002 RMK AO2 SLP165 T02010189 KMGY 300753Z AUTO 06005KT 10SM CLR 13/10 A3006 RMK AO2 SLP173 T01330100 KMHR 300630Z 20007KT 10SM SKC 18/12 A2984 EPMI 300800Z 08002KT CAVOK 22/14 Q1014 RMK 222 052 3/3 = KLRJ 300815Z AUTO 00000KT 10SM FEW050 20/18 A2996 RMK AO2 KP08 300815Z AUTO 15013KT 10SM -RA FEW008 SCT025 BKN037 24/21 A3001 RMK AO2 LTG DSNT ALQDS KMHS 300756Z AUTO 33009G19KT 290V010 10SM CLR 19/04 A3010 RMK AO2 SLP172 T01940039 403330133 LEAB 300800Z 23006KT 180V270 CAVOK 25/15 Q1019 NOSIG KMHT 300753Z 35004KT 10SM CLR 18/13 A2990 RMK AO2 SLP133 T01830133 KLSB 300815Z AUTO 00000KT 10SM BKN095 23/12 A3010 RMK AO2 LTG DSNT W KMHV 300800Z AUTO 30022G32KT 10SM CLR 31/M00 A2989 RMK A01 EPMM 300800Z VRB02KT CAVOK 28/15 Q1016 RMK 282 045 1/1= KLSE 300753Z AUTO 13005KT 10SM CLR 17/14 A2999 RMK AO2 SLP148 T01670139 KLRO 300815Z AUTO 00000KT 5SM BR FEW037 FEW049 FEW060 25/24 A2996 RMK AO2 KLSF 300758Z AUTO 12004KT 10SM CLR 23/23 A2994 RMK AO2 CIG 170 RWY15 SLP139 T02250225 LEAG 300800Z AUTO 15006KT 110V180 CAVOK 22/19 Q1017 EPMO 300800Z 15005KT 080V180 CAVOK 26/15 Q1015 EPLY 300800Z 19006KT CAVOK 27/13 Q1015 RMK 274 042 3/1= UWSS 300800Z 01003MPS CAVOK 24/10 Q1013 R30/010095 NOSIG RMK QFE746 LEBA 300800Z VRB02KT CAVOK 23/19 Q1017 KMIS 300815Z AUTO 20013KT 10SM FEW018 FEW026 SCT033 30/24 A2993 RMK A01 LEBB 300800Z 00000KT 9999 FEW025 20/15 Q1019 NOSIG KNAK 300754Z AUTO 28003KT 10SM SCT070 19/13 A3002 RMK AO2 SLP167 T01940133 LEAL 300800Z VRB02KT 9999 FEW015 26/18 Q1016 NOSIG KNBC 300756Z AUTO 00000KT 10SM FEW012 23/22 A2997 RMK AO2 TSE0658 SLP148 T02330222 KMKC 300754Z 00000KT 10SM FEW090 24/19 A2995 RMK AO2 SLP133 T02390189 KLRU 300815Z AUTO 13003KT 10SM CLR 24/11 A3014 RMK AO2 T02350110 LEAM 300800Z VRB02KT CAVOK 23/20 Q1016 KMIV 300754Z AUTO 28003KT 10SM CLR 17/14 A3000 RMK AO2 SLP157 T01720144 KMKE 300752Z 23004KT 10SM CLR 17/12 A3002 RMK AO2 SLP164 T01720117 KMIW 300753Z AUTO 10008KT 10SM FEW033 BKN042 BKN060 18/17 A3000 RMK AO2 LTG DSNT SE AND NW SLP156 T01830172 LEAO 300800Z 28006KT 240V320 CAVOK 26/10 Q1018 LEBG 300800Z 05010KT 020V080 CAVOK 18/09 Q1019 KNBG 300817Z AUTO 00000KT 3SM BR CLR 23/23 A2992 RMK AO2 T02330228 $ KMKG 300755Z AUTO 00000KT 10SM CLR 12/11 A3004 RMK AO2 SLP171 T01220106 KMJQ 300812Z AUTO 19004KT 10SM CLR 18/16 A2998 RMK AO2 LEAS 300800Z VRB01KT 7000 FEW008 BKN018 18/15 Q1019 TEMPO 4000 BR KLUA 300815Z AUTO 00000KT 10SM CLR 14/14 A3007 RMK AO2 KNCA 300756Z AUTO 04004KT 10SM CLR 22/21 A2997 RMK AO2 SLP151 T02220206 KMKJ 300815Z AUTO 00000KT 10SM OVC070 16/14 A3013 RMK AO2 T01600141 KP28 300756Z AUTO 00000KT 21/19 A2999 RMK AO1 SLP137 T02060194 VOMD 300800Z 26016KT 7000 FEW020 BKN100 36/20 Q1006 NOSIG KMLB 300753Z AUTO 17005KT 10SM CLR 24/23 A2997 RMK AO2 SLP149 T02440233 EPOK 300800Z 07006KT 040V120 CAVOK 19/13 Q1014 RMK 194 068 4/4 = LEBL 300800Z 08008KT 050V110 9999 FEW020 25/20 Q1017 NOSIG KMKL 300753Z AUTO 00000KT 10SM CLR 17/16 A3004 RMK AO2 SLP167 T01670161 KMLC 300753Z AUTO 00000KT 10SM SCT070 21/18 A3001 RMK AO2 SLP151 T02110178 KLUD 300815Z AUTO 16006KT 10SM CLR 25/18 A3000 RMK AO2 T02450180 KLSV 300758Z AUTO 02007KT 10SM CLR 33/12 A2985 RMK AO2 SLP077 T03310121 404260278 KMKN 300815Z AUTO 18003KT 10SM CLR 23/21 A3002 RMK AO2 T02250205 KMLE 300815Z AUTO 00000KT 7SM CLR 21/20 A2993 RMK AO2 T02060195 KMLF 300752Z AUTO 16008KT 10SM CLR 19/11 A3010 RMK AO2 SLP113 T01940111 KMKO 300753Z AUTO 17004KT 10SM CLR 22/19 A3000 RMK AO2 SLP151 T02170189 KMJX 300815Z 27004KT 10SM CLR 16/14 A3000 RMK AO2 SLP300 PWINO FZRANO RVRNO KLUF 300758Z AUTO 34005KT 10SM FEW160 BKN220 31/18 A2986 RMK AO2 LTG DSNT E SLP095 T03090184 $ LECH 291400Z 12008KT 080V160 9999 FEW030 27/14 Q1016 KMLI 300752Z 00000KT 10SM CLR 17/13 A3002 RMK AO2 SLP162 T01720133 UWUU 300800Z 31004MPS 270V350 9999 OVC026CB 15/11 Q1009 R32R/0///60 NOSIG RMK QFE746/0994 VOML 300800Z 35004KT 4000 BR FEW006 SCT012 BKN080 28/25 Q1008 NOSIG KMLJ 300815Z AUTO 00000KT 10SM CLR 22/22 A2995 RMK AO2 KMKS 300815Z AUTO 00000KT 1SM BR OVC001 21/20 A2996 RMK AO2 LTG DSNT E AND SE KLTS 300758Z AUTO 11004KT 10SM CLR 21/20 A2999 RMK AO2 SLP141 T02090197 VOND 300400Z 28002KT 3000 RA SCT015 BKN025 OVC070 23/22 Q1007 LEBT 300800Z AUTO VRB01KT CAVOK 26/15 Q1016 VOMM 300800Z 21010KT 8000 SCT020 BKN100 33/24 Q1002 NOSIG KLUK 300753Z AUTO 00000KT 10SM R21L/1800VP6000FT CLR 13/13 A3007 RMK AO2 SLP180 T01330133 KMKT 300815Z 18005KT 10SM CLR 17/14 A2997 RMK AO1 KNBT 300756Z AUTO 00000KT 5SM HZ CLR A2997 RMK AO2 SLP155 $ KLUM 300815Z AUTO 00000KT 10SM CLR 13/12 A2998 RMK AO2 T01300117 LECO 300800Z VRB02KT 9999 BKN016 17/14 Q1019 NOSIG DXXX 300800Z 23013KT 8000 SCT010 26/24 Q1016 NOSIG KMLP 300753Z AUTO 31004KT 10SM CLR 18/03 A3019 RMK AO2 SLP111 T01830033 402560172 KMKY 300815Z AUTO 07004KT 10SM CLR 24/21 A2998 RMK AO1 EPPO 300800Z 21006KT 180V240 CAVOK 23/15 Q1013 LEBZ 300800Z 30007KT 260V330 CAVOK 20/13 Q1017 KMMH 300815Z AUTO 00000KT 10SM CLR 12/02 A3030 RMK AO2 T01200016 KMMI 300815Z AUTO 00000KT 10SM CLR 16/14 A3002 RMK EPPR 300800Z VRB02KT CAVOK 24/10 Q1013 RMK 240 042 5/5= KLVJ 300753Z AUTO 33003KT 6SM BR CLR 26/24 A2993 RMK AO2 SLP135 T02610244 KMLS 300753Z AUTO 03008KT 10SM CLR 18/09 A3012 RMK AO2 SLP182 T01830094 KLWA 300817Z AUTO 00000KT 10SM CLR 10/10 A3005 RMK AO2 T01030096 KMLT 300753Z AUTO 00000KT 1/4SM FG VV002 15/15 A2987 RMK AO2 SLP117 T01500150 KLVK 300753Z AUTO 31005KT 10SM CLR 13/10 A2990 RMK AO2 SLP120 T01330100 402830128 KMMK 300753Z AUTO 33003KT 10SM CLR 18/14 A2995 RMK AO2 SLP139 T01830139 TSNO KLWB 300815Z AUTO 05003KT 10SM SCT049 SCT060 SCT065 12/12 A3011 RMK AO2 T01220115 EPRA 300800Z 18003KT 070V210 CAVOK 27/15 Q1015 LEEC 300800Z 21005KT 170V240 8000 FEW006 BKN010 23/20 Q1017 KLWC 300752Z AUTO 11003KT 10SM CLR 21/19 A2995 RMK AO2 LTG DSNT S SLP133 T02110194 KMLU 300753Z AUTO 06004KT 10SM CLR 24/21 A2998 RMK AO2 SLP151 T02390206 KMML 300756Z AUTO 18006KT 10SM FEW040 SCT085 21/17 A2997 RMK AO2 LTG DSNT SE TSE36B37E39B41E52 SLP144 T02060167 KLVL 300815Z AUTO 00000KT 10SM BKN070 OVC110 20/18 A3000 RMK AO1 T02010181 LECV 300800Z VRB03KT CAVOK 25/09 Q1019 KLVM 300753Z AUTO 11019G30KT 9SM -RA SCT031 SCT048 BKN065 15/13 A3017 RMK AO2 PK WND 10031/0740 WSHFT 0717 LTG DSNT E TSE08 SLP170 P0009 T01500128 KLWD 300753Z AUTO 15008KT 10SM OVC080 20/18 A2999 RMK AO2 SLP146 T02000178 KLVN 300815Z AUTO 00000KT 10SM CLR 14/14 A2997 RMK AO2 KP53 300756Z AUTO 19007KT 15/11 A2992 RMK AO1 SLP131 T01500111 KMNE 300815Z AUTO 00000KT 10SM CLR 24/20 A2999 RMK AO2 T02380204 EPPW 300800Z 21008KT 9999 FEW050 SCT200 26/13 Q1013 RMK 261 044 3/1 = KLUX 300815Z AUTO 00000KT 7SM CLR 21/21 A2998 RMK AO2 KMNH 300817Z AUTO 21008KT 10SM CLR 12/08 A3031 RMK AO2 KMNI 300815Z AUTO 00000KT 5SM BR SCT021 21/21 A2997 RMK AO2 LTG DSNT E AND SE KLVS 300753Z AUTO 08004KT 10SM SCT095 15/09 A3033 RMK AO2 SLP148 T01500089 KP58 300751Z AUTO 16005KT 12/07 A3000 RMK AO1 SLP157 T01220067 KP59 300751Z AUTO 27004KT 17/12 A2990 RMK AO1 SLP118 T01720122 KP60 300556Z AUTO 00000KT 14/06 A3039 RMK AO1 SLP202 T01440056 10244 20144 50003 $ KMOB 300756Z AUTO 00000KT 10SM CLR 23/22 A2995 RMK AO2 SLP137 T02280217 KMMT 300808Z AUTO 15001KT 1SM R32/4000FT BR OVC002 21/21 A2997 RMK AO2 VIS 1V6 UWWW 300800Z 33005MPS 270V010 9999 FEW033 22/07 Q1011 R23/CLRD60 NOSIG RMK QFE747/0997 KMMU 300815Z AUTO 00000KT 7SM CLR 13/12 A2998 RMK AO2 KNEL 300800Z AUTO 30004KT 10SM CLR 16/14 A2998 RMK AO2 SLP150 T01610139 KMMV 300753Z AUTO 29004KT 10SM CLR 13/09 A3021 RMK AO2 SLP227 T01330094 402830106 KMOD 300753Z AUTO 30006KT 10SM CLR 21/10 A2981 RMK AO2 SLP095 T02060100 403890206 KLWM 300754Z AUTO 00000KT 10SM CLR 18/14 A2992 RMK AO2 SLP129 T01830144 KMNM 300756Z AUTO 00000KT 10SM CLR 16/13 A2998 RMK AO2 SLP167 T01560133 EPSC 300800Z 14008KT 110V170 CAVOK 21/12 Q1013 KMNN 300753Z AUTO 00000KT 10SM CLR 14/10 A3008 RMK AO2 SLP182 T01390100 TSNO KNFE 300756Z AUTO 02005KT 10SM BKN110 23/21 A2999 RMK AO2 RAE33 TSB03E18 SLP158 P0001 T02330206 KNFG 300755Z 00000KT 5SM BR OVC010 20/17 A2987 RMK AO2 SLP114 LAST T02000172 402780172 $ KNDZ 300756Z AUTO 00000KT 10SM CLR 25/24 A2993 RMK AO2 SLP122 T02500239 $ LEGA 300800Z 00000KT CAVOK 26/14 Q1019 KP68 300753Z AUTO 00000KT 18/07 A3016 RMK AO1 SLP118 T01780067 403110144 KLWS 300756Z AUTO 00000KT 10SM CLR 26/08 A2991 RMK AO2 SLP115 T02560078 403720161 KP69 300752Z AUTO 34005KT 18/14 A2996 RMK AO1 SLP118 T01830139 403780150 KLWT 300754Z AUTO 10009KT 10SM CLR 17/10 A3018 RMK AO2 SLP180 T01720100 KLXL 300813Z AUTO 00000KT 10SM SCT100 13/11 A2996 RMK AO2 KNFL 300756Z AUTO 27005KT 10SM CLR 21/M01 A3003 RMK AO2 SLP138 T02061011 403890183 FGSL 300800Z 00000KT 9999 FEW008 27/23 Q1017 NOSIG KLWV 300753Z AUTO 35003KT 10SM CLR 16/14 A3007 RMK AO2 SLP179 T01560139 TSNO KMNV 300815Z AUTO 00000KT 10SM OVC055 18/14 A3001 RMK A01 LEGE 300800Z 21005KT 150V260 9999 FEW060 24/17 Q1017 KNEW 300753Z AUTO 00000KT 10SM CLR 27/23 A2993 RMK AO2 SLP128 T02720233 KLXN 300815Z AUTO 24007KT 10SM CLR 18/17 A3006 RMK AO2 LTG DSNT SW T01840165 EPSN 300800Z 17004KT 9999 FEW030 BKN200 22/13 Q1013 RMK 217 056 5/2 = KMOP 300800Z AUTO 00000KT 10SM CLR 10/09 A3003 RMK AO2 T00950085 KLYH 300754Z AUTO 02009KT 10SM CLR 19/14 A3006 RMK AO2 SLP170 T01890144 KMNZ 300815Z AUTO 00000KT 10SM CLR 24/21 A3003 RMK AO2 T02350208 KMOR 300815Z AUTO 04003KT 10SM CLR 19/14 A3002 RMK A01 EPRZ 300800Z 17005KT 120V230 CAVOK 26/16 Q1016 LDOS 300800Z 14003KT 100V190 CAVOK 26/16 Q1016 KLXT 300753Z AUTO 15011KT 10SM FEW060 23/19 A2997 RMK AO2 LTG DSNT S TSE02B08E25 SLP139 T02330189 KMOT 300754Z AUTO 34006KT 10SM CLR 14/12 A3013 RMK AO2 SLP199 T01390122 KMQB 300815Z AUTO 16005KT 10SM BKN080 BKN090 16/14 A3005 RMK AO2 LTG DSNT W T01590137 LEHC 300800Z 10001KT CAVOK 22/14 Q1018 LDPL 300800Z 09006KT 070V130 CAVOK 27/15 Q1015 NOSIG KLXV 300753Z AUTO 07006KT 10SM FEW060 09/04 A3051 RMK AO2 RAB07E19 SLP171 P0000 T00890044 EPTM 300800Z VRB02KT 9999 FEW040 SCT200 26/17 Q1015 RMK 264 056 3/1= KNFW 300752Z AUTO VRB03KT 10SM CLR 26/19 A2999 RMK AO2 SLP138 T02610189 $ KMQE 300754Z AUTO 33009KT 18/14 A2990 RMK AO1 SLP132 T01780144 KMPO 300753Z AUTO 33005KT 10SM CLR 12/11 A3004 RMK AO2 SLP166 T01220106 $ KMOX 300813Z AUTO 32003KT 10SM CLR 16/13 A2996 RMK AO2 KLXY 300815Z AUTO 19004KT 10SM CLR 24/21 A2997 RMK AO2 T02400210 KNGP 300556Z AUTO 20004KT 10SM CLR 27/24 A2993 RMK AO2 SLP135 T02670244 10306 20267 403330250 50003 $ EPSY 300800Z 16005KT 110V200 CAVOK 25/14 Q1015 LEGR 300800Z VRB01KT CAVOK 25/16 Q1019 KMQI 300800Z AUTO 08010KT 10SM SCT048 22/22 A3001 RMK AO2 T02200215 KMQJ 300816Z AUTO 00000KT 10SM CLR 14/12 A3008 RMK AO1 LEGT 300800Z 11003KT CAVOK 25/14 Q1017 LEIB 300800Z 20004KT 170V240 CAVOK 25/17 Q1016 NOSIG KMRB 300753Z AUTO 14004KT 10SM CLR 12/11 A3006 RMK AO2 SLP175 T01220111 TSNO KNHK 300752Z AUTO 29005KT 10SM BKN060 20/14 A3003 RMK AO2 SLP169 T02000144 PWINO KMRC 300815Z AUTO 00000KT 10SM CLR A3003 RMK KNGU 300759Z 00000KT 8SM FEW070 BKN090 22/20 A3001 RMK AO2 RAE06 SLP163 P0000 T02170200 KP92 300853Z AUTO 00000KT 24/24 A2990 RMK AO1 SLP126 T02440239 56011 KMPV 300751Z AUTO 00000KT 10SM CLR 12/12 A3000 RMK AO2 SLP158 T01220117 KNID 300756Z AUTO 24009KT 10SM CLR 31/04 A2984 RMK AO2 SLP074 T03060039 404220228 $ KLYV 300816Z AUTO 00000KT 5SM BR CLR 18/17 A2997 RMK AO2 KMRF 300756Z AUTO 11004KT 10SM CLR A3020 RMK AO2 SLPNO FZRANO $ KMPZ 300750Z AUTO 13005KT 10SM CLR 18/15 A3001 RMK AO2 T01770151 KMRH 300758Z AUTO 00000KT 7SM CLR 24/23 A2998 RMK AO2 SLP152 T02390228 TSNO LDRI 300800Z 26005KT 220V300 CAVOK 26/18 Q1015 KMQS 300815Z AUTO 30006KT 10SM CLR 17/14 A3004 RMK AO2 KMRJ 300755Z AUTO 19003KT 10SM CLR 16/13 A3003 RMK AO2 EPWA 300800Z VRB02KT CAVOK 26/14 Q1015 NOSIG KLZU 300045Z 00000KT 10SM SCT080 29/18 A2996 RMK CLOSING WX LL VORY 300800Z 25006KT 4000 -RA SCT015 BKN020 OVC080 29/26 Q1000 KMRN 300755Z AUTO 08003KT 10SM BKN020 OVC080 20/20 A3007 RMK AO2 T02010201 KNIP 300753Z 28003KT 10SM SCT250 25/22 A2997 RMK SLP145 T02500222 KMQY 300756Z AUTO 00000KT 10SM CLR 17/15 A3005 RMK AO2 T01720150 SLP180 KLZZ 300755Z AUTO 00000KT 10SM CLR 24/22 A3000 RMK AO2 T02420223 VOTK 300800Z 28030KT 7000 FEW020 SCT100 34/23 Q1006 LFBA 300800Z AUTO 30004KT 280V020 9999 FEW022 20/14 Q1019 NOSIG KOAJ 300756Z AUTO 00000KT 9SM CLR 21/21 A2998 RMK AO2 SLP156 T02110206 $ KOAK 300753Z 22008KT 9SM FEW009 14/11 A2992 RMK AO2 SLP132 T01440106 401780122 KMRT 300813Z AUTO 18003KT 10SM CLR 13/12 A3008 RMK AO2 T01270115 KNJK 300756Z AUTO 12009KT 10SM CLR 30/21 A2974 RMK AO2 SLP087 T03000206 404220272 $ LFBC 300800Z AUTO 26005KT 220V310 9999 FEW024 OVC032 20/14 Q1018 KMSL 300753Z AUTO 00000KT 10SM CLR 19/15 A3004 RMK AO2 SLP164 T01890150 KMTC 300758Z AUTO 00000KT 10SM CLR 14/10 A3000 RMK AO2 SLP160 T01400098 LFBD 300800Z AUTO 22006KT 9999 FEW018 OVC029 19/15 Q1018 NOSIG KNJM 300757Z AUTO 01004KT 7SM CLR 24/22 A2998 RMK AO2 SLP156 T02390222 VOTP 300800Z 30006KT 9999 SCT020 BKN100 32/22 Q1004 LFBE 300800Z AUTO 00000KT 9999 SCT017 SCT022 OVC033 19/15 Q1019 NOSIG KMSN 300753Z AUTO 00000KT 10SM CLR 14/12 A3002 RMK AO2 SLP162 T01390122 KOBE 300815Z AUTO 00000KT 10SM CLR 22/22 A2999 RMK AO2 KMSO 300753Z AUTO 00000KT 10SM CLR 18/08 A3004 RMK AO2 SLP146 T01830083 VOTR 300800Z 29010G20KT 8000 SCT016 SCT100 35/20 Q1005 NOSIG LFBG 300800Z AUTO 23009KT 9999 BKN023 20/14 Q1017 KMSP 300753Z 23005KT 10SM CLR 20/14 A2996 RMK AO2 SLP142 T02000144 KMRY 300754Z AUTO 23005KT 6SM BR OVC004 11/11 A2996 RMK AO2 SLP157 T01110106 401390100 TSNO LDSP 300800Z 12006KT CAVOK 26/17 Q1015 NOSIG LFAQ 300800Z AUTO 20010KT 9999 FEW012 SCT024 BKN029 16/14 Q1012 TEMPO 4000 RADZ OVC007 LFBH 300800Z AUTO 24012KT 9999 BKN017 OVC050 19/16 Q1016 TEMPO 3000 -RADZ BKN005 KMTH 300753Z AUTO 15006KT 10SM FEW025 28/24 A2998 RMK AO2 SLP150 T02830239 LFBI 300800Z AUTO 22010KT 9999 FEW014 OVC052 18/15 Q1016 TEMPO BKN006 LEJR 300800Z 19007KT 140V210 7000 OVC012 23/21 Q1017 KMSS 300753Z AUTO 21006KT 10SM SCT080 14/13 A2995 RMK AO2 SLP141 T01390128 KMTJ 300753Z AUTO 23003KT 10SM CLR 17/09 A3025 RMK AO2 RAB10E28 SLP155 P0000 T01720094 EPWR 300800Z 11006KT 080V170 CAVOK 26/15 Q1014 VOTV 300800Z 30008KT 5000 HZ SCT015 BKN090 31/26 Q1008 NOSIG LFAT 300800Z AUTO 22010KT 190V260 2300 -DZ BR OVC005 16/15 Q1010 TEMPO RADZ LELC 300800Z VRB02KT CAVOK 25/20 Q1016 NOSIG LFBL 300800Z AUTO 20007KT 170V250 9999 BKN016 OVC023 16/13 Q1018 NOSIG KNLC 300756Z 34009KT 10SM CLR 23/07 A2981 RMK AO2 SLP093 RH/35 T02330072 404110189 LFBM 300800Z AUTO 30005KT 230V330 9999 SCT020 BKN031 BKN170 20/15 Q1019 KMSV 300815Z AUTO 34004KT 10SM CLR 13/12 A3004 RMK AO1 KMTN 300812Z AUTO 00000KT 10SM CLR 17/15 A3003 RMK AO2 LFBO 300800Z AUTO VRB03KT 9999 BKN036 OVC042 19/15 Q1019 NOSIG KMTO 300753Z AUTO 00000KT 10SM CLR 14/12 A3006 RMK AO2 SLP176 T01390117 KOCF 300815Z AUTO 16003KT 10SM CLR 23/21 A2997 RMK AO1 LFBP 300800Z AUTO VRB02KT 9999 FEW019 20/15 Q1019 NOSIG KMSY 300753Z 00000KT 10SM FEW030 SCT250 26/24 A2992 RMK AO2 SLP136 T02610239 $ KMTP 300754Z AUTO 28005KT 19/16 A2993 RMK AO1 SLP134 T01940161 KOCH 300815Z 00000KT 8SM CLR A2996 RMK AO1 KMUI 300758Z AUTO 00000KT 10SM CLR 14/13 A3003 RMK AO2 SLP170 T01390130 $ LFCK 300800Z AUTO 28006KT 9999 BKN013/// OVC033/// ///TCU 19/15 Q1020 BECMG NSC LFBT 300800Z AUTO VRB03KT 9999 FEW016 OVC026 18/14 Q1019 NOSIG KNKT 300754Z 00000KT 6SM BR CLR 23/22 A2999 RMK AO2 SLP150 T02330217 LELL 300800Z 12004KT 070V190 9999 FEW040 26/18 Q1017 LFBU 300800Z AUTO 22006KT 170V250 9999 SCT018 OVC024 19/13 Q1018 NOSIG LEMD 300800Z 07001KT CAVOK 25/14 Q1017 NOSIG KMTV 300815Z AUTO 36003KT 10SM CLR 19/17 A3005 RMK AO2 T01860167 LELN 300800Z 23004KT 190V310 CAVOK 17/10 Q1019 KMVE 300812Z AUTO 00000KT 10SM CLR 18/14 A2997 RMK AO2 LTG DSNT SE KMTW 300756Z AUTO 10SM CLR 14/12 A3000 RMK AO2 SLP175 T01390117 LELO 300800Z 28007KT 230V320 CAVOK 20/11 Q1018 KNKX 300755Z 00000KT 8SM BKN008 20/16 A2988 RMK AO2 SLP110 T02000156 403060183 KMUO 300758Z AUTO 06013KT 10SM SCT150 29/10 A2991 RMK AO2 SLP090 T02870101 $ LEMG 300800Z VRB01KT CAVOK 25/18 Q1016 NOSIG LFBY 300800Z VRB02KT 9999 SCT016 SCT100 20/15 Q1018 LEMH 300800Z 04009KT 360V070 CAVOK 26/15 Q1017 LFBZ 300800Z AUTO 33004KT 300V360 9999 SCT018 OVC027 20/15 Q1019 NOSIG KMVH 300815Z AUTO 00000KT 10SM SCT065 13/10 A3024 RMK AO2 KOCQ 300815Z AUTO 00000KT 10SM CLR A2998 RMK AO1 EPZG 300800Z 18009KT 150V210 9999 FEW033 24/16 Q1013 LFCR 300800Z AUTO VRB02KT 9999 BKN015 BKN026 OVC036 18/14 Q1019 BECMG NSC KMWA 300815Z AUTO 00000KT 10SM CLR 15/14 A3006 RMK AO2 KMUT 300815Z AUTO 00000KT 10SM BKN110 17/16 A3002 RMK AO2 KOEB 300815Z AUTO 00000KT 10SM CLR 12/10 A3006 RMK AO2 T01170104 KMVL 300754Z AUTO 00000KT 1/4SM FG VV002 12/12 A2997 RMK AO2 SLP151 T01220117 KMWC 300815Z AUTO 00000KT 10SM CLR 15/10 A3003 RMK AO2 KNMM 300756Z AUTO 01005KT 10SM CLR 23/17 A2997 RMK AO2 SLP154 T02330167 $ KMVN 300815Z AUTO 00000KT 10SM CLR 13/10 A3007 RMK AO1 KOCW 300755Z AUTO 08004KT 10SM CLR 22/21 A2998 RMK AO2 T02170211 VOVZ 300500Z 25004KT 6000 FEW012 SCT014 BKN080 28/24 Q0999 TEMPO 5000 DZ KODO 300753Z AUTO 14006KT 10SM CLR 24/16 A3009 RMK AO2 SLP137 T02390161 LEMO 300800Z 22008KT 200V280 7000 NSC 24/20 Q1017 NOSIG KMWH 300752Z AUTO 31007KT 10SM CLR 23/08 A2992 RMK AO2 SLP122 T02280078 403610150 KMWK 300755Z AUTO 00000KT 5SM BR CLR 19/18 A3004 RMK AO2 T01920181 KMWL 300753Z AUTO 14004KT 10SM CLR 21/18 A2999 RMK AO2 SLP139 T02110183 KMWM 300747Z AUTO 17004KT 10SM CLR A2997 RMK AO2 KMWN 300751Z 29036KT 0SM FG VV000 06/06 RMK KODX 300753Z AUTO 00000KT 10SM CLR 16/14 A2997 RMK AO2 SLP138 T01610144 $ KMXF 300758Z AUTO 20003KT 10SM FEW110 24/22 A2993 RMK AO2 RAE07DZB07E15 SLP136 P0000 T02360223 KMWO 300815Z AUTO 00000KT 10SM CLR 14/11 A3007 RMK AO2 T01380105 KOEO 300815Z AUTO 00000KT 10SM CLR 13/13 A2999 RMK AO2 T01260126 KOFF 300758Z AUTO 12005KT 10SM CLR 20/20 A2992 RMK AO2 SLP128 T01960196 $ KMVY 300817Z AUTO 00000KT 3SM R24/1600V3000FT BR FEW002 14/14 A2989 RMK AO2 T01390139 KNOG 300756Z AUTO 23006KT 10SM CLR 24/23 A2994 RMK AO2 SLP116 T02440228 $ KNPA 300256Z 00000KT 8SM FEW024 BKN100 BKN250 25/24 A2995 RMK SLP143 T2 SET LAST T02500239 53002 LEPA 300730Z 00000KT CAVOK 27/15 Q1016 NOSIG LFGA 300800Z AUTO 16005KT 9999 FEW049 20/17 Q1016 PTKK 300757Z 00000KT 15SM FEW014 SCT280 28/26 A2977 RMK SLP083 T02830259 KOGA 300815Z AUTO 36019G27KT 10SM VCTS SCT034 BKN043 OVC049 19/13 A3017 RMK AO2 LTG DSNT N THRU E T01850133 KOGB 300808Z AUTO 00000KT 6SM BR BKN005 22/22 A2997 RMK AO2 T02220217 KMWT 300752Z AUTO 00000KT 3/4SM BR VV001 19/18 A3002 RMK AO2 SLP151 T01890178 $ KOFK 300756Z AUTO 00000KT 10SM CLR 19/16 A2995 RMK AO2 SLP130 T01890156 KOGD 300753Z 00000KT 10SM OVC110 23/09 A3008 RMK AO2 SLP117 T02330089 KMYF 300753Z AUTO 19003KT 7SM OVC008 19/16 A2988 RMK AO2 SLP114 T01890156 402890189 TSNO KMXO 300815Z AUTO 00000KT 10SM SCT080 16/15 A3002 RMK AO2 KOFP 300754Z AUTO 00000KT 10SM FEW060 BKN090 18/15 A3005 RMK AO2 SLP175 T01780150 $ GABG 300600Z 00000KT CAVOK 22/21 Q//// PTKR 300752Z 28006KT 15SM SCT017CB SCT120 OVC300 29/25 A2982 RMK CB SE-SW MOV N SLP097 T02890251 LFGJ 300800Z AUTO 23006KT 200V260 CAVOK 20/15 Q1017 BECMG FEW040TCU KMYJ 300815Z AUTO 14005KT 10SM CLR 18/16 A3003 RMK AO2 PWINO KNQA 300815Z AUTO 07003KT 10SM CLR 21/17 A3002 RMK LDZA 300800Z VRB01KT CAVOK 25/17 Q1016 NOSIG KMYL 300751Z AUTO 33004KT 10SM CLR 19/06 A3010 RMK AO2 SLP130 T01890061 LDZD 300800Z 17004KT 110V220 CAVOK 25/16 Q1015 NOSIG KNOW 300815Z AUTO 27012G20KT 10SM CLR 13/10 A3018 RMK AO2 T01320100 LEPP 300800Z 33003KT 290V010 CAVOK 19/10 Q1019 ESCF 300750Z 22010KT 9999 SCT017 BKN200 16/14 Q1010 KMYP 300814Z AUTO 31003KT 10SM BKN080 08/02 A3076 RMK AO2 KMZG 300815Z AUTO 21009KT 10SM BKN046 OVC055 29/23 A2991 RMK A01 KMZH 300813Z AUTO 00000KT 10SM SCT095 BKN110 12/11 A2994 RMK AO2 KMYR 300815Z AUTO 00000KT 10SM FEW019 BKN026 OVC033 23/19 A2997 RMK AO1 LTG DSNT E KNQI 300756Z AUTO 19007KT 10SM CLR 24/24 A2993 RMK AO2 SLP130 T02390239 $ KNRB 300752Z AUTO 23004KT 10SM CLR 25/23 A2997 RMK AO2 SLP149 T02500228 $ GABS 300800Z 20005KT 9999 FEW030 24/23 Q1014 NOSIG KMYV 300753Z AUTO 18006KT 10SM CLR 21/14 A2981 RMK AO2 SLP099 T02060144 403830172 $ ESDF 300750Z 22007KT 190V250 9999 BKN016 BKN078 17/14 Q1012 FJDG 300755Z 13015KT 9999 FEW020 SCT080 BKN220 30/26 A2985 RMK SLP105 T03010260 KMYZ 300755Z AUTO 17005KT 10SM CLR 21/20 A2995 RMK AO2 LERI 300800Z VRB01KT CAVOK 26/14 Q1016 NOSIG WIBB 300800Z 10005KT 9999 SCT014 34/23 Q1006 KOJA 300315Z AUTO 00000KT 10SM CLR 27/21 A3002 RMK AO2 LESA 300800Z VRB01KT CAVOK 18/11 Q1019 KOJC 300753Z AUTO 14007KT 10SM CLR 21/19 A2998 RMK AO2 LTG DSNT E AND W SLP139 T02110189 LGAD 300750Z 00000KT 9999 FEW025 28/18 Q1015 KPAE 300753Z AUTO 03007KT 10SM CLR 13/11 A3019 RMK AO2 SLP222 T01280106 402110122 KNSE 300756Z AUTO 00000KT 8SM CLR 23/23 A2994 RMK AO2 SLP122 T02280228 $ KNQX 300753Z AUTO 14007KT 10SM FEW025 28/23 A2998 RMK AO2 SLP149 T02830233 $ KPAH 300753Z AUTO 00000KT 10SM CLR 15/13 A3004 RMK AO2 SLP168 T01500133 KMZZ 300815Z AUTO 00000KT 10SM CLR 11/10 A3008 RMK AO2 T01130098 FIMP 300800Z 13011KT 9999 SCT015 BKN050 24/18 Q1022 KNSI 300814Z AUTO 29014KT 2 1/2SM BR OVC002 16/ A2988 RMK AO2 VIS 1 3/4V3 T0156 PWINO $ LERS 300800Z 10004KT 030V190 9999 FEW023 27/20 Q1016 KNRS 300756Z AUTO 20004KT 8SM OVC009 20/16 A2988 RMK AO2 SLP117 T02000161 402500200 $ FIMR 300800Z 15010KT 9999 FEW018 25/18 Q1020 LERT 300800Z 19010KT 160V240 7000 BKN007 OVC014 22/18 Q1017 NOSIG LFKB 300800Z 14005KT 100V170 9999 FEW011 BKN150 25/21 Q1016 NOSIG KOKB 300752Z AUTO 00000KT 8SM OVC012 21/16 A2986 RMK AO2 SLP112 T02060161 402560194 LFJL 300800Z AUTO 23009KT 190V270 9999 FEW020 SCT028 BKN036 19/14 Q1016 NOSIG LFKC 300800Z 34005KT 310V020 CAVOK 26/18 Q1015 NOSIG KOKC 300752Z 16005KT 10SM SCT250 22/20 A3000 RMK AO2 SLP142 T02220200 LGAL 300750Z 18005KT 9999 SCT030 27/17 Q1014 RCFN 300800Z 17006KT 130V210 9999 FEW018 FEW020TCU SCT025 31/26 Q1012 NOSIG RMK TCU NW A2989 KNTD 300817Z AUTO 22005KT 6SM BR SCT009 17/16 A2986 RMK AO2 T01720156 $ KPAM 300758Z AUTO 22005KT 10SM FEW025 28/24 A2993 RMK AO2 SLP138 T02820235 $ KPAN 300815Z AUTO 05004KT 10SM SCT110 20/14 A3021 RMK AO2 KPAO 300347Z 34012KT 10SM SKC 15/13 A2994 RMK LAST LESO 300800Z 00000KT 9999 FEW018 21/15 Q1019 LFKF 300800Z AUTO 09008KT 050V130 9999 NCD 26/19 Q1016 NOSIG KPBF 300753Z AUTO 04003KT 10SM CLR 21/19 A3001 RMK AO2 SLP159 T02110194 TSNO KPBG 300753Z AUTO 00000KT 10SM CLR 13/12 A2994 RMK AO2 SLP137 T01330122 KPBH 300815Z AUTO 00000KT 10SM CLR 13/11 A2998 RMK AO2 T01260112 LFJR 300800Z AUTO 21013KT 9999 OVC013 18/15 Q1015 TEMPO 3000 DZRA BECMG BKN016 KPBI 300753Z 00000KT 10SM SCT023 SCT070 SCT250 27/23 A2999 RMK AO2 SLP155 T02720233 LFKJ 300800Z 23004KT 200V260 CAVOK 25/19 Q1015 NOSIG WIDD 300800Z 07004KT 9999 SCT017 31/26 Q1009 NOSIG LEST 300800Z VRB01KT 5000 2000SE BR SCT003 BKN009 15/13 Q1020 NOSIG LFLB 300800Z VRB02KT 9999 FEW023 BKN046 BKN130 22/18 Q1017 NOSIG KOKK 300815Z AUTO 00000KT 3/4SM VV005 12/08 A3007 RMK AO1 KNUC 300056Z 28009KT 6SM BR FEW004 OVC006 19/17 A2988 RMK SLP115 LAST T01890167 LESU 300800Z 07003KT 350V130 9999 FEW050 BKN065 19/13 Q1020 LETL 300800Z AUTO 14007KT 100V160 9999 NCD 20/14 Q1020 LFLC 300800Z AUTO 10003KT 030V160 9999 FEW038 21/15 Q1018 NOSIG LGBL 300750Z 08006KT 9999 FEW035 29/16 Q1015 PTPN 300350Z 28007KT 15SM SCT018 SCT130 BKN300 31/25 A2975 RMK LAST LGAV 300750Z 05010KT 020V080 9999 FEW035 29/14 Q1015 NOSIG KOKM 300815Z AUTO 20010KT 10SM CLR A2999 RMK AO2 KOLE 300815Z AUTO 00000KT 10SM CLR 11/07 A3008 RMK AO2 LETO 300800Z 14001KT CAVOK 25/14 Q1017 NOSIG KOLF 300753Z AUTO 08005KT 10SM BKN110 16/13 A3016 RMK AO2 SLP204 T01610128 KOLG 300755Z AUTO 00000KT 10SM SCT075 11/11 A2996 RMK AO1 ESGG 300750Z 15010KT 9999 FEW018 BKN026 OVC043 13/11 Q1009 KNUI 300753Z AUTO 00000KT 10SM BKN060 19/17 A3003 RMK AO2 SLP167 T01890172 LFKS 300800Z AUTO 14008KT 120V180 CAVOK 26/20 Q1016 KOMA 300752Z 16006KT 10SM SCT250 22/20 A2992 RMK AO2 SLP122 T02220200 ESGJ 300750Z 19008KT 9999 -DZ FEW049 14/11 Q1010 WIEE 300800Z 25003KT 200V300 9999 FEW025 31/25 Q1009 LEVC 300800Z VRB01KT 9999 -SHRA FEW030TCU SCT040 25/18 Q1016 TEMPO FEW030CB LFLL 300800Z 01009KT 9999 FEW016 BKN040 20/15 Q1017 NOSIG LFMC 300700Z VRB02KT 9999 FEW066 BKN110 BKN200 21/17 Q1015 KNTU 300756Z 04004KT 10SM FEW050 SCT070 OVC100 24/20 A2999 RMK AO2 RAB03E55 TSB03E55 SLP157 P0011 T02390200 KPDC 300755Z AUTO 00000KT 10SM CLR 14/13 A3002 RMK AO2 T01410130 LEVD 300800Z 05008KT 020V080 CAVOK 19/08 Q1019 LFMD 300800Z AUTO 16004KT 120V190 9999 ///TCU 23/20 Q1016 KOLM 300754Z AUTO 18004KT 10SM CLR 11/09 A3019 RMK AO2 SLP224 T01110094 402390111 KOKV 300815Z AUTO 00000KT 10SM CLR 13/12 A3006 RMK AO2 KPCM 300815Z AUTO 19004KT 10SM CLR 24/24 A3000 RMK AO2 LFLN 300800Z AUTO 26004KT 220V310 9999 BKN024 BKN029 19/14 Q1018 NOSIG KPBX 300815Z AUTO 04003KT 10SM CLR 17/14 A3007 RMK AO2 T01660142 LFLP 300800Z AUTO VRB01KT 9999 BKN019 OVC026 21/17 Q1017 TEMPO 4000 SHRA SCT020TCU BKN030 LFMH 300800Z 31004KT 280V340 9999 FEW016 BKN036 19/15 Q1018 NOSIG ESGP 300750Z 14011KT 9999 DZ FEW020 BKN028 14/12 Q1008 KNUQ 300756Z AUTO 04003KT 8SM OVC011 14/11 A2993 RMK AO2 SLP136 T01390106 402110133 KOMH 300815Z AUTO 00000KT 10SM 16/16 A3006 RMK AO2 KOKZ 300815Z AUTO 00000KT 10SM CLR 21/21 A2996 RMK AO2 T02060206 PTSA 292350Z 21007KT 10SM FEW023 FEW300 30/23 A2983 RMK LAST LFMI 300800Z AUTO 31004KT 270V360 9999 NSC 25/16 Q1015 TEMPO 4000 SHRA FEW015TCU BKN030 LFLS 300800Z AUTO 01006KT 9999 BKN016 BKN031 OVC180 20/17 Q1017 NOSIG ESGR 300750Z AUTO 21011KT 9999 -DZ SCT023/// BKN064/// 15/11 Q1009 KOLS 300754Z AUTO 00000KT 10SM CLR 20/18 A3009 RMK AO2 SLP131 T02000183 $ KONA 300814Z AUTO 00000KT 10SM SCT043 16/15 A2999 RMK AO2 KPEA 300815Z AUTO 16003KT 10SM SCT046 SCT090 19/16 A2999 RMK AO2 T01900162 LFMK 300800Z AUTO 28010KT 9999 OVC038/// ///TCU 20/16 Q1018 BECMG NSC KOMK 300753Z AUTO 31009KT 10SM CLR 21/10 A2993 RMK AO2 SLP123 T02110100 403610161 KPDK 300753Z AUTO 00000KT 10SM CLR 24/18 A2995 RMK AO2 SLP121 T02440178 LFLU 300800Z AUTO VRB03KT 9999 OVC052 22/17 Q1016 LFML 300800Z AUTO 27006KT CAVOK 24/18 Q1015 TEMPO 4000 SHRA FEW015TCU BKN030 ESIB 300750Z 18010KT 9999 -RA FEW012 BKN045 15/13 Q1008 KOLU 300815Z AUTO 00000KT 10SM CLR 19/14 A2998 RMK AO2 RVRNO ESGT 300720Z 17012KT 9999 RA BKN013 15/13 Q1008 KOLV 300050Z 03005KT 10SM BKN250 A3000 KOMN 292250Z 13005KT 7SM SCT055 30/24 A2995 RMK LAST LFLW 300800Z AUTO 31005KT 280V030 9999 FEW016 SCT032 18/13 Q1019 NOSIG LFMN 300800Z 14003KT 110V180 9999 FEW012 FEW066CB SCT130 BKN260 24/19 Q1016 NOSIG PTRO 300750Z 28009KT 14SM SCT016TCU BKN120 BKN300 29/25 A2980 RMK TCU VC ALQDS KPCW 300816Z AUTO 22004KT 10SM CLR 18/11 A3003 RMK AO2 PWINO $ KNUW 300756Z 22013G20KT 10SM SCT010 BKN016 14/09 A3022 RMK AO2 SLP233 T01390094 401830128 $ LFLX 300800Z AUTO 23010KT 9999 BKN018 BKN026 BKN032 18/15 Q1017 NOSIG LFMO 300800Z AUTO VRB02KT CAVOK 24/18 Q1016 LFLY 300800Z AUTO 01006KT 340V100 9999 FEW018 OVC037 20/15 Q1017 NOSIG LFMP 300800Z AUTO 03005KT 350V070 9999 SCT052 25/14 Q1017 KOLY 300815Z AUTO 00000KT 10SM CLR 14/14 A3007 RMK AO2 KPCZ 300815Z AUTO 00000KT 4SM BR CLR 14/14 A3000 RMK AO2 T01390137 KOLZ 300815Z AUTO 17004KT 10SM FEW039 FEW060 17/16 A3002 RMK AO2 LEVS 300800Z 00000KT CAVOK 27/11 Q1017 LFOA 300800Z AUTO 23009KT 9999 BKN018 BKN027 OVC041 18/14 Q1017 KOOA 300815Z AUTO 16004KT 10SM SCT120 17/16 A3000 RMK AO2 T01710157 LEVT 300800Z 00000KT CAVOK 18/14 Q1020 LFOB 300800Z AUTO 21012KT 9999 BKN014 OVC022 17/14 Q1012 BECMG BKN030 LFMT 300800Z VRB02KT CAVOK 24/18 Q1016 NOSIG KPDT 300753Z AUTO 24012G17KT 10SM CLR 21/09 A3001 RMK AO2 SLP144 T02110094 403440156 LFMU 300800Z AUTO 27005KT 230V320 CAVOK 25/16 Q1016 NOSIG LFOC 300800Z AUTO 23012KT 9999 OVC012 17/14 Q1015 LGEL 300750Z 35007KT CAVOK 31/12 Q1014 KONL 300815Z AUTO 27003KT 10SM CLR 17/14 A2998 RMK AO2 T01700135 LFMV 300800Z AUTO VRB02KT 9999 FEW072 BKN100 BKN140 24/18 Q1016 TEMPO 4000 SHRA FEW015TCU BKN030 KONM 300815Z AUTO 14011G15KT 060V160 10SM SCT110 24/10 A3017 RMK AO2 LTG DSNT SE AND S T02380098 LFOE 300800Z AUTO 21011KT 9999 OVC014 18/15 Q1013 ETAD 300758Z AUTO 24008KT 9999 FEW037 SCT170 SCT200 17/12 A2997 RMK AO2 SLP132 T01680120 $ LEVX 300800Z VRB01KT 2700 1000N R19/1100U R01/P2000 BCFG SCT002 BKN003 15/15 Q1020 BECMG 3000 BCFG SCT003 KNXF 300756Z AUTO 18004KT 6SM HZ OVC012 21/18 A2987 RMK AO2 SLP199 T02060178 402440200 KONO 300753Z AUTO 34008KT 10SM CLR 27/07 A2991 RMK AO2 SLP102 T02720072 KPDX 300753Z 34006KT 10SM CLR 14/09 A3021 RMK AO2 SLP227 T01440094 402560144 KPEO 300753Z AUTO 20007KT 10SM CLR 16/12 A3003 RMK AO2 SLP162 T01610117 TSNO $ RCKH 300800Z 19015KT 160V240 9999 FEW018 SCT300 33/25 Q1010 NOSIG RMK A2983 LFMY 300800Z AUTO VRB02KT CAVOK 26/16 Q1015 KONP 300815Z AUTO 35010G17KT 328V038 10SM CLR 12/10 A3027 RMK AO2 LFOH 300800Z AUTO 22010KT 190V250 3200 DZ BR BKN003 OVC008 16/16 Q1012 TEMPO 2000 RADZ KPEQ 300815Z AUTO 00000KT 10SM CLR 23/15 A3005 RMK AO2 T02270150 LEXJ 300800Z VRB01KT 9999 FEW010 BKN023 20/16 Q1018 LFOJ 300800Z AUTO 20010KT 170V230 9999 OVC012 17/14 Q1015 KPGA 300753Z AUTO 00000KT 10SM CLR 26/11 A3008 RMK AO2 SLP110 T02560106 TSNO GAKA 300600Z 16004KT 9999 TSRA FEW030 FEW033CB OVC140 25/20 Q1015 ORAGE ET PLUIE A LA STATION LFPB 300800Z AUTO 22011KT 9999 OVC020 18/13 Q1014 TEMPO BKN008 LFOK 300800Z AUTO 22012KT 9999 // FEW017 SCT038 OVC060 17/14 Q1015 KONT 300753Z 27005KT 10SM CLR 22/15 A2987 RMK AO2 SLP093 T02220150 403720200 $ LFPC 300800Z AUTO 22013KT 9999 SCT018 SCT043 BKN054 18/14 Q1013 KNYC 300751Z AUTO 29005KT 10SM CLR 21/13 A2999 RMK AO2 SLP145 T02060133 $ KPGD 300753Z AUTO 00000KT 10SM CLR 24/23 A3000 RMK AO2 SLP158 T02440233 GAKD 300600Z 14012KT 9999 TS FEW030 FEW040CB BKN150 27/25 Q1014 WIHH 300800Z 06007KT 5000 HZ SCT018 33/23 Q1008 RMK RA TO W KONX 300605Z AUTO 20006G14KT 10SM -RA SCT035 BKN042 OVC050 24/19 A3003 RMK AO2 T02420187 KOPF 300753Z AUTO 00000KT 10SM FEW024 27/24 A2999 RMK AO2 SLP156 T02720239 PTTP 300753Z 13003KT 15SM FEW018 FEW130 BKN300 26/25 A2981 RMK SHRAB29E31 SLP095 T02610246 KPEX 300813Z AUTO 00000KT 10SM CLR 14/13 A2997 RMK AO2 T01350128 VQPR 300500Z 32004KT 8000 SCT030 BKN060 25/14 Q1016 NOSIG LFOP 300800Z AUTO 21009KT 9999 4500 OVC007 16/15 Q1012 TEMPO 4000 RADZ LFPG 300800Z 22011KT 9999 BKN017 18/14 Q1014 NOSIG KNYG 300756Z AUTO 31005KT 10SM FEW065 17/14 A3004 RMK AO2 SLP174 T01720139 KNXP 300756Z AUTO 24017KT 10SM CLR 31/14 A2994 RMK AO2 SLP094 T03060144 404280289 KONZ 300814Z AUTO 00000KT 10SM CLR 16/09 A3002 RMK AO2 T01600088 KPEZ 300815Z AUTO 00000KT 10SM CLR 23/19 A2995 RMK AO2 T02310191 LFQA 300800Z AUTO 21008KT 9999 FEW022 OVC058 17/14 Q1014 ETAR 300801Z 24005KT 9999 SCT020 BKN080 18/15 A2998 RMK AO2A LFQB 300800Z AUTO 20010KT CAVOK 18/13 Q1015 LFOT 300800Z AUTO 20010KT 170V230 9999 OVC014 18/14 Q1015 TEMPO 4500 -RA SCT009 BKN015 KOPL 300815Z AUTO 00000KT 2SM CLR 21/21 A2994 RMK AO2 VIS 1 1/4V4 T02130212 PWINO KNYL 300757Z AUTO 16014KT 10SM CLR 31/21 A2978 RMK AO2 SLP079 T03110206 LFPM 300800Z AUTO 21010KT 9999 OVC017 18/14 Q1014 LFOV 300800Z AUTO 24009KT 210V270 9999 BKN015 OVC021 18/15 Q1014 KPHD 300753Z AUTO 00000KT 10SM CLR 13/10 A3008 RMK AO2 SLP183 T01280100 LFPN 300800Z AUTO 22009KT 190V250 9999 OVC013 18/14 Q1014 BECMG BKN030 ESKM 300750Z AUTO 10005KT 9999 FEW035/// BKN054/// 16/11 Q1007 KOPN 300815Z AUTO 00000KT 10SM CLR 23/21 A2996 RMK AO2 LFPO 300800Z 21009KT 180V240 9999 BKN017 18/14 Q1014 NOSIG ESKN 300750Z 19007KT 140V230 9999 SCT040 19/11 Q1010 KPHF 300754Z 00000KT 10SM FEW120 21/19 A3001 RMK AO2 SLP163 T02060194 GAKO 300600Z 32004KT CAVOK 23/21 Q//// LFQG 300800Z AUTO 20008KT 180V260 9999 BKN022 OVC029 18/13 Q1017 LEZG 300800Z 30010KT 270V340 CAVOK 22/10 Q1018 WIII 300800Z 05008KT 360V080 9999 FEW020CB SCT020 32/25 Q1008 N OSIG RMK CB TO S LGHI 300750Z 02010KT CAVOK 27/19 Q1013 KPIA 300754Z 15006KT 10SM FEW085 17/14 A3004 RMK AO2 SLP168 T01720139 LFPT 300800Z AUTO 21010KT 9999 OVC015 17/14 Q1013 LFRB 300800Z 25008KT 220V280 9999 OVC006 15/15 Q1013 NOSIG KORB 300813Z AUTO 00000KT 10SM BKN020 BKN090 14/13 A2993 RMK AO2 LTG DSNT S KPIB 300815Z AUTO 01003KT 5SM CLR 22/20 A2997 RMK AO1 GAKT 300600Z 18004KT 9999 RA SCT030 23/21 Q//// GAMB 300600Z VRB02KT 9999 SCT030 25/21 Q1012 LEZL 300800Z 19005KT 150V230 9999 BKN013 22/19 Q1017 NOSIG LFRC 300800Z AUTO 24012KT 210V270 4900 BR OVC005 15/15 Q1011 TEMPO 2000 RADZ KPHL 300754Z 30006KT 10SM FEW250 21/13 A3001 RMK AO2 SLP162 T02110133 KORC 300815Z AUTO 00000KT 10SM SCT080 19/17 A2995 RMK AO2 LFRD 300800Z AUTO 24009KT 9999 FEW014/// BKN028/// OVC035/// 17/15 Q1013 TEMPO SHRA LFPV 300800Z AUTO 21011KT 180V240 9999 BKN013 OVC088 17/14 Q1014 KORD 300751Z 19003KT 10SM CLR 16/10 A3004 RMK AO2 SLP169 T01560100 $ KPGV 300800Z AUTO 00000KT 7SM BKN120 22/21 A3001 RMK AO2 KORE 300752Z AUTO 00000KT 10SM CLR 14/12 A2994 RMK AO2 SLP137 T01390122 KPIE 300753Z AUTO 17005KT 10SM CLR 26/23 A2997 RMK AO2 SLP148 T02560228 KPHN 300816Z AUTO 00000KT 10SM CLR 07/07 A3003 RMK AO2 KORF 300751Z AUTO 21003KT 10SM OVC075 22/20 A3000 RMK AO2 RAB02E22 SLP159 P0001 T02220200 TSNO RCMQ 300800Z 27009KT 9999 VCSH FEW012 FEW014CB SCT025 BKN060 31/26 Q1011 NOSIG RMK A2986 CB SE VCSH SE-S LFRG 300800Z AUTO 24009KT 9999 BKN010 OVC019 16/16 Q1012 TEMPO 3000 RADZ KORG 300815Z AUTO 00000KT 10SM CLR 23/22 A2994 RMK AO2 T02320220 KPHP 300755Z AUTO 00000KT 10SM CLR 14/13 A3008 RMK AO2 SLP167 T01440133 GAKY 300300Z 26006KT 9999 FEW030 BKN150 26/24 Q1012 LFRH 300800Z AUTO 25010KT 220V280 9999 OVC007 16/15 Q1014 TEMPO RADZ LFQQ 300800Z AUTO 20009KT 9999 BKN012 BKN020 BKN045 16/15 Q1011 KPIH 300753Z AUTO 35006KT 10SM CLR 17/09 A3008 RMK AO2 SLP133 T01670094 KORH 300754Z AUTO 31005KT 10SM CLR 17/13 A2994 RMK AO2 SLP134 T01720128 LFRI 300800Z AUTO 22008KT 190V260 9999 BKN008 OVC035 18/17 Q1016 LFRJ 300800Z AUTO 25010KT 9999 OVC006 15/15 Q1013 KOSA 300815Z AUTO 00000KT 10SM CLR 22/22 A3000 RMK AO1 T02170215 LFRK 300800Z AUTO 24012KT 9999 OVC015 18/15 Q1012 TEMPO 3000 RADZ OVC008 LFSB 300800Z VRB02KT 9999 SCT023 BKN051 BKN070 20/15 Q1017 TEMPO FEW025TCU KOQT 300753Z AUTO 00000KT 10SM CLR 18/13 A3003 RMK AO2 SLP153 T01780133 KPHT 300815Z AUTO 00000KT 10SM CLR 14/12 A3005 RMK KOQU 300250Z 28008KT 10SM SKC 22/19 A2989 RMK LAST LFRL 300800Z AUTO 26008KT 9999 OVC003 15/15 Q1013 ESMK 300750Z 18006KT 9999 FEW028 SCT044 BKN052 16/14 Q1011 KORL 300753Z AUTO 21005KT 10SM CLR 26/23 A2997 RMK AO2 SLP151 T02560233 KPIL 300753Z AUTO 19005KT 10SM CLR 26/25 A2992 RMK AO2 SLP131 T02610250 KOSC 300813Z AUTO 00000KT 10SM CLR 07/04 A3001 RMK AO2 T00730043 ETEB 300806Z AUTO 20005KT 9999 BKN100 17/15 A3002 RMK AO2 RAE06 RCNN 300800Z 23013KT 9999 FEW014 BKN200 32/25 Q1010 NOSIG RMK A2983 AWOS R18 WIND N/A LFSD 300800Z AUTO 22006KT 190V260 CAVOK 20/14 Q1017 LFRM 300800Z AUTO 22007KT 170V260 9999 OVC012 19/15 Q1014 KPIM 300815Z AUTO 00000KT 10SM CLR 23/23 A2996 RMK AO2 T02320225 LFRN 300800Z AUTO 25010KT 210V270 9999 OVC017/// 18/15 Q1013 TEMPO SHRA ESND 300750Z AUTO 14008KT 090V230 9999 ///////// ///// Q1007 LFRO 300800Z AUTO 23010KT 9999 OVC005 15/15 Q1013 BECMG OVC010 KPHX 300751Z 09015KT 10SM BKN140 BKN170 BKN250 30/18 A2985 RMK AO2 WSHFT 0644 SLP088 T03000178 LGIO 300750Z /////KT 9999 FEW045 26/17 Q1017 KQC5 300756Z AUTO 00000KT 9999 BKN095 26/21 A3008 RMK AO2 SLPNO T02610213 LFSG 300800Z AUTO 22012KT 9999 FEW022 SCT030 BKN140 18/13 Q1016 KNZY 300752Z 18006KT 7SM OVC009 16/16 A2987 RMK AO2 SLP115 T01610161 402170161 $ LFRQ 300800Z AUTO 26010KT 9999 OVC006 16/15 Q1013 ESNG 300750Z 19010KT 140V220 9999 FEW045 18/07 Q1011 KOSH 300753Z AUTO 21004KT 10SM CLR 16/12 A2999 RMK AO2 SLP147 T01610122 LFSI 300800Z AUTO 23009KT 9999 FEW026 OVC060 19/13 Q1016 LGIR 300750Z 30014KT 9999 FEW020 27/21 Q1014 NOSIG PTYA 300752Z 27008KT 12SM FEW016 SCT130 BKN300 32/25 A2978 RMK SLP086 T03190250 ESMQ 300750Z 21008KT 9999 FEW024 SCT030 19/13 Q1011 KPIR 300753Z AUTO 32006KT 10SM CLR 16/15 A3003 RMK AO2 SLP156 T01610150 LFRS 300800Z 25010KT 9999 BKN008 BKN033 18/17 Q1014 NOSIG KORS 300815Z AUTO 20010G16KT 10SM CLR 13/10 A3011 RMK AO2 LFRT 300800Z AUTO 25010KT 9999 BKN014 OVC033 17/15 Q1013 KPIT 300751Z 00000KT 10SM CLR 14/11 A3007 RMK AO2 SLP187 T01390106 ESMS 300750Z 25006KT 9999 SCT025 BKN053 16/13 Q1011 KPKB 300812Z AUTO 00000KT 1 1/4SM BR OVC001 13/12 A3011 RMK AO2 T01280117 GANK 300600Z 24004KT CAVOK 25/21 Q//// LGKC 291550Z 08005KT CAVOK 27/17 Q1013 LFRU 300800Z AUTO 25009KT 9999 BKN006 OVC012 16/15 Q1012 LFSL 300800Z AUTO 29006KT 240V330 9999 FEW021 19/13 Q1019 NOSIG ESNK 300750Z AUTO 15006KT 9999 OVC017/// 17/14 Q1010 ESMT 300750Z 16008KT 9999 SCT021 BKN070 16/14 Q1010 REDZ LHBC 300545Z 12002KT CAVOK 22/19 Q1017 ESNL 300750Z AUTO 13011KT 9999 NCD 18/10 Q1011 LFRV 300800Z AUTO 25005KT 220V280 9999 OVC004/// 16/16 Q1014 KPKD 300753Z AUTO 33004KT 10SM OVC100 17/14 A2998 RMK AO2 SLP146 T01670144 TSNO KQBD 300755Z AUTO 00000KT 10SM BKN110 25/09 A3009 RMK AO2 SLP057 WND DATA ESTMD T02470093 KQD3 300756Z AUTO M M M M M M RMK AO2 PK WND 22043/29 SLPNO $ LFSN 300800Z AUTO 24010KT 200V280 9999 BKN025 BKN043 BKN140 20/13 Q1016 ESOE 300750Z 20010KT 9999 BKN016 17/12 Q1009 ESNN 300750Z 14007KT 9999 BKN011 BKN016 OVC021 16/14 Q1010 KQBF 300756Z AUTO 00000KT 9999 FEW180 25/19 A2990 RMK AO2 SLPNO T02520192 LGKF 300750Z 27006KT 9999 FEW018 27/20 Q1016 LFSO 300800Z AUTO 23009KT 200V260 9999 BKN022 BKN070 OVC130 19/14 Q1016 ESNO 300750Z 11004KT 070V140 CAVOK 15/12 Q1011 ESMX 300750Z 17008KT 9999 SCT014 BKN060 16/13 Q1011 KOTG 300756Z AUTO 19005KT 10SM CLR 19/18 A2998 RMK AO2 SLP146 T01890183 KS25 300755Z AUTO 21003KT 10SM CLR 10/10 A3015 RMK AO2 LFTH 300800Z AUTO 10003KT 040V140 CAVOK 22/18 Q1015 TEMPO 20013KT LFRZ 300800Z AUTO 25008KT 9999 BKN013/// OVC025/// 18/16 Q1014 TEMPO 3000 -DZRA BKN004 KOTH 300815Z 01008KT 10SM CLR 13/11 A3023 RMK AO1 ESNQ 300750Z 18010KT 150V210 9999 SCT047 18/04 Q1010 GANR 300600Z 22006KT CAVOK 25/22 Q1016 LFST 300800Z AUTO 18008KT 150V210 9999 FEW046 SCT100 BKN140 21/16 Q1016 TEMPO FEW040CB ESPA 300750Z 17007KT CAVOK 17/11 Q1013 ESNS 300750Z 14006KT 100V170 CAVOK 19/09 Q1012 ESOK 300750Z 17011KT 9999 BKN009 15/13 Q1008 KOSU 300753Z AUTO 00000KT 10SM CLR 15/11 A3007 RMK AO2 SLP179 T01500111 LGKL 300750Z 16003KT 9999 FEW025 30/16 Q1015 KQBL 300756Z AUTO 00000KT 10SM -SHRA FEW042 SCT060 BKN095 BKN140 26/24 A2995 RMK AO2 RAB0658E00DZB00E03RAB03E12SHRAB12 SLP143 WND DATA ESTMD T02560241 ESNU 300750Z 10006KT 060V130 CAVOK 17/11 Q1011 KOTM 300753Z AUTO 16005KT 10SM BKN100 BKN120 18/16 A3000 RMK AO2 RAB18E30 SLP154 P0000 T01830156 ESNV 300750Z 14009KT 100V170 CAVOK 17/09 Q1009 LFSX 300800Z AUTO 19005KT 160V230 9999 BKN018 BKN082 BKN120 20/16 Q1017 ESPE 300750Z 16008KT 130V220 9999 SCT041TCU 19/11 Q1011 LGKO 300750Z 32011KT CAVOK 28/18 Q1011 ESNX 291520Z 30009KT 9999 VCSH SCT035CB 16/10 Q1011 LGKP 300750Z 31022KT 9999 FEW020 27/21 Q1011 LHBP 300800Z 17004KT 090V200 9999 FEW044 27/16 Q1016 NOSIG ETGG 300720Z 18009G20KT 8000 -RADZ BKN050 15/13 Q1009 BLU LGKR 300750Z 11005KT 9999 FEW015 27/23 Q1015 NOSIG ESNZ 300750Z 12012KT CAVOK 18/08 Q1007 ETHA 300720Z 19005KT 9999 -RA FEW040 BKN060 15/14 Q1018 BLU BLU TEMPO WHT VRMM 300700Z 24006KT 9999 SCT018TCU BKN270 31/26 Q1010 NOSIG WIMM 300800Z 02012KT 9999 SCT022 32/26 Q1007 KS39 300820Z AUTO 04004KT 10SM CLR 14/05 A3015 RMK AO2 ETHB 300720Z 23009KT 9999 SCT016 BKN037 16/13 Q1012 BLU BLU TEMPO GRN LHDC 300745Z 12002KT CAVOK 25/16 Q1017 NOSIG ETHC 300720Z 20006KT 9999 FEW040 BKN070 16/14 Q1012 BLU BLU KPMD 300753Z AUTO 24007KT 10SM CLR 29/M02 A2993 RMK AO2 SLP096 T02891017 404060217 LGKV 300750Z 19005KT 9999 FEW025 28/19 Q1015 LGLM 300750Z 04008KT 9999 FEW025 29/17 Q1015 KPKV 300815Z AUTO 00000KT 7SM CLR 25/25 A2992 RMK AO2 T02510247 LFTW 300800Z AUTO VRB03KT 9999 FEW018 25/19 Q1016 NOSIG KOVE 300753Z AUTO 27003KT 10SM CLR 23/15 A2983 RMK AO2 SLP101 T02330150 403940206 KPLN 300754Z AUTO 00000KT 10SM OVC075 08/06 A2999 RMK AO2 SLP156 T00780056 KOUN 300815Z AUTO 17004KT 10SM CLR 22/19 A3001 RMK AO2 TSNO ETHE 300720Z 22006KT 9999 SCT015 BKN028 BKN050 16/13 Q1011 BLU BLU TEMPO WHT ESOW 300750Z 21007KT CAVOK 18/10 Q1010 ETHF 300720Z 18008KT 9999 FEW012 BKN050 16/14 Q1013 BLU BLU KQDG 300756Z AUTO 06006KT 9999 FEW003 BKN100 19/17 A2987 RMK AO2 SLP117 T01910170 PWINO $ LGKZ 300750Z 00000KT 9999 FEW030 25/13 Q1019 ETGQ 300420Z AUTO VRB02KT //// // ////// 17/13 Q1013 /// LGLR 300750Z 00000KT 9999 FEW035 31/14 Q1015 BLU KOWA 300816Z AUTO 16006KT 10SM CLR 18/15 A2998 RMK AO2 KPNA 300815Z AUTO 17004KT 10SM BKN110 12/07 A3030 RMK AO2 LGMK 300750Z 34014KT 9999 FEW010 26/19 Q1014 KOWB 300756Z AUTO 00000KT 10SM CLR 17/16 A3005 RMK AO2 T01660155 SLP174 KPNC 300753Z AUTO 20003KT 10SM CLR 24/19 A2997 RMK AO2 SLP134 T02440194 TSNO KOVL 300814Z AUTO 00000KT 10SM CLR 17/15 A2996 RMK AO2 LTG DSNT S AND SW KPLU 300815Z AUTO 00000KT 10SM BKN021 OVC027 13/12 A3020 RMK AO2 ETHL 300720Z 23004KT 9999 -RA FEW006 SCT015 BKN100 17/15 Q1017 BLU BLU KOWD 300813Z AUTO 00000KT 1 1/4SM BR SCT002 16/14 A2990 RMK AO2 VIS 1/2V5 T01560144 ETIC 300758Z AUTO 29005KT 9999 -RA OVC060 16/14 A3001 RMK AO2 DZB15E17RAB17E26DZB26E38RAB38 SLP156 P0000 KPNE 300754Z 31006KT 10SM CLR 19/14 A3001 RMK AO2 SLP160 T01940139 ETHN 300720Z 18004KT 9999 BKN035 16/14 Q1016 BLU BLU TEMPO WHT LFVP 300800Z 19012KT 0450 R26/0550N VV/// 13/12 Q1020 KPMP 300753Z 15006KT 10SM FEW025 28/23 A2998 RMK AO2 SLP153 T02830233 KQEI 300810Z AUTO 35002KT 2400 HZ BKN037 22/20 A2984 RMK A02 TSNO ETIH 300758Z AUTO VRB03KT 9999 -RA SCT038 BKN100 17/16 A3004 RMK AO2 SLP163 KQEJ 300810Z AUTO 36002KT 9999 BKN031 27/17 A2977 RMK A02 TSNO PWAK 300758Z AUTO M 9999 FEW010 26/24 A2988 RMK AO2 SLP125 T02550244 $ KOVS 300810Z AUTO 00000KT 3SM BR FEW002 12/11 A3002 RMK AO2 T01220111 ETHS 300720Z 24010KT 9999 FEW040 BKN060 BKN090 17/12 Q1011 BLU BLU ESSA 300750Z 26003KT 220V030 9999 FEW036 19/10 Q1009 NOSIG KQFB 300810Z AUTO 13005G14KT 9999 BKN048 29/19 A2986 RMK A02 TSNO KPOB 300758Z AUTO 03003KT 10SM OVC140 21/21 A2997 RMK AO2 SLP150 T02130210 KOXB 300753Z AUTO 28004KT 10SM SCT075 18/16 A3002 RMK AO2 SLP164 T01830156 TSNO LGMT 300750Z 33007KT 300V040 9999 FEW020 28/18 Q1014 KPOC 300347Z 25007KT 10SM CLR 25/16 A2989 RMK LAST ESSB 300750Z 27005KT 9999 FEW029 19/11 Q1009 KQEL 300810Z AUTO 03002KT 9999 BKN029 25/22 A2984 RMK A02 TSNO KOXC 300815Z 01004KT 10SM 16/12 A2999 RMK AO1 KPMU 300815Z AUTO 00000KT 10SM CLR 18/17 A3002 RMK AO2 T01790169 ETIK 300758Z AUTO M M M M M M RMK AO2 SLPNO PWINO PNO FZRANO TSNO $ KPNM 300815Z AUTO 00000KT 10SM CLR 12/11 A2996 RMK AO2 KPMV 300815Z AUTO 15006KT 10SM SCT050 22/21 A2993 RMK AO2 T02200211 ESSD 300750Z 16009KT CAVOK 18/09 Q1008 KQEN 300810Z AUTO 25008G16KT 4800 HZ BKN028 20/17 A2990 RMK A02 TSNO KPOE 300758Z AUTO 34003KT 10SM CLR 23/22 A2994 RMK AO2 SLP137 T02260219 KPOF 300753Z AUTO 35003KT 10SM CLR 19/17 A3004 RMK AO2 SLP167 T01890167 KOWP 300815Z AUTO 18004KT 10SM OVC080 26/19 A2998 RMK AO2 T02600191 GASG 300600Z 22004KT CAVOK 24/22 Q//// KQEQ 300810Z AUTO 23005KT 9999 CLR 24/20 A2967 RMK A02 TSNO RCSS 300816Z 07006KT 350V160 9999 FEW015 FEW025TCU BKN035 BKN120 32/22 Q1010 NOSIG RMK TCU SW A2985 KQER 300810Z AUTO 22007G14KT 9999 BKN026 26/19 A2978 RMK A02 TSNO KOXI 300815Z AUTO 00000KT 10SM SCT065 11/09 A3006 RMK AO1 KQES 300810Z AUTO 17012G18KT 9999 CLR 24/21 A2983 RMK A02 TSNO KPNS 300753Z AUTO 02005KT 10SM CLR 25/23 A2992 RMK AO2 SLP134 T02500233 LGPA 300750Z 34015KT CAVOK 27/19 Q1014 KPPA 300815Z AUTO 22016G28KT 7SM TSRA SCT024 BKN055 OVC110 20/16 A3013 RMK AO2 LTG DSNT ALQS T01990159 ESTA 300750Z 15008KT 9999 -RA SCT020 BKN025 16/14 Q1010 KPNT 300815Z AUTO 00000KT 10SM CLR 13/12 A3006 RMK AO2 T01270122 GASK 300600Z 22002KT CAVOK 24/21 Q//// ESSL 300750Z 22008KT 190V260 9999 SCT022 BKN027 17/13 Q1010 KQEV 300810Z AUTO 28002KT 9999 CLR 28/21 A2980 RMK A02 TSNO WIPP 300800Z 32008KT 270V330 9999 BKN013 32/25 Q1007 NOSIG FKKD 300800Z 18002KT 9999 SCT016 FEW020CB BKN100 26/24 Q1016 NOSIG KQEW 300810Z AUTO 08002KT 9999 BKN043 29/20 A2977 RMK A02 TSNO KQGE 300756Z AUTO 00000KT 10SM FEW042 SCT050 SCT130 26/24 A2992 RMK AO2 RAB27E36 SLP136 P0001 T02610237 GASN 300600Z 00000KT CAVOK 24/23 Q//// RCTP 300800Z 34005KT 9999 FEW024 SCT150 31/26 Q1010 NOSIG RMK A2985 KPPF 300752Z AUTO 00000KT 10SM SCT075 SCT090 BKN110 23/19 A2998 RMK AO2 SLP141 T02330189 KQEX 300810Z AUTO 19006G11KT 9999 CLR 30/20 A2980 RMK A02 TSNO LGNX 300750Z 35016KT 9999 FEW025 26/20 Q1014 KQEY 300810Z AUTO 28006KT 9999 SCT036 BKN040 29/19 A2982 RMK A02 TSNO ESSP 300750Z 18007KT 9999 FEW034 19/11 Q1010 KOXR 300751Z AUTO 22003KT 7SM CLR 17/14 A2986 RMK AO2 SLP112 T01720144 402220172 KOZA 300755Z AUTO 00000KT 10SM CLR 21/16 A3009 RMK AO2 KQFT 300810Z AUTO 17003KT 9999 FEW009 SCT013 BKN015 28/19 A2978 RMK A02 TSNO ESST 300750Z AUTO 14010KT 9999 -DZ BKN020/// OVC045/// 15/13 Q1007 KQFU 300810Z AUTO 05004KT 9999 CLR 25/20 A2982 RMK A02 TSNO KPOU 300753Z AUTO 00000KT 10SM CLR 16/14 A2997 RMK AO2 SLP143 T01560139 TSNO KPOV 300800Z AUTO 00000KT 10SM CLR 09/ A3008 RMK AO2 T0093 KQFV 300810Z AUTO 32005KT 1200 /CLR 26/18 A2981 RMK A02 TSNO ESTL 300750Z 17006KT 9999 -RA FEW019 SCT048 BKN057 16/15 Q1011 KOXV 300815Z AUTO 15004KT 10SM BKN048 20/17 A2997 RMK AO2 ESSV 300750Z 25011KT 9999 FEW017 18/15 Q1012 ESUD 300750Z AUTO 14007KT 090V160 9999 NCD 17/11 Q1010 KQFW 300810Z AUTO 25006KT 9999 FEW018 28/19 A2979 RMK A02 TSNO FKKN 300800Z 20002KT 9999 BKN016 21/19 Q1022 KQFX 300810Z AUTO 24003KT 9999 FEW010 SCT015 BKN065 29/19 A2980 RMK A02 TSNO KPPO 300815Z AUTO 00000KT 10SM SCT065 13/13 A3007 RMK AO2 T01320126 KPOY 300815Z AUTO 32009KT 10SM OVC110 18/06 A3017 RMK AO2 KPPQ 300815Z AUTO 16003KT 10SM SCT060 SCT120 16/14 A3005 RMK AO2 LTG DSNT W T01560137 LFYR 300800Z AUTO 23007KT 190V250 6000 -RA BKN018 BKN034 OVC056 17/15 Q1016 KPQI 300810Z AUTO 21004KT 10SM FEW007 BKN016 16/15 A2984 RMK AO2 FKKR 300800Z 26006KT 220V290 9999 SCT016 26/24 Q1016 NOSIG KPRB 300753Z AUTO 30006KT 10SM CLR 14/09 A2991 RMK AO2 SLP120 T01440094 404110144 TSNO KPQL 300753Z AUTO 36004KT 4SM BR CLR 22/21 A2993 RMK AO2 SLP137 T02170211 TSNO KPRC 300753Z AUTO 13007KT 10SM CLR 24/12 A3015 RMK AO2 SLP112 T02390117 KQHN 300755Z 27007G12KT 9999 FEW180 40/M01 A2971 RMK SLP934 Q1006 DA7129 KPQN 300814Z AUTO 00000KT 10SM CLR 19/18 A2997 RMK AO2 KPRG 300815Z AUTO 00000KT 10SM CLR 13/12 A3008 RMK AO2 T01250123 ESUP 300750Z AUTO 16005KT 120V200 9999 NCD 19/11 Q1012 LGPZ 300750Z 25007KT 9999 FEW025 27/20 Q1015 KOZR 300758Z AUTO 00000KT 10SM FEW048 24/24 A2995 RMK AO2 SLP141 T02400235 LGSA 300750Z 33006KT 9999 FEW020 29/18 Q1015 KOZS 300815Z AUTO 12004KT 10SM SCT075 18/17 A3002 RMK AO2 KQJB 300156Z AUTO 20003KT 9999 FEW210 22/20 A3000 RMK AO2 SLPNO T02180203 VTBD 300800Z 19010KT 160V220 9999 FEW020 BKN100 32/24 Q1005 NOSIG KQHU 291355Z AUTO 12002KT 7SM VV001 27/20 A3006 RMK AO2 SLP166 T02690204 $ ESUT 300750Z AUTO 14012KT 9999 FEW032/// 16/10 Q1008 KPSC 300753Z AUTO 20008KT 10SM CLR 22/13 A2993 RMK AO2 SLP132 T02220128 403720194 KRAC 300753Z AUTO 00000KT 10SM CLR 16/10 A3004 RMK AO2 SLP171 T01610100 ETND 300720Z 22008KT 9999 FEW023 SCT040 BKN060 17/12 Q1011 BLU KOZW 300815Z AUTO 24003KT 10SM CLR 11/09 A3004 RMK AO2 T01120087 KPRN 300756Z AUTO 00000KT 6SM BR SCT055 BKN100 23/22 A2994 RMK AO2 SLP133 T02330217 ETMN 300720Z 21009KT 9999 -RA FEW015 BKN038 BKN050 15/13 Q1009 BLU BLU BECMG WHT KPSF 300754Z AUTO 28005KT 10SM CLR 14/12 A2997 RMK AO2 SLP127 T01440122 KPRO 300815Z AUTO 00000KT 10SM SCT050 SCT060 SCT070 20/19 A2996 RMK AO2 T01980193 LGRP 300750Z 25011KT CAVOK 28/18 Q1010 NOSIG KQHY 300756Z AUTO 00000KT 10SM -SHRA FEW036 BKN060 BKN070 BKN140 26/24 A2995 RMK AO2 RAB0659E11SHRAB11 SLP144 P0001 T02550241 ETNG 300750Z 22011G21KT 9999 SCT018 BKN040 17/13 Q1013 TEMPO -RA ETNH 300720Z 21004KT 9999 -RA BKN050 15/13 Q1010 BLU BLU TEMPO GRN VTCC 300800Z 14505KT 9999 BKN035 31/21 Q1006 A2973 NOSIG LIBA 300755Z 17003KT CAVOK 28/11 Q1015 RMK SCT SCT200 VIS MIN 9999 WIND THR29 14002KT BLU KPRS 300815Z AUTO 03006KT 10SM CLR 26/15 A3004 RMK AO2 T02610153 LGSK 300750Z 01005KT 9999 FEW030 28/17 Q1015 KT20 300815Z AUTO 08003KT 10SM CLR 25/24 A2994 RMK AO2 T02460243 KPSK 300815Z AUTO 00000KT 10SM SCT048 BKN070 OVC085 17/15 A3010 RMK AO2 T01700150 KPTB 300815Z AUTO 02005KT 10SM SCT047 21/17 A3003 RMK AO2 T02050165 LIBC 300750Z VRB03KT CAVOK 29/13 Q1016 KRAL 300753Z AUTO 28003KT 10SM CLR 23/15 A2987 RMK AO2 SLP096 T02330150 403830206 $ ETNL 300734Z 15006KT 9999 FEW070 BKN080 18/12 Q1011 BLU BLU VTBO 300800Z 00000KT 5000 -RA BKN020 27/24 Q 1008 LIBD 300750Z VRB02KT CAVOK 30/13 Q1015 KRBD 300753Z 00000KT 10SM CLR 23/20 A2998 RMK AO2 SLP144 T02330200 LGSM 300750Z 36010KT CAVOK 29/19 Q1012 KPSM 300758Z 27004KT 10SM FEW100 17/16 A2988 RMK AO2A SLP120 T01660161 LHKE 300745Z 14002KT CAVOK 28/15 Q1017 NOSIG RMK BLU KPSN 300815Z AUTO 04003KT 10SM CLR 23/21 A2998 RMK AO2 T02390213 LIBF 300750Z 09004KT 040V150 CAVOK 29/13 Q1015 ETNN 300720Z 20004KT 9999 FEW025 BKN065 17/13 Q1013 BLU BLU VTCH 300800Z VRB05KT 6000E -RA FEW025 SCT028 31/22 Q1004 A2964 INFO KPSO 300815Z AUTO 00000KT 10SM BKN100 BKN120 15/07 A3038 RMK AO2 LTG DSNT W T01520070 LGSO 300750Z 36011KT CAVOK 27/18 Q1015 LGRX 300750Z VRB03KT 9999 FEW035 29/20 Q1015 KPRX 300815Z AUTO 08007KT 10SM CLR 22/16 A3000 RMK AO1 LIBG 300750Z 27002KT CAVOK 28/08 Q1015 KQKG 300755Z AUTO 21008G12KT 10SM SCT055 BKN080 22/07 A3032 RMK AO2 SLP213 WND DATA ESTMD T02170067 $ KRAP 300752Z 32006KT 10SM CLR 13/12 A3012 RMK AO2 SLP178 T01330117 KPSP 300753Z AUTO 03004KT 10SM CLR 34/18 A2981 RMK AO2 SLP087 T03390183 404330300 TSNO KRBG 300753Z AUTO VRB04KT 10SM CLR 19/10 A3016 RMK AO2 SLP211 T01890100 403000122 LGTG 300720Z 01005KT 9999 FEW030 29/12 Q1016 BLU VTBS 300800Z 17013KT 9999 FEW020 SCT035 31/23 Q1006 NOSIG LIBH 300655Z 15004KT CAVOK 27/16 Q1014 RMK FEW FEW190 QUK 1 QUL 0 VIS MAR 20 KM VIS MIN 9999 LGSR 300750Z 34015KT CAVOK 28/19 Q1013 VTBU 300800Z 22010KT 9999 FEW020CB SCT040 BKN100 29/23 Q1006 A2973 NOSIG VTCL 300800Z VRB02KT 5000 -RA SCT020 BKN025 BKN100 26/26 Q1006 A2971 LICA 300750Z 28007KT CAVOK 25/11 Q1017 KRAS 300815Z AUTO 21007KT 10SM CLR 27/25 A2991 RMK AO2 T02730248 KRCA 300758Z AUTO 24003KT 10SM CLR 15/12 A3012 RMK AO2 SLP180 T01510115 CHINO RWY13 $ ETNS 300720Z 19005KT 9999 -RA SCT025 BKN050 15/12 Q1009 BLU BLU TEMPO GRN LICB 300750Z 25006KT 210V280 CAVOK 28/13 Q1018 KPTK 300753Z AUTO 00000KT 10SM CLR 12/08 A3003 RMK AO2 SLP164 T01170083 KPUB 300753Z AUTO 35005KT 10SM CLR 19/10 A3017 RMK AO2 SLP145 T01890100 ETNT 300720Z 20011KT 9000 -RA BKN010 BKN035 15/13 Q1009 GRN WHT TEMPO GRN VTCN 300800Z 21006KT 9999 SCT025 BKN100 32/23 Q1003 A2964 LICC 300750Z 25007KT 200V280 CAVOK 28/12 Q1017 KPUC 300753Z AUTO 09005KT 10SM CLR 20/06 A3020 RMK AO2 SLP125 T02000056 KRBL 300754Z AUTO 18007KT 10SM CLR 26/16 A2984 RMK AO2 SLP099 T02610161 404060222 KQN2 291356Z AUTO 00000KT 9999 TS CLR 27/22 A2996 RMK AO2 LTG DSNT NW TSB38 SLPNO T02690219 LICD 300750Z 14010KT 9999 FEW010 24/21 Q1017 KRCE 300735Z AUTO 18006KT 10SM 22/22 A3002 RMK AO2 VTCP 300800Z 20005KT 2000 TSRA BKN022CB OVC100 25/25 Q1005 A2969 LIBN 300755Z 31004KT CAVOK 28/08 Q1015 RMK SCT SCT200 VIS MIN 9999 WIND THR14 30004KT WIND THR32 33004KT BLU KPTN 300756Z AUTO 07003KT 9SM CLR 24/23 A2993 RMK AO2 SLP136 T02390233 PNO $ KQN3 300756Z AUTO 19004KT 9999 FEW210 28/24 A2997 RMK AO2 SLP140 T02780235 GAYE 300600Z 08004KT CAVOK 27/23 RETSRA ETNW 300720Z 24010KT 9999 VCSH FEW015 BKN020 BKN040 17/12 Q1011 WHT BLU LICF 300755Z 05006KT CAVOK 28/20 Q1016 RMK SKC QUK 1 QUL 0 VIS MAR 20 KM MON LIB NC VIS MIN 9999 KPSX 300753Z AUTO 00000KT 9SM CLR 27/24 A2992 RMK AO2 SLP130 T02670239 $ KRBO 300750Z AUTO 21005KT 10SM CLR 25/24 A2993 RMK AO2 T02480236 LICG 300755Z /////KT 2500 BR SCT030 25/21 Q1015 LIBP 300750Z VRB02KT 9999 FEW070 26/16 Q1015 LGSY 300750Z 01006KT CAVOK 27/19 Q1014 BLU KT35 300815Z AUTO 00000KT 10SM CLR 24/23 A2997 RMK AO2 T02440234 VTCT 300800Z 14004KT 9999 FEW022CB BKN025 31/25 Q1004 A2967 LIBR 300745Z 35003KT CAVOK 26/19 Q1016 NOSIG KQKR 300756Z AUTO 29003KT 9999 FEW010 27/23 A3007 RMK AO2 SLPNO T02660225 LICJ 300750Z 25016KT CAVOK 25/19 Q1016 KPTS 300815Z AUTO 18003KT 10SM SCT110 22/21 A2997 RMK AO2 T02240205 LGTS 300750Z 30007KT 9999 FEW030 27/17 Q1015 NOSIG KPUJ 300815Z AUTO 34008KT 10SM CLR 23/17 A2998 RMK AO2 KPTT 300815Z AUTO 00000KT 10SM CLR 20/17 A3001 RMK AO2 LTG DSNT W T01990165 KPVB 300815Z AUTO 00000KT 10SM CLR 15/14 A3003 RMK AO1 T01450135 KQKT 300758Z AUTO 05007KT 10SM CLR 19/16 A3001 RMK AO2 SLPNO T01900160 LICL 300755Z 21004KT CAVOK 26/18 Q1017 RMK SKC QUK 0 QUL 0 VIS MAR 14 KM VIS MIN 9999 KPVC 300813Z AUTO 34006KT 9SM BKN002 OVC006 18/18 A2989 RMK AO2 KRCM 300715Z AUTO 16004KT 10SM BKN100 20/18 A2998 RMK AO2 LIBV 300755Z 01004KT CAVOK 27/11 Q1016 RMK FEW FEW230 VIS MIN 9999 WIND THR32 12003KT WIND THR14 06002KT BLU KPVD 300751Z AUTO 29004KT 10SM CLR 20/14 A2991 RMK AO2 SLP126 T02000144 KRDD 300753Z AUTO 35003KT 10SM CLR 27/11 A2984 RMK AO2 SLP097 T02670106 404110217 KPTV 300756Z AUTO 19003KT 10SM CLR 22/12 A2983 RMK AO2 SLP104 T02220117 404110217 ETOU 300758Z AUTO 20003KT 9999 BKN022 OVC028 17/13 A2997 RMK AO2 RAE06DZB06E08DZB23E34 SLP148 P0000 T01720130 GCFV 300800Z 02014KT 340V040 9999 SCT022 OVC026 22/17 Q1020 GCGM 300800Z VRB01KT 9999 FEW015 21/18 Q1021 RMK R09/00000KT ARP/VRB01KT KPTW 300654Z AUTO 00000KT 10SM CLR 16/13 A3003 RMK AO2 SLP164 T01610133 TSNO KPVE 300815Z AUTO 00000KT 10SM CLR 16/15 A3003 RMK KRBW 300815Z AUTO 00000KT 10SM SCT043 SCT055 23/23 A2998 RMK AO2 KPVF 300755Z AUTO 08008KT 10SM CLR 23/03 A2996 RMK AO1 LIBY 300755Z 28009KT CAVOK 25/15 Q1015 RMK SCT SCT200 QUK 2 QUL 1 NW VIS MAR 30 KM VIS MAX 30 KM VIS MIN 9999 KPVG 300815Z 00000KT 5SM FEW120 21/19 A3002 RMK AO1 KRDG 300754Z AUTO 00000KT 10SM CLR 16/13 A3002 RMK AO2 SLP167 T01610133 LICR 300750Z 33007KT CAVOK 29/17 Q1017 KRCR 300815Z AUTO 00000KT 10SM CLR 13/11 A3007 RMK AO2 GCHI 300800Z 02015KT 350V050 9999 FEW015 OVC020 21/18 Q1021 LIEA 300750Z 03008KT 360V060 CAVOK 27/18 Q1015 KPWA 300753Z AUTO 18008KT 10SM CLR 24/19 A3000 RMK AO2 SLP140 T02440189 KPVJ 300815Z AUTO 20003KT 10SM CLR 21/20 A2999 RMK AO2 T02080200 LIEB 300755Z 12003KT CAVOK 25/16 Q1014 RMK SCT SCT070 QUK 1 QUL 0 VIS MAR 30 KM MON LIB VIS MIN 9999 LICT 300755Z 16012KT CAVOK 28/16 Q1015 KRDK 300815Z AUTO 18005KT 10SM FEW060 FEW070 21/20 A2994 RMK AO2 LIEC 300755Z 06015KT CAVOK 25/21 Q1015 RMK FEW FEW070 QUK 3 QUL 0 VIS MAR 25 KM VIS MIN 9999 KPWC 300813Z AUTO 00000KT 10SM SCT070 120 14/13 A3000 RMK AO2 LIED 300755Z 13009KT CAVOK 29/20 Q1014 RMK FEW FEW200 VIS MIN 9999 WIND THR35 14010KT WIND THR17 15008KT BLU KRCV 300810Z AUTO 24003KT 10SM CLR 10/03 A3040 RMK AO2 T01020033 KRDM 300756Z AUTO 00000KT 10SM CLR 12/04 A3015 RMK AO2 SLP186 T01220039 403280094 KQND 300756Z AUTO 22004KT 9000 M FEW180 31/23 A3004 RMK AO2 SLPNO T03070228 $ LIEE 300750Z 14008KT CAVOK 27/19 Q1014 KPUW 300753Z AUTO 09004KT 10SM CLR 15/12 A3001 RMK AO2 SLP144 T01500117 403280094 KRCX 300815Z AUTO 00000KT 10SM CLR 13/12 A3000 RMK AO2 T01250115 KPWG 300756Z AUTO 33004KT 10SM CLR 23/21 A2999 RMK AO2 SLP157 T02330211 LICZ 300755Z 27006KT CAVOK 30/17 Q1017 RMK SKC VIS MIN 9999 WIND THR28 26004KT WIND THR10 28005KT A3005 BLU KRCZ 300755Z AUTO 00000KT 10SM CLR 21/20 A2998 RMK AO2 T02140201 KRDR 300758Z AUTO 02009KT 10SM BKN100 17/13 A3005 RMK AO2 SLP178 T01650132 ETSA 300720Z 15004KT 9999 -RA FEW010 BKN080 OVC120 16/15 Q1018 RERA BLU BLU TEMPO WHT KPWK 300752Z AUTO 15003KT 10SM CLR 14/11 A3005 RMK AO2 SLP174 T01440106 $ ETSB 300720Z 24010KT 9999 FEW010 BKN050 BKN110 15/12 Q1014 RERA BLU BLU KRDU 300751Z 28004KT 9SM FEW003 SCT034 BKN120 BKN170 21/21 A3000 RMK AO2 RAE34 SLP152 P0001 T02110206 $ KPVU 300815Z AUTO 00000KT 10SM CLR 19/11 A3010 RMK AO1 KPWM 300808Z AUTO 00000KT 1 1/4SM BR CLR 15/14 A2988 RMK AO2 VIS 1/4V5 T01500144 KRFD 300754Z 15003KT 10SM CLR 14/12 A3006 RMK AO2 SLP175 T01390117 KPVW 300815Z AUTO 19005KT 10SM SCT100 21/16 A3008 RMK AO2 LTG DSNT N AND NW T02060162 KPXE 300815Z AUTO 22003KT 10SM CLR 23/22 A2996 RMK AO2 T02320215 LIEO 300750Z 36005KT 290V070 CAVOK 26/20 Q1016 KREO 300752Z AUTO 06008KT 22/04 A3001 RMK AO1 SLP110 T02220044 403890144 KT65 300815Z AUTO 20005KT 10SM SCT020 26/03 A2992 RMK AO2 T02610028 ETSH 300720Z 19006KT 9999 FEW060 BKN180 21/14 Q1013 BLU BLU KRFI 300815Z AUTO 00000KT 10SM CLR 21/21 A2999 RMK AO2 T02140206 ETSI 300742Z 25005KT 9999 RA SCT009 BKN050 OVC075 17/16 Q1017 BLU BLU TEMPO GRN LHPA 300745Z 21008KT 170V230 CAVOK 27/16 Q1016 NOSIG RMK BLU KPWT 300815Z AUTO 18004KT 10SM OVC036 13/11 A3022 RMK AO1 KT70 300758Z AUTO 19004KT 10SM CLR 24/18 A2991 RMK AO2 SLP114 T02410183 $ ETSL 300720Z 18004KT 9999 -RA FEW007 BKN035 BKN060 16/15 Q1017 RERA BLACKBLU ETSN 300720Z 23004KT 7000 RA FEW009 BKN080 17/16 Q1017 WHT BLU TEMPO GRN LGZA 300750Z VRB03KT CAVOK 28/20 Q1015 GCLA 300800Z 02013KT 340V060 9999 FEW020 BKN025 21/18 Q1022 KRGK 300815Z AUTO 00000KT 10SM CLR 14/13 A2996 RMK AO2 FLKK 300700Z 08009KT CAVOK 17/11 Q1028 KPYM 300752Z AUTO 30004KT 10SM CLR 18/17 A2989 RMK AO2 SLP122 T01780167 TSNO $ KT82 300815Z AUTO 00000KT 10SM BKN046 20/19 A3002 RMK AO2 T02030186 LHPP 300745Z 16005KT CAVOK 26/15 Q1017 FMCH 300800Z 18017KT 9999 FEW020 SCT060 27/22 Q1020 NOSIG KRHI 300753Z AUTO 27003KT 10SM CLR 13/11 A3000 RMK AO2 SLP157 T01330111 TSNO LHPR 300745Z 19004KT 110V260 CAVOK 28/16 Q1016 RMK BLU AGGH 300800Z 00000KT 9999 HZ FEW016 SCT300 27/22 Q1010 KRIC 300754Z 05004KT 10SM BKN045 20/15 A3003 RMK AO2 SLP173 T02000150 KQRD 300758Z AUTO 00000KT 7SM -RA FEW041 SCT050 BKN070 BKN140 26/24 A2992 RMK AO2 RAB01E18RAB24E36RAB46 SLP136 P0000 KPYX 300815Z AUTO 29011KT 10SM SCT050 SCT060 24/19 A3010 RMK AO2 T02430185 KRHP 300755Z AUTO 00000KT 10SM BKN060 BKN080 16/16 A3004 RMK AO2 T01560156 GCLP 300800Z 01019KT 9999 BKN022 22/16 Q1020 NOSIG KPZQ 300815Z AUTO 23005KT 10SM CLR 11/05 A3000 RMK AO2 T01100050 KSAA 300815Z AUTO 18010KT 10SM BKN120 13/08 A3031 RMK AO2 KRIL 300753Z AUTO 00000KT 10SM CLR 16/13 A3025 RMK AO2 SLP166 T01560133 KSAC 300753Z AUTO 00000KT 10SM CLR 17/12 A2983 RMK AO2 SLP099 T01670117 403500150 KSAD 300751Z AUTO 31011KT 10SM CLR 21/18 A3003 RMK AO2 SLP113 T02110183 KRHV 300447Z 31007KT 10SM SKC 16/11 A2997 RMK LAST FMEE 300800Z 01005KT 330V040 9999 FEW033 SCT060 26/13 Q1022 NOSIG KSAF 300753Z 32005KT 10SM CLR 18/06 A3027 RMK AO2 SLP133 T01830061 KQQY 300755Z AUTO 00000KT 6000 BR FEW021 SCT048 BKN110 BKN140 23/22 A3006 RMK AO2 SLP156 T02260220 KU16 300658Z AUTO 17008KT 10SM CLR 24/07 A3005 RMK AO2 SLP796 T02440072 $ FMCZ 300800Z 15012KT 9999 SCT023 28/20 Q1019 NOSIG KSBA 300753Z 09003KT 7SM CLR 17/16 A2983 RMK AO2 SLP102 T01670156 402170150 KSBD 300804Z AUTO 25003KT 10SM CLR 25/15 A2988 RMK AO2 T02490145 KRKD 300816Z AUTO 00000KT 1 3/4SM BR OVC002 17/17 A2987 RMK AO2 KRIV 300758Z AUTO 30002KT 10SM CLR 23/14 A2989 RMK AO2 SLP103 T02260140 403870194 LHSM 300745Z 10004KT CAVOK 25/17 Q1016 NOSIG ETWM 300720Z 20005KT 9999 -RA SCT011 BKN016 15/13 Q1010 WHT KSAN 300751Z 16006KT 9SM OVC010 18/16 A2989 RMK AO2 SLP121 T01830161 402500178 $ LHSN 300745Z 00000KT CAVOK 27/14 Q1016 NOSIG RMK BLU KRIW 300753Z AUTO 06009KT 10SM SCT120 21/09 A3023 RMK AO2 SLP159 T02110089 FMEP 300800Z AUTO 15010KT 9999 SCT028 SCT042 BKN054 25/15 Q1023 NOSIG KSAR 300815Z AUTO 00000KT 10SM CLR 16/12 A3006 RMK AO2 T01620122 KSAT 300751Z 00000KT 10SM FEW045 26/21 A2997 RMK AO2 SLP128 T02560206 KSAV 300753Z AUTO 00000KT 10SM CLR 24/22 A2996 RMK AO2 SLP146 T02390217 TSNO KSBM 300753Z AUTO 24004KT 10SM CLR 14/11 A3000 RMK AO2 SLP158 T01440111 KSCD 300815Z AUTO 00000KT 10SM 22/19 A2997 RMK AO2 T02160188 KRLD 300815Z AUTO 00000KT 10SM CLR 21/12 A2993 RMK AO2 T02120117 LHUD 300745Z 11003KT 9999 FEW046 27/15 Q1017 KSBN 300754Z 00000KT 10SM BKN065 13/09 A3007 RMK AO2 SLP180 T01280089 KSAW 300816Z AUTO 25005KT 10SM CLR 13/10 A2995 RMK AO2 T01270096 GBYD 300800Z VRB01KT 9999 SCT011 SCT110 26/24 Q1015 LJCE 300800Z VRB02KT CAVOK 25/18 Q1016 RMK BLU KSBO 300815Z AUTO 00000KT 10SM CLR 22/21 A2998 RMK AO2 KSCF 300815Z AUTO 15008KT 10SM SCT021 27/23 A2993 RMK A01 KRKP 300753Z AUTO 21003KT 10SM CLR 26/23 A2992 RMK AO2 SLP132 T02610233 KSBP 300756Z AUTO 30005KT 7SM OVC005 13/11 A2992 RMK AO2 SLP131 T01280106 402500122 $ KSCH 292348Z 29012KT 10SM CLR 23/14 A2990 KSAZ 300814Z AUTO 00000KT 10SM SCT090 15/12 A2997 RMK AO2 KRKR 300815Z AUTO 10SM CLR 22/19 A3000 RMK AO2 T02210193 LIMA 300750Z 00000KT CAVOK 24/18 Q1017 KRKS 300754Z AUTO 19008KT 10SM FEW110 15/04 A3027 RMK AO2 SLP156 T01500044 KSBS 300815Z AUTO 00000KT 10SM CLR 11/08 A3031 RMK AO1 T01090084 KSDA 300815Z AUTO 00000KT 10SM CLR 21/20 A2994 RMK AO2 KSDB 300748Z AUTO 33021G30KT 10SM 26/01 A3010 RMK AO2 PK WND 34030/0748 SLP117 T02610011 403560239 $ KSCK 300755Z 36005KT 10SM CLR 18/10 A2983 RMK AO2 SLP100 T01830100 403670167 LIMC 300750Z 02004KT 330V060 9999 BKN070 24/19 Q1016 NOSIG KU42 300815Z AUTO 00000KT 10SM OVC110 21/10 A3010 RMK AO1 T02140102 LIME 300750Z VRB01KT CAVOK 26/16 Q1016 KRME 300753Z AUTO 00000KT 10SM CLR 12/12 A3001 RMK AO2 SLP159 T01220117 KQVF 300800Z AUTO 17011G18KT 10SM FEW025 SCT041 28/20 A3010 RMK AO2 SLP192 WND DATA ESTMD T02760197 LIMF 300750Z VRB02KT 9999 SCT050 BKN120 23/18 Q1017 KSDF 300756Z 00000KT 10SM CLR 19/13 A3004 RMK AO2 SLP169 T01890133 LIMG 300750Z 08004KT 9999 FEW035 25/18 Q1016 KRMG 300753Z AUTO 34005KT 10SM CLR 22/14 A2996 RMK AO2 SLP135 T02170139 KSBY 300754Z AUTO 00000KT 10SM BKN065 BKN085 17/16 A3002 RMK AO2 SLP169 T01670156 LIMH 300755Z /////KT 9999 BKN003 02/M01 Q1029 RMK BKN MON CLD SCT VAL FOSCHIA VIS MIN 9999 KSCR 300755Z AUTO 01003KT 7SM SCT100 BKN120 20/20 A3000 RMK AO2 T01980198 LIMJ 300750Z 16003KT 130V190 9999 FEW015 24/19 Q1016 KSEA 300753Z 26005KT 10SM FEW080 14/13 A3019 RMK AO2 SLP229 T01440128 402220128 LIMK 291155Z 14002KT 9999 SCT030 23/17 Q1018 FKYS 300800Z 19003KT 160V220 8000 FEW003 BKN006 22/20 Q1022 NOSIG LIML 300750Z VRB04KT 9999 FEW060 SCT090 25/16 Q1015 NOSIG KSDL 300753Z AUTO VRB03KT 10SM -RA BKN090 BKN110 27/20 A2989 RMK AO2 SLP093 P0001 T02670200 TSNO KRNC 300815Z AUTO 00000KT 10SM CLR 14/14 A3004 RMK KSDM 300806Z AUTO 31003KT 5SM BR OVC005 18/16 A2988 RMK AO2 T01780161 KRND 300758Z AUTO 10002KT 10SM SCT042 25/22 A2996 RMK AO2 SLP136 T02510223 LIMN 300755Z 36003KT 310V050 9999 FEW040 SCT060 24/20 Q1015 RMK BKN VIS MIN 9999 BLU KRMN 300815Z AUTO 00000KT 10SM SCT060 BKN070 15/14 A3008 RMK AO2 T01510142 KSEE 300815Z AUTO 00000KT 6SM BR FEW009 18/18 A2989 RMK AO2 LIMP 300750Z 31004KT CAVOK 25/14 Q1016 KSEG 300753Z AUTO 00000KT 7SM CLR 14/13 A3005 RMK AO2 SLP173 T01390128 KRNH 300756Z AUTO 00000KT 10SM CLR 14/11 A2997 RMK AO2 VTPB 300600Z AUTO 19006KT 150V250 9999 // ////// 28/25 Q1007 LIMS 300755Z 04003KT CAVOK 27/21 Q1014 KROA 300754Z 00000KT 10SM CLR 18/16 A3008 RMK AO2 SLP175 T01830156 LIMT 291155Z 01004KT CAVOK 20/10 Q1020 KSFB 300753Z AUTO 19004KT 10SM CLR 26/23 A2997 RMK AO2 SLP146 T02560228 LIMU 300755Z 03006KT 9999 FEW025 22/17 Q1016 RMK BKN SCT200 QUK 2 QUL 1 E VIS MAR 20 KM VIS MIN 9999 KROC 300754Z 26003KT 10SM CLR 14/12 A3003 RMK AO2 SLP170 T01390117 LIMV 291155Z /////KT 9999 FEW012 24/18 Q1018 KRNM 300753Z 29004KT 7SM CLR 17/15 A2990 RMK AO2 SLP105 T01670150 403610139 KSEM 300815Z AUTO 00000KT 10SM FEW100 22/21 A2994 RMK AO2 VTPH 300800Z VRB03KT 9999 BKN028 27/25 Q1006 KSFF 300753Z AUTO 06004KT 10SM CLR 19/10 A2995 RMK AO2 SLP122 T01890100 403500139 KRNO 300755Z 00000KT 10SM FEW120 22/M02 A3011 RMK AO2 SLP129 FU ALQDS T02221022 403780194 LIMY 291155Z 07005KT CAVOK 27/19 Q1017 KRMY 300813Z AUTO 00000KT 10SM CLR 11/09 A3005 RMK AO2 T01120093 KSDY 300815Z 34006KT 10SM CLR 14/12 A3014 RMK AO2 SLP301 PWINO FZRANO RVRNO KRNP 300814Z AUTO 00000KT 10SM CLR 10/09 A3004 RMK AO2 T00950088 KSEP 300815Z AUTO 00000KT 10SM CLR 23/19 A3004 RMK AO2 T02280186 KROG 300758Z AUTO 14005KT 10SM FEW070 21/18 A3004 RMK AO2 SLP157 T02110178 $ LIMZ 300750Z 36004KT 290V040 9000 SCT060 23/17 Q1017 LIPA 300755Z 24005KT 9999 SCT110 25/20 Q1015 RMK BKN SCT200 VIS MIN 9999 WIND THR05 23005KT WIND THR23 23005KT A2998 BLU GCRR 300800Z 36015KT 9999 FEW015 BKN024 22/17 Q1020 KU68 300815Z AUTO 21005KT 10SM SCT110 20/10 A3012 RMK AO2 VTPM 300800Z 25007KT 9999 BKN018 OVC025 26/23 Q1006 RMK RERA INFO J LIPB 300750Z VRB03KT 9999 FEW050 26/16 Q1016 KRNT 300753Z AUTO 18004KT 10SM CLR 17/13 A3017 RMK AO2 SLP223 T01670128 402280139 $ KSET 300754Z AUTO 07003KT 10SM CLR 18/14 A3005 RMK AO2 SLP170 T01780139 LIPC 300755Z 28003KT CAVOK 26/17 Q1014 FNBC 291500Z 33006KT 8000 NSC 27/27 Q//// VTPO 300800Z 09002KT 9999 TS SCT020CB SCT022 32/25 Q1004 KSFM 300815Z AUTO 00000KT 1 1/2SM CLR 13/12 A2990 RMK AO1 KRNV 300815Z AUTO 00000KT 10SM CLR 21/21 A3000 RMK AO2 T02050205 KRPD 300755Z AUTO 00000KT 10SM CLR 13/12 A2999 RMK AO2 LTG DSNT N T01260115 VTPP 300800Z 20007KT 9999 FEW025 SCT100 32/24 Q1004 LIPE 300750Z 27003KT 200V320 CAVOK 25/18 Q1015 LIPF 300755Z 00000KT CAVOK 27/24 Q1015 KSGF 300752Z 16009KT 10SM SCT090 BKN110 22/19 A3002 RMK AO2 SLP151 T02220194 KSFO 300756Z 21006KT 10SM FEW010 FEW013 13/09 A2992 RMK AO2 SLP133 T01280094 401720111 KQWX 300755Z AUTO 07001KT 12SM CLR 21/19 A2993 RMK AO2 SLP122 WND DATA ESTMD T02140191 FNBG 300600Z 00000KT 9999 BKN018 22/19 Q1017 LIPH 300750Z VRB02KT CAVOK 25/18 Q1015 KSGH 300756Z AUTO 00000KT 10SM CLR 13/11 A3009 RMK AO2 T01270111 SLP183 KSFQ 300815Z AUTO 00000KT 10SM SCT100 21/20 A3001 RMK AO2 T02080202 KRPH 300750Z AUTO 00000KT 10SM CLR 22/19 A2999 RMK AO2 T02230191 KSEZ 300750Z AUTO 00000KT 10SM SCT120 23/11 A3017 RMK AO2 LIPI 300755Z /////KT CAVOK 28/16 Q1014 RMK BKN FEW120 SCT200 VIS MIN 9999 WIND THR06 36005KT WIND THR24 05004KT BLU KQXS 300555Z 00000KT 7SM CLR 24/23 A3000 RMK SLP145 WND DATA ESTMD 51009 LAST KROS 300816Z AUTO 00000KT OVC120 13/12 A2996 RMK AO2 T01290115 PWINO KRPJ 300815Z AUTO 00000KT 10SM CLR 12/11 A3005 RMK AO2 T01190107 KSGJ 300758Z AUTO 20005KT 10SM CLR 23/22 A2998 RMK AO2 SLP152 T02330222 LIPK 300800Z VRB01KT CAVOK 30/18 Q1014 FNCA 300600Z 00000KT 8000 FEW023 BKN080 23/22 Q1016 EVLA 300750Z AUTO 23008KT 190V250 9999 FEW016/// 20/15 Q1014 KRQB 300814Z AUTO 00000KT 10SM CLR 09/09 A3003 RMK AO2 T00940088 LIQC 300755Z ///00KT CAVOK 25/23 Q1016 RMK SKC QUK 1 QUL 0 VIS MAR 20 KM VIS MIN 9999 LIPL 300755Z /////KT 9999 FEW080 27/16 Q1015 RMK SCT VIS MIN 9999 WIND THR31 13005KT BLU KSHD 300815Z AUTO 00000KT 10SM BKN050 BKN085 14/13 A3010 RMK AO2 T01410131 KROW 300751Z AUTO 21007KT 10SM CLR 23/10 A3010 RMK AO2 SLP119 T02330100 KRQE 300753Z AUTO 34010KT 10SM -RA FEW060 BKN090 22/08 A3030 RMK AO2 RAB50 SLP112 P0000 T02170078 TSNO KROX 300812Z AUTO 33005KT 10SM SCT090 14/12 A3002 RMK AO2 LIPO 300750Z 09010KT 8000 FEW070 26/15 Q1015 KSFY 300757Z AUTO 00000KT 10SM CLR 13/13 A3003 RMK AO2 LIPQ 300750Z VRB01KT CAVOK 26/17 Q1014 KSFZ 300815Z AUTO 31003KT 10SM CLR 14/13 A2992 RMK AO1 VTSB 300800Z 16003KT 8000 SCT018 OVC100 27/25 Q1009 A2980 LIPR 300745Z 00000KT CAVOK 27/23 Q1014 KSGR 300753Z AUTO 00000KT 6SM BR CLR 24/23 A2993 RMK AO2 SLP135 T02390233 VTSC 300800Z 05006KT 020V090 9999 SCT020 30/26 Q1008 A2978 RESHRA RWY20 INFO H LIPS 300755Z 00000KT CAVOK 24/17 Q1015 RMK SCT SCT200 VIS MIN 9999 WIND THR26 00000KT WIND THR08 00000KT BLU LIRA 300750Z VRB02KT CAVOK 27/15 Q1016 KSGS 300812Z AUTO 00000KT 10SM CLR 17/14 A2996 RMK AO2 T01720140 GCTS 300800Z 05012KT 9999 SCT022 22/16 Q1020 NOSIG KSGT 300815Z AUTO 03005KT 10SM CLR 22/17 A3002 RMK AO1 LIPU 300750Z VRB01KT CAVOK 26/16 Q1014 VTSE 300800Z 24009KT 8000 VCSH BKN020 BKN060 30/25 Q1007 A2975 KSGU 300815Z 14007KT 10SM FEW038 SCT075 BKN120 29/09 A3001 RMK AO1 KSHL 300815Z AUTO 00000KT 5SM BR CLR 18/18 A2994 RMK AO2 VTSF 300800Z VRB01KT 9999 SCT018 BKN022 27/25 Q1009 A2979 LIQN 300800Z 00000KT CAVOK 25/16 Q1017 VTSG 300800Z 20006KT 9999 FEW020 BKN100 28/23 Q1009 A2981 LIRE 300755Z 20004KT CAVOK 26/19 Q1015 RMK SKC VIS MIN 9999 WIND THR13 24006KT WIND THR31 25006KT BLU KSHN 300753Z AUTO 22012KT 10SM OVC010 13/10 A3017 RMK AO2 SLP217 T01280100 402440122 LIQO 291155Z 00000KT 9999 FEW004 28/14 Q1017 KRPX 300815Z AUTO 00000KT 10SM 18/08 A3007 VTSH 300800Z 03006KT 7000 FEW018CB SCT040 BKN120 31/25 Q1008 A2978 NOSIG LIRF 300750Z VRB02KT CAVOK 28/17 Q1016 NOSIG LIPX 300750Z 21003KT 190V270 9999 SCT080 26/17 Q1015 KRQO 300815Z AUTO 17005KT 10SM CLR 21/20 A3001 RMK AO2 KSIF 300800Z AUTO 00000KT 1 3/4SM BR SCT001 OVC075 18/18 A3003 RMK AO2 T01840184 LIRG 300755Z VRB03KT CAVOK 26/15 Q1016 LIPY 300750Z VRB02KT CAVOK 28/17 Q1015 WMBA 300800Z 20003KT 9999 FEW022 BKN150 33/25 Q1007 LIRH 300755Z 08003KT CAVOK 24/18 Q1017 LIPZ 300750Z VRB02KT CAVOK 26/17 Q1014 NOSIG LIRI 300750Z 18002KT CAVOK 26/19 Q1016 VTSK 300800Z 01004KT 9999 FEW020 SCT030 BKN100 BKN300 30/25 Q10 06 A2974 KSHR 300753Z AUTO 00000KT 10SM CLR 17/11 A3016 RMK AO2 SLP173 T01720106 FMMI 300800Z 11009KT 080V160 9999 FEW020 18/09 Q1028 NOSIG VTSM 300800Z 00000KT 8000 RA FEW020 29/22 Q1010 A2984 LIRK 300755Z AUTO 29008KT //// 21/11 Q1026 KSIK 300815Z AUTO 00000KT 10SM CLR 17/15 A3005 RMK AO2 PWINO LIRL 300755Z 14002KT 9999 FEW030 26/21 Q1016 KSJC 300753Z AUTO 00000KT 10SM CLR 14/11 A2992 RMK AO2 SLP130 T01390106 402280133 KRRL 300815Z AUTO 00000KT 10SM SCT050 BKN060 BKN110 09/09 A3000 RMK AO2 T00910091 LIRM 300755Z 18002KT 9999 SCT020 27/24 Q1016 KTAD 300754Z AUTO 29004KT 10SM CLR 17/10 A3024 RMK AO2 SLP151 T01670100 KSHV 300756Z 00000KT 10SM CLR 24/22 A2997 RMK AO2 SLP146 T02390217 LIQW 300755Z 21003KT CAVOK 24/20 Q1016 VTSP 300800Z VRB02KT 8000 FEW018 BKN100 29/24 Q1010 A2983 NOSIG LIRN 300750Z VRB03KT CAVOK 27/19 Q1016 NOSIG LIRP 300745Z 11003KT CAVOK 23/20 Q1015 NOSIG VTSS 300800Z 12005KT 9999 FEW020 BKN100 30/24 Q1008 A2978 NOSIG LIRQ 300750Z VRB01KT CAVOK 25/15 Q1016 VTST 300800Z 00000KT 9999 FEW020 29/24 Q1007 RWY08 INFO L WMAU 300800Z 12009KT 9999 FEW020 SCT150 BKN280 34/28 Q//// QFF1007 LIRS 300755Z 31002KT 9999 FEW020CB 27/20 Q1015 KSKA 300758Z AUTO 21004KT 10SM CLR 21/09 A2996 RMK AO2 SLP128 T02090087 LIRT 292355Z 27008KT CAVOK 16/13 Q1019 RMK SKC MON INVIS VAL INVIS VIS MIN 9999 VTUD 300800Z 31004KT 280V360 9999 FEW006 FEW015CB BKN022 27/26 Q1005 KRRT 300814Z AUTO 31006KT 10SM BKN090 14/12 A3001 RMK AO2 LIRU 300750Z VRB03KT CAVOK 27/17 Q1016 FMMT 300800Z 16016KT 9999 SCT017 26/19 Q1024 NOSIG KRSL 300753Z AUTO 16006KT 10SM CLR 21/18 A2998 RMK AO2 SLP135 T02110178 LIRV 300755Z VRB03KT CAVOK 26/14 Q1017 FMNM 300800Z 13012KT 9999 FEW023 29/12 Q1020 NOSIG KTAN 300807Z AUTO 00000KT 1/4SM FG CLR 15/14 A2989 RMK AO2 T01500144 KSJN 300754Z AUTO 31004KT 10SM SCT095 21/09 A3019 RMK AO2 SLP115 T02110094 TSNO KRSN 300815Z AUTO 00000KT 7SM CLR 23/22 A3002 RMK AO2 T02250215 FMNN 300700Z 04004KT 9999 FEW020 27/22 Q1019 LIRX 300655Z 18003KT CAVOK 22/16 Q1015 RMK OVC BKN060 SCT200 VIS MIN 9999 VIS MAR 15 KM KSKF 300758Z AUTO 00000KT 10SM FEW048 24/21 A2995 RMK AO2 SLP134 T02420211 $ VTUI 300800Z 17007KT 140V210 9999 FEW020CB SCT022 30/25 Q1005 KRSP 300754Z AUTO 34004KT 10SM CLR 16/11 A3008 RMK AO2 SLP183 T01560111 $ KSIY 300753Z AUTO 34010KT 10SM CLR 18/05 A3012 RMK AO2 SLP184 T01830050 403560139 TSNO LIRZ 300750Z VRB02KT CAVOK 26/17 Q1017 VTUK 300800Z 20007KT 140V280 9999 SCT025 BKN090 31/25 Q1005 NOSIG KSJS 292355Z AUTO 01003KT 10SM CLR 23/16 A3004 RMK AO2 T02300157 10262 20230 VTUL 300800Z 06003KT 010V110 9999 FEW028 SCT035 29/25 Q1005 KSJT 300751Z 00000KT 10SM CLR 22/18 A3004 RMK AO2 RAB13E21 SLP147 P0000 T02220183 KRST 300754Z AUTO 19005KT 10SM CLR 15/14 A3002 RMK AO2 SLP161 T01500144 $ KSLB 300815Z AUTO 00000KT 3SM BR SCT021 SCT025 BKN085 18/18 A2998 RMK AO2 KTCC 300753Z AUTO 25009KT 10SM CLR 21/12 A3012 RMK AO2 LTG DSNT SE SLP129 T02110122 KSLC 300754Z 18009KT 10SM SCT095 SCT110 BKN150 25/10 A3006 RMK AO2 SLP115 T02500100 VTUO 300800Z 21010KT 190V260 4000 -RA BKN012 OVC100 25/25 Q1007 A2974 INFO I RWY 22 KRSV 300815Z AUTO 00000KT 10SM CLR 14/14 A3008 RMK AO2 T01380135 KRSW 300753Z 14004KT 10SM CLR 25/23 A2998 RMK AO2 SLP149 T02500228 KRTN 300753Z AUTO 13004KT 10SM CLR 17/08 A3028 RMK AO2 SLP152 T01670078 KRUE 300753Z AUTO 00000KT 7SM CLR 20/19 A3002 RMK AO2 SLP157 T02000194 TSNO KSLE 300756Z AUTO 01004KT 10SM CLR 13/09 A3019 RMK AO2 SLP222 T01330089 402780122 KTBN 300758Z AUTO 14006KT 10SM CLR 20/18 A3004 RMK AO2 SLP165 T02010180 VTUQ 300800Z 20006KT 150V240 9999 SCT023 31/24 Q1006 A2972 KSJX 300816Z AUTO 22009G16KT 10SM CLR 17/10 A2997 RMK AO2 T01650103 VVCR 300800Z 21008KT 9999 FEW017 36/24 Q1006 NOSIG GCXO 300800Z 30013KT 280V340 9999 FEW004 SCT008 17/15 Q1023 NOSIG KSLG 300815Z AUTO 13003KT 10SM CLR 21/14 A3004 RMK AO1 KSLH 300814Z AUTO 20003KT 10SM CLR 11/07 A2997 RMK AO2 T01160080 KTAZ 300815Z AUTO 00000KT 10SM CLR 14/13 A3006 RMK AO2 T01400125 VVCT 300800Z 23007KT 200V260 9999 SCT015 FEW017TCU 33/24 Q1008 NOSIG TCU/OVER RWY KSLI 300758Z AUTO 22004KT 10SM BKN013 20/18 A2987 RMK AO2 SLP118 T01990179 402880191 KTBR 300755Z AUTO 00000KT 10SM CLR 23/23 A2996 RMK AO2 LTG DSNT E T02260225 FNGI 300600Z VRB03KT CAVOK 13/03 Q1022 VTUU 300800Z 18005KT 130V250 9999 SCT030 32/25 Q1006 A2971 NOSIG KRTS 300815Z AUTO 36006KT 10SM SCT014 BKN019 BKN030 14/M05 A3014 RMK AO2 PWINO LJLJ 300800Z VRB01KT CAVOK 24/14 Q1017 NOSIG VTUV 300500Z 18008KT 9999 BKN020 BKN100 28/23 Q1008 A2978 INFO F RWY 18 KSLK 300751Z AUTO 00000KT 5SM BR FEW002 09/08 A2998 RMK AO2 SLP152 T00940083 $ LJMB 300800Z 18006KT 150V220 CAVOK 25/16 Q1016 LIVC 291655Z 00000KT 9999 BKN001 14/10 Q1026 RMK BKN MON CLD CIME NC VAL CLD SCT NC VIS MIN 9999 VVDN 300800Z 10009KT 9999 FEW015TCU SCT300 33/26 Q1005 NOSIG VTUW 300800Z 21004KT 170V270 9999 FEW018 SCT024 BKN100 28/26 Q1006 RERA KTCL 300753Z AUTO 36004KT 10SM CLR 21/18 A2997 RMK AO2 SLP146 T02110183 LIVD 300755Z /////KT 9999 FEW030 19/16 Q1020 RMK SCT SCT200 VIS MIN 9999 KTCM 300758Z AUTO 21004KT 10SM CLR 14/11 A3019 RMK AO2 SLP227 T01350114 402300130 LIVE 300755Z /////KT 9999 -RA BKN015 14/14 Q1021 RMK BKN VIS MIN 9999 KSLN 300753Z AUTO 23003KT 10SM CLR 22/19 A2995 RMK AO2 SLP126 T02220189 KSME 300815Z AUTO 00000KT 10SM CLR 13/13 A3007 RMK AO2 LIVF 291155Z 01002KT 9999 FEW040 27/13 Q1018 KSMF 300753Z 16007KT 10SM CLR 18/12 A2981 RMK AO2 SLP094 T01780117 403610150 KSKX 300815Z AUTO 09012KT 10SM OVC090 14/09 A3036 RMK AO1 KSLO 300815Z AUTO 00000KT 10SM CLR 16/13 A3007 RMK AO2 T01560131 KTBX 300815Z AUTO 33014KT SCT050 SCT070 BKN085 16/04 A3041 RMK AO2 PWINO KTDF 300755Z AUTO 00000KT 7SM SCT034 SCT100 18/18 A3004 RMK AO2 KRUQ 300755Z AUTO 00000KT 5SM BR SCT048 SCT100 20/20 A3000 RMK AO2 T01950195 KSLR 300815Z AUTO 00000KT 10SM CLR 23/21 A3001 RMK AO2 T02250213 KTCS 300753Z AUTO 20005KT 10SM CLR 26/09 A3015 RMK AO2 SLP112 T02610094 TSNO KSNA 300753Z 13003KT 10SM OVC013 20/17 A2987 RMK AO2 SLP112 T02000167 402670189 KTEB 300751Z 00000KT 10SM CLR 19/14 A2996 RMK AO2 SLP144 T01940139 EVRA 300750Z 21007KT 180V270 9999 FEW017 23/15 Q1013 NOSIG KRUT 300756Z AUTO 00000KT 1/4SM FG OVC003 16/15 A2998 RMK AO2 SLP162 T01560150 $ KSNC 300815Z AUTO 32006KT 10SM CLR 19/15 A2994 RMK AO2 LIVM 300755Z 35002KT CAVOK 26/19 Q1014 RMK SCT SCT200 QUK 0 QUL 0 VIS MAR 15 KM VIS MIN 9999 LKCV 300800Z 02003KT 340V100 9999 SCT037 BKN210 25/16 Q1015 NOSIG RMK BLU BLU KSMN 300815Z AUTO 00000KT 10SM CLR 16/10 A3007 RMK AO1 LIVO 300755Z 27002KT CAVOK 21/15 Q1017 RMK SCT SCT200 VIS MIN 9999 KSMO 300751Z AUTO 00000KT 9SM CLR 19/16 A2987 RMK AO2 SLP113 T01890161 402440189 $ KRWF 300753Z AUTO 00000KT 10SM CLR 19/16 A2996 RMK AO2 LTG DSNT S AND SW SLP138 T01890161 LIVP 300755Z 21004KT 110V270 0900 FG BKN000 12/09 Q1024 RMK BKN MON INVIS VAL INVIS VIS MIN 0900 KSMP 300756Z AUTO 24007KT 220V290 OVC001 10/08 A3021 RMK AO2 SLP213 T01000083 401940100 $ KSMQ 300653Z AUTO 00000KT 6SM BR CLR 15/14 A2997 RMK AO2 SLP147 T01500139 KSNH 300815Z AUTO 00000KT 9SM CLR 15/15 A3002 RMK A01 LIVR 300755Z 13011KT 9999 FEW025 13/09 Q1023 RMK BKN SCT180 MON CLD CIME VIS MIN 9999 KRWI 300753Z AUTO 00000KT 10SM OVC110 21/21 A2999 RMK AO2 RAB27E36 SLP154 P0000 T02060206 KTDR 300756Z AUTO 20005KT 10SM SCT022 BKN160 28/24 A2993 RMK AO2 SLP139 T02800239 $ KRVS 300753Z AUTO 00000KT 10SM CLR 23/19 A2998 RMK AO2 SLP154 T02330194 KSMS 300815Z AUTO 00000KT OVC004 21/21 A2996 RMK AO2 LTG DSNT SE KSOA 300815Z AUTO 00000KT 10SM CLR 21/17 A3009 RMK AO2 LIVT 300755Z 28003KT CAVOK 26/19 Q1014 RMK SCT SCT200 QUK 1 QUL 0 VIS MAR 20 KM VIS MIN 9999 KSNK 300815Z AUTO 17005KT 10SM 21/18 A3006 RMK AO2 T02140182 KRWL 300753Z AUTO 34004KT 10SM BKN100 11/07 A3029 RMK AO2 SLP160 T01110067 KSNL 300815Z AUTO 18005KT 10SM CLR 22/18 A3000 RMK AO2 T02210180 FNHU 300600Z 00000KT CAVOK 11/04 Q1026 FMSD 300800Z 30004KT 9999 FEW020 23/17 Q1025 KRXE 300753Z AUTO VRB03KT 10SM CLR 16/09 A3012 RMK AO2 SLP147 T01610094 KSMX 300751Z AUTO VRB03KT 5SM BR OVC004 12/11 A2993 RMK AO2 SLP137 T01170111 402060111 KTDZ 300753Z AUTO 22004KT 10SM CLR 17/09 A3005 RMK AO2 SLP172 T01720094 KSNS 300753Z 24008KT 7SM OVC006 12/10 A2995 RMK AO2 SLP151 T01220100 401780111 KSPA 300815Z AUTO 00000KT 10SM CLR 20/19 A2999 RMK AO2 KSNT 300751Z AUTO 00000KT 12/04 A3021 RMK AO1 SLP116 T01170044 KSPB 300753Z AUTO 35005KT 10SM CLR 13/09 A3020 RMK AO2 SLP225 T01330089 402560128 KSPD 300756Z AUTO 00000KT 17/14 A3014 RMK AO1 SLP142 T01720139 KRWV 300815Z AUTO 00000KT 10SM CLR 23/23 A2999 RMK AO2 KTEW 300814Z AUTO 19005KT 10SM CLR 11/08 A3005 RMK AO2 T01070082 KSPF 300755Z AUTO 00000KT 10SM CLR 13/09 A3018 RMK AO2 KTEX 300815Z AUTO 00000KT 10SM VCTS SCT100 12/07 A3047 RMK AO2 LTG DSNT S T01200068 KSNY 300753Z AUTO 05020G25KT 10SM CLR 17/14 A3017 RMK AO2 SLP164 T01670144 KSPG 300753Z AUTO 20008KT 10SM CLR 27/23 A2995 RMK AO2 SLP142 T02720228 KSOP 300756Z AUTO 00000KT 10SM -RA FEW006 BKN110 21/20 A2999 RMK AO2 RAB0658E09B38 SLP164 P0000 T02060200 KTFP 300815Z AUTO 21005KT 10SM CLR 27/25 A2992 RMK AO2 T02720249 KSPI 300752Z AUTO 00000KT 10SM CLR 15/13 A3006 RMK AO2 SLP175 T01500128 KTGI 300817Z AUTO 01006KT 10SM CLR 24/18 A3002 RMK AO1 KTHA 300815Z AUTO 36004KT 10SM CLR 15/13 A3005 RMK KSPL 300755Z AUTO 20007KT 9SM 28/25 A2992 RMK AO1 KRYM 300756Z AUTO 34001KT 10SM FEW100 14/12 A2997 RMK AO2 LTG DSNT NE SLP149 T01350124 TSNO $ KRYN 300245Z 13005KT 10 CLR 28/22 A2995 KSOW 300815Z AUTO 19013G17KT 10SM FEW085 15/11 A3028 RMK AO2 KSQE 300815Z AUTO VRB06G11KT 10SM SCT022 BKN030 SCT036 28/23 A2993 RMK A01 KSQI 300756Z AUTO 00000KT 10SM CLR 14/13 A3004 RMK AO2 SLP188 T01390128 KSPR 300815Z AUTO 20011G17KT 5SM BR FEW003 SCT065 OVC100 25/23 A2991 RMK A01 KSPS 300752Z AUTO VRB06KT 10SM CLR 22/19 A2999 RMK AO2 SLP141 T02170194 $ MBGT 291200Z 11010KT 9999 SCT020TCU SCT060 28/21 Q1017 KRYT 300753Z AUTO 22003KT 10SM CLR 13/12 A3004 RMK AO2 SLP167 T01330117 $ EVVA 300750Z AUTO 22011KT CAVOK 19/15 Q1013 KSRB 300815Z AUTO 00000KT 10SM CLR 13/13 A3003 RMK KSQL 300815Z AUTO 00000KT 10SM FEW011 SCT025 14/11 A2993 RMK AO2 KSRC 300815Z 30003KT 10SM CLR 21/20 A3003 RMK AO2 SLP300 PWINO FZRANO RVRNO KRZL 300815Z AUTO 00000KT 10SM CLR 11/10 A3006 RMK AO2 FNKU 300600Z 13005KT CAVOK 12/08 Q//// KRYV 300815Z AUTO 00000KT 10SM CLR 13/13 A3002 RMK AO2 T01270126 KSPW 300753Z AUTO 09004KT 10SM CLR 18/17 A2996 RMK AO2 SLP140 T01780167 KRYW 300815Z AUTO 07003KT 10SM CLR 24/22 A3000 RMK AO2 T02440215 KRZN 300815Z AUTO 00000KT 10SM CLR 12/11 A2996 RMK AO2 T01210105 KTIF 300815Z AUTO 30012G20KT 10SM -VCTSRA SCT070 SCT080 OVC100 17/15 A3013 RMK AO2 LTG DSNT SW P0001 T01730153 KRYY 300047Z 33004KT 10SM SCT070 30/16 A2990 WMKA 300800Z 26003KT 9999 FEW020 BKN300 33/26 Q1007 LJPZ 300800Z 30004KT CAVOK 26/18 Q1014 WMKB 300800Z 33007KT 9999 FEW020 BKN280 32/25 Q1008 NOSIG KRZR 300815Z AUTO 00000KT 10SM FEW055 18/16 A2999 RMK A01 WMKC 300800Z 05008KT 010V080 9000 FEW017CB SCT140 BKN280 30/26 Q1008 WMKD 300800Z 11004KT 9999 FEW017CB SCT019 BKN280 32/28 Q1007 NOSIG KRZT 300813Z AUTO 00000KT 10SM CLR 12/12 A3007 RMK AO2 KTIK 300758Z AUTO 17008KT 10SM CLR 23/19 A3000 RMK AO2 SLP151 T02250187 $ WMKE 300800Z 15003KT 9999 SCT018 BKN240 30/27 Q1007 KSSC 300803Z AUTO 00000KT 9SM R04/5500FT BKN004 23/22 A2994 RMK AO2 GEML 300800Z VRB02KT 9999 FEW008 25/20 Q1017 KTHV 300753Z AUTO 00000KT 10SM CLR 14/12 A3003 RMK AO2 SLP168 T01440122 FNLU 300800Z VRB03KT 7000 SCT020 BKN023 22/20 Q1017 NOSIG KW13 300815Z AUTO 00000KT 10SM BKN041 16/13 A3009 RMK AO1 T01560132 KSSF 300753Z AUTO 00000KT 10SM FEW047 26/21 A2994 RMK AO2 SLP123 T02610206 FNMO 291700Z 20008KT 9999 OVC012 21/17 Q1015 WMKI 300800Z 19004KT 9999 FEW020 BKN290 34/23 Q1007 KTIP 300815Z AUTO 00000KT 10SM CLR 14/11 A3007 RMK AO2 T01350107 WMKJ 300800Z 13005KT 050V210 9999 FEW017CB SCT018 BKN280 33/28 Q1007 KSRQ 300753Z AUTO 10003KT 10SM CLR 25/22 A2996 RMK AO2 SLP146 T02500217 WMKK 300800Z 16008KT 100V230 9999 FEW018 BKN280 33/23 Q1007 NOSIG KSSI 300753Z AUTO 00000KT 10SM CLR 24/23 A2996 RMK AO2 SLP146 T02440233 KSRR 300815Z AUTO 00000KT 10SM 19/09 A3034 RMK AO2 WMKL 300800Z 25002KT 9999 FEW022 BKN140 BKN270 31/25 Q1008 WMKM 300800Z 19005KT 150V240 9999 FEW022 SCT300 33/25 Q1008 LKKB 300800Z VRB02KT 9999 FEW037 SCT100 24/16 Q1015 NOSIG WMKN 300800Z 10005KT 9999 SCT018 BKN300 33/27 Q1008 KSTC 300753Z AUTO 00000KT 10SM CLR 12/12 A2996 RMK AO2 SLP151 T01220117 KTKC 300814Z AUTO 00000KT 10SM BKN015 BKN050 BKN120 21/18 A2998 RMK AO2 LTG DSNT N THRU SE T02070180 KW22 300815Z AUTO RMK AO2 PWINO WMKP 300800Z 32005KT 8000 FEW020 SCT140 BKN270 33/24 Q1008 NOSIG KTIW 300753Z AUTO 24004KT 10SM CLR 13/11 A3020 RMK AO2 SLP227 T01280106 402110122 KSTE 300815Z AUTO 00000KT 10SM CLR 10/10 A3001 RMK AO2 T01000098 KUBE 300815Z AUTO 00000KT 10SM CLR 12/10 A2998 RMK AO2 KTIX 300047Z 19006KT 7SM FEW050 SCT100 26/25 A3001 RMK LAST KSTF 300815Z AUTO 00000KT 10SM CLR 19/17 A2999 RMK AO2 KUAO 300753Z AUTO 01004KT 10SM CLR 13/08 A3021 RMK AO2 SLP228 T01280083 402670117 LLBG 300750Z 27006KT 220V320 9999 FEW030 31/21 Q1011 NOSIG KTKI 300753Z AUTO 00000KT 10SM CLR 22/21 A2999 RMK AO2 SLP150 T02220206 KSTJ 300809Z AUTO 12005KT 10SM FEW060 FEW075 22/19 A2994 RMK AO2 LTG DSNT E T02170189 KSUA 300815Z AUTO 00000KT 10SM SCT026 26/25 A3000 RMK AO2 KW29 300805Z AUTO 00000KT 10SM SCT075 SCT090 20/15 A3003 RMK AO2 KSTK 300810Z AUTO 32003KT 10SM CLR 16/15 A3014 RMK AO2 KSTL 300751Z 11004KT 10SM CLR 19/12 A3006 RMK AO2 SLP168 T01940117 KW31 300815Z AUTO 02005KT 10SM CLR 19/17 A3002 RMK AO1 T01920172 KSUE 300756Z AUTO 19004KT 10SM FEW065 14/11 A2999 RMK AO2 SLP173 T01440106 KSTP 300753Z AUTO 00000KT 10SM CLR 17/14 A2997 RMK AO2 SLP143 T01720144 KTLH 300753Z AUTO 00000KT 10SM CLR 24/22 A2995 RMK AO2 SLP142 T02390222 $ VVNB 300800Z 09008KT 9999 FEW015 SCT023 30/27 Q1004 NOSIG KSTS 300753Z 00000KT 7SM HZ CLR 12/09 A2988 RMK AO2 SLP111 T01170094 402890078 KTMA 300815Z AUTO 00000KT 22/22 A2997 RMK AO2 T02180218 PWINO KTMB 300753Z 00000KT 10SM FEW080 27/23 A2999 RMK AO2 SLP153 T02670228 LKKU 300800Z 15005KT 090V230 CAVOK 28/16 Q1015 KSVC 300815Z AUTO 11005KT 10SM SCT080 SCT100 22/09 A3020 RMK AO2 LTG DSNT W T02150085 KTKV 300815Z AUTO 00000KT 10SM CLR 10/09 A3000 RMK AO2 T00990090 LKKV 300800Z VRB02KT 9999 FEW038 19/15 Q1016 FOGM 300800Z /////KT 5000 BR FEW005 SCT008 OVC026 24/23 Q//// LKLN 300800Z AUTO 20003KT CAVOK 20/15 Q1016 KSUN 300815Z AUTO 33006KT 10SM CLR 20/09 A3016 RMK AO2 KTME 300815Z AUTO 00000KT 10SM CLR 24/23 A2995 RMK AO2 KW43 300815Z AUTO 19004KT 10SM CLR 15/09 A3020 RMK AO2 KTKX 300815Z AUTO 00000KT 9SM CLR 20/19 A3002 RMK AO2 FOGO 300800Z 00000KT 9999 SCT008 OVC023 23/22 Q//// KUCP 300756Z AUTO 00000KT 7SM CLR 10/09 A3008 RMK AO2 SLP200 T01000089 PNO $ KUDG 300756Z AUTO 07003KT 7SM 23/22 A2997 RMK AO2 SLP153 T02280217 $ KSVH 300755Z AUTO 00000KT 10SM SCT033 BKN043 BKN048 20/20 A3001 RMK AO2 T01990199 FOGR 300800Z 08006KT 9999 SCT008 BKN026 25/23 Q//// LKNA 300800Z 14007KT 100V180 CAVOK 24/16 Q1016 NOSIG RMK BLU BLU KSUS 300754Z AUTO 00000KT 10SM CLR 16/15 A3004 RMK AO2 SLP166 T01610150 KSUT 300755Z AUTO 00000KT 10SM SCT014 SCT021 BKN034 23/22 A2997 RMK AO2 T02300217 KTMK 300815Z AUTO 12004KT 10SM CLR 11/10 A3026 RMK AO2 KTNB 300815Z AUTO 00000KT 10SM SCT011 15/14 A3011 RMK AO2 T01540137 KSUU 300758Z AUTO 22019KT 10SM CLR 14/11 A2979 RMK AO2 PK WND 22028/48 SLP094 T01430111 403060135 PWINO PNO $ KSVN 300758Z AUTO 00000KT 10SM BKN150 23/23 A2994 RMK AO2 SLP141 T02290229 KSUW 300755Z AUTO 00000KT 10SM SCT070 SCT080 13/13 A2994 RMK AO2 T01340128 KSUX 300752Z 09007KT 10SM CLR 22/17 A2992 RMK AO2 LTG DSNT E AND NW SLP125 T02170172 KSWF 300645Z 00000KT 10SM SKC 15/15 A2999 KUCY 300815Z AUTO 00000KT 10SM CLR 16/16 A3003 RMK VVPB 300800Z 06009KT 9999 FEW020 SCT070 35/29 Q1005 NOSIG KTOA 292350Z 30010KT 10SM SCT010 24/19 A2985 RMK ST WEST FNSA 291600Z 00000KT 9999 FEW030 29/12 Q1017 KTOB 300814Z AUTO 19006KT 10SM SCT090 17/14 A2999 RMK AO2 LKMT 300800Z 14003KT 090V220 9999 FEW040 26/17 Q1015 NOSIG KTOC 300815Z AUTO 00000KT 10SM CLR 21/19 A2998 RMK AO2 T02100193 KW63 300815Z AUTO 00000KT 10SM SCT027 18/18 A3002 RMK AO1 KSWO 300753Z AUTO 21003KT 10SM CLR 23/19 A2999 RMK AO2 SLP141 T02330189 TSNO KTOI 300753Z AUTO 00000KT 8SM CLR 23/23 A2996 RMK AO2 SLP139 T02330228 TSNO KTPA 300753Z 15004KT 10SM CLR 27/23 A2997 RMK AO2 SLP149 T02670233 KUES 300815Z AUTO 00000KT 10SM CLR 13/10 A3004 RMK AO2 LLET 300750Z 04011KT CAVOK 35/14 Q1009 KTOL 300752Z AUTO 24003KT 10SM CLR 13/10 A3005 RMK AO2 SLP172 T01280100 TSNO KTNU 300815Z AUTO 00000KT 10SM BKN040 BKN049 OVC090 18/18 A2998 RMK AO2 PWINO LKPD 300800Z VRB02KT 9999 FEW034 SCT110 BKN220 26/15 Q1014 NOSIG RMK BLU BLU KSWW 300815Z AUTO 16008KT 10SM CLR 23/18 A3007 RMK AO2 T02280176 VVPQ 300800Z 28016KT 7000 -RA SCT010 FEW017CB OVC040 25/25 Q1010 NOSIG CB/SE KTPF 300815Z AUTO 20006KT 10SM CLR 27/25 A2998 RMK AO2 KSYF 300815Z AUTO 03007KT 10SM CLR 16/12 A3014 RMK AO2 T01550122 FNSO 300600Z VRB02KT 7000 FEW012 ///// Q1016 KTOP 300753Z AUTO 13003KT 10SM CLR 22/20 A2994 RMK AO2 SLP129 T02220200 TSNO $ KW75 300815Z AUTO 34004KT 10SM SCT055 SCT100 21/17 A3002 RMK AO1 T02140166 KTPH 300756Z AUTO 35006KT 10SM CLR 20/12 A3014 RMK AO2 SLP116 T02000117 403500194 KTOR 300753Z AUTO 30006KT 10SM CLR 16/13 A3014 RMK AO2 SLP154 T01560133 TSNO KSYI 300815Z AUTO 00000KT 10SM CLR 15/15 RMK LLHA 300750Z 26007KT 230V310 9999 FEW030 30/21 Q1011 KSXS 300756Z AUTO 19002KT 10SM CLR 24/22 A2996 RMK AO2 SLP143 T02370224 KW78 300815Z AUTO 00000KT 7SM OVC029 19/18 A3002 RMK AO1 T01900182 KSXT 300756Z AUTO 35011G22KT 290V020 10SM CLR 13/10 A3019 RMK AO2 PK WND 35028/0704 SLP181 T01280100 402390117 KTPL 300751Z AUTO 34003KT 10SM CLR 23/22 A2999 RMK AO2 SLP155 T02330222 KW81 300755Z AUTO 34004KT 10SM CLR 18/18 A3003 RMK AO1 T01800180 FNUB 300600Z 25004KT CAVOK 14/M05 Q1027 FNSU 300600Z 00000KT 9999 OVC010 22/// Q1019 KSYM 300810Z AUTO 00000KT 10SM OVC050 15/14 A3009 RMK AO2 KSYN 300814Z AUTO 00000KT 10SM CLR 17/15 A2996 RMK AO2 T01680145 KTQE 300754Z AUTO 00000KT 10SM CLR 18/17 A2993 RMK AO2 SLP121 T01830172 KUGN 300755Z AUTO 00000KT 10SM CLR 16/11 A3003 RMK AO2 SLP162 T01560106 FNUE 291600Z 12005KT CAVOK 26/// Q1020 FNUG 291400Z 24008KT 9999 FEW020 29/17 Q1014 WMSA 300800Z 18004KT 9999 FEW018 BKN280 35/26 Q1007 KTQH 300815Z AUTO 00000KT 10SM CLR 20/17 A3001 RMK AO2 KSYR 300754Z 00000KT 10SM FEW065 15/12 A3000 RMK AO2 SLP154 T01500117 LKPR 300800Z VRB02KT 9999 FEW040 22/15 Q1015 NOSIG LLIB 300750Z VRB03KT 9999 FEW030 30/21 Q1012 KSZL 300758Z 19004KT 10SM -DZ SCT055 BKN075 21/20 A2999 RMK AO2A SLP151 T02070199 $ MBPV 300000Z 11009KT 9999 SCT015 29/24 Q1016 GFLL 300800Z 03005KT 9999 BKN011 FEW027CB 25/25 Q1014 RMK CB-NE KW96 300815Z AUTO 31004KT 10SM OVC046 19/17 A3003 RMK AO1 T01900170 KTRI 300753Z 00000KT 10SM FEW070 17/14 A3004 RMK AO2 SLP146 T01670144 MDAB 292200Z 12010KT 9999 FEW015CB BKN017 30/24 Q1015 CB/E/SE KSZT 300410Z AUTO 00000KT 10SM CLR 18/11 A2996 RMK AO2 KTRK 300815Z AUTO 00000KT 10SM CLR 04/00 A3023 RMK AO2 KW99 300755Z AUTO 00000KT 5SM BR CLR 13/13 A3011 RMK AO2 T01270126 KUIL 300808Z AUTO 00000KT 6SM BR BKN009 OVC018 13/12 A3023 RMK AO2 T01280122 $ KTRL 300753Z AUTO 00000KT 10SM CLR 23/20 A2999 RMK AO2 SLP148 T02330200 KTRM 300752Z AUTO 00000KT 10SM CLR 29/20 A2974 RMK AO2 SLP074 T02890200 404280283 KVAD 300758Z AUTO 15002KT 10SM CLR 22/21 A2995 RMK AO2 SLP142 T02150207 $ KUIN 300754Z AUTO 16006KT 10SM BKN050 BKN110 18/13 A3003 RMK AO2 SLP162 T01830133 KVAF 300815Z AUTO 00000KT 2 1/2SM HZ FEW023 BKN033 OVC044 27/25 A2992 RMK A01 KTTA 300800Z AUTO 00000KT 10SM -RA SCT003 20/20 A2999 RMK AO2 T02020196 LKTB 300800Z 15006KT 110V180 CAVOK 27/17 Q1015 NOSIG FOOB 300800Z /////KT 9999 OVC010 23/22 Q1016 KTTD 300753Z AUTO VRB05KT 10SM CLR 14/10 A3020 RMK AO2 SLP226 T01440100 402560144 KTTF 300812Z AUTO 00000KT 10SM CLR 14/11 A3003 RMK AO2 T01430106 KUKF 300755Z AUTO 01003KT 10SM SCT085 18/18 A3008 RMK AO2 KTSP 300815Z AUTO 25008KT 10SM CLR 23/02 A3008 RMK AO2 KVBG 300813Z AUTO 33007KT 1 5/8SM BR OVC001 11/11 A2992 RMK AO2 VIS 2 3/4 RWY12 TSNO MDBH 292300Z 11012KT 9999 FEW018CB SCT020 28/24 Q1015 CB/NE/E/SE FOOG 300800Z /////KT 6000 FEW008 BKN030 26/23 Q1018 VVTS 300800Z 24008KT 210V290 9999 SCT017 33/21 Q1007 NOSIG KUKI 300756Z AUTO 00000KT 10SM CLR 20/10 A2990 RMK AO2 SLP114 T02000100 403670133 KVCB 300753Z AUTO 18005KT 10SM CLR 19/11 A2981 RMK AO2 SLP092 T01890111 403610150 FOOK 300800Z 00000KT 3000 BR SCT004 OVC020 23/21 Q1018 FOOL 300800Z 15006KT 9000 FEW010 26/22 Q1016 NOSIG KTTN 300753Z AUTO 31005KT 10SM CLR 18/14 A2999 RMK AO2 SLP148 T01780139 FOON 300800Z /////KT 3000 BR FEW003 SCT008 23/22 Q1018 KVAY 300754Z AUTO 00000KT 10SM CLR 17/14 A2999 RMK AO2 SLP156 T01720139 TSNO FOOR 300800Z /////KT 9999 SCT004 OVC006 23/22 Q//// KVBS 300815Z AUTO VRB06G13KT 4SM BR FEW008 BKN026 OVC060 25/25 A2991 RMK A01 KTTS 300758Z AUTO 19001KT 10SM CLR 25/23 A2997 RMK AO2 SLP153 T02520230 $ KVBT 300815Z AUTO 16004KT 10SM CLR 21/16 A3004 RMK AO1 KUKT 300815Z AUTO 00000KT 10SM CLR 14/14 A3003 RMK AO1 FOOT 300800Z VRB02KT 4000 BR SCT006 OVC023 23/22 Q1018 KTUL 300753Z 17009KT 10SM CLR 26/19 A2996 RMK AO2 SLP137 T02610194 KTVC 300753Z AUTO 00000KT 10SM CLR 13/06 A2999 RMK AO2 SLP155 T01280056 KULM 300814Z AUTO 18003KT 10SM CLR 18/17 A2996 RMK AO2 LTG DSNT SW KVBW 300815Z AUTO 00000KT 10SM CLR 14/13 A3008 RMK AO2 T01370130 KVDF 300815Z AUTO 24/22 RMK AO2 PWINO KTVF 300756Z AUTO 35011KT 10SM BKN048 OVC100 16/13 A3002 RMK AO2 SLP165 T01610133 KTUP 300753Z AUTO 34008KT 10SM CLR 19/17 A3001 RMK AO2 SLP157 T01940167 $ RJAA 300800Z 12005KT 080V170 9000 FEW012 BKN025 24/21 Q1011 NOSIG KTVI 300815Z AUTO 00000KT 4SM BR 22/22 A2997 RMK AO2 KVDI 300815Z AUTO 00000KT 10SM CLR 22/21 A2997 RMK AO2 KTUS 300804Z 02006KT 10SM VCTS -RA FEW060 FEW090 BKN110 23/21 A3005 RMK AO2 LTG DSNT N-E RAB0755 P0000 T02280206 KVCT 300751Z AUTO 00000KT 6SM BR CLR 25/23 A2993 RMK AO2 SLP135 T02500233 $ KTVK 300815Z AUTO 16005KT 10SM FEW055 18/16 A3001 RMK AO2 KTVL 300753Z AUTO 00000KT 10SM CLR 09/04 A3024 RMK AO2 SLP179 T00940039 403000083 TSNO $ KVCV 300815Z AUTO 00000KT 10SM CLR 27/M04 A2994 RMK AO2 RJAF 300700Z 30003KT 240V340 9999 FEW035 BKN130 BKN/// 26/20 Q1013 LKVO 291300Z 25007KT 190V320 9999 FEW048 25/13 Q1014 KTWF 300753Z AUTO 14006KT 10SM CLR 15/10 A3002 RMK AO2 SLP106 T01500100 MDCY 292300Z 18010KT 9999 FEW016CB SCT018 SCT300 27/25 Q1014 CB/NW RJAH 300800Z 07007KT 9999 SCT008 SCT010 BKN030 23/20 Q1011 KTVR 300753Z AUTO 05004KT 10SM CLR 24/20 A2996 RMK AO2 SLP151 T02440200 KUNI 300815Z AUTO 00000KT 10SM SCT060 13/13 A3008 RMK AO2 T01260126 RJAK 300253Z 12003KT 8000 FEW012 SCT025 BKN230 26/20 Q1012 RMK 1CU012 4CU025 7CI230 A2991 RJBB 300800Z 24003KT 9999 FEW005 SCT050 BKN120 26/23 Q1012 NOSIG KX60 300815Z AUTO 00000KT 8SM CLR 24/23 A2997 RMK AO1 TSNO RJBD 300800Z 13003KT 070V180 9999 -SHRA FEW005 SCT080 BKN100 26/23 Q1011 KVEL 300753Z AUTO 00000KT 10SM CLR 19/09 A3017 RMK AO2 SLP141 T01890094 SABE 300800Z VRB02KT 6000 FEW045 OVC070 14/14 Q1018 RJBE 300800Z 20005KT 9999 FEW015 SCT180 BKN/// 25/24 Q1011 KTWM 300814Z AUTO 27006KT 10SM BKN100 18/15 A2991 RMK AO2 LTG DSNT SE SAAP 291130Z 36005KT 4000 FEW100 07/06 Q1020 KUNO 300753Z AUTO 15003KT 10SM CLR 21/18 A3007 RMK AO2 SLP169 T02060183 KTVY 300815Z AUTO 18010KT 10SM BKN120 21/11 A3008 RMK AO2 SAAR 300800Z 00000KT 9999 SCT016 OVC020 12/11 Q1018 KVER 300815Z AUTO 12007KT 10SM CLR 20/14 A3000 RMK AO2 LTG DSNT N T01980143 RJCB 300800Z 10006KT 9999 FEW040 24/18 Q1010 KVES 300815Z AUTO 00000KT 10SM SCT060 12/12 A3007 RMK AO2 RJCC 300800Z 17016KT 9999 FEW006 BKN008 19/18 Q1012 EYKA 300750Z 22004KT 170V290 CAVOK 23/17 Q1015 KTXK 300753Z AUTO 05003KT 8SM CLR 23/22 A3000 RMK AO2 SLP153 T02280217 KUNU 300815Z AUTO 00000KT 10SM CLR 14/12 A3004 RMK AO2 T01350117 RJAW 300800Z 07012KT 040V100 9999 SCT015 29/23 Q1014 RMK 3CU015 A2996 KUNV 300815Z AUTO 00000KT 10SM SCT070 SCT090 13/12 A3007 RMK AO2 T01260117 RJCH 300805Z 23005KT 3100 R12/0900VP1800D BCFG BR FEW001 SCT003 17/15 Q1011 RMK 1ST001 3ST003 A2987 0700S-W RJCK 300800Z 18005KT 1300 R17/P1800N BCFG BR SCT001 BKN002 16/15 Q1012 RJBT 300800Z 01007KT 340V060 9999 FEW005 SCT015 BKN030 24/22 Q1011 RJDC 300800Z 08008KT 9999 FEW025 SCT035 BKN/// 24/22 Q1011 RJCM 300800Z 36006KT 9999 FEW030 24/17 Q1009 RJCN 300800Z 25015KT 9999 FEW015 BKN020 20/17 Q1011 SACO 300745Z 27002KT 2000 BR 03/03 Q1018 SADF 300800Z 00000KT 3000 BR SCT008 OVC015 13/13 Q1018 KUOX 300755Z AUTO 04005KT 10SM CLR 19/17 A3003 RMK AO2 KTYQ 300815Z AUTO 00000KT 10SM CLR 13/12 A3008 RMK AO2 T01290117 FQCH 300800Z VRB02KT 9999 SCT015 BKN020 19/13 Q1029 KTYR 300753Z AUTO 07003KT 10SM CLR 24/20 A2998 RMK AO2 SLP144 T02440200 RJCT 292239Z VRB01KT 5000 BR FEW002 SCT005 17/16 Q1014 RMK 1ST002 3ST005 A2996 FQBR 300800Z /////KT 9999 FEW020 BKN070 22/18 Q1024 RJEB 300700Z 11005KT 080V150 9999 FEW050 SCT090 25/14 Q1010 KTYS 300753Z 03003KT 10SM CLR 19/14 A3000 RMK AO2 SLP147 T01890144 RJEC 300800Z 26008KT 230V300 9999 FEW030 SCT/// 27/15 Q1010 KVGT 300753Z 09007KT 10SM CLR 33/10 A2988 RMK AO2 SLP101 T03330100 404280283 RJDM 300125Z 21002KT 8000 -SHRA FEW005 BKN015 BKN025 24/22 Q1014 RMK 2ST005 5CU015 7CU025 A2995 RJCW 300800Z 21009KT 160V230 9999 FEW030 25/13 Q1009 SADP 291040Z 02002KT 9000 NSC 07/07 Q1021 KVIH 300753Z AUTO 13008KT 10SM CLR 19/15 A3003 RMK AO2 SLP159 T01940150 KTZR 300815Z AUTO 00000KT 10SM CLR 12/11 A3007 RMK AO2 T01180111 RJDT 300800Z 20006KT 160V230 9999 FEW020 26/22 Q1011 MDJB 292300Z 18005KT 9999 BKN018 SCT300 28/24 Q1015 METAR MDSD 292300Z 13005KT 9999 FEW016CB SCT018 SCT080 28/24 Q1015 CB/NE METAR MDLR 292300Z 13008KT 9999 FEW016CB FEW020 28/24 Q1016 CB/NW DISP RJFE 300121Z 18004KT 9999 FEW004 SCT008 BKN015 24/23 Q1014 RMK 1ST004 3ST008 5CU015 A2995 LLSD 300750Z 25008KT 220V280 9999 FEW025 29/22 Q1012 RJFF 300800Z 31003KT 280V350 9999 FEW020 BKN045 BKN/// 27/22 Q1011 KUSE 300815Z AUTO 16004KT 10SM 13/ A3005 RMK AO2 RJFG 300800Z 16003KT 110V220 9999 FEW015 BKN/// 26/23 Q1013 KVJI 300815Z AUTO 07006KT 10SM OVC065 19/15 A3007 RMK AO2 T01910148 RJFK 300800Z 25004KT 150V310 9999 FEW009 SCT015 BKN120 24/22 Q1013 KUTA 300815Z AUTO 03003KT 7SM CLR 20/18 A3002 RMK AO2 TSNO KVIS 300756Z AUTO 32007KT 10SM CLR 24/13 A2982 RMK AO2 SLP098 T02440133 404060211 KY19 300815Z AUTO 34005KT 10SM FEW120 14/13 A3010 RMK AO2 RJFM 300800Z 14007KT 9999 FEW002 SCT180 BKN/// 26/22 Q1011 KWAL 300754Z AUTO 30004KT 10SM CLR 19/16 A3003 RMK AO2 SLP165 T01940161 KY23 300815Z AUTO 00000KT 10SM CLR 13/13 A2997 RMK AO2 T01300127 RJFO 300800Z VRB02KT 9999 FEW005 SCT015 BKN/// 23/22 Q1011 RJGG 300800Z 17004KT 9999 -RA FEW015 SCT035 BKN120 24/21 Q1011 NOSIG SAEZ 300800Z 18002KT 9000 SCT038 BKN060 12/11 Q1019 RJFR 300800Z 07003KT 040V120 9999 FEW010 SCT030 BKN/// 25/24 Q1011 RJFS 300800Z 15008KT 9999 FEW020 SCT040 BKN/// 25/23 Q1011 RJFT 300800Z 32002KT 9999 FEW020 BKN/// 26/22 Q1013 RJFU 300800Z 25008KT 9999 FEW015 BKN/// 25/22 Q1012 EYPA 300750Z VRB04KT 9999 FEW012 19/15 Q1015 KVLD 300753Z AUTO 00000KT 10SM CLR 23/22 A2997 RMK AO2 SLP153 T02280222 RJFY 300245Z 25008KT 5000 -SHRA BR FEW002 SCT010 OVC020 23/22 Q1016 RMK 1ST002 3CU010 8CU020 A3001 KUTS 300753Z AUTO 00000KT 10SM CLR 24/22 A2996 RMK AO2 SLP139 T02390222 KUVA 300815Z AUTO 00000KT 10SM CLR 22/20 A2998 RMK AO2 T02190195 KVKS 300815Z AUTO 00000KT 10SM CLR 22/20 A2996 RMK A01 KVLL 300814Z AUTO 00000KT 10SM CLR 16/09 A3004 RMK AO2 T01550085 GGOV 300800Z 22005KT 9999 SCT014 27/24 Q1015 NOSIG KVKY 300815Z AUTO 20009KT 10SM CLR 28/24 A2993 RMK A01 KWDG 300755Z AUTO 18003KT 10SM 21/19 A2998 RMK AO2 SBAA 292045Z 00000KT CAVOK 32/12 Q1014 MDLR 300300Z 06004KT 9999 FEW016CB FEW018 24/23 Q1017 CB/NW KY50 300756Z AUTO 00000KT 10SM CLR 12/11 A3001 RMK AO2 SLP182 T01220111 KY49 300815Z AUTO 00000KT 10SM BKN100 BKN120 15/14 A2996 RMK AO2 T01480143 LMML 300745Z 18009KT 9999 FEW009 25/21 Q1017 NOSIG KUUU 300753Z AUTO 00000KT 8SM CLR 17/17 A2990 RMK AO2 SLP123 T01720167 KY51 300815Z AUTO 19005KT 10SM CLR 16/13 A3002 RMK AO1 T01600130 SBAF 300800Z 26001KT CAVOK 16/15 Q1022 RJKA 300800Z 16004KT 120V200 9999 FEW025 BKN/// 30/25 Q1013 KWDR 300815Z AUTO 00000KT 10SM SCT120 22/20 A2999 RMK AO1 KVOA 300820Z AUTO 18007KT 10SM FEW020 SCT025 29/24 A2992 RMK A01 EYSA 300750Z 26007KT CAVOK 23/12 Q1015 BLU NOSIG SBAN 300800Z 12005KT CAVOK 12/08 Q1023 SBBE 300800Z 09007KT CAVOK 25/23 Q1012 KY63 300816Z AUTO 35005KT 10SM CLR 17/14 A2998 RMK AO2 T01690141 SBBG 292145Z 05004KT 8000 NSC 18/16 Q1020 FQIN 300700Z 00000KT 9999 FEW020 FEW090 21/19 Q1027 SBAQ 300200Z 12002KT CAVOK 20/14 Q1025 SBBH 300700Z 11004KT 9999 BKN025 17/14 Q1025 SBBI 300100Z 19001KT CAVOK 12/11 Q1026 SBAR 300800Z 13008KT 9999 SCT017 25/// Q1018 SBCA 300025Z 09008KT CAVOK 16/11 Q1024 SBAT 292145Z 12001KT CAVOK 29/16 Q1014 SBCB 292100Z 07010KT CAVOK 24/23 Q1022 SBAU 292300Z 12005KT CAVOK ///// Q1021 SBCC 292000Z 11010KT 9999 FEW025 30/16 Q1016 KY70 300814Z AUTO 27003KT 10SM CLR 12/08 A3004 RMK AO2 T01220075 KVOK 300758Z AUTO 11003KT 10SM CLR 10/10 A3000 RMK AO2 SLP160 T00970095 MDPC 300800Z 09010KT 9999 FEW018 27/24 Q1016 KVPC 300753Z AUTO 00000KT 10SM CLR 20/16 A2997 RMK AO2 SLP136 T02000161 KUXL 300815Z AUTO 04003KT 10SM CLR 24/23 A2993 RMK AO2 T02420225 PWINO SBAX 292200Z 16007KT 9999 SCT045 20/09 Q1025 SBCF 300800Z 26001KT CAVOK 16/15 Q1022 SBCG 300800Z 07011KT CAVOK 19/12 Q1019 KUYF 300815Z AUTO 00000KT 10SM CLR 11/10 A3007 RMK AO2 SBBQ 292300Z 12002KT CAVOK 15/13 Q1029 SBCH 300800Z 10006KT 9000 NSC 16/13 Q1022 KVNY 300751Z AUTO 13004KT 10SM CLR 22/16 A2987 RMK AO2 SLP104 T02170161 403560200 TSNO SBCI 292045Z 11003KT CAVOK 31/14 Q1013 SBBR 300700Z 00000KT CAVOK 12/08 Q1023 SBCJ 292130Z 00000KT CAVOK 23/15 Q1017 KUZA 300754Z AUTO 00000KT 6SM BR CLR 21/20 A2999 RMK AO2 SLP141 T02110200 SBBU 300800Z 07007KT CAVOK 19/14 Q1022 SBCM 300045Z 00000KT 1500 BR OVC004 13/13 Q1024 FPST 300800Z 19004KT 9999 FEW020 BKN110 26/23 Q1016 NOSIG SBBV 300800Z 24002KT 9999 FEW004 SCT020 BKN070 24/23 Q1014 SBBW 292115Z 04002KT CAVOK 27/15 Q1018 SAME 300800Z 18010KT 9999 FEW040 10/M03 Q1021 FQLC 300800Z 13009KT 100V180 9999 SCT017 17/12 Q1027 SBCO 300300Z 14011KT 0300 R30/0300 R12/0300 FG VV001 12/12 Q1023 SBCP 300200Z 02004KT CAVOK 23/21 Q1024 MDPP 300600Z 00000KT 9999 SCT018 BKN300 27/24 Q1015 SBCR 300150Z 16003KT CAVOK 19/16 Q1017 KVPS 300808Z COR 22011G25KT 5SM -TSRA BR FEW016CB BKN044 BKN140 BKN250 23/21 A2994 RMK AO2A TS OHD MOV N $ COR 0815 SBCT 300800Z 00000KT CAVOK 09/08 Q1025 FQMA 300800Z 35008KT CAVOK 22/14 Q1025 NOSIG KVRB 300753Z 22003KT 10SM CLR 24/22 A2999 RMK AO2 SLP154 T02440222 SBDN 300800Z 11008KT CAVOK 17/10 Q1020 SBCX 291600Z 22006KT CAVOK 20/16 Q1025 RJNG 300745Z VRB02KT 9999 FEW020 SCT050 BKN100 27/23 Q1011 RMK 1SC020 3SC050 7AS100 A2986 SBCY 300800Z 13003KT CAVOK 18/16 Q1019 SBEG 300800Z 00000KT CAVOK 23/22 Q1012 KWHP 300253Z 12006KT 10SM SKC 27/14 A2988 RMK LAST SBCZ 300645Z 25001KT CAVOK 18/18 Q1015 KVQQ 300815Z AUTO 00000KT 1 1/4SM BR CLR 21/21 A2997 RMK AO2 PWINO KVPZ 300756Z AUTO 00000KT 10SM CLR 13/09 A3007 RMK AO2 SLP178 T01280089 RJOA 300800Z 21003KT 150V270 9999 FEW010 BKN/// 24/22 Q1013 SBEK 292145Z 00000KT CAVOK 27/24 Q1012 RJNK 300800Z 27010KT 9999 FEW025 SCT120 BKN230 26/19 Q1012 RJOB 300800Z 22004KT 140V260 9999 FEW010 SCT025 BKN/// 25/22 Q1012 EYVI 300750Z 19006KT 150V260 CAVOK 26/14 Q1015 NOSIG SAOC 300800Z 05003KT 9999 SCT100 06/04 Q1016 RJOC 300800Z 25012KT 9999 FEW015 SCT025 BKN/// 26/23 Q1011 KVQT 300815Z AUTO 00000KT 10SM FEW021 27/23 A2991 RMK A01 RJOE 300701Z VRB02KT 9999 -SHRA SCT020 SCT080 BKN120 26/22 Q1012 RMK 3CU020 3AC080 7AC120 A2989 MDSD 300800Z 04006KT 9999 SCT016 23/23 Q1015 NOSIG RJOF 300732Z 09007KT 9999 FEW006 BKN045 BKN230 25/21 Q1012 RMK 1ST006 5SC045 A2989 KVSF 300813Z AUTO 00000KT 1/4SM FG VV002 13/12 A2996 RMK AO2 T01280122 TSNO KWJF 300756Z 25012KT 10SM CLR 29/02 A2991 RMK AO2 SLP096 T02940022 404170239 RJOH 300800Z 28007KT 240V320 9999 FEW010 SCT018 BKN250 27/20 Q1011 SANR 291330Z 32003KT 0300 FG NSC 08/07 Q1019 SBFI 300800Z 12004KT CAVOK 16/14 Q1020 RJOI 300755Z 16008KT 9999 FEW000 SCT015 BKN220 27/24 A2988 RMK SLP117 T02720244 SBES 300000Z 06006KT CAVOK 20/18 Q1023 RJNS 300800Z 18006KT 150V220 9999 FEW013 BKN150 27/24 Q1011 SANT 300800Z 27008KT CAVOK 05/04 Q1016 RJOK 300800Z 23003KT 180V270 9999 FEW005 BKN150 BKN/// 25/23 Q1011 RJNT 300800Z 27005KT 220V310 9999 FEW020 BKN030 BKN/// 27/21 Q1011 KVTA 300754Z AUTO 00000KT 7SM CLR 12/11 A3008 RMK AO2 SLP182 T01220111 SBFL 300800Z 33003KT 6000 SCT002 BKN004 15/15 Q1023 RJOM 300800Z 29001KT 9999 FEW015 SCT030 BKN045 24/22 Q1012 SBFN 300800Z 13017G27KT 9999 BKN021 26/23 Q1014 RJNW 300800Z 25010KT 9999 FEW010 SCT015 BKN/// 23/21 Q1012 LOAN 300800Z 12005KT 40KM BKN300CI RMK BKN RJOO 300800Z 22003KT 130V260 9999 FEW015 SCT150 BKN/// 27/22 Q1011 RMK 1CU015 3AC150 A2987 RJOP 291645Z 33003KT 270V020 9999 FEW004 SCT009 BKN030 23/22 Q1012 RMK 2ST004 4ST009 5CU030 A2990 RJNY 300541Z 03003KT 360V070 9999 FEW010 BKN020 BKN100 25/23 Q1010 RMK 1CU010 5CU020 6AC100 A2985 RJOR 300800Z 04005KT 9999 FEW010 SCT020 BKN030 24/21 Q1011 FQNP 300800Z 22010KT 9999 SCT020 22/13 Q1025 RJOS 300433Z 16004KT 9999 FEW010 SCT025 BKN050 24/22 Q1013 RMK 1CU010 4CU025 5SC050 A2993 SBFS 291800Z /////KT 9999 FEW020 SCT100 ///// Q//// KVTI 300815Z AUTO 17004KT 10SM RA OVC100 19/17 A3002 RMK AO2 T01880170 RJOT 300800Z 30003KT 270V340 9999 FEW015 BKN/// 26/23 Q1012 VYMD 300730Z 18007KT 7000 BKN018 FEW020CB 37/23 Q1002 MDST 300800Z 11006KT 9999 SCT016 SCT300 24/23 Q1016 SBGL 300800Z 33004KT 3000 1000NE R28/1000 R33/P2000 R15/P2000 R 10/P2000 BR SCT004 BKN020 18/17 Q1022 SBGM 292000Z 36002KT 9999 FEW025TCU BKN030 32/20 Q1013 FQPB 300800Z 21013KT 9999 FEW020 28/13 Q1022 LOAV 300800Z 16010KT 40KM BKN300CI 27/16 RMK BKN RJOW 300800Z 29009KT 9999 FEW020 BKN/// 25/24 Q1011 KWLD 300754Z AUTO 20005KT 10SM CLR 24/19 A2998 RMK AO2 SLP140 T02390194 KVTN 300752Z AUTO 26010KT 10SM SCT100 17/15 A3007 RMK AO2 SLP163 T01720150 SBGO 300700Z 00000KT CAVOK 17/10 Q1022 RJOY 300800Z 24003KT 180V300 9999 FEW025 SCT120 BKN160 27/20 Q1011 RJOZ 300246Z 17005KT 9999 FEW002 SCT005 BKN200 24/23 Q1013 RMK 1ST002 4ST005 A2993 SBFZ 300800Z 14007KT CAVOK 24/20 Q1014 KVTP 300809Z AUTO 18005KT 10SM SCT080 OVC100 11/03 A3053 RMK AO2 KXBP 300815Z AUTO 00000KT 10SM CLR 21/20 A3000 RMK AO2 T02060204 SBGR 300800Z 08004KT CAVOK 13/12 Q1025 KVUJ 300755Z AUTO 00000KT 10SM SCT065 BKN075 OVC100 21/21 A3003 RMK AO2 LTG DSNT SE T02050205 SBIC 292145Z 00000KT CAVOK 27/26 Q1011 SARC 300800Z 09005KT 9999 FEW025 BKN100 18/16 Q1017 KWMC 300756Z AUTO 36004KT 10SM CLR 19/M04 A3002 RMK AO2 SLP108 T01941044 403780133 SBGW 292300Z 01002KT CAVOK 17/14 Q1025 SARE 300800Z 00000KT CAVOK 18/16 Q1017 SARF 300800Z 09006KT CAVOK 17/16 Q1017 KVUO 300753Z AUTO 31007KT 10SM CLR 14/09 A3020 RMK AO2 SLP226 T01390094 402500139 SBIH 300015Z 00000KT 9999 FEW018 28/23 Q1012 KVVG 300815Z AUTO 00000KT 10SM 24/23 A2988 RMK A01 SARI 300800Z 00000KT CAVOK 15/15 Q1021 SASA 300700Z 23003KT CAVOK 02/01 Q1016 RJSA 300800Z 05004KT 9999 FEW035 SCT080 22/17 Q1011 SBHT 300340Z 00000KT CAVOK 22/22 Q1014 RKJB 300800Z 18010KT 9999 FEW010 BKN025 OVC080 26/23 Q1010 NOSIG SBIL 300700Z 19005KT 9999 SCT020 20/19 Q1021 RJSC 300800Z VRB02KT 8000 FEW003 SCT010 BKN040 22/20 Q1012 SARL 300800Z 05010KT CAVOK 16/16 Q1019 FQQL 300700Z 29004KT 9999 BKN020 BKN100 20/15 Q1025 SBJF 292300Z 06004KT CAVOK 18/16 Q1027 RJSF 300800Z 34006KT 9999 FEW020 SCT025 BKN030 24/19 Q1012 SBIP 300000Z 20003KT 9999 SCT030 20/18 Q1024 SARP 300800Z 09004KT CAVOK 18/15 Q1020 RJSH 300050Z 06008KT 9999 R25/1600D PRFG BR FEW000 BKN230 18/15 Q1012 RMK 1ST000 A2990 2000N-NE RJSI 300800Z 17007KT 8000 -SHRA FEW005 SCT010 BKN015 20/18 Q1012 SARS 291125Z 36002KT 6000 BR OVC008 11/11 Q1018 SASJ 300800Z 32006KT CAVOK 04/03 Q1016 SCBA 300800Z AUTO 29019KT CAVOK 03/M01 Q1019 RJSK 300800Z 28002KT 4500 -SHRA BR FEW003 BKN008 BKN015 21/19 Q1011 RKJK 300808Z 23014KT 9SM SCT035 27/23 A2979 RJTC 300632Z VRB02KT 9999 FEW025 SCT030 BKN080 26/18 Q1012 RMK 1CU025 4SC030 6AC080 A2988 HAAB 300800Z 23005KT 9999 BKN025 OVC080 18/12 Q1030 RJTE 300343Z 27003KT 220V310 5000 -DZ BR SCT007 BKN010 OVC012 22/19 Q1012 RMK 4ST007 5ST010 8SC012 A2991 RJSN 300800Z 25010KT 9999 FEW020 SCT030 26/20 Q1011 KVVV 300814Z AUTO 28003KT 10SM BKN100 20/14 A2996 RMK AO2 RJTF 300800Z 22003KT 180V280 9999 FEW020 SCT030 BKN160 26/20 Q1011 SBKG 300800Z 14004KT CAVOK 18/16 Q1019 SBJP 300700Z 20006KT 9999 SCT025 20/18 Q1017 SCAP 300800Z AUTO VRB05KT //// // NSC 00/M01 Q1031 SBIZ 300145Z 00000KT CAVOK 25/19 Q1015 SBJR 300045Z 25001KT CAVOK 16/16 Q1023 RJTI 300700Z 16004KT 130V190 8000 FEW020 BKN030 BKN150 25/20 Q1011 RJSR 300800Z 27007KT 9999 FEW015 BKN020 BKN030 23/19 Q1011 SCAR 300800Z 25001KT 6000 OVC023 18/13 Q1013 SCAS 292100Z 25008KT 9999 BKN033 07/03 Q1019 RJSS 300800Z 14007KT 9999 FEW004 SCT006 BKN007 20/18 Q1012 RJTK 290921Z 19005KT 9999 -RA FEW015 SCT020 BKN040 22/20 Q1015 RMK 1CU015 4SC020 5SC040 A2998 SBLB 292100Z /////KT 9999 SCT020 BKN090 23/21 Q1024 W///S2 SCAT 300807Z AUTO 20003KT 170V240 6000 // ///003 11/09 Q1014 RJSU 300320Z 16009KT 6000 FEW002 BKN008 BKN012 21/19 Q1013 RMK 1ST002 5ST008 7ST012 A2992 SCCC 292100Z 27024G34KT CAVOK 08/M10 Q1011 RJTL 291752Z VRB01KT 9000 -RA SCT007 BKN030 20/19 Q1013 RMK 4ST007 7SC030 A2993 SBJU 300700Z 15003KT CAVOK 23/15 Q1020 SBJV 300200Z 15002KT 0700 R33///// FG VV001 15/15 Q1025 KVWU 300816Z AUTO 32007KT 10SM OVC080 17/15 A2998 RMK AO2 SBLE 292100Z 19003KT 9999 SCT040 25/17 Q1021 RJTO 300800Z 21005KT 5000 BR FEW005 SCT008 BKN012 23/22 Q1011 SCCF 300800Z 11018KT CAVOK 08/M08 Q1027 RJSY 300800Z VRB02KT 4800 -RA BR FEW003 SCT005 BKN007 21/19 Q1011 SBKP 300800Z 12008KT CAVOK 15/11 Q1024 SCCH 300800Z AUTO 19007KT 160V220 9999 OVC006 07/06 Q1020 RJTR 300445Z 24001KT 6SM -RA BKN019 BKN029 25/22 A2989 RMK AO2A RAB40 SCCI 300800Z 25022KT 9999 FEW025 03/00 Q1005 NOSIG SCDA 300800Z 00000KT 7000 OVC022 16/12 Q1014 SBMA 300700Z 22003KT CAVOK 19/17 Q1013 RJTT 300800Z 12004KT 9999 FEW030 SCT160 BKN/// 26/21 Q1011 NOSIG RMK 2CU030 4AC160 A2987 RJTU 300422Z 14003KT 090V210 9999 FEW015 BKN025 BKN040 25/19 Q1013 RMK 1CU015 5CU025 7SC040 A2991 SAVC 300800Z 27017KT CAVOK 07/M02 Q1018 SBMD 292045Z 11001KT 9999 SCT027 31/24 Q1012 SBME 300700Z 05004KT CAVOK 18/17 Q1022 SBLO 300800Z 00000KT CAVOK 15/12 Q1022 SBLP 292045Z 16012KT 9999 FEW030 27/14 Q1019 SBMG 300800Z 07010KT CAVOK 18/11 Q1020 RJTY 300758Z AUTO 25003KT 10SM SCT032 25/20 A2992 RMK AO2 SLP130 T02540200 SBLS 300100Z 13007KT 9999 BKN048 19/13 Q1027 SBMK 300800Z 27003KT 9999 BKN027 17/14 Q1023 KVYS 300815Z AUTO 00000KT 10SM CLR 16/13 A3005 RMK AO2 T01580130 SBML 292300Z 00000KT CAVOK 23/12 Q1023 SAWC 291715Z 23008KT 9999 -RA SCT015 BKN035 03/01 Q1000 KWRB 300758Z AUTO 16003KT 10SM FEW170 22/21 A2995 RMK AO2 SLP142 T02180212 FQTT 300700Z VRB03KT CAVOK 23/13 Q1026 SAWE 300700 27015KT CAVOK 00/M00 Q1000 SBMN 300800Z 09002KT CAVOK 26/23 Q1012 SBNF 300300Z 36003KT 1500 BR OVC002 14/14 Q1025 SBMO 300800Z 34005KT 9999 FEW020 17/16 Q1018 SAWG 300800Z 27017KT CAVOK 02/M01 Q1008 SCCY 300800Z AUTO VRB04KT CAVOK 03/01 Q1021 SBMQ 300800Z 30002KT CAVOK 25/25 Q1012 SAWH 300800Z 25018KT 9999 FEW020 SCT030 02/M01 Q0998 LOIH 291100Z 35008KT 25KM FEW020CU SCT050CU 24/16 Q1016 RMK BKN KXIH 300815Z AUTO 00000KT 10SM CLR 28/24 A2990 RMK A01 SBMS 292145Z 03007KT 9999 FEW030 30/22 Q1013 SCFA 300800Z 30004KT 110V210 9999 OVC010 13/11 Q1014 NOSIG KWRI 300758Z AUTO 27005KT 10SM CLR 19/15 A2997 RMK AO2 SLP148 T01860146 SAVT 291607Z 23005KT 9999 -RA SCT050 BKN200 11/00 Q1008 SBMT 300200Z 11004KT 9999 SCT049 18/12 Q1026 SCEL 300800Z 17008KT 0300 R17L/0500N R17R/0400N FG VV001 06/05 Q1017 NOSIG SAVV 291230Z 32016KT 9999 FEW002 OVC100 09/08 Q1008 KWRL 300753Z AUTO 27005KT 10SM OVC100 22/10 A3014 RMK AO2 LTG DSNT NE AND E RAB36E49 SLP153 P0000 T02220100 $ SBMY 292145Z 15002KT 9999 FEW023 30/25 Q1012 SBOI 292000Z 04003KT 6000 -RA SCT006 BKN020 BKN090 24/// Q1013 SBPA 300800Z 09006KT 1500 R29/P2000 R11/P2000 BR VV002 11/11 Q1 023 SBPB 292145Z 05007KT 9999 FEW020 28/22 Q1012 SBNT 300800Z 19010KT CAVOK 21/18 Q1015 SBPC 292030Z 10002KT 9999 FEW020 17/12 Q1026 RKPC 300800Z 06009KT 9999 FEW040 27/21 Q1009 NOSIG SCFM 292100Z 31013KT 9999 SCT020 03/M01 Q0992 SCGE 292200Z 18002KT 2000 BR BKN020 09/08 Q1020 SBPF 292100Z 06006KT CAVOK 15/12 Q1023 RKNY 300800Z 32007KT 8000 -TSRA SCT015CB BKN040 OVC100 22/20 Q1008 NOSIG SBPJ 300700Z 11005KT CAVOK 23/14 Q1015 SBPK 300045Z 06004KT 0100 FG VV002 13/13 Q1023 LPBJ 300800Z 31010KT CAVOK 17/12 Q1019 RKPK 300800Z 19013KT 9999 SCT010 BKN025 25/22 Q1010 NOSIG SCFT 300800Z AUTO VRB02KT //// SKC M01/M02 Q1026 MGCB 300000Z 09004KT 9999 BKN016 SCT200 21/17 QFE870.7 KWST 300753Z AUTO 00000KT 10SM CLR 19/14 A2992 RMK AO2 SLP129 T01890144 SBPL 300700Z 13007KT 9999 FEW030 SCT070 21/16 Q1019 SBPP 292200Z 03004KT CAVOK 20/13 Q1020 SBPR 292027Z 06010KT 9999 SCT035 21/13 Q1025 LPAZ 300800Z 33011KT 9999 FEW012 SCT020 19/17 Q1029 SBPS 300800Z 25004KT 220V280 9999 SCT025 19/19 Q1021 SBRB 300800Z 25001KT 9999 FEW040 19/19 Q1014 SCIC 300800Z AUTO 18002KT 1500 BR OVC002 08/08 Q1018 SBPV 300800Z 18001KT 9000 NSC 22/19 Q1012 KXLL 300815Z AUTO 19003KT 10SM CLR 17/14 A3003 RMK AO2 SAZM 300700Z 32004KT 8000 NSC 07/06 Q1020 SAZN 300800Z 23005KT 9999 FEW045 BKN100 06/03 Q1023 SCIE 300800Z 18003KT 0400 R02/0450V0550N RMID/0350N FG VV000 05/05 Q1021 SBRF 300800Z 18005KT 9999 FEW023 23/19 Q1017 SCGZ 292100Z 24007KT 9999 FEW050 SCT083 03/M05 Q0988 SCHR 292100Z 29011KT 9999 SCT040 07/M04 Q1008 KWVI 300812Z AUTO 00000KT 8SM OVC005 12/11 A2994 RMK AO2 T01170106 SBRJ 300700Z 01003KT 4000 BR SCT010 20/20 Q1022 SAZS 300800Z 00000KT 9999 FEW040 M06/M09 Q1023 LPCS 300800Z 35012KT 9999 FEW014 18/13 Q1020 SAZT 300540Z 20004KT 5000 REFG NSC 06/05 Q1019 KXNA 300753Z AUTO 18003KT 10SM CLR 22/18 A3002 RMK AO2 SLP149 T02170183 SBSC 300800Z 04008KT 8000 FEW020 18/16 Q1022 FSIA 300800Z 11007KT 9999 FEW017 29/23 Q1013 NOSIG SBQV 300800Z 12008KT 9999 SCT007 16/15 Q1024 KWVL 300817Z AUTO 00000KT 3/4SM BR CLR 13/13 A2986 RMK AO2 KWWD 300815Z AUTO 00000KT 10SM FEW080 21/15 A3001 RMK AO1 RKSG 300758Z AUTO 25005KT 10SM FEW040 28/25 A2978 RMK AO2 SLP087 T02810245 $ SBSG 300600Z 23006KT 190V260 9999 SCT022 21/18 Q1015 SCIP 300800Z 09008KT 9999 FEW020 BKN030 17/09 Q1024 NOSIG SBRP 300700Z 12005KT CAVOK 16/12 Q1022 SCIR 292100Z 14014KT 9999 BKN015 13/10 Q1020 RKSI 300800Z 24006KT 210V270 7000 -RA SCT005 BKN025 OVC120 22/19 Q1009 NOSIG SBTA 300300Z VRB01KT CAVOK 16/14 Q1025 KXMR 300758Z AUTO 17002KT 10SM CLR 26/23 A2996 RMK AO2 SLP148 T02560227 $ SBSJ 300700Z 06002KT 3000 BR BKN010 12/12 Q1025 SBTC 292020Z 06005KT 9999 SCT020 OVC070 24/22 Q1021 SBSL 300800Z 12003KT CAVOK 25/23 Q1013 SBSM 300300Z 12004KT CAVOK 15/14 Q1021 SBTE 300700Z 20005KT CAVOK 22/16 Q1013 SBSN 300800Z 17003KT CAVOK 21/20 Q1012 SBTF 292245Z 00000KT CAVOK 29/24 Q1011 SCJO 300000Z 18001KT 6000 -SHRA BKN015 OVC030 07/07 Q1023 RKSO 300758Z 23008KT 7SM SCT020 BKN035 OVC045 28/22 A2977 RMK AO2A SLP084 T02770218 $ KXNO 300758Z AUTO 15001KT 9SM R23/5500FT FEW005 22/22 A2997 RMK AO2 SLP149 SBSP 300700Z AUTO VRB02KT CAVOK 16/12 Q1025 SBSR 300700Z 09004KT CAVOK 20/11 Q1023 SBUA 292100Z 06002KT 9999 TS SCT025 FEW030CB SCT090 26/23 Q1011 RKSS 300800Z 27008KT 8000 SCT030 BKN120 26/20 Q1009 NOSIG KWWR 300815Z AUTO 24003KT 10SM 21/17 A3007 RMK AO2 LTG DSNT SW AND NW SBTK 292245Z 21003KT CAVOK 25/21 Q1015 MGES 300000Z 03006KT 9999 BKN018 SCT090 25/19 QFE909.2 SBST 292300Z 17002KT 2000 -DZ BR OVC006 18/17 Q1024 HBBA 300700Z 36006KT 9000 FEW025 24/15 Q1018 NOSIG LPFL 291800Z 35010KT 9999 FEW019 22/17 Q1033 SBSV 300800Z 11012KT 9999 SCT017 FEW020TCU SCT070 25/20 Q1019 RKTN 300804Z 18006KT 9999 BKN040 30/21 Q1007 NOSIG SBUF 291945Z 12012KT 9999 FEW019 27/13 Q1019 RKTP 300301Z 20014KT 9000 BR FEW010 BKN015 BKN035 24/21 A2985 SBUG 292200Z 06008KT 8000 NSC 19/17 Q1018 LPFR 300800Z 26008KT CAVOK 22/14 Q1017 SBTT 300000Z 00000KT CAVOK 26/22 Q1014 SBTU 292115Z 24002KT 9999 FEW030 29/20 Q1014 SBUL 300700Z 09008KT CAVOK 16/09 Q1024 RKTU 300800Z 25007KT 9999 FEW020 BKN030 28/22 Q1008 NOSIG VYYY 300730Z 24010KT 7000 R21/2000N SCT014 FEW018CB OVC100 28/ 25 Q1006 CB S SBVH 292300Z 08004KT CAVOK 22/16 Q1017 SBUR 300700Z 03006KT CAVOK 18/11 Q1023 SCMK 292200Z 32003KT 9999 BKN023 08/04 Q1021 KWYS 300810Z AUTO 00000KT 10SM FEW120 09/05 A3029 RMK AO2 MGGT 300800Z 02010KT 9999 FEW014 SCT070 BKN090 18/16 Q1025 A3027 NOSIG KXPY 300815Z AUTO 00000KT 10SM CLR 27/23 A2992 RMK A01 YABA 300800Z AUTO 30006KT 9999 // SCT056 15/11 Q1023 LPHR 300800Z 05004KT 010V080 8000 VCSH FEW009 SCT011 BKN025 20/17 Q1031 KXSA 300815Z AUTO 00000KT 10SM BKN050 BKN080 BKN100 18/18 A3005 RMK AO2 T01810181 SBVT 300700Z 00000KT 9999 FEW020 SCT030 BKN080 20/20 Q1023 MGHT 300000Z 13010KT 9999 OVC015 20/14 QFE818.5 WSAP 300800Z 17006KT 9999 FEW020TCU BKN300 33/23 Q1007 KYIP 300753Z AUTO 29004KT 10SM CLR 16/09 A3004 RMK AO2 SLP166 T01560089 TSNO SCNT 292100Z 30023KT 270V340 9999 VCSH SCT003 BKN030 03/M03 Q0996 MHAM 300000Z 23004KT CAVOK 31/26 SCON 292100Z 00000KT 9999 BKN030 08/05 Q1021 LPLA 300800Z /////KT 6000 1000W -DZ SCT002 BKN005 BKN020 19/18 Q1030 MHCA 300600Z 00000KT 9999 SCT028 BKN080 22/22 LQBK 300800Z VRB03KT CAVOK 24/15 Q1016 NOSIG KYKM 300753Z AUTO 33009KT 10SM CLR 24/07 A2998 RMK AO2 SLP142 T02390072 403780222 KYKN 300815Z AUTO 19005KT 10SM BKN020 21/17 A2995 RMK AO1 LTG DSNT NE TSB0757E15 SCPQ 300800Z AUTO 21004KT 9999 BKN041 01/01 Q1025 MHCH 300000Z 03014KT 9999 FEW034 BKN250 33/23 HZ SBYS 300200Z 12004KT CAVOK 17/13 Q1024 LPMA 300800Z 01009KT 330V090 9999 FEW015 21/13 Q1023 SCRD 292200Z 18002KT CAVOK 10/08 Q1016 SCRG 292100Z 20004KT 1500 BR OVC010 09/07 Q1016 SCQP 300700Z VRB02KT 0700 R01/0800V1900D FG VV001 M01/M01 Q1022 KXVG 300757Z AUTO 00000KT 10SM SCT100 120 15/14 A2996 RMK AO2 LTG DSNT NE FSPP 300800Z 19008KT //// //// 27/24 Q1014 SCRM 300800Z 24010KT 9999 SCT008 OVC025 M02/M03 Q0970 MGMM 300800Z 00000KT 9999 SCT016 2221 Q1015 A2997 SCSE 300800Z VRB03KT CAVOK 09/07 Q1015 LOWG 300750Z VRB01KT 9999 FEW060 BKN300 23/17 Q1016 NOSIG KYNG 300751Z 00000KT 10SM FEW250 11/09 A3007 RMK AO2 SLP181 T01110089 LOWI 300750Z VRB02KT 9999 FEW008 SCT050 FEW050TCU FEW050CB BKN120 20/17 Q1017 NOSIG SCTB 292200Z 00000KT 2000 HZ BKN130 09/05 Q1016 MGMT 300000Z 00000KT 9999 FEW018 SCT080 31/25 QFE1008.4 LOWK 300750Z VRB02KT 9999 FEW080 BKN220 21/13 Q1017 NOSIG SEAM 292300Z 18006KT 9999 VCSH BKN023 SCT100 14/12 Q1028 LOWL 300750Z 28004KT 240V310 CAVOK 22/17 Q1015 NOSIG SCTE 300800Z 00000KT 0800 FG NSC M01/M01 Q1026 NOSIG SCSN 300800Z AUTO 23005KT CAVOK 08/07 Q1018 SECA 292300Z 05009KT 020V090 9999 BKN040 25/12 Q1016 LOWS 300750Z 32009KT 9999 FEW030 BKN080 22/15 Q1017 NOSIG MGPB 300800Z 00000KT 9999 TS FEW016 FEW025CB BKN080 24/23 Q1013 A2991 CB/TS/LTNG NW LPPD 300800Z 33006KT 280V010 9999 FEW008 SCT018 BKN030 20/16 Q1029 SCTN 300800Z AUTO 08004KT 050V130 //// R/////// // FEW039 BKN049 03/03 Q1026 LOWW 300750Z 13011KT CAVOK 26/18 Q1014 NOSIG LOWZ 300800Z 08006KT 30KM FEW040CU BKN140AC 20/16 Q1017 RMK BKN LOXT 300750Z VRB03KT 60KM FEW100AC SCT300CI 27/18 Q1014 NOSIG RMK SCT SCVD 300800Z AUTO 00000KT 0800 R35/1000D FG VV002 00/00 Q1024 SECO 292300Z 29002KT 9999 VCSH SCT026 BKN100 23/23 Q1014 LOXZ 300750Z VRB01KT 40KM FEW070CU BKN240CI 20/14 Q1018 NOSIG RMK COTRA/BKN LPPR 300800Z 31005KT 280V340 3500 BR BKN003 15/15 Q1019 LPPS 300800Z 01012KT 9999 BKN015 20/14 Q1024 SECU 300200Z 32004KT 9999 SCT040 13/08 Q1028 LPPT 300800Z 31010KT 280V340 9999 FEW012 18/13 Q1019 SCVM 300800Z 07004KT 9999 OVC070 08/07 Q1017 YBAF 300800Z AUTO 04004KT 9999 // NCD 15/10 Q1020 MGQZ 300000Z 36004KT 5000 -RA SCT010 SCT022CB SCT070 15/14 QFE773.4 CB ENE/SMC S YBAS 300800Z AUTO 17007KT 9999 // OVC078 21/04 Q1021 MGSJ 300800Z 00000KT CAVOK 23/22 Q1011 A2985 MGRT 300000Z 03006KT 9999 TS FEW018 FEW022CB BKN080 30/25 Q1013 A2991 CB/TS/PCPN N/NE VOL. STA. MARIA Y SANTIAGUITO EN ACTIVIDAD YBBN 300800Z 05006KT 9999 FEW025 15/12 Q1020 LRBC 300800Z 33011KT 300V010 CAVOK 27/17 Q1016 YBCG 300800Z AUTO 36005KT 9999 // SCT032 17/13 Q1020 YBCK 300800Z AUTO 00000KT //// // ////// 17/06 Q1019 YAMB 300800Z 05007KT 9999 FEW041 17/10 Q1019 LRAR 300800Z VRB03KT CAVOK 27/14 Q1016 MHLC 300000Z 04006KT 8000 -TSRA SCT022CB BKN070 25/22 Q1012 A2989 NOSIG LRBM 300800Z 25004KT CAVOK 25/18 Q1017 YBDG 300800Z AUTO 32005KT 9999 // SCT072 SCT082 BKN110 07/06 Q1009 MHLE 300000Z 02006KT 9999 FEW022 SCT200 19/15 LRBO 300800Z 02012KT 9999 FEW060 28/14 Q1015 BLU BLU YBCS 300800Z 17005KT 9999 FEW035 23/16 Q1017 SEGS 300000Z 14015KT 9999 FEW020 25/20 Q1012 A2989 LRBS 300800Z 35003KT 270V040 9999 FEW042 28/19 Q1016 R07/19//95 NOSIG YBCV 300800Z AUTO 25004KT 9999 // SCT125 15/06 Q1020 LRCK 300800Z 01013KT 9999 FEW046 29/16 Q1013 NOSIG SEGU 300800Z 22010KT 9999 FEW010 SCT040 BKN100 24/21 Q1009 NOSIG RMK A2981 MGTU 300000Z 27006KT 9999 SCT018 SCT070 30/22 LRCL 300800Z 01004KT 9999 SCT030 25/14 Q1017 MHLM 300800Z 21004KT 9999 FEW024 BKN080 24/21 Q1015 A2997 NOSIG YBDV 300800Z AUTO 24004KT //// // ////// 19/06 Q1020 LRCT 300800Z 36006KT 9999 FEW040 25/14 Q1017 BLU BLU SEJD 292300Z 17001KT 9999 VCSH FEW016 SCT056 BKN100 22/21 Q1016 RESHRA LRCV 300800Z VRB04KT 9999 FEW030 28/19 Q1016 LQMO 300800Z VRB03KT 9999 FEW050 27/// Q1014 ROAH 300800Z 20011KT 9999 VCSH FEW022 FEW025CB BKN/// 31/25 Q1013 BGBW 300750Z 03001KT 9999 BKN024 06/02 Q1012 YBGD 300800Z AUTO 08006KT 9999 // SCT043 OVC088 20/13 Q1018 SFAL 291650Z 34022KT 2000 VCFG OVC002 ///// Q0995 GMAD 300800Z 28004KT 8000 SCT010 BKN016 21/18 Q1017 NOSIG MHNO 300000Z 33014KT 9999 FEW040 27/19 Q1015 HZ GMAG 300800Z 32010KT 9999 BKN016 20/18 Q1016 NOSIG FTTA 300700Z 00000KT 9999 FEW020 26/24 Q1017 FTTC 300700Z 00000KT CAVOK 27/20 Q1017 FTTD 300700Z 22004KT CAVOK 25/22 Q1017 HDAM 300800Z 29009KT 5000 HZ SCT023 40/24 Q1006 YBHI 300800Z AUTO 31009KT 9999 // NCD 14/05 Q1016 KZPH 300815Z AUTO 00000KT 7SM CLR 15/15 A2998 RMK AO2 T01470147 MGZA 300000Z 06008KT 9999 BKN020 30/19 QFE986.8 SEMC 292300Z 20005KT 9999 FEW026 SCT100 22/18 Q1018 FTTJ 300800Z 20008KT 180V240 CAVOK 31/22 Q1016 NOSIG YBHM 300800Z AUTO 13010KT 9999 // BKN072 21/17 Q1019 MHPL 300000Z 06005KT 9999 BKN025CB BKN220 29/26 Q1012 RESH CB TCU ALL VCSH S SSW GMAT 300800Z 02013KT 6000 OVC016 19/16 Q1018 NOSIG YARG 300800Z AUTO 07004KT 9999 // NCD 30/00 Q1015 LRIA 300800Z 30009KT 250V330 CAVOK 25/16 Q1015 BGGH 300750Z AUTO 19004KT 160V220 9999NDV BKN009/// BKN019/// 03/03 Q1017 SELT 300800Z 17014KT 9999 FEW015 SCT030 09/09 Q1029 YARM 300800Z AUTO 32010KT 9999 // NCD 07/02 Q1019 FVBU 300800Z 08007KT CAVOK 19/09 Q1030 NOSIG RODN 300758Z AUTO 12006KT 10SM FEW200 30/30 A2992 RMK AO2 RAE04RAB12E28 SLP137 P0002 T02960296 $ FTTY 300600Z 00000KT CAVOK 32/10 Q1015 YCBA 300800Z AUTO 34005KT 9999 // NCD 11/04 Q1017 YCBB 300800Z AUTO 36011KT //// // ////// 08/05 Q1018 SEMT 300800Z 21005KT CAVOK 24/21 Q1010 RMK A2985 WSSL 300800Z 13005KT 090V170 9999 SCT020TCU SCT300 34/23 Q1007 RMK 0730Z Q1008 LQSA 300800Z VRB01KT 9999 FEW050 21/14 Q1018 NOSIG SENL 292300Z 30004KT 9999 VCSH FEW016 OVC100 22/22 Q1015 YBKE 300800Z AUTO 31005KT //// // ////// 12/04 Q1018 MHSC 300758Z AUTO 02007KT 9999 OVC048 21/21 A3000 RMK AO2 SLP115 T02140208 $ MHRO 300000Z 08014KT 9999 FEW025 BKN080 30/24 Q1012 A2989 NOSIG YCAR 300800Z AUTO 18018KT 9999 // NCD 22/13 Q1017 YCAS 300800Z AUTO 36004KT //// // ////// 16/08 Q1019 WSSS 300800Z 21004KT 170V240 9999 FEW020TCU BKN350 33/22 Q1008 NOSIG FVCZ 300400Z 00000KT CAVOK 11/10 Q1028 FVFA 300600Z 09007KT CAVOK 15/09 Q1025 NOSIG MHTE 300000Z 09010KT 9999 BKN026CB SCT250 30/26 Q1010 CB S NW TCU ALL HZ YCBP 300800Z AUTO 23012KT //// // NCD 17/06 Q1021 MHTG 300800Z 00000KT 9999 BKN026 20/19 Q1019 A3009 NOSIG GMFF 300800Z 33003KT 300V360 CAVOK 24/17 Q1019 NOSIG YBMA 300800Z AUTO 19006KT 9999 // NCD 23/M03 Q1018 YBKT 300800Z AUTO 02007KT //// // ////// 25/11 Q1016 MHSR 300600Z 00000KT 9999 BKN020 FEW022CB 20/220 CB LNTG NE NW HZ YBLN 300800Z AUTO 25005KT //// // ////// 16/10 Q1024 GMFK 300800Z 12004KT 030V180 CAVOK 30/10 Q1020 NOSIG GMFM 300800Z 00000KT 2000 BR OVC010 20/18 Q1019 NOSIG BGJN 300750Z AUTO 24003KT 9999NDV FEW010/// BKN013/// BKN034/// 05/02 Q1017 GMFO 300800Z VRB02KT CAVOK 25/17 Q1018 NOSIG YBNA 300800Z AUTO 01005KT 9999 // NCD 16/12 Q1020 YBLT 300800Z AUTO 29008KT 9999 // SCT028 SCT034 SCT045 05/05 Q1007 MHTR 300000Z 09012KT 9999 FEW022TCU BKN080 29/24 TCU SW VCSH W HZ YBMK 300800Z AUTO 11008KT 9999 // SCT075 20/19 Q1019 SERB 292300Z 07010KT 9999 BKN030 14/10 Q1028 FVHA 300800Z 09007KT 030V120 CAVOK 17/09 Q1031 NOSIG RMK QFE 861.7 YCEE 300800Z AUTO 24008KT //// // ////// 09/04 Q1019 SEQM 300800Z 15002KT 9999 FEW010 BKN020 11/10 Q1024 NOSIG RMK A3025 YCDO 300800Z AUTO 36009KT //// // ////// 10/07 Q1015 BGKK 300750Z AUTO 33001KT 9999NDV OVC022/// 05/04 Q1007 YCCY 300800Z AUTO 16004KT //// // ////// 24/M04 Q1017 ROIG 300800Z 14008KT 9999 VCSH FEW018 SCT022 FEW025TCU BKN/// 31/26 Q1011 LQTZ 300800Z 09003KT 040V160 9999 FEW040 24/18 Q1016 SESA 300300Z 22007KT 9999 FEW012 25/22 Q1012 YCDU 300800Z AUTO 21009KT 9999 // SCT034 SCT041 OVC059 14/10 Q1021 YCEM 300800Z AUTO 27005KT 240V310 //// // ////// 08/06 Q1008 SESD 292300Z 21003KT 9999 BKN016 BKN130 24/22 Q1010 GLRB 300800Z 00000KT 8000 BKN011 24/23 Q1016 RMK BRVC SERO 300200Z 16003KT CAVOK 24/21 Q1011 SESG 291700Z 06006KT 9999 FEW035 36/05 Q1008 YBNS 300800Z AUTO 05005KT 9999 // SCT120 10/03 Q1007 YBOK 300800Z AUTO 32005KT 9999 // SCT063 13/05 Q1020 YCFL 300800Z AUTO 14013KT //// // ////// 25/18 Q1016 SESM 292300Z 33005KT 9999 SCT026 BKN100 20/19 Q1018 A3009 YAYE 300800Z AUTO 15006KT 9999 // NCD 22/06 Q1020 LROD 300800Z 05002KT 350V110 CAVOK 27/15 Q1017 YCFS 300800Z AUTO 36008KT 9999 // NCD 17/05 Q1018 SGAS 300800Z 09004KT CAVOK 19/14 Q1017 SEST 300000Z 15012KT 9999 SCT023 24/21 Q1008 RMK A2979 HEBA 300700Z 29009KT CAVOK 28/24 Q1013 NOSIG YBPN 300800Z AUTO 11003KT 9999 // SCT074 19/17 Q1019 FVKB 300700Z 13006KT CAVOK 23/11 Q1026 NOSIG LSGC 300750Z 24005KT 210V270 9999 BKN015 OVC025 14/12 Q1019 SETN 292300Z 21008KT 9999 SCT020 BKN100 28/24 Q1008 A2978 LROP 300800Z VRB02KT CAVOK 27/20 Q1016 NOSIG LSGG 300750Z VRB03KT 9999 FEW025 BKN047 22/15 Q1017 NOSIG YCHK 300800Z AUTO 18008KT 9999 // BKN064 OVC074 17/12 Q1019 YAYT 291650Z 03008KT CAVOK 37/M01 Q1006 HEAR 300400Z 16007KT CAVOK 22/20 Q1010 SETU 292300Z 09003KT 9999 VCSH BKN020 SCT100 12/07 Q1030 HECA 300800Z 33005KT 6000 NSC 31/21 Q1012 NOSIG HEAT 300700Z 35011KT CAVOK 30/14 Q1013 NOSIG HEAX 300700Z 30005KT CAVOK 28/19 Q1012 NOSIG MHYR 300000Z 09004KT 9999 SCT025TCU BKN080 28/20 TCU ALL HZ YBRK 300800Z AUTO 36005KT 9999 // SCT082 18/14 Q1020 YBRL 300800Z AUTO 04009KT //// // ////// 28/09 Q1015 LSGS 300750Z 05004KT 350V090 9999 FEW030 SCT150 21/15 Q1017 YBRM 300800Z 28009KT CAVOK 28/21 Q1012 YCIN 300800Z AUTO 10007KT //// // NCD 34/05 Q1011 GMMB 300800Z 25003KT 190V300 4000 BR SCT010 BKN020 23/20 Q1019 BECMG 5000 GMMC 300700Z 30008KT 6000 OVC016 21/20 Q1017 NOSIG FWCL 300800Z 19009KT 9999 FEW025 21/07 Q1028 NOSIG YBSG 300800Z AUTO 12004KT //// // SCT044 BKN056 26/17 Q1013 GMMD 300800Z 22004KT 9999 SCT020 21/17 Q1020 NOSIG GMME 300800Z 28004KT 5000 SCT010 BKN023 22/19 Q1017 NOSIG GMMH 300800Z 04019KT 8000 NSC 20/17 Q1017 NOSIG GMMI 300800Z 03010KT 6000 SCT012 BKN026 22/17 Q1017 NOSIG LTAB 291715Z 26012KT 9999 -SHRA FEW025CB BKN035 21/15 Q1012 TEMPO -TSRA RMK RWY06 27009KT LRSB 300800Z VRB02KT 9999 FEW031 24/16 Q1018 LTAC 300750Z VRB01KT 9999 SCT040TCU 22/13 Q1015 NOSIG LTAD 291809Z 36007KT 330V040 9999 -SHRA FEW030CB BKN035 20/14 Q1013 TEMPO -TSRA RMK RWY29 36008KT 320V040 SGEN 292100Z05008KT CAVOK 23/16 Q1019 KZZV 300753Z AUTO 00000KT 10SM CLR 14/12 A3007 RMK AO2 SLP179 T01390117 GMML 300800Z 04012KT 8000 OVC017 21/17 Q1019 NOSIG LTAE 291716Z 30007KT 250V330 7000 +SHRA FEW025CB BKN033 18/15 Q1013 BECMG TL1800 9999 NSW RMK RWY21 VRB02KT YBTH 300800Z AUTO 34009KT 9999 // NCD 04/02 Q1016 ROMY 300800Z 14009KT 9999 SCT020 BKN/// 31/25 Q1012 LTAF 300750Z 13004KT 050V190 9999 SCT035 31/22 Q1009 NOSIG GMMN 300800Z 28004KT 240V310 9999 BKN016 20/20 Q1018 NOSIG LTAG 300750Z 17004KT 9999 SCT025 31/22 Q1009 NOSIG LTAH 300414Z VRB01KT CAVOK 14/12 Q1016 RMK RWY13 02004KT 350V060 SGES 300600Z 15002KT CAVOK 16/15 Q1019 LTAI 300750Z 06004KT 340V150 CAVOK 32/14 Q1009 NOSIG YBSU 300800Z AUTO 07006KT 9999 // NCD 17/14 Q1020 YBTL 300800Z AUTO 08007KT 9999 // SCT053 OVC069 23/18 Q1018 LTAJ 300750Z 26012KT CAVOK 29/13 Q1013 NOSIG LTBA 300750Z 33006KT 9999 -SHRA FEW020CB BKN027 24/20 Q1014 TEMPO 4000 -TSRA YBUD 300800Z AUTO 08004KT 9999 // NCD 17/12 Q1020 YCKN 300800Z AUTO 15005KT 9999 // NCD 23/18 Q1016 LRTC 300800Z 34015KT 310V010 9999 FEW040 27/17 Q1013 LTAL 300812Z 25006KT 8000 2800NE SHRA SCT005 SCT025 BKN080 18/16 Q1017 LRSM 300800Z 28003KT 210V020 CAVOK 26/16 Q1017 LTBD 300750Z 07003KT 040V140 9999 FEW040 30/15 Q1012 FVMV 300400Z 00000KT CAVOK 06/06 Q1027 LTAN 300750Z 36009KT 310V030 9999 FEW035 22/12 Q1017 NOSIG LTBF 300750Z 03008KT 9999 SCT035 26/18 Q1015 NOSIG GMMW 300800Z 06002KT CAVOK 23/14 Q1017 NOSIG LTAP 300750Z 14005KT 100V180 9999 SCT040 BKN100 24/17 Q1012 TEMPO -TSRA GMMX 300800Z 26003KT 200V320 5000 BKN013 20/15 Q1019 NOSIG BGSF 300750Z AUTO 08007KT 9999NDV NCD 06/02 Q1016 LTBH 300750Z 04012KT 360V070 9999 FEW035 28/18 Q1015 LTBI 291510Z VRB04KT 9999 FEW025CB BKN030 21/12 Q1011 RETSRA NOSIG RMK RWY09 33006KT 250V020 LTAR 300750Z 28008KT 240V330 9999 SCT040 18/12 Q1017 GMMZ 300800Z VRB02KT CAVOK 27/09 Q1018 NOSIG LTAS 300750Z VRB03KT 9999 FEW025TCU SCT035 BKN090 27/19 Q1012 LTBJ 300750Z 35018KT CAVOK 29/15 Q1012 NOSIG LTCA 300750Z VRB03KT 9999 FEW035 32/10 Q1010 NOSIG LTCB 300750Z 26007KT 230V290 6000 -TSRA SCT008 SCT018CB BKN028 22/21 Q1011 LTAT 300750Z 31008KT 260V350 9999 FEW040 30/14 Q1010 NOSIG LTAU 300750Z 25007KT 210V290 9999 SCT040 22/12 Q1016 NOSIG LTCC 300750Z 18014KT CAVOK 36/06 Q1008 NOSIG LRSV 300800Z 34010KT CAVOK 24/16 Q1017 LRTM 300800Z AUTO VRB03KT 9999 NCD 24/16 Q1017 LTCD 300750Z VRB02KT 9999 FEW045 25/14 Q1013 NOSIG YDBY 300800Z AUTO 31007KT 270V330 //// // ////// 32/14 Q1011 LTCE 300750Z 06006KT 010V110 9999 FEW030 23/11 Q1018 NOSIG LTAW 300750Z 25007KT 220V280 9999 BKN035 24/19 Q1012 BIBD 300800Z 00000KT CAVOK 12/// Q1000 LTBO 300750Z 24002KT 9999 SCT040 24/11 Q1016 LTCF 300750Z 00000KT CAVOK 25/12 Q1019 LTCG 300750Z 31010KT 9999 SCT035 BKN100 26/22 Q1010 NOSIG LTAY 300750Z VRB02KT 9999 FEW035 21/14 Q1016 LTAZ 300750Z VRB03KT 9999 FEW040 23/12 Q1015 LTBQ 300750Z 35006KT 300V040 7000 FEW025CB BKN030 21/20 Q1014 RESHRA TEMPO 4000 TSRA BR LRTR 300800Z VRB02KT 9999 FEW035 26/17 Q1017 LTCI 300750Z 26007KT 9999 FEW040 24/16 Q1017 NOSIG LTBR 300750Z 21002KT 9999 FEW030TCU SCT035 24/18 Q1014 NOSIG LSMA 300750Z 02004KT 330V070 9999 FEW010 SCT018 BKN064 19/17 Q1017 RMK BLU LTBS 300750Z 21009KT 180V240 CAVOK 29/17 Q1010 NOSIG LTCJ 300750Z 27005KT 230V330 CAVOK 36/09 Q1008 LTDA 300750Z 22016KT 190V250 9999 SCT035 31/19 Q1009 YCMM 300800Z AUTO 25008KT //// // ////// 10/06 Q1019 LTBT 291035Z 36009KT 310V070 9999 TS FEW027CB SCT033 33/17 Q1007 RMK RWY14 35008KT 310V030 LTCK 300750Z 16009KT 120V180 9999 FEW040 30/08 Q1014 BIAR 300800Z 11006KT 9999 BKN037 13/08 Q1000 LTCL 300750Z 15008KT 100V180 CAVOK 36/09 Q1009 LTBU 300750Z 33013KT 9999 SCT035 27/18 Q1014 LSMD 300750Z VRB02KT 9999 SCT033 BKN045 17/15 Q1018 RESHRA RMK BLU LTCM 300750Z 26004KT 9999 -TSRA FEW025CB BKN030 BKN090 21/18 Q1011 LSME 300750Z AUTO 02004KT 340V070 9999NDV SCT011 BKN016 OVC021 18/15 Q1018 RMK LTCN 300750Z 28014KT CAVOK 30/16 Q1010 BGTL 300758Z AUTO 11011KT 9999 OVC038 07/03 A2975 RMK AO2 SLP058 T00710033 $ HEGN 300700Z 01006KT CAVOK 36/17 Q1010 NOSIG LTCO 300750Z 10004KT CAVOK 26/08 Q1017 LTCP 300750Z 19007KT 130V280 CAVOK 30/15 Q1010 LTBY 300750Z 36008KT 300V040 9999 SCT030 24/14 Q1016 LRTZ 300800Z 35012KT SCT040 SCT150 27/20 Q1013 BLU BLU LTBZ 300450Z 29004KT 9999 SCT040 16/14 Q1016 YCMT 300800Z AUTO 29001KT //// // ////// 19/08 Q1019 YCNK 300800Z AUTO 34005KT //// // ////// 12/03 Q1016 LTCR 300750Z 25007KT 180V310 CAVOK 35/10 Q1009 LTCS 300750Z 22008KT 160V300 CAVOK 29/13 Q1013 YCNM 300800Z AUTO 36007KT //// // ////// 10/07 Q1018 LTCT 300750Z 03006KT 340V110 CAVOK 31/10 Q1012 YCOE 300800Z AUTO 09008KT //// // ////// 24/15 Q1015 LTCU 300750Z 21010KT 170V240 9999 FEW035 31/12 Q1013 LTCV 300750Z VRB04KT CAVOK 36/10 Q1009 LSMM 300750Z VRB02KT 9999 FEW011 SCT140 19/16 Q1018 RMK BLU+ YBWP 300800Z AUTO 11006KT 9999 // ////// 28/28 Q1013 LTCW 300750Z 32009KT CAVOK 28/05 Q1021 LSMP 300750Z VRB02KT 9999 BKN041 19/18 Q1017 RMK BLU RORS 300800Z 15010KT 9999 VCSH FEW022 BKN/// 32/26 Q1012 LTFA 300319Z 34005KT 9999 FEW040 21/18 Q1012 RMK RWY17 35006KT LSMS 300750Z 05004KT 350V090 9999 FEW030 SCT150 21/15 Q1017 YCOM 300800Z AUTO 35009KT 9999 // SCT028 04/M01 Q1010 YBWW 300800Z AUTO 01002KT 9999 // SCT066 13/05 Q1020 LTFC 300750Z 30004KT 230V360 9999 FEW035 23/14 Q1016 YBWX 300800Z AUTO 07014KT //// // ////// 22/20 Q1015 LTFD 300750Z 04010KT 9999 SCT035 28/18 Q1014 YCNY 300800Z AUTO 15005KT //// // ////// 27/M01 Q1016 LTFE 300750Z 29012KT CAVOK 30/16 Q1010 NOSIG LTFG 300750Z 24008KT 210V290 9999 SCT035 30/23 Q1010 LTFH 300750Z VRB03KT 9999 SCT030 BKN100 25/21 Q1011 RESHRA TEMPO FM0900 -TSRA BIEG 300800Z 35005KT 310V080 9999 -RA SCT015 BKN024 OVC050 09/07 Q1001 RPLB 300800Z 07009KT 9999 FEW020 SCT080 BKN300 31/24 Q1008 NOSIG LTFJ 300803Z 21005KT 190V250 9999 -SHRA FEW020CB BKN030 24/20 Q1014 TEMPO FM0830 -TSRA RMK RWY24 VRB03KT RPLC 300800Z 34004KT 9999 FEW020 BKN090 30/24 Q1010 NOSIG RMK A2982 LTFK 300750Z 36010KT 9999 FEW025 27/19 Q1015 GMTA 300800Z 02006KT CAVOK 24/21 Q1016 NOSIG ROTM 300658Z 15008KT 9999 VCSH BKN030 BKN150 32/26 A2995 RMK SLP126 T2 T03160256 RPLI 300800Z 12010KT 8000 TS -SHRA SCT018CB SCT019 BKN100 27/24 Q1009 RMK A2980 CB NE-SW FWKI 300800Z 12007KT 9999 FEW022 19/11 Q1028 NOSIG RPLL 300800Z VRB03KT 9999 SCT023 BKN100 32/24 Q1008 NOSIG RMK A2977 RPMD 300800Z 18008KT 9999 SCT015CB SCT090 BKN290 30/24 Q1008 A2977 CB NE -SE SW-NW FVTL 300400Z 00000KT CAVOK 06/05 Q1027 GMTN 300800Z 24006KT 190V350 7000 NSC 25/19 Q1016 NOSIG HEMA 300600Z 32021KT CAVOK 35/14 Q1008 NOSIG GMTT 300800Z 22009KT 6000 SCT016 BKN200 23/17 Q1018 NOSIG HEMM 300700Z 36010KT 9999 SCT020 26/21 Q1014 NOSIG BIHN 300800Z 02002KT 7000 -RADZ BR FEW008 BKN015 OVC025 10/// Q0999 HELX 300700Z 00000KT CAVOK 36/16 Q1010 NOSIG RPMZ 300800Z 04005KT 010V090 9999 FEW018CB BKN300 32/24 Q1009 A2980 CB NW NCAI 300500Z AUTO 11008KT //// ///// 23/18 Q1017 FVWN 300600Z 12004KT CAVOK 12/06 Q1026 MKJP 300800Z 04007KT 9999 FEW024 28/23 Q1014 MKJS 300800Z VRB01KT 9999 FEW022 26/23 Q1013 YCUN 300800Z AUTO 00000KT //// // ////// 16/05 Q1025 BIIS 300800Z 05003KT 9999 FEW050 10/07 Q1000 LUBL 300800Z AUTO 34009KT 310V070 9999 ///044 26/16 Q1015 YDLQ 300800Z AUTO 26012KT //// // ////// 08/07 Q1012 GOGG 300800Z VRB02KT 9999 BKN016 BKN230 26/25 Q1015 BIKF 300800Z 23004KT 190V290 CAVOK 11/08 Q0999 GOGK 300600Z VRB02KT 8000 BKN016 27/25 Q1013 HEPS 300700Z 32004KT 9999 FEW025 28/23 Q1012 NOSIG GOGS 300800Z 28002KT 9999 SCT015 BKN130 27/25 Q1015 YCWR 300800Z AUTO 34008KT //// // ////// 08/04 Q1015 HESC 300700Z 00000KT CAVOK 26/09 Q1021 NOSIG HESG 300600Z 32006KT CAVOK 33/12 Q1010 NOSIG HESH 300700Z 01014KT CAVOK 33/16 Q1009 NOSIG HESN 300700Z 01009KT CAVOK 35/11 Q1010 NOSIG LSZA 300750Z 20004KT 150V220 9999 SCT060 BKN100 23/19 Q1017 NOSIG LSZB 300750Z AUTO VRB01KT 9999 BKN032 SCT037 BKN042 19/16 Q1017 RPVD 300800Z 04008KT 9999 FEW014CB SCT015 BKN080 30/27 Q1008 A2977 CB NE W/ DSTNT PCPN LSZC 300750Z 06005KT 6000 SCT018 SCT060 19/17 Q1017 LSZG 300750Z 09005KT 9999 SCT010 BKN045 19/18 Q1017 NOSIG LSZH 300750Z 16003KT 140V200 9999 FEW008 BKN042 18/16 Q1018 TEMPO SHRA HETR 300800Z 31018KT CAVOK 29/23 Q1009 RPVM 300700Z 04007KT 9999 SCT018CB 32/25 Q1008 A2979 CB SSE S THRU W AND NNW LSZL 300750Z AUTO 00000KT 9999NDV SCT056 SCT089 21/18 Q1016 RMK RPVP 300800Z 32010KT 9999 FEW017CB SCT019 BKN240 30/24 Q1009 A2979 RMK CB N-NNE AND SSE LSZR 300750Z 30006KT 9999 FEW020 SCT050 BKN170 19/17 Q1017 NOSIG RMK E LSZS 300750Z 17003KT 130V210 9999 SCT050 SCT080 15/10 Q1022 MMAA 300742Z 33006KT 7SM FEW015CB SCT080 BKN300 27/23 A2989 RMK 8/963 HZY FQT LTGIC E-S FXMM 300600Z 00000KT 9999 BKN/// 02/M01 Q1029 NOSIG YELD 300800Z AUTO 11009KT //// // ////// 29/20 Q1012 CAHR 300800Z AUTO 18012G18KT 19/17 RMK AO1 PK WND 18018/0743 SLP115 T01870168 56017 BIRK 300800Z 30004KT 9999 FEW025 SCT200 11/06 Q0999 GOOD 300600Z 00000KT 8000 NSC 26/24 Q1013 MMAN 300440Z 13005KT 10SM SKC 26/16 A3002 YFBS 300800Z AUTO 36009KT //// // ////// 07/06 Q1016 GOOG 300600Z 08010KT 7000 TSRA 27/22 Q//// MMAS 300447Z 08006KT 10SM SKC 20/04 A3025 RMK DSNT CB SW-W OCNL LTGICC MMCB 292349Z 00000KT 10SM SCT020CB SCT100 BKN250 27/14 A3002 RMK 8/963 LUKK 300800Z 35012KT 310V010 9999 FEW029 26/18 Q1013 R08/CLRD// NOSIG GOOK 300600Z 28008KT CAVOK 27/24 Q1013 FYGB 300800Z AUTO 05007KT //// // ////// 20/01 Q1029 YFDF 300800Z AUTO 16008KT 9999 // SCT025 BKN058 OVC074 15/13 Q1019 MMCE 300044Z 02010KT 6SM SCT090 BKN300 30/23 A2991 RMK 8/068 CB SE HZY CBBC 300819Z AUTO 17004KT 5SM HZ BKN011 OVC016 13/ A3020 RMK TD MISG SLP229 FYGF 300800Z AUTO 09005KT //// // ////// 19/03 Q1029 YEML 300800Z AUTO 18001KT 9999 // NCD 17/10 Q1020 MMBT 292341Z 00000KT 7SM BKN150 29/20 A2987 RMK 8/030 HZY MMCL 300440Z 07010KT 10SM -RA OVC080 29/22 A2991 RMK 8/07/ -RA B33 MMCM 300241Z 12005KT 7SM SCT020 SCT090 29/24 A2999 RMK 8/520 MMCN 300141Z 09008KT 10SM FEW030 BKN100 BKN200 29/21 A2980 RMK 8/463 HZY MMCP 300341Z 14005KT 7SM BKN080 27/24 A2997 RMK 8/030 GOOY 300800Z 33003KT 9999 SCT006 25/23 Q1015 NOSIG MMCS 300243Z 10012KT 10SM SCT200 32/15 A3000 RMK SLP046 52003 975 8/004 ISOL AC MMCT 292040Z 10010KT 8SM SCT020 35/21 A2993 RMK 8/400 MSGTX MMMD MMCU 300342Z 26005KT 10SM BKN030 BKN080 BKN200 23/16 A3016 RMK 8/463 CB VC MMCV 300543Z 16010KT 10SM SKC 27/20 A2999 RMK SLP147 52011 907 MMDO 300750Z 00000KT 10SM FEW200 19/14 A3025 RMK 8/001 ISOL SC RTS MMCZ 300741Z 00000KT 7SM SCT250 22/22 A2998 RMK 8/005 FZAA 300700Z 20002KT 3000 BR BKN014 24/21 Q1017 NOSIG BIVM 300800Z 26002KT 9999 FEW020 SCT045 11/08 Q0998 MMEP 300240Z 02005KT 10SM SCT010 20/17 A3004 RMK SLP167 52026 905 8/500 GOSM 300600Z 34004KT 9999 SCT016 31/24 Q1012 GOSP 300600Z 08014KT 9999 RA OVC132 26/23 Q1016 GOSS 300800Z 08006KT 010V120 9999 -RA FEW006 BKN130 26/24 Q1018 GOTK 300600Z 18004KT 9999 BKN013 FEW030CB 27/24 Q1014 MMGL 300745Z 18010KT 10SM SCT080 16/13 A3021 RMK 8/030 LTGCG/N/NW/SW OCNL DROPS MMGM 300140Z 20007KT 10SM BKN160 32/25 A2976 RMK 8/020 HZY MMIA 300341Z 00000KT 8SM SCT020 SCT150 24/22 A3002 RMK 8/460 YERN 300800Z AUTO 16008KT //// // ////// 17/07 Q1022 GOTT 300700Z 21006KT 8000 -RA BKN016 27/24 Q1015 MMHO 300740Z 14006KT 10SM OVC080 26/23 A2992 RMK 8/06/ HZY NCRG 300800Z 11006KT 9999 SCT015 22/18 Q1019 FYML 300800Z AUTO 02008KT //// // ////// 19/M00 Q1026 YESP 300800Z AUTO 23009KT 9999 // NCD 15/09 Q1024 MMIO 300640Z 00000KT 10SM SKC 20/14 A3024 YGBI 300800Z AUTO 07007KT //// // ////// 29/22 Q1012 FYLZ 300800Z AUTO 23003KT //// // ////// 12/06 Q1019 FYOA 300800Z 05004KT CAVOK 21/03 Q1024 YFLI 300800Z AUTO 34009KT 9999 // OVC046 12/06 Q1005 MNBL 292300Z 04004KT 5000 -TSRA SCT016CB BKN020 27/25 Q1010 CB 4/C YGDH 300800Z AUTO 34007KT //// // ////// 11/05 Q1019 FYOO 300800Z AUTO 07007KT //// // ////// 20/03 Q1025 MNCH 292300Z 09006KT 9999 FEW024CB SCT300 35/22 Q1008 CB N NE TCU S MMMA 300143Z 11007KT 7SM FEW025 BKN200 29/25 A2992 RMK 8/108 HZY MMLM 300345Z 24004KT 10SM SCT130 BKN220 30/22 A2986 RMK 8/038 MMMD 300753Z 10005KT 7SM SKC 25/23 A2996 MMLO 300546Z 00000KT 8SM SKC 19/07 A3029 RMK SLP117 52014 957 FYOW 300800Z AUTO 06005KT //// // ////// 21/03 Q1025 MMLP 300441Z 20006KT 10SM SKC 26/14 A2991 RMK ISOL AC/CI YGEL 300800Z AUTO 11009KT 9999 // NCD 19/10 Q1022 MMLT 300047Z 14005KT 8SM FEW050 SCT150 BKN240 33/21 A2977 RMK 8/271 MMML 300740Z 13013KT 10SM FEW160 30/21 A2976 RMK 8/030 MMMM 300641Z 24006KT 7SM SCT030 SCT070 BKN230 17/12 A3025 RMK 8/468 MMMT 300058Z RTD 36010KT 10SM SCT020 28/20 A2986 RMK 8/100 MMNL 300047Z 12004KT 10SM SCT100 BKN200 33/20 A2989 RMK 8/063 ISOL CU YGFN 300800Z AUTO 00000KT 9999 // NCD 14/06 Q1019 MMMV 292343Z 01010KT 10SM BKN060 BKN200 27/19 A2999 RMK 8/502 SKBG 300500Z 31003KT 9999 FEW010 BKN070 20/18 A2998 RERA MMMX 300743Z 20002KT 12SM SCT080 BKN200 14/10 A3034 NOSIG RMK 8/032 MMMY 300742Z 09004KT 15SM SKC 24/19 A2999 SKAR 300600Z 00000KT 9999 FEW025 SCT100 20/20 A3005 MMMZ 300742Z 00000KT 10SM SCT090 OVC230 27/24 A2985 RMK 8/067 HZY BINOVC MMPA 300045Z 12008KT 5SM SCT100 BKN290 29/24 A2996 RMK 8/063 HZY DSTN SW CB DSIPTG MMPB 300148Z 28006KT 8SM RA BKN015CB OVC080 13/11 A3034 RMK 6//// 8/36/ -RAE20 RAB21 SKCC 300500Z 18012KT 9999 SCT022 SCT090 26/20 A2994 FYRU 300800Z AUTO 12003KT //// // ////// 19/06 Q1028 MMPE 291457Z RTD 10007KT 10SM OVC160 32/21 A2986 RMK 8/02/ BINOVC HZY SKBO 300800Z 030003T 9999 FEW017 BKN070 11/10 A3032 REDZ SKCG 300800Z 35003KT CAVOK 27/26 A2973 METAR SKBQ 300800Z 01003KT 9999 FEW015 28/25 A2975 MMPG 300040Z 09008KT 10SM FEW040 36/19 A2991 RMK 8/200 SKBQ 300800Z 01003KT 9999 FEW015 28/25 A2975 SKCL 300800Z 00000KT 9999 SCT030 SCT100 22/20 A2992 MMPN 292344Z 00000KT 10SM SCT250 22/16 A3011 RMK SLP/// 5//// 9// 6//// 8/003 HZY CB ARND MMOX 300145Z 13005KT 7SM BKN030 OVC100 22/10 A3020 RMK 8/77/ BINOVC MMPQ 300359Z RTD 10004KT 3SM DZ OVC065 24/22 A2997 RMK 8/7// DZ MSGTX MMMD MMPR 300741Z 05002KT 12SM SKC 26/25 A2987 MMPS 300045Z 00000KT 10SM SCT070 OVC220 29/23 A2994 RMK 8/063 HZY YHBA 300800Z AUTO 09005KT 9999 // ////// 17/14 Q1020 SKEJ 292300Z 12006KT 9999 FEW015 SCT200 31/25 A2971 YFRT 300800Z AUTO 22007KT //// // ////// 17/07 Q1023 MMQT 300745Z 07007KT 7SM SCT020 16/12 A3034 RMK 8/400 BKPR 300800Z VRB01KT 9999 FEW040 24/14 Q1019 NOSIG FYWB 300800Z 01006KT 0500 FG OVC003 11/10 Q1019 REFG MMSD 300440Z 33007KT 10SM SKC 29/18 A2989 MNJG 292300Z 36004KT 5000 BKN016 25/18 Q1011 BR YGLA 300800Z AUTO 11004KT 9999 // BKN081 19/14 Q1020 YGLB 300800Z AUTO 31013KT //// // NCD 05/01 Q1013 FYWH 300800Z 00000KT CAVOK 17/00 Q1029 NOSIG TAPA 300800Z 10010KT 9999 SCT017 27/22 Q1017 NOSIG GQNI 291500Z 28008KT 8000 SCT040TCU 41/17 Q1010 MMSL 300143Z 23012KT 9SM SKC 28/13 A2989 RMK ISOL CI MMTC 300341Z 00000KT 10SM SCT030 SCT100 28/15 A3007 RMK 8/460 ISOL CI MMRX 300648Z 15003KT 8SM SKC 24/22 A2995 RMK HZY FU YGLI 300800Z AUTO 30006KT 9999 // NCD 06/01 Q1020 MMTG 300340Z 23005KT 8SM SCT080 BKN300 25/21 A2998 RMK 8/038 CB DSTNTS GQNO 300630Z 26004KT 7000 NSC 24/21 Q1012 NOSIG MMSP 300742Z 09008KT 10SM SKC 16/09 A3028 MMTJ 300744Z 34006KT 5SM SKC 18/14 A2991 RMK HZY GQPA 291200Z 02010KT 8000 NSC 41/12 Q1016 MNJU 292300Z 07004KT 8000 VCRA FEW020 BKN080 29/25 Q1011 RESHRA RA E MMTM 300447Z 12005KT 10SM SKC 28/24 A2998 RMK CU YFTZ 300800Z AUTO 09006KT //// // ////// 33/03 Q1013 FYWW 300800Z 00000KT CAVOK 18/M00 Q1029 MMTO 300740Z 25005KT 4SM SCT015 OVC070 10/09 A3041 RMK 8/57/ HZ MMTP 300643Z 09006KT 10SM SKC 25/23 A2986 YGLS 300800Z 13007KT CAVOK 20/05 Q1021 SKIB 300100Z 32004KT 9999 FEW030 BKN100 25/20 A3004 MMVA 300442Z 08010KT 7SM FEW015 OVC060 24/21 A2999 RMK 8/72/ FZQA 300500Z 09006KT CAVOK 13/10 Q1024 NOSIG K06D 300755Z AUTO 01012KT 10SM BKN009 BKN013 12/12 A3016 RMK AO2 K04V 300815Z AUTO 34007KT 10SM CLR 11/05 A3040 RMK AO2 MMUN 300740Z 30002KT 7SM FEW015 24/24 A2998 RMK 8/500 K04W 300813Z AUTO 00000KT 10SM CLR 12/12 A2996 RMK AO2 MNMG 300800Z 08006KT 9999 BKN020 27/23 Q1010 A2984 NOSIG GQPP 300800Z 35011KT 8000 NSC 21/18 Q1015 NOSIG K05U 300815Z AUTO 00000KT 10SM 17/07 A3018 RMK A01 SKIP 292300Z 08005KT 9999 VCSH BKN016 SCT070 11/08 A3039 RMK VCSH/E/N GQPZ 291200Z 06004KT CAVOK 36/10 Q1016 MMVR 300441Z 30003KT 7SM SCT012 26/24 A3002 RMK 8/100 HZY SLAL 292300Z 29012KT 9999 NSC 15/M05 Q1028 K08D 300815Z AUTO 04006KT 10SM SCT043 14/14 A3018 RMK AO2 LWOH 300800Z 16003KT CAVOK 21/15 Q1019 SLCA 292300Z 00000KT 9999 OVC030 14/12 Q1018 SLCB 300700Z 00000KT 9999 NSC 07/M00 Q1026 SKLC 300200Z 04003KT 9999 FEW017 SCT200 28/27 A2980 LXGB 300750Z 26009KT 9999 FEW018 23/20 Q1017 NOSIG MNPC 292300Z 06020KT 3000 -SHRA FEW014CB BKN016TCU 29/26 Q1010 CB S TCU NE E SE NFFN 300800Z 15006KT 9999 FEW028 SCT050 BKN120 25/21 Q1013 NOSIG YHID 300800Z AUTO 13015KT 9999 // SCT038 SCT043 BKN049 27/20 Q1013 SKMD 292300Z 09010KT 9999 FEW035 BKN200 27/12 A3006 MMZC 300543Z 11007KT 8SM SKC 18/07 A3030 SLCO 300000Z 00000KT 3000 FU FEW080 24/21 Q1015 SLCP 292200Z 36008KT 9999 NSC 26/17 Q1017 MMZH 300145Z 10002KT 6SM SCT020 SCT100 BKN250 28/24 A2985 RMK 8/462 HZY TCU NW SKLT 300800Z 00000KT CAVOK 23/22 A2988 MMZO 300142Z 36008KT 10SM BKN100 BKN250 27/24 A2980 RMK 8/036 HZY SKMR 300200Z 00000KT CAVOK 28/26 A2978 K11R 300815Z AUTO 00000KT 10SM CLR 25/24 A2995 RMK AO2 T02470239 YGTE 300800Z AUTO 14007KT 9999 // NCD 26/19 Q1014 YGTH 300800Z AUTO 33011KT 9999 // SCT044 BKN054 BKN066 12/07 Q1013 K12N 300754Z AUTO 00000KT 13/13 A3001 RMK AO1 SLP158 T01330128 SKMZ 292300Z 00000KT 9999 SCT100 20/13 A3023 YHLC 300800Z AUTO 10006KT //// // ////// 29/29 Q1016 MNRS 292300Z 08004KT 9999 SCT013CB BKN060 27/26 Q1009 CB 4/C SLET 292300Z 33010KT 9999 NSC 21/18 Q1014 TBPB 300800Z 05009KT 9999 BKN018 26/23 Q1014 NOSIG SKPC 292300Z 06004KT 9999 -DZ SCT017 BKN070 27/24 A2979 LWSK 300800Z 00000KT CAVOK 25/15 Q1017 NOSIG YGTN 300800Z AUTO 19003KT 9999 // NCD 25/05 Q1017 SKNV 300400Z 16007KT 9999 FEW035 BKN110 28/18 A2995 SKPE 300600Z 10004KT 9999 FEW015 SCT080 21/16 A3003 LYBE 300800Z VRB02KT 9999 FEW033 27/17 Q1017 NOSIG MPBO 300100Z VRB02KT 9999 SCT018 BKN090 Q1012 SKPS 292300Z 00000KT 9999 SCT025 22/11 A3011 YHML 300800Z AUTO 30018KT 9999 // SCT035 BKN057 BKN076 07/04 Q1007 MPDA 300300Z 00000KT(E) 9999 FEW015 OVC250 ///// Q1009=+ LYBT 300800Z VRB02KT CAVOK 27/18 Q1016 NOSIG SKPV 300000Z 02004KT 9999 FEW017 SCT080 29/26 A//// SKRG 300800Z 23003KT 9999 BKN015 SCT080 14/13 A3028 SKRH 300000Z 06012KT CAVOK 31/24 A2979 K14Y 300818Z AUTO 00000KT 10SM CLR 13/12 A2997 RMK AO2 SKSA 292300Z 00000KT 9000 OVC030 27/26 A2990 RMK VCSH SE S SW NFNA 300800Z 00000KT 9999 SCT020 BKN050 25/24 Q1013 K0A9 300815Z AUTO 00000KT 10SM SCT060 OVC070 16/15 A3004 RMK AO2 SLJE 292200Z 00000KT 9999 NSC 27/23 Q1017 K18A 300755Z AUTO 00000KT 10SM CLR 22/20 A2997 RMK AO2 T02160200 SKSM 300400Z 00000KT 9999 FEW020 SCT200 30/25 A2976 YHOO 300800Z AUTO 11009KT //// // ////// 29/M09 Q1016 SLJO 292200Z 00000KT 9999 NSC 29/21 Q1013 SKSP 300800Z 05009KT 9999 FEW014 BKN080 26/25 A2985 RERA SKUC 300400Z 00000KT 9999 FEW005 SCT015 24/24 A3000 TDCF 300000Z 17003KT 9999 FEW026 28/19 Q1015 SKUI 300200Z 22005KT 9999 BKN020 27/26 A2979 NGFU 300800Z 00000KT 9999 FEW020 29/25 Q1010 K0E0 300815Z AUTO 14006KT 10SM SCT110 20/07 A3027 RMK AO2 T02030066 K21D 300814Z AUTO 00000KT 10SM CLR 14/12 A2998 RMK AO2 SLMG 292300Z 00000KT 9999 FEW020 BKN200 27/22 Q1014 SLLP 300800Z 01006KT 9999 NSC 01/M05 Q1038 YJAB 300800Z AUTO 10008KT //// // ////// 32/15 Q1012 K20U 300755Z AUTO 00000KT 10SM SCT100 13/13 A3018 RMK AO2 K20V 300815Z AUTO 36003KT 10SM CLR 11/06 A3039 RMK AO2 K0F2 300815Z AUTO 00000KT 10SM CLR 21/19 A3000 RMK AO2 T02120190 SKVP 300100Z 06007KT 9999 FEW020 BKN200 32/23 A2983 K0CO 300816Z AUTO 35015KT 10SM SCT080 OVC110 05/M01 A3068 RMK AO2 YHSM 300800Z AUTO 29012KT 9999 // NCD 06/04 Q1010 SKVV 292300Z 00000KT 9999 SCT017 BKN090 24/21 A2995 K22N 300815Z AUTO 00000KT 5SM BR CLR 12/12 A3004 RMK AO2 HKEL 300800Z 00000KT 9999 BKN019 19/12 YHUG 300800Z AUTO 23007KT //// // ////// 22/M02 Q1018 NFTF 300800Z 00000KT 9999 SCT014 22/21 Q1017 SLOR 292000Z 29006KT 9999 SCT017 11/00 Q1036 K24J 300815Z AUTO 00000KT 24/24 A2998 RMK AO1 NFTL 300600Z 09008KT 9999 FEW010 SCT018 BKN100 25/22 Q1015 SLPO 292100Z 24012KT 9999 NSC 12/M05 Q1033 SLPS 292300Z 09004KT 9999 NSC 21/18 Q1016 SLRB 292300Z 00000KT 9999 NSC 24/21 Q1018 NFTV 300600Z 06008KT 9999 FEW017 SCT130 25/21 Q1015 LYKV 300800Z VRB02KT CAVOK 24/20 Q1017 NOSIG MPMG 300300Z 00000KT 9999 FEW020 27/26 Q1010 NOSIG K0J4 300758Z AUTO 00000KT 10SM CLR 23/22 A2996 RMK AO2 RAB39E50 SLP141 P0000 T02280217 SLRI 292300Z 00000KT 9999 NSC 27/21 Q1014 K1A5 300755Z AUTO 00000KT 10SM BKN065 BKN090 16/15 A3006 RMK AO2 T01620150 SLSA 292300Z 00000KT 9999 NSC 25/22 Q1014 K1A6 300815Z AUTO 00000KT 10SM CLR 14/14 A3006 RMK AO2 T01430141 K1A9 300815Z AUTO 00000KT 10SM SCT095 22/21 A2991 RMK AO2 T02180210 SLRQ 292200Z 00000KT 9999 FEW017 BKN200 25/22 Q1014 SLSI 292300Z 00000KT 9999 NSC 25/21 Q1015 LYNI 300800Z 18001KT 9999 FEW040 25/18 Q1017 NOSIG K1B7 292137Z 00000KT 10SM CLR BLW120 29/24 A2994 RMK LAST SLRY 292200Z 00000KT 9999 NSC 24/22 Q1015 SMJP 300800Z 08001KT 9999 FEW045 24/23 Q1013 NOSIG SLTJ 300200Z 00000KT 9999 NSC 11/00 Q1020 MPPA 300300Z 34006KT 9999 FEW020 25/23 Q1010 HKJK 300800Z 19003KT 9999 BKN021 19/13 Q1026 K1AM 300758Z AUTO 15014G18KT 10SM CLR 18/11 A3015 RMK AO2 LTG DSNT SW SLP132 T01750114 $ K1AN 300556Z AUTO 04006KT 10SM SCT065 14/13 A3006 RMK AO2 SLP196 T01380127 10230 20135 402820124 50014 $ LYPG 300800Z VRB03KT 9999 FEW040 29/16 Q1015 NOSIG SLTR 292300Z 00000KT 9999 NSC 25/20 Q1014 HKKI 300700Z 00000KT 9999 FEW020CB BKN100 24/18 Q1022 K1BM 300758Z AUTO 07004KT 10SM CLR 14/11 A3016 RMK AO2 LTG DSNT SE SLP190 T01400108 $ K1AW 300758Z AUTO 15003KT 10SM BKN130 15/11 A3019 RMK AO2 SLP164 T01450114 $ K1BN 300556Z AUTO 14003KT 10SM FEW110 15/14 A3010 RMK AO2 SLP193 T01470136 10259 20145 402660145 50007 $ ZBAA 300800Z 11003MPS 060V140 9999 FEW050TCU 32/18 Q1001 NOSIG LZIB 300800Z VRB03KT CAVOK 25/18 Q1015 NOSIG SLVM 292000Z 36007KT 9999 SCT015 OVC070 16/11 Q1015 K1F0 300750Z AUTO 00000KT 10SM CLR 20/18 A3000 RMK AO2 K1CM 300758Z AUTO 11002KT 10SM CLR 15/10 A3018 RMK AO2 LTG DSNT SE SLP191 T01460104 $ K1BW 300758Z AUTO 16006KT 10SM BKN170 14/12 A3020 RMK AO2 SLP165 T01440115 $ K1CN 300556Z AUTO 04005KT 10SM FEW065 13/13 A3011 RMK AO2 SLPNO T01310126 10261 20131 402690116 51014 $ SLVR 300800Z 33007KT 9999 NSC 18/17 Q1014 HKML 300800Z 18016KT 9999 SCT022 28/21 Q1019 K1DM 300758Z AUTO M 10SM BKN130 16/12 A3012 RMK AO2 LTG DSNT S SLP185 T01580117 $ K1CW 300758Z AUTO 15007KT 10SM FEW180 14/13 A3018 RMK AO2 SHRAE02 SLP168 T01420127 $ K1DN 300556Z AUTO 08006KT 10SM SCT120 15/14 A3010 RMK AO2 SLPNO T01480139 10211 20145 402450144 51011 PWINO $ HKMO 300800Z 20007KT 9999 BKN022 27/21 Q1020 NOSIG GUCY 300700Z 00000KT 9999 SCT015 BKN110 24/24 Q1015 NOSIG SLYA 292300Z 00000KT 9999 SCT070 10/09 Q1016 YJLC 300800Z AUTO 20004KT //// // ////// 22/M02 Q1018 NGTA 300600Z 26004KT 9999 BKN016 BKN300 27/24 Q1008 TDPD 300000Z 12004KT 9999 SCT019 28/22 Q1018 MPSM 300300Z 34006KT 9999 FEW020 OVC090 28/24 Q1009 K1H2 300815Z AUTO 00000KT 10SM CLR 14/13 A3008 RMK AO2 T01430133 K1EM 300758Z AUTO 08010KT 10SM SCT130 15/12 A3016 RMK AO2 SLP197 T01500119 $ CERM 300800Z AUTO 29003KT 15/14 RMK AO1 SLP103 T01480135 53002 K1DW 300758Z AUTO 08007KT 10SM BKN180 14/12 A3021 RMK AO2 SLP168 T01360124 $ K1EN 300756Z AUTO 03008KT 10SM CLR 13/12 A3010 RMK AO2 SLP199 T01300124 $ K0R0 300815Z AUTO 00000KT 6SM BR CLR 21/20 A2999 RMK AO2 K33V 300815Z AUTO 12006KT 7SM CLR 08/07 A3041 RMK AO2 K1FM 300758Z AUTO 01009KT 10SM CLR 14/09 A3017 RMK AO2 LTG DSNT E SLP191 T01390090 $ HKNW 300700Z 18002KT 999 BKN018 17/13 Q1026 MPTO 300800Z 00000KT 9999 FEW018 25/24 Q1008 NOSIG K1EW 300758Z AUTO 06005KT 10SM OVC150 14/12 A3020 RMK AO2 SHRAE02 SLP170 T01440124 $ K0R4 300815Z AUTO 00000KT 10SM CLR 23/22 A2997 RMK AO2 T02260220 NGTT 300800Z VRB01KT 9999 FEW018 SCT040 BKN300 26/24 Q1009 K1J0 300258Z AUTO 00000KT 10SM CLR 24/23 A2998 RMK AO2 SLP111 T02440228 51012 $ YIVO 300800Z AUTO 35007KT //// // ////// 13/08 Q1014 LYTV 300800Z VRB02KT CAVOK 28/17 Q1015 NOSIG K1FW 300758Z AUTO 08006KT 10SM SCT140 14/12 A3017 RMK AO2 SHRAE0659 SLP163 T01400120 TSNO $ LZKZ 300800Z VRB02KT CAVOK 25/15 Q1017 NOSIG K0S9 300815Z AUTO 00000KT SCT032 12/10 A3018 RMK AO2 K1K1 300815Z AUTO 19006KT 10SM CLR 23/18 A2998 RMK AO2 T02250180 K1HM 300758Z AUTO 09006KT 10SM FEW090 17/10 A3013 RMK AO2 LTG DSNT S SLP171 T01670100 $ K1GW 300758Z AUTO 06016G22KT 10SM BKN130 16/14 A3013 RMK AO2 LTG DSNT NE TSB27E44 PRESFR SLP158 T01620138 $ K1HN 300556Z AUTO 23001KT 10SM SCT100 13/11 A3011 RMK AO2 LTG DSNT W SLP201 T01250113 10236 20124 402820124 52011 $ LYUZ 300800Z 05004KT 9999 FEW020 21/15 Q1019 LYVR 300800Z VRB03KT CAVOK 27/17 Q1016 NOSIG K1II 300815Z AUTO 00000KT 10SM CLR 11/11 A3008 RMK AO2 K1L0 300815Z AUTO 00000KT 5SM BR CLR 25/24 A2993 RMK AO2 T02470236 GVAC 300800Z 04010KT 9999 BKN015 23/19 Q1016 NOSIG K36U 300815Z AUTO 00000KT 10SM CLR 12/11 A3021 RMK AO2 K1IM 300758Z AUTO 13008KT 10SM FEW130 16/11 A3012 RMK AO2 LTG DSNT SW SLP182 T01550110 $ K1HW 300758Z AUTO 08013G18KT 10SM SCT130 BKN180 16/15 A3015 RMK AO2 LTG DSNT E TSE05TSB21E42 PRESFR SLP171 T01600145 $ K1IN 300756Z AUTO 03009KT 10SM CLR 13/12 A3015 RMK AO2 SLP210 T01250116 $ SOCA 300800Z AUTO 00000KT 1800 BR VV/// 22/22 Q1013 TEMPO 3000 SHRA FEW013TCU GVBA 300800Z 04010KT 9999 BKN015 23/19 Q1017 NOSIG K2C8 300815Z AUTO 35010G15KT 10SM CLR 14/13 A3009 RMK AO2 K40B 300819Z AUTO 00000KT 13/12 A2987 RMK AO1 SLP114 T01260125 55000 K1JM 300758Z AUTO 05009KT 10SM CLR 16/11 A3013 RMK AO2 LTG DSNT SW SLP182 T01600108 $ ZBHH 300800Z 32005MPS 280V360 9999 FEW040 25/11 Q1009 NOSIG K1IW 300758Z AUTO 03015G19KT 10SM BKN160 17/14 A3015 RMK AO2 TSB27E42 SLP166 T01650137 $ K1M4 300756Z AUTO 01004KT 10SM CLR 18/16 A3005 RMK AO2 SLP180 T01780156 TSNO K0V4 300815Z AUTO 03005KT 10SM SCT048 19/17 A3003 RMK AO1 T01850167 K2D5 300815Z AUTO RMK AO2 PWINO PNO TSNO K40J 300815Z AUTO 00000KT 10SM SCT024 SCT032 SCT060 25/23 A2996 RMK AO2 LTG DSNT W T02480227 K1JW 300758Z AUTO 03012KT 10SM BKN160 16/14 A3015 RMK AO2 LTG DSNT NE RAE01SHRAB01E13 SLP160 T01600139 $ LZPP 300800Z VRB03KT CAVOK 27/15 Q1016 K1LM 300758Z AUTO 18008G12KT 10SM FEW240 16/10 A3021 RMK AO2 LTG DSNT S SLPNO T01600098 $ HLLM 300750Z 11007KT 8000 SKC 30/17 Q1015 K1KW 300758Z AUTO 06007KT 10SM BKN170 16/13 A3014 RMK AO2 SHRAE05 SLP157 T01580131 $ K1LN 300556Z AUTO 07005KT 10SM BKN046 14/13 A3014 RMK AO2 SLP205 T01370132 10210 20133 402610105 52014 $ AYGN 292200Z 14005KT 9999 SCT017 BKN030 24/23 Q1016 RESH K0VG 300755Z AUTO RMK AO2 YLBD 300800Z AUTO 08005KT 9999 // NCD 30/16 Q1012 K42J 300815Z AUTO 00000KT 9SM CLR 23/23 A2997 RMK AO1 TSNO MSAC 300550Z 09005KT 8000 BKN037 27/24 Q1010 A2984 K1P1 300815Z AUTO 29004KT 10SM CLR 16/14 A2993 RMK AO2 T01580138 K1MM 300758Z AUTO 15002KT 10SM CLR 16/10 A3017 RMK AO2 LTG DSNT S SLP187 T01560101 $ TFFF 300800Z AUTO 07005KT 9999 FEW028 SCT058 26/21 Q1016 K1LW 300758Z AUTO M 10SM SCT170 16/13 A3019 RMK AO2 SLPNO T01570131 $ K1MN 300556Z AUTO 04005KT 10SM BKN050 15/14 A3013 RMK AO2 SLP204 T01490138 10203 20135 402740117 52015 $ K2G4 300805Z AUTO 32003KT 10SM CLR 12/08 A3013 RMK AO1 K2DP 300756Z AUTO 35005KT 10SM OVC150 23/22 A2999 RMK AO2 LTG DSNT E SLPNO T02320216 $ K2G9 300815Z AUTO 22003KT 10SM CLR 10/09 A3011 RMK AO2 LZSL 300800Z VRB01KT 9999 FEW035 25/14 Q1017 K1NM 300758Z AUTO 28003KT 10SM FEW075 15/11 A3016 RMK AO2 LTG DSNT S SLP200 T01490107 $ K1MW 300758Z AUTO 04008KT 10SM CLR 17/12 A3015 RMK AO2 SLP165 T01720121 $ K1NN 300556Z AUTO 01002KT 10SM FEW060 14/13 A3014 RMK AO2 SLP204 60004 T01420131 10209 20142 402700120 52016 $ TFFR 300800Z AUTO 00000KT 9999 SCT026 BKN047 24/21 Q1017 NOSIG MRLB 300600Z 00000KT 9999 FEW030 BKN120 26/23 A2985 NOSIG K2I0 300815Z AUTO 00000KT 10SM CLR 15/14 A3005 RMK AO2 T01510140 K1OM 300758Z AUTO M 10SM FEW140 16/12 A3017 RMK AO2 SLP192 T01640119 $ K1ON 290856Z AUTO 07009KT M M M M A2978 RMK AO2 SLPNO PWINO $ K1NW 300758Z AUTO 06014G17KT 10SM SCT150 17/12 A3017 RMK AO2 SLP159 T01660119 TSNO $ YLEC 300800Z AUTO 23011KT //// // ////// 15/06 Q1018 K1R7 300815Z AUTO 00000KT 10SM CLR A2997 RMK AO2 LZTT 300800Z VRB03KT 9999 FEW056 24/12 Q1018 NOSIG MRLM 292000Z 33004KT CAVOK 30/24 A2978 YKMP 300800Z AUTO 24005KT 200V270 //// // ////// 12/08 Q1018 SMZO 300000Z 10002KT CAVOK 27/25 Q1014 NOSIG K46D 300815Z AUTO 01008KT 10SM BKN100 16/14 A3011 RMK AO2 K1OW 300758Z AUTO 04007KT 10SM SCT140 15/12 A3020 RMK AO2 SLP165 T01460117 PWINO $ K1S5 300815Z AUTO 21007KT 10SM CLR 21/08 A2994 RMK AO2 T02110078 K2J9 300755Z AUTO 00000KT 22/22 A2997 RMK AO1 YLEO 300800Z AUTO 14006KT 9999 // BKN051 OVC105 17/05 Q1023 YKNT 300800Z AUTO 12006KT //// // ////// 25/06 Q1018 MROC 300800Z 10008KT CAVOK 22/17 A2996 NOSIG K46U 300800Z AUTO 13009KT 10SM SCT110 18/08 A3022 RMK A01 AYMO 292100Z 260008KT 9999 BKN018 OVC140 26/24 Q1010 RMK K49A 300815Z AUTO 02003KT 10SM CLR A3003 RMK AO2 YKOW 300800Z AUTO 17005KT //// // NCD 26/14 Q1015 K3D2 300815Z AUTO 00000KT 10SM CLR 15/12 A2997 RMK AO2 T01490122 SPAY 291535Z VRB03KT 9999 SCT018 BKN060 23/20 Q1022 YLHI 300800Z AUTO 00000KT 9999 // NCD 11/10 Q1021 K1V4 300754Z AUTO 14/13 A2994 RMK AO1 SLP128 T01390128 K1V6 300810Z AUTO 26006KT 10SM CLR 18/11 A3022 RMK AO2 SPCL 300800Z 18002KT 9999 FEW017 22/21 Q1014 RMK PP000 K3AU 300815Z AUTO 23003KT 10SM CLR 21/18 A2998 RMK AO2 YLHR 300800Z AUTO 13009KT //// // SCT033 25/19 Q1014 LZZI 300800Z VRB02KT CAVOK 25/15 Q1016 YKSC 300800Z AUTO 26009KT 9999 // SCT045 OVC055 10/06 Q1016 AYNZ 300600Z 08019KT 9999 FEW018 SCT080 BKN140 28/21 Q1010 MRPV 300000Z 10007KT 9999 FEW030 BKN110 24/17 A3000 NOSIG YMBA 300800Z AUTO 10005KT //// // ////// 21/11 Q1019 YLIS 300800Z AUTO 04007KT 9999 // NCD 16/12 Q1019 ZBSJ 300800Z 07004MPS 6000 NSC 31/19 Q1001 NOSIG OAHR 300755Z 01019KT CAVOK 37/15 Q1009 RMK SKC VIS MIN 9999 BLU YMBD 300800Z AUTO 25009KT 9999 // NCD 10/04 Q1016 YKRY 300800Z AUTO 00000KT //// // ////// 13/07 Q1020 ZBTJ 300800Z 16002MPS 130V200 4500 HZ NSC 28/20 Q1002 NOSIG AYPY 300400Z 14016KT 9999 FEW020 30/23 Q1009 RMK YMAV 300800Z AUTO 32013KT 9999 // NCD 08/05 Q1006 OAKB 300750Z 36005KT CAVOK 35/05 Q1014 NOSIG RMK BLU BLU YMAY 300800Z AUTO 01012KT 9999 // SCT018 SCT029 BKN038 09/07 Q1011 GVNP 300800Z 02013KT 9999 FEW017 23/19 Q1016 NOSIG OBBI 300800Z 32015KT 9000 SKC 39/19 Q1000 NOSIG K54J 300815Z AUTO 00000KT 10SM SCT020 SCT030 24/24 A2995 RMK AO2 T02400238 SPGM 292100Z /////KT 9999 FEW040 30/20 Q1015 RMK BIRD HAZARD RWY19 TX/// PP000 YMCO 300800Z AUTO 32005KT //// // ////// 08/04 Q1008 NIUE 300300Z 08013KT 9999 FEW018 26/18 Q1014 YMDG 300800Z AUTO 35004KT //// // NCD 06/03 Q1017 MTCH 292200Z 05010KT 9000 SCT025CB BKN200 29/24 Q1015 A2997 RMK/CB/SSW/SSE/WNW SPHI 300800Z 18012KT CAVOK 17/16 Q1013 RMK PP000 SPHO 292300Z 07006KT CAVOK 20/11 Q1026 RMK PP000 MSLP 300750Z 07003KT 040V100 CAVOK 25/24 Q1010 A2984 YMEK 300800Z 07008KT 9999 FEW045 BKN105 20/07 Q1020 K4A6 300815Z AUTO 00000KT 10SM CLR 17/15 A3001 RMK AO2 K3J7 300815Z AUTO 00000KT 10SM CLR 22/22 A2994 RMK AO2 K4A7 300815Z AUTO 00000KT 10SM CLR 23/22 A2996 RMK AO2 T02310224 SPJC 300800Z 16006KT 9000 OVC016 17/15 Q1013 NOSIG RMK PP000 MSLU 292250Z 14006KT CAVOK 35/22 Q1007 A2974 YMEN 300800Z AUTO 35007KT 9999 // BKN100 OVC125 07/07 Q1007 K1YT 300758Z AUTO 07006G13KT 10SM M 21/06 A2998 RMK AO2 SLPNO T02090055 403550187 $ K4A9 300755Z AUTO 00000KT 10SM CLR 16/13 A3000 RMK AO2 K57C 300815Z AUTO 00000KT 10SM CLR 13/12 A3003 RMK AO2 T01250117 SPHY 291900Z 36009KT CAVOK 17/04 Q1038 RMK BIRD HAZARD RWY 03/21 PP000 K3K3 300815Z AUTO 16013G19KT 10SM CLR 21/13 A3001 RMK AO2 YMER 300800Z AUTO 35008KT 9999 // NCD 13/02 Q1009 YMES 300800Z AUTO 28003KT 9999 // BKN063 BKN072 OVC085 09/05 Q1007 SPJI 292100Z /////KT 9999 SCT040 32/24 Q1021 RMK TX32.4 PP000 YMGB 300800Z AUTO 11009KT //// // ////// 30/21 Q1012 OAMS 300750Z 29008KT 9999 FEW150 38/04 Q1006 BLU+ BLU+ YMGD 300800Z AUTO 07007KT 9999 // BKN063 OVC078 29/21 Q1012 SPJL 300200Z 10005KT CAVOK 05/M09 Q1040 RMK PP000 SPJR 292300Z 04010KT CAVOK 17/08 Q1028 RMK PP000 YMHB 300800Z 36007KT 9999 FEW030 SCT130 BKN160 11/06 Q1002 ZBYN 300800Z 25003MPS 200V290 9999 TS SCT040 SCT040CB 30/08 Q1003 BECMG TL0830 NSW AYWK 300600Z 00000KT 9999 TS FEW018CB SCT018 SCT040 OVC140 26/25 Q1009 RMKS K2V5 300715Z AUTO 29007KT 10SM CLR 17/12 A3011 RMK AO2 YMIA 300800Z AUTO 26007KT 9999 // SCT063 BKN077 BKN089 10/08 Q1014 YLRE 300800Z AUTO 25003KT 9999 // NCD 19/04 Q1019 SPME 300300Z 00000KT 9999 FEW025 24/22 Q1011 RMK BIRD HAZARD RWY 32/14 PP000 SPLO 292100Z 19003KT 5000 BR OVC010 18/16 Q1011 RMK TX PP000 GVSV 300800Z 06018KT 030V090 9999 FEW020 24/17 Q1016 NOSIG K4BM 300816Z AUTO 24007KT 10SM BKN120 08/03 A3062 RMK AO2 K3LF 300815Z AUTO 10004KT 10SM CLR 15/10 A3006 RMK AO2 T01530100 K2W6 300808Z AUTO 00000KT 10SM BKN065 BKN090 17/14 A3005 RMK AO1 YMHU 300800Z AUTO 11005KT 050V130 9999 // NCD 30/06 Q1015 K3N8 300814Z AUTO 33005KT 10SM SCT080 15/14 A2999 RMK AO2 YMIN 300800Z AUTO 25013KT //// // ////// 11/06 Q1017 SPMS 292300Z 09003KT CAVOK 30/23 Q1015 RMK BIRD HAZARD RWY 09/27 PP000 MSSA 292250Z 29007KT 9999 FEW037 FEW040CB 31/19 Q1015 A3000 RMK CB CALVUS NE/S YNAR 300800Z AUTO 36012KT //// // ////// 11/06 Q1013 YLST 300800Z AUTO 11007KT 9999 // NCD 19/07 Q1021 YLTN 300800Z AUTO 15003KT //// // ////// 18/07 Q1023 MSSM 292250Z 00000KT CAVOK 32/23 Q1007 A2976 DAAD 300800Z 36004KT 8000 NSC 31/16 Q1014 YNBR 300800Z AUTO 36008KT 9999 // NCD 12/06 Q1019 DAAE 300800Z 14004KT 8000 FEW020 27/22 Q1015 YMMB 300800Z AUTO 36010KT 9999 // SCT042 SCT100 07/06 Q1007 DAAG 300800Z 25006KT 9999 SCT020 25/19 Q1017 MSSS 300550Z 34005KT CAVOK 23/21 Q1016 A3001 YLTV 300800Z AUTO 21002KT 9999 // SCT054 BKN063 OVC073 10/06 Q1006 DAAJ 300800Z 18006KT CAVOK 33/14 Q1022 MUCC 300752Z 11003KT 090V150 9000 SCT018 27/24 Q1015 DABB 300800Z 05005KT CAVOK 27/21 Q1012 DABC 300800Z 33009KT CAVOK 27/14 Q1016 MUCF 300758Z AUTO 04003KT 360V080 24/24 Q1015 K2WX 300756Z AUTO 03005KT 16/12 A3007 RMK AO1 SLP160 T01560117 DAAP 300800Z 17018KT CAVOK 38/02 Q1016 YMLT 300815Z AUTO 35012KT 9999 DZ OVC008 OVC013 09/08 Q1003 RERA YMML 300800Z 35008KT 9999 FEW019 BKN130 BKN160 08/04 Q1007 FM0800 MOD TURB BLW 5000FT K4I7 300815Z AUTO 00000KT 10SM CLR 12/12 A3008 RMK AO2 K3R7 300755Z AUTO 00000KT 10SM CLR 23/22 A2993 RMK AO2 YMNE 300800Z AUTO 13009KT 9999 // SCT044 BKN052 OVC100 19/09 Q1021 MUCL 300805Z AUTO 09002KT 27/21 Q1015 DAAS 300800Z 06004KT CAVOK 28/11 Q1019 DAAT 300800Z 08014KT CAVOK 32/M04 Q1025 MUCM 300750Z 08005KT 9000 SKC 24/23 Q1016 YMNG 300800Z AUTO 27005KT 9999 // SCT040 BKN051 BKN060 07/07 Q1009 TGPY 300600Z 09015KT 9999 FEW018 27/23 Q1015 NOSIG DAAV 300800Z 27006KT 9999 SCT016 28/22 Q1014 DAAY 300800Z 02014KT CAVOK 23/16 Q1023 K5A6 300815Z AUTO 00000KT 10SM CLR 19/18 A2999 RMK AO2 T01900180 AZUH 291650Z 00000KT CAVOK 31/09 Q1007 SPQT 300800Z 00000KT 8000 BCFG SCT005 22/21 Q1013 NOSIG RMK PP000 K65S 300815Z AUTO 00000KT 10SM CLR 15/10 A2998 RMK AO2 SPQU 300800Z 35007KT CAVOK 11/M01 Q1026 RMK PP000 YNEN 300800Z AUTO 12017KT 9999 // NCD 30/20 Q1011 DABS 300800Z 16010KT CAVOK 32/13 Q1017 MUCU 300751Z 01005KT 9000 FEW020 25/22 Q1015 DABT 300800Z 26008KT 9999 FEW026 28/14 Q1017 YMOG 300800Z AUTO 15011KT //// // ////// 13/11 Q1023 K3T5 300750Z AUTO 00000KT 10SM 25/24 A2993 RMK AO2 T02510241 K66R 300815Z AUTO 00000KT 5SM BR CLR 24/24 A2994 RMK AO2 T02400239 SPRU 300800Z 11007KT 6000 OVC018 17/16 Q1013 RMK BR PP000 K5C1 300815Z AUTO 00000KT 10SM SCT039 BKN045 20/18 A3001 RMK AO1 SPSO 300800Z 04002KT 7000 OVC017 18/15 Q1013 RMK PP000 YMOR 300800Z AUTO 27004KT 9999 // NCD 13/06 Q1020 DAEF 300800Z 15018KT CAVOK 38/00 Q1015 SPST 300300Z 00000KT 9999 SCT020 23/21 Q1016 RMK BIRD HAZARD RWY 17/35 PP000 SPTN 300800Z /////KT 3500 BR OVC010 14/13 Q1014 RMK PP000 DAEN 300800Z 13014KT 9999 FEW040 40/04 Q1012 YMRB 300800Z AUTO 10005KT 9999 // NCD 19/10 Q1019 YNGU 300800Z AUTO 08008KT //// // ////// 30/12 Q1014 YNHL 300800Z AUTO 28011KT //// // ////// 08/05 Q1011 DAFH 300800Z 03014KT CAVOK 30/17 Q1016 MUHA 300755Z 12003KT 9000 2000SW PRFG NSC 23/22 Q1016 SPTU 300300Z 00000KT CAVOK 20/19 Q1015 RMK PP000 K4M9 300815Z AUTO 00000KT 10SM 22/20 A3004 RMK AO2 PWINO PNO MUGM 300756Z 01006KT 9999 FEW030 SCT280 25/22 A2998 RMK SLP153 T02450216 MTPP 300000Z 11010KT 8000 SCT026CB SCT050 30/22 Q1014 A2994 RMK/CB/NNW MUHG 300750Z 06002KT 8000 VCFG SKC 23/20 Q1015 K4O4 300815Z AUTO 08004KT 10SM CLR 22/18 A3000 RMK AO2 YMRY 300800Z AUTO 33008KT 9999 // SCT125 12/01 Q1012 YMTG 300800Z AUTO 27021G31KT 9999 -SHRA SCT033 BKN041 BKN062 10/05 Q1007 YMTI 300800Z AUTO 12006KT //// // ////// 24/16 Q1017 K4MR 300758Z AUTO 21012G19KT 10SM CLR 24/13 A3013 RMK AO2 SLP133 T02390131 $ K5H4 300755Z AUTO 03009KT 10SM BKN090 15/15 A3013 RMK AO2 P0033 PWINO PNO SPZA 292130Z 23007KT CAVOK 25/14 Q1011 SPYL 292100Z 18014KT CAVOK 25/17 Q1009 RMK BIRD HAZARD RWY 17/35 TMAX 27.3 PP000 DBBB 300800Z 23009KT 8000 FEW005 SCT010 26/24 Q1015 NOSIG K6A1 300815Z AUTO 21003KT 10SM 24/24 A2996 RMK AO2 T02410241 K6A2 300815Z AUTO 00000KT 10SM CLR 23/21 A2997 RMK AO2 SPZO 300800Z 00000KT 9999 NSC 03/M14 Q1034 RMK BIRD HAZARD RWY 28 PP000 UAAA 300800Z 09002MPS 030V140 9999 FEW050 SCT100 33/12 Q1008 R88/CLRD65 NOSIG K6B0 300815Z AUTO 00000KT 2 1/2SM BR CLR 13/13 A2996 RMK AO2 VIS 1V5 T01340134 UAAH 300800Z 28011G16MPS CAVOK 31/02 Q1005 R23/0///60 NOSIG RMK QFE716/0954 YMYB 300800Z AUTO 05003KT 9999 // NCD 15/12 Q1020 UACC 300800Z 26005MPS 230V300 9999 FEW032CB BKN053 20/08 Q1004 R22/0/0070 NOSIG RMK QFE722/0963 K4V0 300815Z AUTO 00000KT 10SM CLR 17/08 A3017 RMK AO2 T01690077 DAOB 300800Z 31006KT CAVOK 22/17 Q1020 TJBQ 300050Z 00000KT 10SM SCT044 SCT050 26/24 A3007 DAOF 300800Z 29018KT CAVOK 22/13 Q1015 UACK 300800Z 27007MPS 9999 OVC019CB 16/12 Q1001 R20/010070 TEMPO VRB17MPS 2000 TSRA SQ RMK QFE728/0970 DAOI 300800Z 20004KT 8000 NSC 25/19 Q1016 K79J 300756Z AUTO 00000KT 10SM CLR 25/22 A2994 RMK AO2 SLP134 T02500217 UADD 300800Z VRB01MPS 9999 NSC 34/01 Q1008 R13/0///65 NOSIG RMK QFE700/0933 K5M9 300755Z AUTO 00000KT 10SM CLR 15/13 A3005 RMK AO2 T01500133 DAOL 300800Z 29006KT 6000 SCT016 23/21 Q1018 UACP 300730Z 29007MPS 9999 BKN025CB BKN100 20/15 Q0998 NOSIG RMK QFE736/0982 DAON 300800Z 00000KT 9999 SCT026 25/19 Q1018 DAOO 300800Z 00000KT 9999 BKN020 23/19 Q1017 DAOR 300800Z 06008KT 6000 NSC 32/17 Q1017 YPAD 300800Z 23017KT 9999 FEW035 12/04 Q1016 NOSIG K82C 300815Z AUTO 00000KT 10SM CLR 12/11 A3000 RMK AO2 T01180113 YPAG 300800Z AUTO 20006KT 9999 // SCT049 SCT057 BKN080 12/10 Q1018 DAOV 300800Z 27005KT CAVOK 24/11 Q1018 DAOY 300800Z 02005KT CAVOK 22/13 Q1021 YNSM 300800Z AUTO 19005KT 170V240 //// // ////// 16/05 Q1024 OEAB 300000Z 18004KT CAVOK 22/07 Q1022 NOSIG MUSC 300751Z 11002KT 9000 FEW020 23/21 Q1016 OEAH 300100Z 27004KT CAVOK 31/06 Q1000 NOSIG OEBA 300000Z 31009KT CAVOK 26/13 Q1017 NOSIG YPCC 300800Z 10015KT 9999 VCSH SCT025 SCT043 29/24 Q1011 YOLD 300800Z AUTO 24008KT //// // ////// 16/05 Q1019 YNTN 300800Z AUTO 18006KT 9999 // NCD 27/08 Q1016 YPBO 300800Z AUTO 06015KT 9999 // OVC110 21/12 Q1018 K82V 300815Z AUTO 00000KT 10SM CLR 15/12 A3019 RMK AO2 OEAO 291700Z 25008KT CAVOK 37/02 Q1009 OEBH 300100Z 29004KT CAVOK 29/12 Q1013 NOSIG OEAR 300000Z 00000KT CAVOK 33/15 Q1006 MWCB 300000Z 10006KT 9999 FEW018 30/24 Q1014 K6I2 300805Z AUTO 00000KT 10SM CLR 16/13 A3006 RMK AO2 YPEA 300800Z 20004KT CAVOK 17/05 Q1024 YPED 300800Z AUTO 22012KT 9999 // SCT028 SCT037 11/07 Q1016 K5R8 300815Z AUTO 00000KT 10SM BKN060 22/22 A2995 RMK AO2 T02200220 YOLW 300800Z AUTO 01013KT //// // ////// 23/18 Q1015 DAUA 300800Z 30010KT CAVOK 37/// Q1012 YPDN 300800Z 33008KT CAVOK 30/20 Q1011 NOSIG DAUB 300800Z 11018KT 5000 NSC 36/12 Q1011 TJIG 292245Z 09005KT 10SM FEW020 SCT040 29/23 A3006 RMK LAST OEDF 300100Z VRB03KT 7000 SKC 28/15 Q0999 NOSIG DATM 300800Z 17014KT 7000 NSC 37/06 Q1012 DAUE 300800Z 00000KT 9999 SCT040 33/06 Q1013 UAII 300800Z 07006MPS CAVOK 36/03 Q1007 R10/0///70 NOSIG RMK QFE720/0960 MWCR 300300Z 08007KT 9999 FEW018 29/26 Q1015 NOSIG DAUG 300800Z 36008KT 3000 HZ NSC 33/11 Q1013 DAUH 300800Z 18018KT 6000 FEW040 SCT100 41/07 Q1010 YOOD 300800Z AUTO 22006KT //// // ////// 20/09 Q1020 DAUI 300800Z 35014KT 6000 NSC 41/07 Q1011 YNWN 300800Z AUTO 12005KT 090V160 9999 // BKN041 OVC047 15/13 Q1020 OEDM 291700Z 24005KT CAVOK 39/M05 Q1008 DAUK 300800Z 15015KT 5000 SCT040 38/16 Q1009 DAUL 300800Z 36006KT CAVOK 30/12 Q1017 DAUO 300800Z 13008KT 6000 SCT033 38/12 Q1009 OEDR 300000Z VRB03KT CAVOK 31/17 Q0997 NOSIG MUVR 300752Z VRB02KT 8000 SCT020 23/22 Q1015 UBBB 300800Z 35013KT CAVOK 34/12 Q1007 R88/CLRD// NOSIG YOOM 300800Z AUTO 34003KT 9999 // NCD 16/09 Q1019 K5T9 300815Z AUTO 11005KT 10SM CLR 26/19 A2995 RMK A01 DAUT 300800Z 00000KT CAVOK 25/16 Q1012 DAUU 300800Z 18016KT 5000 SCT046 SCT100 40/01 Q1010 ZGGG 300800Z VRB01MPS 9999 SCT025 28/25 Q1008 NOSIG UBBG 300800Z 35006KT 9999 FEW100 32/17 Q1009 R30/CLRD// NOSIG K6L4 300815Z AUTO 00000KT 10SM CLR 15/14 A3007 RMK AO2 ZGHA 300800Z 26002MPS 220V290 9999 -SHRA FEW050CB SCT050 29/25 Q1004 RETSRA NOSIG DAUZ 300800Z 15011KT CAVOK 36/04 Q1017 UAKK 300800Z 25009MPS 220V280 CAVOK 23/07 Q1005 R23/0///70 NOSIG RMK QFE707/0943 TIST 300753Z 08006KT 10SM CLR 28/23 A3003 RMK AO2 SLP170 T02780228 UBBL 300800Z 09007KT 9999 NSC 33/16 Q1008 R33/CLRD// RMK MT OP UBBN 300800Z 26003KT 9999 NSC 34/10 Q1010 R14R/CLRD// NOSIG RMK MT OP QFE683 TISX 300753Z 09011KT 10SM BKN020 27/22 A3004 RMK AO2 SLP170 T02720217 K5SM 300813Z AUTO 00000KT 10SM SCT080 08/07 A3059 RMK AO2 TSNO UBBQ 300800Z 17006KT 9999 NSC 32/18 Q1009 R16/CLRD// NOSIG RMK MT OP YPGV 300800Z AUTO 12011KT 9999 // SCT028 BKN035 OVC047 26/21 Q1014 OEGN 300100Z 00000KT CAVOK 34/25 Q1003 NOSIG K7BM 300815Z AUTO 15004KT 10SM SCT095 BKN110 14/04 A3052 RMK AO2 UBBY 300800Z 19003KT 9999 NSC 31/18 Q1012 R33/////// NOSIG RMK MT OP OEGS 300100Z 34013KT 9999 SCT040 34/11 Q1007 OEGT 292300Z 29016KT CAVOK 25/13 Q1009 NOSIG OEHL 300000Z 36008KT CAVOK 30/00 Q1012 NOSIG UBEE 300800Z 16006KT CAVOK 34/20 Q1007 R30/CLRD// NOSIG YPKA 300800Z AUTO 16010KT 9999 // SCT050 SCT063 BKN105 24/19 Q1014 YPKG 300800Z AUTO 29001KT 9999 // NCD 16/M01 Q1023 YPJT 300800Z AUTO 18006KT 9999 // NCD 17/05 Q1025 YPLC 300800Z AUTO 25009KT 9999 // SCT053 BKN065 10/08 Q1019 ZHCC 300800Z 19004MPS 130V240 8000 OVC040 31/23 Q1003 NOSIG ZGKL 300800Z 14003MPS 110V170 9999 SHRA FEW023 BKN033 FEW033CB 28/27 Q1005 BECMG FM0820 -RA OEJN 300100Z 28004KT CAVOK 30/22 Q1004 NOSIG UAOO 300800Z 35004MPS 310V010 CAVOK 35/10 Q1005 R23/CLRD70 NOSIG RMK QFE742/0990 YPKS 300800Z AUTO 01011KT //// // ////// 08/05 Q1016 YPKT 300800Z AUTO 28003KT //// // ////// 30/16 Q//// OEKJ 292300Z 16004KT CAVOK 34/03 Q1006 YPKU 300800Z AUTO 14005KT 9999 // NCD 31/08 Q1013 OEKK 292000Z 24010KT CAVOK 38/12 Q1004 NOSIG YPLM 300800Z AUTO 09005KT 9999 // OVC071 26/14 Q1015 OEKM 300000Z 19005KT 9999 FEW022 22/08 Q1022 NOSIG K6R3 300815Z AUTO 00000KT 7SM CLR 23/23 A2995 RMK AO2 T02310227 TJPS 300750Z 04005KT 10SM FEW100 24/21 A3001 K6R6 300753Z AUTO 36004KT 26/18 A3000 RMK AO1 SLP117 T02560178 OEMA 300100Z 33003KT CAVOK 33/06 Q1011 NOSIG K8A0 300815Z AUTO 04003KT 10SM CLR 19/18 A3000 RMK AO2 K96D 300755Z AUTO 35014G18KT 10SM CLR 13/11 A3011 RMK AO2 YPMQ 300800Z AUTO 35004KT 9999 // NCD 14/08 Q1017 SUAA 292200Z 12004KT CAVOK 13/12 Q1020 OEMK 291700Z 31002KT CAVOK 38/20 Q1006 ZGNN 300800Z 15003MPS 9999 -SHRA FEW030CB 27/25 Q1005 NOSIG OENG 300000Z 25004KT CAVOK 27/M01 Q1012 NOSIG UARR 300800Z 30004MPS 240V340 CAVOK 25/09 Q1011 R04/CLRD70 NOSIG RMK QFE755/1006 TJSJ 300756Z 13003KT 10SM CLR 26/23 A3004 RMK AO2 SLP171 T02610233 UASK 300800Z 34004MPS 280V020 9999 FEW033CB BKN050 26/16 Q1005 R30/090060 NOSIG RMK QFE728/0971 YPPD 300800Z AUTO 13007KT 9999 // NCD 30/08 Q1014 YPPF 300800Z AUTO 22009KT 9999 // SCT061 11/07 Q1016 UATE 300800Z 04008MPS 020V080 CAVOK 37/04 Q1007 R12/0///70 NOSIG RMK QFE753/1004 K7L2 300755Z AUTO 23004KT 12/12 RMK AO2 PWINO PNO TSNO YPPH 300800Z 24006KT 9999 FEW040 17/05 Q1024 NOSIG UATG 300800Z 35003MPS CAVOK 30/03 Q1010 R32/CLRD70 NOSIG RMK QFE760/1013 UASP 300800Z 25008MPS 9999 SCT036CB BKN100 22/07 Q1002 R21/0///70 NOSIG RMK QFE741/0988 UASS 300800Z 26004MPS 200V330 CAVOK 27/08 Q1005 R26/0///60 NOSIG RMK QFE735/0981 OEPA 300100Z 06002KT CAVOK 35/13 Q1004 NOSIG ZGOW 300800Z 32002MPS 240V010 9999 FEW020 FEW033CB BKN040 30/27 Q1010 RESHRA NOSIG ZHHH 300800Z 26003MPS 9999 -SHRA SCT015 FEW030CB 30/28 Q1004 NOSIG K8D3 300756Z AUTO 35008KT 18/13 A2997 RMK AO1 SLP131 T01780133 UATT 300800Z 28006MPS CAVOK 24/10 Q1009 R31/CLRD70 NOSIG RMK QFE737/0982 K7N0 300756Z AUTO 00000KT 10SM CLR 27/24 A2993 RMK AO2 SLP135 T02670239 $ CMGB 300800Z AUTO 00000KT 12/12 RMK AO1 SLP133 T01220120 53001 CMFM 300800Z AUTO 21001KT 13/13 RMK AO1 SLP115 T01270126 55000 UAUU 300800Z 30006MPS 9999 OVC036CB 19/10 Q1005 R33/CLRD70 NOSIG RMK QFE738/0984 OERF 300000Z 27007KT CAVOK 33/02 Q1004 SUDU 292100Z 00000KT 8000 OVC006 15/15 Q1018 OERK 300100Z 00000KT CAVOK 31/M03 Q1006 NOSIG OESH 300000Z 21004KT CAVOK 29/M05 Q1006 NOSIG OERR 300000Z 33011KT CAVOK 31/17 Q1007 NOSIG OETB 300100Z 33016KT CAVOK 27/14 Q1012 NOSIG OESK 300000Z 30006KT CAVOK 29/08 Q1009 NOSIG UCFL 300800Z 16004MPS 9999 NSC 23/15 Q1012 RMK G/O YPTN 300800Z AUTO 10008KT 9999 // NCD 30/10 Q1014 UCFM 300800Z 34003MPS 280V060 CAVOK 33/10 Q1008 R08/CLRD70 NOSIG UCFO 300800Z 33002MPS 9999 FEW050 34/14 Q1009 R12/CLRD70 NOSIG OETF 300000Z 28014KT 9999 SCT035 27/11 Q1016 NOSIG ZGSZ 300800Z 20007MPS 9999 FEW023 32/26 Q1008 NOSIG OERY 291043Z 28005KT 200V320 9999 FEW190/// 44/M07 Q1006 TKPK 300300Z 07014KT 9999 FEW023 27/23 Q1019 TKPN 292300Z 10015KT 9999 FEW022 29/22 Q1017 K7R3 292113Z 00000KT 10SM DZ SCT012 SCT019 OVC024 24/23 A2995 RMK DA010 OETR 300000Z 28010KT CAVOK 25/14 Q1011 NOSIG K9A5 300815Z AUTO 00000KT 10SM CLR 20/14 A3001 RMK AO2 T02010142 SVAC 292300Z 00000KT 9999 FEW013 26/22 Q1012 YREN 300800Z AUTO 25010KT //// // ////// 12/03 Q1015 OEWD 300000Z 30004KT CAVOK 30/15 Q1005 NOSIG YPWR 300800Z AUTO 23017KT 9999 // SCT051 16/06 Q1019 OEWJ 300000Z 03004KT CAVOK 28/24 Q1005 NOSIG SVBC 300800Z /////KT 9999 SCT010 25/25 Q1015 YPXM 300800Z AUTO 14007KT 9999 // OVC004 25/24 Q1011 SVBI 300600Z /////KT CAVOK 23/// Q1015 SVBM 300300Z 09005KT 9999 SCT013 22/20 Q1018 MYGF 300000Z 11001KT 9999 VCSH FEW018TCU BKN250 29/26 A2998 RMK TCU/VCSH NE SVBS 300200Z 36003KT 9999 FEW013 25/20 Q1017 K9D7 300755Z AUTO 03008KT 10SM CLR 13/13 A3015 RMK AO2 OEYN 292200Z 25004KT CAVOK 30/25 Q1004 NOSIG K7W4 300815Z AUTO 00000KT 10SM OVC050 19/14 A3005 RMK AO1 T01930142 SVCR 300600Z /////KT CAVOK 28/// Q1012 SULS 300800Z 06004KT 100 FG VV/// 14/13 Q1020 K7W6 300755Z AUTO 34004KT 7SM CLR 23/23 A2999 RMK AO2 T02340227 SVCU 300300Z /////KT CAVOK 26/23 Q1009 HTDA 300700Z 17009KT 9999 SCT024 26/21 Q1020 NOSIG K9F2 291828Z 32010KT 5SM TS BKN040 A2996 RMK TS NW MOV S SUMU 300800Z 00000KT 2500 BR OVC030 15/14 Q1019 TEMPO BR5000 YSBK 300800Z AUTO 33006KT 9999 // NCD 12/03 Q1015 YSCB 300800Z 34014KT 9999 SCT019 06/03 Q1013 FM0800 MOD TURB BLW 5000FT FM0900 31010KT 9999 -SHRA BKN020 BKN035 TLPC 300000Z 08007KT 9999 SCT024 28/23 Q1016 NOSIG SVGD 300600Z 00000KT 9999 SCT013 24/24 Q//// HSOB 300800Z 27020KT CAVOK 33/19 Q1016 HSNN 300800Z 27010KT CAVOK 30/18 Q1016 YRMD 300800Z AUTO 23007KT //// // ////// 22/01 Q1018 TLPL 300800Z 09012KT 9999 FEW024 28/22 Q1016 NOSIG YSCN 300800Z AUTO 33006KT 9999 // NCD 12/00 Q1015 YSCO 300800Z AUTO 31009KT //// // ////// 10/03 Q1017 YSCR 300800Z AUTO 19006KT //// // ////// 15/03 Q1024 SVGU 300600Z 00000KT 9999 BKN017 22/20 Q1015 HSPN 300800Z 07005KT CAVOK 40/12 Q1008 MZBZ 300000Z 09005KT 9999 SCT020 30/26 A2995 Q1014 NOSIG HRYR 300700Z 19005KT C A V O K 20/09 Q1026 NOSIG YSDU 300800Z AUTO 34005KT 9999 // NCD 07/04 Q1017 SVJC 292300Z AUTO /////KT 9999 FEW016 ///// Q1009 YROM 300800Z AUTO 20004KT 9999 // NCD 14/03 Q1020 YSGE 300800Z AUTO 32005KT //// // ////// 15/04 Q1020 SVJM 292200Z /////KT 9999 SCT020 29/21 Q1013 SUSO 300000Z 00000KT 0150 FG NSC 15/15 Q1018 K9L2 300756Z AUTO 20005KT 10SM CLR 29/M05 A2987 RMK AO2 SLP087 T02941050 404220200 $ MYNN 300500Z 00000KT 9999 FEW018 28/21 A3006 TNCA 300800Z 09017KT 9999 FEW018 28/24 Q1011 A2987 NOSIG TNCB 300755Z AUTO ///18KT 9999 // FEW018/// 28/24 Q1013 RE// TNCC 300500Z 10014KT 9999 SCT017 28/25 Q1014 NOSIG TNCE 300755Z AUTO 08011KT 060V130 //// // ///////// 25/22 Q1017 RE// SVLF 291300Z 00000KT 9999 SCT040 XX/XX Q1012 DFFD 300800Z 26006KT 230V300 CAVOK 26/21 Q1016 NOSIG YSHK 300800Z AUTO 16011KT //// // ////// 22/12 Q1018 ZJHK 300800Z 16005MPS 130V200 9999 FEW030 30/24 Q1006 NOSIG SVMC 300300Z 20004KT 9999 SCT013 29/27 Q1012 HTKJ 300700Z 09005KT 9999 BKN023 BKN080 20/14 Q1023 NOSIG HSSS 300800Z VRB02KT CAVOK 38/07 Q1013 NOSIG SVMD 300600Z 36002KT 9999 SCT020 19/17 Q1020 TNCM 300800Z 08011KT 060V120 9999 FEW020 27/23 Q1017 A3004 RMK LGT HZ ALQDS K8W2 300815Z AUTO 00000KT 10SM SCT055 SCT070 13/13 A3007 RMK AO1 T01320130 SVMG 300800Z /////KT 9999 SCT010 26/25 Q1014 NOSIG SVMI 300800Z 00000KT 9999 SCT016 25/21 Q1011 NOSIG YSHW 300800Z AUTO 34004KT 9999 // NCD 11/03 Q1015 SVMN 300300Z 05005KT 9999 FEW013 28/// Q1010 UEEE 300800Z 15002MPS 9999 FEW050CB 29/11 Q1003 R23L/09//60 NOSIG RMK QFE744 OIAA 300800Z 31006KT 8000 NSC 47/08 Q1000 K9MN 300814Z AUTO 15004KT 10SM SCT070 17/16 A3000 RMK AO1 T01660157 YTAR 300800Z AUTO 24010KT //// // ////// 17/03 Q1021 YRTI 300800Z AUTO 13004KT //// // ////// 16/07 Q1025 OIAG 300800Z 31008KT 7000 NSC 43/16 Q1000 OIAH 300800Z 00000KT 6000 NSC 44/00 Q1006 SVPA 291500Z /////KT 9999 BKN013 27/27 Q1016 REDZ OIAI 300800Z 13004KT CAVOK 46/07 Q1002 OIBA 300800Z 17008KT 5000 HZ NSC 35/28 Q0998 OIBB 300800Z 26012KT 5000 HZ NSC 35/26 Q0999 A2950 DGAA 300800Z 24008KT 9999 BKN013 26/24 Q1016 NOSIG OIAM 300800Z 30008KT CAVOK 45/14 Q0999 HTMW 300700Z 11016KT CAVOK 23/10 Q1021 NOSIG HUEN 300800Z 17012KT 9000 SCT022 FEW024CB 24/18 Q1023 OIBJ 300800Z 08004KT 7000 NSC 42/10 Q1005 OIBK 300800Z 18012KT 6000 NSC 37/24 Q0999 SVPM 291500Z 00000KT 9999 BKN030 XX/XX Q1017 OICC 300800Z 18004KT CAVOK 37/M05 Q1015 A2998 NOSIG OIBL 300800Z 12010KT 5000 HZ NSC 36/29 Q1000 OIAW 300800Z 02004KT 7000 NSC 45/14 Q0999 YSMH 300800Z AUTO 12003KT 9999 // NCD 17/14 Q1020 YSMI 300800Z AUTO 30003KT //// // ////// 10/09 Q1002 OIBP 291800Z 00000KT CAVOK 33/28 Q0998 A2948 OIBQ 300700Z 33006KT 8000 NSC 35/29 Q0999 OICI 300800Z 17006KT 9000 NSC 37/M02 Q1014 A2996 OICJ 300750Z 14006KT CAVOK 34/03 Q1019 OIBS 300800Z 10008KT CAVOK 35/29 Q0999 OICK 300800Z 27006KT CACOK 38/M02 Q1013 YTEE 300800Z AUTO 19008KT 9999 // NCD 21/M04 Q1019 KMG 300800Z AUTO 33011KT 9999 // SCT064 BKN074 OVC092 05/03 Q1007 OIBV 300800Z 12012KT 6000 NSC 36/26 Q0998 YSNF 300800Z AUTO 18010KT 9999 // SCT037 16/07 Q1018 YTEF 300800Z AUTO 11011KT 9999 // SCT096 26/07 Q1017 SVSA 300200Z 18008KT 9999 BKN020 29/18 Q1013 OICS 300800Z 19006KT CAVOK 34/M02 Q1015 YTEM 300800Z AUTO 01010KT //// // ////// 10/06 Q1014 CPBT 300700Z AUTO 21003KT 14/13 RMK AO1 T01420131 UDSG 300800Z VRB01MPS 9999 NSC 26/12 Q1016 R02/CLRD70 NOSIG YSOL 300800Z AUTO 06006KT 9999 // SCT022 OVC053 15/14 Q1019 YSNW 300800Z AUTO 32009KT 9999 // NCD 11/01 Q1013 SVSP 291600Z 00000KT 9999 SCT030 BKN080 XX/XX Q1017 CPEH 300700Z AUTO 08006KT 16/14 RMK AO1 T01590142 YTGM 300800Z AUTO 30004KT //// // ////// 14/05 Q1020 OIFK 300800Z 03008KT CAVOK 39/10 Q1010 OIFM 300800Z 14010KT CAVOK 36/M01 Q1015 A2999 OIGG 300800Z 02004KT CAVOK 31/21 Q1007 YTIB 300800Z AUTO 30009KT //// // ////// 16/05 Q1018 SVVA 291800Z /////KT 9999 SCT013 26/23 Q1015 OIFS 300800Z 06004KT 9999 FEW040 32/M02 Q1021 OIGK 300750Z 25006KT CAVOK 29/M01 Q1019 CPFI 300800Z AUTO 14006KT 16/14 RMK AO1 T01610140 K9V9 300815Z AUTO 32005KT 10SM BKN070 19/16 A3000 RMK AO2 T01900164 SVVG 300300Z 00000KT 9999 BKN017 29/18 Q1009 YSRI 300800Z AUTO 36009KT 9999 // NCD 13/02 Q1015 DFOO 300800Z 20006KT CAVOK 26/23 Q1015 OIHH 300750Z 33006KT CAVOK 31/01 Q1019 SVVL 300300Z 00000KT 9999 SCT030 25/20 Q1016 YSRN 300800Z AUTO 35005KT 9999 // SCT040 OVC054 09/08 Q1003 OIHM 300800Z 27008KT CAVOK 32/02 Q1019 OIIE 300800Z 15008KT CAVOK 38/M02 Q1011 OIII 300800Z 10006KT CAVOK 37/M01 Q1013 A2992 NOSIG OIIK 300800Z 16004KT 8000 NSC 35/11 Q1014 PAAD 300815Z AUTO 07009KT 1/4SM FG OVC002 02/02 A3020 RMK AO2 YSTH 300800Z AUTO 31006KT 9999 // SCT026 BKN038 09/07 Q1004 OIIP 300800Z 22004KT CAVOK 36/07 Q1013 OJAI 300800Z 27014KT 7000 NSC 32/13 Q1015 NOSIG PABA 292356Z 01004KT 10SM OVC014 04/03 A3009 RMK VIA PHONE OIIS 300800Z 00000KT 9999 FEW035 39/02 Q1013 OIKB 300800Z 14008KT 8000 NSC 38/27 Q0999 A2951 NOSIG PAAK 300816Z AUTO 24006KT 10SM SCT014 BKN020 OVC035 09/07 A2969 RMK AO1 OJAM 300800Z 25005KT 6000 NSC 29/10 Q1015 NOSIG YSSY 300800Z 35011KT CAVOK 15/M04 Q1015 NOSIG ZJSY 300800Z 15003MPS 120V210 9999 SCT020 FEW026CB 31/27 Q1006 NOSIG PABE 300753Z 09004KT 10SM BKN085 16/11 A3000 RMK AO2 SLP159 T01610106 OJAQ 300800Z 33012KT CAVOK 35/15 Q1009 PAAQ 300753Z AUTO 14004KT 10SM SCT060 BKN080 OVC095 15/08 A3002 RMK AO2 SLP167 T01500078 TSNO PABI 300753Z AUTO 20006KT 10SM OVC095 16/11 A3001 RMK AO2 SLP160 T01560111 TSNO CPIR 300700Z AUTO 05003KT 17/14 RMK AO1 T01690137 OIKK 300750Z 24004KT CAVOK 34/M11 Q1017 A3003 YSTW 300800Z AUTO 32007KT 9999 // NCD 11/03 Q1019 PABL 300816Z AUTO 30007KT 10SM 16/09 A3003 RMK AO1 PACD 300753Z 15009KT 10SM BKN041 11/08 A2991 RMK AO2 SLP128 T01110078 $ OIKO 300750Z 24008KT CAVOK 39/25 Q1000 OIKQ 300800Z 18008KT 8000 NSC 40/27 Q0999 PABR 300753Z AUTO 08010KT 10SM FEW085 BKN110 03/M01 A3017 RMK AO2 SLP218 T00281011 TSNO HTZA 300700Z 21010KT 9999 FEW020 26/21 Q1020 NOSIG OIMB 300800Z 02010KT CAVOK 35/M13 Q1013 PABT 300753Z 20003KT 10SM FEW060 SCT080 BKN230 19/11 A2996 RMK AO2 SLP149 T01940111 OIMC 300800Z 00000KT CAVOK 40/06 Q1008 YTMO 300800Z AUTO 16006KT //// // ////// 21/M03 Q1020 OIMD 300800Z 06010KT CAVOK 36/M00 Q1008 PACM 300756Z AUTO 36004KT 10SM BKN095 OVC120 16/11 A3007 RMK AO2 SLP180 T01610111 PABV 300756Z AUTO 00000KT 10SM FEW080 BKN110 15/12 A3004 RMK AO2 SLP180 T01500122 402170117 YTNG 300800Z AUTO 32003KT 9999 // NCD 16/08 Q1020 YSWG 300800Z AUTO 02010KT 9999 // BKN049 OVC062 10/06 Q1013 PADE 300753Z AUTO 21003KT 10SM CLR 17/08 A3002 RMK AO2 RAB08E32 SLP165 P0000 T01670083 TSNO YSWH 300800Z AUTO 28011KT 9999 // OVC088 OVC105 10/07 Q1011 PADG 300421Z 15007G15KT 15SM HZ FEW040 SCT070 17/08 A3003 UDYZ 300730Z VRB01MPS 9999 NSC 31/10 Q1011 R09/0///70 NOSIG YTNK 300800Z AUTO 08006KT 9999 // ////// 26/M03 Q1018 OINB 300800Z 28014KT 9999 FEW025 31/23 Q1007 PADK 300816Z AUTO 26009KT 6SM BKN013 OVC021 08/04 A2971 RMK AO1 PAEC 300046Z 16014KT 20SM SCT024 BKN050 BKN120 18/06 A3002 RMK NOSPECI PADL 300756Z AUTO 00000KT 10SM OVC050 14/11 A3003 RMK AO2 SLP174 T01440111 OIMM 300800Z 05004KT CAVOK 35/M01 Q1012 A2991 PAED 300758Z AUTO 00000KT 10SM OVC065 15/13 A3002 RMK AO2 DZB0659E02RAB02E15DZB15E18DZB19E34 SLP161 P0001 T01490131 PACV 300812Z 00000KT 3/4SM R27/1200V4000FT BR VV002 09/08 A3006 RMK AO2 VIS 1/2V4 T00890083 $ PADM 300756Z AUTO 06007KT 10SM OVC080 18/12 A3006 RMK AO2 SLP187 T01780122 402220111 OINE 300800Z 16004KT CAVOK 34/20 Q1007 OIMN 300800Z 00000KT CAVOK 34/07 Q1014 UERP 300800Z 33002MPS CAVOK 29/06 Q1008 R35/090060 NOSIG RMK QFE712 OING 300800Z 23012KT 9999 FEW030 SCT100 35/23 Q1008 PAEG 300753Z AUTO VRB03KT 10SM CLR 14/09 A2994 RMK AO2 SLP138 T01440089 TSNO UERR 300800Z 01005MPS 9999 BKN040CB 31/07 Q1007 R25/CLRD60 NOSIG RMK QFE724 OIMQ 300800Z 17004KT CAVOK 36/M00 Q1011 PADQ 300815Z AUTO 05009KT 10SM SCT015 BKN036 OVC050 12/11 A3003 RMK AO2 T01170106 TSNO PACZ 300755Z AUTO 04013KT 10SM BKN075 14/10 A3005 RMK AO2 LTG DSNT SE SLP175 T01420097 PAEH 300755Z AUTO 00000KT 10SM VCTS CLR 14/11 A3001 RMK AO2 SLP161 T01410107 PAEI 300758Z AUTO 18004KT 10SM OVC110 18/13 A2996 RMK AO2 SLP148 T01770129 $ OIMS 291300Z 14008KT CAVOK 39/04 Q1009 NSFA 300700Z 13003KT 9999 FEW026 24/23 Q1012 PAFA 300753Z 00000KT 10SM FEW070 SCT110 BKN200 18/14 A2995 RMK AO2 SLP146 T01830139 OINK 300800Z 20006KT CAVOK 36/21 Q1006 PAFB 300758Z AUTO 06002KT 9SM CLR 19/13 A2995 RMK AO2 SLP143 T01860126 $ PAEL 300245Z 30007KT 12SM -SHRA OVC012 14/11 A3010 RMK NOSPECI LAST PADU 300756Z AUTO 12012KT 10SM OVC016 11/07 A2987 RMK AO2 SLP114 T01060072 401170100 $ PAEM 300756Z 02005KT 10SM CLR 14/11 A3008 RMK AO2 SLP303 PWINO FZRANO TSNO RVRNO OINN 300800Z 33008KT 9999 FEW025 30/23 Q1007 PAEN 300753Z AUTO 20013KT 10SM BKN080 BKN090 12/11 A3005 RMK AO2 SLP177 T01220106 TSNO PAFE 300816Z 12004KT 10SM OVC060 13/09 A3012 RMK AO1 OINR 300800Z 36008KT 9999 FEW027TCU 31/21 Q1007 PAGA 300758Z AUTO 24003KT 10SM CLR 18/13 A3001 RMK AO2 SLP166 T01830133 PAGB 291930Z 37008KT 20SM SCT060 BKN120 19/ A3005 RMK LAST PAFM 300816Z AUTO 29005KT 10SM CLR 18/07 A3005 RMK AO1 OINZ 300800Z 27010KT 9999 FEW035 32/24 Q1007 PAGH 300757Z AUTO 33004KT 10SM CLR 19/08 A3000 RMK AO2 SLP186 T01890078 SYCJ 300700Z 00000KT 9999 FEW014CB SCT015 23/22 Q1013 CB-SW NOSIG PAFR 300813Z AUTO 00000KT 10SM OVC060 14/11 A3003 RMK AO1 PAFS 300801Z AUTO 24005KT 10SM BKN110 16/13 A2998 RMK AO2 SLP169 T01610128 401610161 PAGK 300753Z AUTO 00000KT 10SM CLR 11/09 A3002 RMK AO2 SLP170 T01060094 TSNO YTRE 300800Z AUTO 00000KT 9999 // NCD 13/07 Q1017 PAGL 300816Z AUTO 00000KT 10SM CLR 14/08 A3008 RMK AO1 PAGM 292338Z AUTO 21010KT 10SM OVC012 09/07 A3004 RMK VIA PHONE PAGN 300756Z AUTO VRB05KT 10SM -RA OVC060 12/11 A3010 RMK AO2 RAB50 SLP183 P0000 T01220106 PAGS 300817Z AUTO 00000KT 10SM FEW009 OVC021 12/11 A3008 RMK AO2 RAE05 P0000 SYEC 300100Z 080006KT 9999 FEW018 SCT300 26/24 Q1014 PAHL 300816Z AUTO 10SM CLR 18/09 A2998 RMK AO1 PAHN 300754Z AUTO 11009KT 10SM SCT085 17/11 A3001 RMK AO2 SLP163 T01670111 TSNO PAHO 300753Z AUTO 34004KT 10SM CLR 13/09 A3007 RMK AO2 SLP181 T01280094 TSNO PAGY 300753Z AUTO 10SM CLR 18/11 A3000 RMK AO2 SLP158 T01780106 TSNO PAHP 300756Z AUTO 04008KT 10SM OVC075 16/11 A3005 RMK AO2 SLP213 T01610106 PAIG 300756Z AUTO 06010KT 10SM BKN070 14/08 A3002 RMK AO2 SLP178 T01390083 $ PAII 300756Z AUTO 00000KT 10SM CLR 11/09 A3002 RMK AO2 SLP170 T01060094 401940094 OISA 300755Z 36006KT 9999 FEW040 33/M03 Q1020 NTAA 300800Z 08004KT 9999 FEW023 22/17 Q1016 NOSIG PAIK 300801Z AUTO 28005KT 10SM CLR 17/08 A3004 RMK AO2 SLP212 T01720083 PNO $ PAIL 300753Z AUTO 00000KT 10SM BKN085 12/10 A3007 RMK AO2 SLP184 T01170100 TSNO PAIM 300755Z AUTO VRB03KT 10SM CLR 17/09 A3000 RMK AO2 LTG DSNT W SLP151 T01690093 PAIN 300816Z AUTO RMK AO1 OISF 300800Z 18008KT 9999 FEW045 39/14 Q1008 PAHX 300756Z AUTO 36004KT 10SM BKN095 17/14 A3002 RMK AO2 SLP169 T01670139 YTTI 300800Z AUTO 07017KT //// // ////// 29/19 Q1012 PAHY 300756Z AUTO 34003KT 8SM RA FEW019 BKN034 OVC075 13/11 A3012 RMK AO2 SLP198 P0004 T01280111 401830128 YTST 300800Z AUTO 06007KT 9999 // NCD 31/08 Q1011 OISL 300800Z 09004KT CAVOK 41/17 Q1004 PAJN 300753Z 00000KT 10SM SCT036 BKN050 OVC110 15/12 A3004 RMK AO2 RAB14E39 TSB12E39 SLP173 PRESENT WX VCSH SW AND NW NMRS BINOVC P0000 T01500122 PAIW 300758Z AUTO 19022KT 4SM BR OVC003 07/07 A3007 RMK AO2 PK WND 19026/0758 SLP184 T00720067 401110067 DIAD 300700Z 34002KT 6000 FEW011 23/23 Q1015 NOSIG PAKF 300812Z AUTO 15006KT 10SM SCT025 OVC043 A2993 RMK AO2 FZRANO $ PAKI 300756Z AUTO 03008KT 10SM -RA OVC080 16/13 A2999 RMK AO2 SLP158 P0004 T01560133 OISS 300750Z VRB04KT 8000 FEW045 38/M04 Q1013 A2994 ZLLL 300800Z 05003MPS 010V110 9999 SCT023 FEW040CB 28/02 Q1013 NOSIG OITK 291330Z 19010KT CAVOK 36/05 Q1007 OKBK 300800Z 34011KT CAVOK 47/05 Q1000 NOSIG PAKK 300816Z AUTO 25003KT 10SM CLR 16/03 A3002 RMK AO1 OITL 300800Z 05010KT 9999 FEW035 28/14 Q1015 OITM 300800Z 23004KT CAVOK 32/01 Q1015 PAKN 300754Z 36003KT 10SM FEW035 SCT050 12/09 A2998 RMK AO2 SLP153 T01220089 OITP 300800Z 00000KT CAVOK 36/16 Q1005 OISY 300800Z 00000KT CAVOK 34/M02 Q1018 PAKP 300816Z AUTO 03006KT 10SM CLR 12/07 A3004 RMK AO1 PALH 300753Z 17004KT 10SM FEW060 OVC080 16/12 A3003 RMK AO2 RAE00 SLP171 P0000 T01610117 PAJZ 300756Z AUTO 07009KT 7SM BKN065 OVC085 13/09 A3009 RMK AO2 SLP194 T01330089 402110067 $ YTWB 300800Z AUTO 10004KT 9999 // SCT061 12/08 Q1022 CPRY 300700Z AUTO 12001KT 16/14 RMK AO1 T01630135 OITR 300800Z 14006KT CAVOK 32/05 Q1014 DIAP 300800Z 25003KT 8000 FEW012 BKN040 26/24 Q1016 NOSIG PALJ 300059Z 08008KT 30SM BKN060 21/14 A3002 RMK 402110094 EST PASS OPN NOSPECI OITT 300800Z 29008KT 9999 FEW032 31/03 Q1016 A3001 NOSIG PAMB 300756Z AUTO 00000KT 10SM BKN050 OVC070 14/11 A3002 RMK AO2 SLP172 T01390111 $ PAKT 300753Z AUTO 16004KT 10SM OVC019 14/13 A3012 RMK SLP200 T01440128 TSNO VIA AUTODIAL PAKU 300245Z 04010KT 10SM R06/P6000FT BKN130 05/02 A3014 RMK LAST OITU 300751Z 09006KT CAVOK 29/12 Q1015 PAMC 300753Z AUTO 26003KT 10SM FEW060 OVC085 19/13 A2999 RMK AO2 RAB21E42 SLP156 P0000 T01890133 TSNO DIBK 300700Z 22010KT 8000 SCT003 OVC010 22/22 Q1018 NOSIG CPST 300800Z AUTO 14010KT 15/13 RMK AO1 T01530126 PAKV 300753Z AUTO 22003KT 10SM CLR 16/13 A3005 RMK AO2 SLP175 T01610128 TSNO PAMD 300816Z AUTO 09005KT 10SM SCT010 BKN018 OVC050 12/11 A3005 RMK AO1 PAKW 300753Z AUTO VRB03KT 10SM BKN014 OVC023 12/11 A3011 RMK RAE31 SLP197 P0000 T01220106 TSNO VIA AUTODIAL CPSV 300800Z AUTO 01007KT 14/13 RMK AO1 T01420131 PALP 300145Z 03010KT 10SM FEW008 BKN120 06/02 A3014 OITZ 300800Z 27010KT CAVOK 31/00 Q1016 PAMH 300816Z AUTO 00000KT 10SM FEW060 BKN095 18/11 A2998 RMK AO1 PANA 300556Z AUTO BKN070 21/11 A2997 RMK AO2 SLP150 T02060106 10233 20200 55002 $ PAMK 300756Z AUTO 00000KT 10SM CLR 15/11 A3008 RMK AO2 TSNO T01500111 402050077 RAB31E37 P0000 SLP185 $ PANC 300753Z 14010KT 10SM FEW055 SCT065 BKN080 BKN150 16/09 A3002 RMK AO2 RAE06 SLP166 P0001 T01610089 $ PALU 300755Z AUTO 11004KT 10SM FEW170 BKN210 08/06 A3005 RMK AO2 LTG DSNT SE SLP177 T00790062 PAMM 300816Z AUTO 21003KT 10SM OVC050 15/11 A3014 RMK AO1 DIBU 300700Z 00000KT 8000 FEW006 BKN013 23/22 Q1017 NOSIG PAMR 300753Z 15003KT 10SM FEW050 BKN075 BKN200 16/12 A3002 RMK AO2 SLP166 P0001 T01560117 PANI 300816Z AUTO 00000KT 10SM OVC090 14/12 A3002 RMK AO1 P0001 UHBB 300800Z 10002MPS 9999 SCT026CB 19/15 Q1002 R36/290250 TEMPO 09006MPS RMK QFE734/0979 DIDK 300700Z ///// 9999 FEW013 23/22 Q1016 NOSIG DIDL 300700Z ///// 4000 BR OVC013 23/22 Q1017 NOSIG PANN 300753Z AUTO 00000KT 10SM BKN110 16/13 A2994 RMK AO2 SLP144 T01610128 TSNO PAMY 300756Z AUTO 00000KT 10SM OVC085 13/11 A3003 RMK AO2 SLP172 T01330106 PAOH 300540Z 00000KT 7SM RA BKN033 BKN065 OVC080 14/14 A3006 PANT 300653Z AUTO 00000KT 10SM OVC055 16/11 A3012 RMK AO2 SLP201 T01560111 TSNO PAPB 300753Z AUTO 11013KT 10SM SCT034 09/08 A2988 RMK AO2 SLP107 T00940083 TSNO $ PAOM 300753Z AUTO 24009KT 10SM SCT005 10/08 A3008 RMK AO2 SLP185 T01000083 TSNO PANV 300816Z AUTO 10SM SCT070 17/11 A3002 RMK AO1 UGKO 300800Z 22007KT 170V250 CAVOK 31/20 Q1007 R07/09//70 NOSIG PANW 300756Z AUTO 13005KT 10SM FEW049 12/08 A3005 RMK AO2 SLP191 T01220083 PAOO 291956Z AUTO 10009KT 10SM CLR 16/11 A3007 RMK AO2 SLP194 T01610106 PAPG 300556Z 00000KT 10SM -RA SCT032 OVC046 14/09 A3009 PAPH 300756Z AUTO 17004KT 10SM OVC065 12/08 A2996 RMK AO2 RAE0657 SLP148 T01220083 401890067 PAOR 300753Z 30003KT 10SM SCT060 BKN100 14/08 A2996 RMK AO2 SLP142 T01440083 OIZB 300800Z 33016KT CAVOK 43/06 Q1002 PAOT 300753Z 30009KT 10SM CLR 16/10 A3003 RMK AO2 SLP169 T01610100 $ DIGA 300700Z 00000KT 0800 FG BKN011 22/22 Q1017 NOSIG PAOU 300756Z AUTO 19004KT 10SM OVC065 13/09 A2994 RMK AO2 SLP140 T01280089 401560111 PAPM 300756Z AUTO 03011KT 10SM 15/11 A2999 RMK AO2 SLP159 T01500111 $ CPXL 300800Z AUTO 12006KT 16/13 RMK AO1 T01610129 PAPN 300756Z AUTO 11010KT 10SM CLR 11/08 A2999 RMK AO2 SLP158 T01110083 401890083 PAPO 300816Z AUTO 23006KT 5SM FEW003 SCT009 BKN110 08/M17 A3005 RMK AO1 OIZH 300800Z 01004KT CAVOK 36/01 Q1011 A2987 NOSIG PAQH 300756Z AUTO 24003KT 10SM OVC100 16/12 A3001 RMK AO2 SLP162 T01560122 OIZI 300800Z 30004KT 9999 FEW045 SCT100 40/15 Q1003 OIZJ 300800Z 25006KT 6000 NSC 35/29 Q0998 PAPT 300255Z 09006KT 25SM SCT080 20/15 A3001 RMK LAST NO SPECI PARC 300816Z AUTO 06003KT 10SM FEW080 OVC090 14/09 A3005 RMK AO1 OIYY 300800Z 34006KT 9999 FEW040 39/M05 Q1013 PASA 300816Z AUTO 05004KT 10SM CLR 10/07 A3009 RMK AO1 PAQT 300753Z AUTO 06011KT 10SM OVC090 04/02 A3018 RMK AO2 SLP222 T00390022 TSNO PASC 300753Z 08011KT 10SM OVC005 03/01 A3018 RMK AO2 SLP219 T00280011 PASD 300816Z AUTO 09003KT 10SM SCT048 OVC070 10/09 A2995 RMK AO1 MTB 300800Z AUTO 29013G26KT 9999 // NCD 04/M01 Q//// YWCA 300800Z AUTO 32007KT //// // ////// 13/07 Q1016 PASH 300816Z AUTO 00000KT 5SM OVC005 08/05 A3011 RMK AO1 PNO PASI 300753Z 21005KT 10SM -RA FEW008 OVC019 13/11 A3009 RMK AO2 SLP189 P0005 T01330111 YWBL 300800Z AUTO 32019KT 8000 SHRA SCT016 SCT033 BKN039 08/07 Q1004 OLBA 300800Z 24011KT 8000 SKC 28/23 Q1013 PATA 300752Z AUTO 30003KT 10SM BKN110 19/14 A2997 RMK AO2 SLP149 T01890139 TSNO PARS 300756Z AUTO 01007KT 10SM -RA OVC075 16/12 A3001 RMK AO2 RAB16 SLP166 P0000 T01610122 402280133 $ PASK 300816Z AUTO 28004KT 10SM CLR 18/10 A3003 RMK AO1 PASL 300816Z AUTO 00000KT 10SM FEW110 14/11 A3008 RMK AO1 PATC 300755Z AUTO 22014KT 1/4SM BCFG VV002 06/06 A3006 RMK AO2 SLP182 T00580057 PASM 300816Z 02004KT 10SM BKN095 14/11 A3005 RMK AO1 PATE 300758Z AUTO 24007KT 10SM OVC003 08/07 A3009 RMK AO2 SLP203 T00780072 PASN 300753Z AUTO 10009KT 9SM CLR 09/08 A2989 RMK SLP123 T00940083 TSNO $ VIA AUTODIAL PASO 300753Z AUTO 13003KT 10SM FEW019 11/09 A3007 RMK AO2 SLP184 T01060094 TSNO YWBR 300800Z AUTO 12008KT //// // ////// 18/10 Q1022 MSV 300800Z AUTO 28005KT 230V310 9999 // NCD 06/M01 Q1014 PATK 300753Z AUTO 17006KT 10SM OVC095 17/10 A3002 RMK AO2 SLP168 T01670100 TSNO PATL 300755Z AUTO 36003KT 10SM FEW070 BKN095 16/14 A3003 RMK AO2 LTG DSNT SE SHRAB0617E0754 SLP164 T01630135 $ PASV 300804Z AUTO 00000KT 10SM VCTS BKN070 11/09 A3006 RMK AO2 SLP173 MUI 300800Z AUTO 34025KT 9999 // NCD 08/04 Q1016 PASW 300250Z 09005KT 30SM SCT028 BKN050 19/12 A3002 RMK TS VCNTY SE MAX 24 LAST NOSPECI PATO 300753Z AUTO 11004KT 10SM CLR 08/06 A3007 RMK AO2 SLP181 T00830056 TSNO PASX 300816Z AUTO 00000KT 10SM SCT085 A3003 RMK AO1 UHHH 300800Z METAR 27004MPS 9999 FEW033 26/18 Q1003 R23L/CLRD60 NOSIG PASY 300756Z AUTO 9SM OVC005 08/ A2957 RMK AO2 SLP015 T0083 TSNO $ NSTU 300651Z 10018KT 10SM FEW023 SCT040 BKN100 27/23 A2991 RMK SLP129 T02680232 PAVC 300756Z AUTO 06009KT 10SM OVC040 11/08 A2994 RMK AO2 SLP145 T01110078 401220100 PAVD 300816Z 00000KT 10SM CLR 10/05 A3006 RMK AO1 PAUN 300816Z AUTO 29007KT 10SM CLR 16/10 A3005 RMK AO1 DIKO 300700Z 24002KT 8000 NSC 24/22 Q1016 NOSIG UIAA 300800Z 18003MPS 9999 TS SCT040CB 20/13 Q1009 R29/CLRD70 TEMPO VRB08MPS -TSRA RMK QFE698 UGSB 300800Z 24010KT 9999 FEW020 28/24 Q1011 R13/CLRD70 NOSIG PAUT 300815Z AUTO 11005KT 10SM OVC036 09/08 A2987 RMK AO2 T00880082 PAVL 300753Z AUTO 26004KT 6SM BR CLR 10/08 A3003 RMK AO2 SLP170 T01000083 TSNO $ PAWD 300753Z AUTO 33003KT 10SM CLR 11/10 A3006 RMK AO2 SLP179 T01110100 TSNO $ PAWG 300816Z AUTO 19003KT 10SM FEW022 OVC029 13/11 A3013 RMK AO1 PAWI 300753Z AUTO 05009KT 10SM FEW055 OVC100 06/02 A3010 RMK SLP194 T00610022 TSNO VIA AUTODIAL UIBB 300800Z 19003MPS 9999 NSC 30/04 Q1007 R12/CLRD60 NOSIG RMK QFE713/0951 UGTB 300800Z VRB02KT CAVOK 32/19 Q1012 R31L/CLRD70 NOSIG PAWM 300758Z AUTO 17006KT 9SM CLR 13/11 A3006 RMK AO2 SLP188 T01280111 PAWN 300816Z AUTO 27005KT 10SM CLR 12/06 A3005 RMK AO1 DIMN 300700Z 00000KT 6000 DZ SCT005 BKN011 23/22 Q1017 NSW NOSIG YWHA 300800Z AUTO 24010KT 9999 // BKN062 13/05 Q1019 PAWS 300816Z AUTO 33004KT 10SM SCT065 SCT070 15/09 A3002 RMK AO1 PAYA 300753Z AUTO 31003KT 10SM CLR 12/11 A3004 RMK SLP173 T01170106 TSNO VIA AUTODIAL ZLXY 300800Z 07007MPS 030V120 9999 SCT050 32/20 Q1003 NOSIG DIOD 300700Z 00000KT 8000 FEW013 23/23 Q1016 NOSIG UHMA 300700Z 12009G13MPS 3700 BCFG BKN006 OVC080 09/07 Q1012 R88/CLRD60 TEMPO 1000 BCFG RMK QFE753/1004 YWGT 300800Z AUTO 35008KT 8000 -RA SCT007 BKN011 OVC016 09/09 Q1010 RERA YVRD 300800Z AUTO 11006KT //// // ////// 31/04 Q1013 UHMD 300400Z 18006MPS 9999 SCT020 10/07 Q1017 RMK QBB600 MT OBSC QFE761/1014 PAZK 300816Z AUTO 27006KT 10SM FEW035 OVC095 09/06 A3004 RMK AO1 UHMM 300800Z 11003MPS 9999 FEW040 21/09 Q1004 R10/CLRD70 NOSIG RMK QFE738 YWIS 300800Z AUTO 06005KT //// // ////// 20/15 Q1020 OMAA 300800Z 16006KT 120V240 6000 NSC 42/20 Q0999 NOSIG OMAD 300800Z 23005KT 190V280 6000 NSC 41/20 Q0999 NOSIG ZMUB 300800Z 03003MPS 340V050 9999 FEW030CB SCT033 22/M00 Q1014 NOSIG RMK QFE653.6 22 MOP OMAL 300800Z 18011G21KT 130V230 8000 NSC 41/18 Q1001 NOSIG YWLG 300800Z AUTO 34004KT 9999 // NCD 11/04 Q1019 TQPF 292000Z 10015KT 9999 FEW021 BKN270 31/22 Q1017 YWLM 300800Z 33008KT CAVOK 14/03 Q1017 DITB 300700Z ///// 9999 BKN013 24/23 Q//// NOSIG UHPP 300800Z 15004MPS 9999 BKN031CB 15/10 Q1002 R34L/CLRD70 NOSIG RMK MT OBSC QFE748/0997 EBBE 300755Z 20008KT 9999 BKN012 BKN015 15/13 Q1012 GRN WHT TEMPO GRN DISP 300700Z 28004KT 9999 BKN013 24/23 Q1015 NOSIG OMDB 300800Z VRB06KT 6000 NSC 42/18 Q0999 BECMG 32014KT DISS 300700Z ///// 9999 FEW013 24/23 Q1015 NOSIG EBBL 300755Z 21008KT 9999 SCT020 BKN030 BKN060 17/14 Q1012 WHT WHT TEMPO GRN EBAW 300750Z 20007KT 7000 FEW007 SCT010 BKN012 15/13 Q1012 RERA TEMPO 4000 RADZ SCT010 BKN012 UIII 300800Z 13003MPS 020V190 CAVOK 30/07 Q1007 R12/CLRD60 NOSIG RMK QFE713/0951 EBCI 300750Z 21010KT 9999 BKN013 BKN020 16/13 Q1013 NOSIG EBBR 300750Z 21005KT 180V240 9999 -RA SCT008 BKN015 15/14 Q1012 TEMPO 4000 RADZ BKN008 CTCK 300800Z AUTO 00000KT 12/12 RMK AO1 SLP127 T01220118 53001 VAAH 300800Z 21003KT 5000 FU SCT020 SCT025 BKN070 33/24 Q1002 TEMPO 4000 YWOL 300800Z AUTO 00000KT 9999 // NCD 10/05 Q1014 VABB 300800Z 22013G26KT 3000 HZ FEW018 SCT025 BKN100 31/26 Q1003 NOSIG KA08 300815Z AUTO 00000KT 10SM CLR 22/20 A2994 RMK AO2 T02230200 OMDW 300800Z 20008KT 7000 NSC 42/17 Q1000 NOSIG EBCV 300755Z AUTO 21009KT 9999 BKN014/// 16/14 Q1012 GRN UHSS 300800Z 22005MPS 9999 NSC 26/14 Q1008 RMK QFE755/1006 OMFJ 300800Z 10011KT 8000 NSC 37/25 Q0999 A2952 VAAU 300600Z 27008KT 6000 SCT020 SCT025 26/22 Q1008 EBDT 300755Z 21007KT 9999 SCT016 SCT030 BKN055 16/13 Q1012 WHT WHT TEMPO GRN VABO 300700Z 21009KT 6000 SCT020 SCT025 33/24 Q1002 VABP 300600Z 32005KT 5000 HZ FEW020 SCT025 31/26 Q1005 NOSIG EBFN 300755Z 18009KT 6000 -RA BKN007 BKN020 15/15 Q1010 GRN WHT TEMPO GRN EBFS 300755Z 20009KT 9999 SCT011 BKN015 15/12 Q1013 GRN GRN TEMPO WHT DIYO 300700Z 18004KT 6000 SCT003 OVC010 23/22 Q1016 NOSIG YWUD 300800Z AUTO 22009KT //// // ////// 11/05 Q1020 YWTN 300800Z AUTO 22003KT //// // ////// 20/02 Q1019 UHWW 300800Z 18005MPS 9999 -DZ OVC011 20/17 Q1007 R25L/0///70 NOSIG RMK QFE754 TRPG 292200Z 11016KT 9999 FEW025 BKN250 27/22 Q1017 VAID 300600Z 29005KT 5000 HZ FEW010 SCT020 BKN100 27/24 Q1006 NOSIG EBLB 300755Z AUTO 22008KT 6000 -DZ OVC009/// 13/11 Q1014 GRN EBLG 300750Z 21012KT 180V240 9999 BKN013 16/12 Q1013 NOSIG YWWL 300800Z AUTO 36010KT //// // ////// 10/06 Q1014 VAJB 300600Z 00000KT 6000 FEW025 SCT030 34/25 Q1003 VAJJ 300730Z 18010KT 180V280 5000 HZ SCT020 SCT025 BKN100 30/26 Q1004 NOSIG UKBB 300800Z 01006MPS 340V040 9999 SCT030 27/17 Q1013 R88/CLRD// NOSIG YWYM 300800Z AUTO 12006KT //// // ////// 32/04 Q1012 CTNK 300800Z AUTO 00000KT 07/05 RMK AO1 SLP157 T00700053 55000 UKDD 300800Z 02003MPS 340V070 9999 FEW017CB BKN033 25/20 Q1009 R08/090070 NOSIG UKDE 300800Z 00000MPS 9999 SCT033TCU BKN033 25/20 Q1009 R02/210370 NOSIG YWYY 300800Z AUTO 32012KT 9999 // SCT015 BKN021 BKN031 11/09 Q1002 TTCP 300700Z 09003KT 9999 FEW016 26/22 Q1014 NOSIG UIUU 300800Z 30003MPS 230V360 7000 SCT046CB 30/02 Q1008 R26/010095 NOSIG RMK QFE712/0949 EBOS 300750Z 18008KT 6000 -SHRA SCT010 BKN013 BKN040 15/13 Q1010 TEMPO 4000 RADZ UKDR 300800Z 01006MPS 330V050 9999 SCT020 BKN100 OVC200 25/20 Q1009 R36/09//70 NOSIG OMRK 300800Z 30006KT CAVOK 45/12 Q0999 A2951 CTRA 300800Z AUTO 02006KT 13/12 RMK AO1 SLP140 T01340120 55000 VANP 300730Z 12002KT 3000 HZ SCT015 SCT025 FEW030CB 35/25 Q1001 NOSIG OMSJ 300800Z 21006KT 6000 NSC 43/19 Q0999 EDAC 291750Z 21005KT CAVOK 23/12 Q1012 EDAH 300750Z 14007KT CAVOK 20/12 Q1012 EDBC 300750Z 20005KT CAVOK 19/13 Q1013 UKHH 300800Z 08004MPS 9999 -SHRA SCT030CB BKN100 23/18 Q1011 R07/0///67 NOSIG PFCL 300756Z AUTO 11003KT BKN065 13/11 A3002 RMK AO2 SLP168 T01280106 PWINO $ YYNG 300800Z AUTO 35008KT //// // ////// 08/06 Q1015 ULAA 300800Z 04002MPS CAVOK 23/05 Q1017 R08/CLRD70 NOSIG RMK QFE761/1015 EDDB 300750Z 19006KT 150V230 CAVOK 23/12 Q1013 NOSIG EDDC 300750Z 19007KT 170V240 CAVOK 20/15 Q1014 NOSIG EDDE 300750Z 19008KT 160V220 9999 FEW024 BKN130 19/13 Q1014 NOSIG EDDF 300750Z 24004KT 9999 -RA FEW014 BKN022 18/15 Q1015 NOSIG EDDG 300750Z 20010KT 170V250 9999 SCT016 BKN020 17/13 Q1011 NOSIG EDDH 300750Z 22015KT 9999 FEW026 BKN050 18/13 Q1010 NOSIG KC07 300815Z AUTO 18005KT 10SM CLR 09/03 A3055 RMK AO2 KAAA 300815Z AUTO 00000KT 10SM BKN120 15/13 A3006 RMK AO2 T01530133 KC09 300815Z AUTO 00000KT 10SM CLR 14/12 A3004 RMK AO2 T01370124 PFEL 300758Z AUTO 27009KT 10SM CLR 16/09 A3004 RMK AO2 SLP179 T01560094 401940122 EDDK 300750Z 20005KT 160V230 9999 FEW027 BKN060 18/14 Q1013 NOSIG NVVW 291500Z 00000KT 9999 SCT018 BKN040 19/19 Q1014 RMK RESH EDDL 300750Z 22012KT 9999 SCT018 BKN050 17/14 Q1012 NOSIG EDDM 300750Z 26009KT 9999 -SHRA FEW011 FEW030TCU BKN070 18/16 Q1018 TEMPO SHRA KAAF 300753Z AUTO 22006KT 10SM SCT022 28/24 A2994 RMK AO2 SLP137 T02830244 EDDN 300750Z VRB02KT 9999 SCT036 SCT056 BKN120 18/15 Q1016 NOSIG VCBI 300710Z 23006KT 190V270 9999 FEW018 31/23 Q1009 NOSIG EDDP 300750Z 20005KT 9999 -RA NSC 20/13 Q1014 NOSIG UKKK 300800Z 01005MPS 9999 BKN029 26/19 Q1013 R08/CLRD70 NOSIG VASU 291330Z 18006KT 6000 BKN020 OVC080 28/25 Q1001 EDDR 300750Z 25008KT 210V270 9999 FEW019 SCT080 18/14 Q1015 NOSIG VAUD 300800Z 14007KT 5000 HZ SCT030 35/25 Q1003 NOSIG EDDS 300750Z VRB03KT 9999 FEW010 SCT087 BKN140 18/16 Q1016 NOSIG UKKM 300800Z 02004MPS 350V060 9999 BKN032 27/19 Q1014 R33/CLRD70 NOSIG EDDT 300750Z 18008KT 140V220 CAVOK 23/10 Q1012 NOSIG ZPPP 300800Z 25007MPS 9999 FEW026TCU SCT026 SCT046 25/15 Q1015 NOSIG EDDV 300750Z VRB05KT 9999 SCT025 BKN038 16/13 Q1012 NOSIG KABE 300751Z 24003KT 10SM CLR 16/13 A3002 RMK AO2 SLP162 T01560133 $ EDFE 300750Z 19005KT 9999 FEW024 SCT035 BKN080 18/15 Q1015 EDDW 300750Z 21010KT 9999 -RA FEW018 BKN079 BKN110 17/13 Q1011 NOSIG KAAO 300754Z AUTO 21007KT 10SM CLR 23/19 A2997 RMK AO2 SLP133 T02280189 UKLI 300800Z 00000MPS 9999 FEW050 25/12 Q1017 R28/090070 NOSIG KABH 300556Z AUTO 28005KT BKN120 A3031 RMK AO2 SLPNO 51023 $ EDFH 300750Z 26007KT 220V290 9999 FEW010 SCT035 14/13 Q1015 KABI 300752Z 14005KT 10SM CLR 22/19 A3004 RMK AO2 SLP144 T02220189 TSVC 291200Z 09013KT 9999 SCT015 28/24 Q1017 UKLL 300800Z VRB01MPS CAVOK 24/13 Q1018 R31/CLRD80 NOSIG KAAT 300755Z AUTO 32008KT 10SM CLR 19/07 A3014 RMK AO2 SLP151 T01940072 403390094 KACB 300814Z AUTO 00000KT 10SM CLR 08/07 A3001 RMK AO2 T00750069 KC29 300755Z AUTO 17003KT 10SM CLR 14/13 A3003 RMK AO1 T01430126 UKLN 300800Z 32004MPS 250V020 CAVOK 24/15 Q1017 R33/09//70 NOSIG EDFM 300750Z 20005KT 160V240 CAVOK 19/15 Q1015 KC35 300815Z AUTO 00000KT 10SM CLR 12/12 A3002 RMK AO2 T01200120 UKLR 300800Z VRB01MPS 9999 FEW033 25/11 Q1017 NOSIG KABQ 300752Z 13005KT 10SM FEW120 SCT200 24/07 A3019 RMK AO2 SLP128 T02390072 KABR 300753Z AUTO 04003KT 10SM OVC100 18/14 A3001 RMK AO2 SLP155 T01830144 KACJ 300815Z AUTO 22004KT 5SM BR OVC003 22/22 A2997 RMK AO2 UKLU 300800Z 11002MPS 070V160 9999 SKC 25/14 Q1017 R10/090070 NOSIG KACK 300801Z AUTO 28004KT 1/4SM R24/1800V3000FT FG VV002 18/18 A2988 RMK AO2 T01780178 TSNO KADC 300815Z AUTO 00000KT 10SM SCT100 13/11 A2997 RMK AO2 KADF 300814Z AUTO 00000KT 1SM BR CLR 21/21 A3001 RMK AO2 VIS 1/4V5 KADG 300753Z AUTO 00000KT 10SM CLR 13/11 A3005 RMK AO2 SLP176 T01280111 KABY 300805Z AUTO 19003KT 8SM FEW003 23/22 A2997 RMK AO2 T02330222 KACP 300755Z AUTO 00000KT 7SM OVC060 23/22 A2994 RMK AO2 T02250220 KACQ 300815Z AUTO 00000KT 10SM CLR 16/15 A2999 RMK AO2 KADH 300815Z AUTO 17003KT 10SM CLR 22/18 A3001 RMK AO2 EDHI 300750Z 22011KT 180V250 9999 SCT028 BKN060 18/13 Q1010 EDGS 300750Z 23008KT 9999 FEW008 BKN040 14/14 Q1014 KACT 300751Z 36003KT 10SM CLR 23/20 A2998 RMK AO2 SLP144 T02280200 $ EDHK 300750Z 23007KT 9999 BKN049 OVC072 16/14 Q1009 KACV 300753Z AUTO 16004KT 10SM OVC008 12/11 A3004 RMK AO2 SLP176 T01220111 401670111 EDHL 300750Z 20007KT 170V230 CAVOK 18/13 Q1010 KADM 300815Z AUTO 00000KT 10SM CLR 21/21 A2999 RMK AO2 T02070207 UKOH 300800Z 34005MPS 300V030 9999 BKN026 26/21 Q1009 R03/CLRD95 NOSIG KACY 300754Z 30005KT 10SM CLR 17/14 A2999 RMK AO2 SLP155 T01720139 KAEG 300815Z AUTO 15005KT 10SM CLR 21/07 A3023 RMK AO2 T02050072 KAEJ 300815Z AUTO 00000KT 10SM BKN120 14/06 A3040 RMK AO2 T01410061 KADS 300815Z AUTO 13004KT 10SM CLR 27/20 A3000 RMK AO2 T02720202 DNAA 300800Z VRB02KT 9999 FEW008 25/21 Q1018 NOSIG EDJA 300750Z 19006KT 9999 FEW012 BKN064 17/15 Q1018 KAEL 300812Z AUTO 17004KT 10SM CLR 18/16 A2998 RMK AO2 KADU 300815Z AUTO 00000KT 10SM CLR 19/18 A2996 RMK AO2 UKON 300800Z 35006MPS 310V030 9999 SCT026CB BKN200 26/21 Q1009 NOSIG UKOO 300800Z 01008MPS 9999 SCT030 BKN200 27/20 Q1010 R34/090060 NOSIG KADW 300758Z AUTO 00000KT 10SM CLR 17/14 A3003 RMK AO2 SLP174 T01680138 $ CWAE 300100Z 18002KT 15SM FEW060 FEW210 25/12 A3008 RMK CU1CI1 CI TR LAST OBS/NEXT 301300UTC WND ESTD SLP178 DENSITY ALT 3600FT KAFF 300758Z AUTO 10003KT 10SM CLR 16/08 A3028 RMK AO2 SLP158 T01590075 CWAF 300800Z AUTO 19005KT 09/09 RMK AO1 T00920092 KAFJ 300815Z AUTO 00000KT 1SM CLR 09/08 A3009 RMK AO1 CWBA 300800Z AUTO 17004KT 10/09 RMK AO1 T00990092 KAFK 300815Z AUTO 17005KT 10SM CLR 21/21 A2994 RMK AO2 T02060206 KAGC 300753Z 15005KT 10SM DU CLR 14/12 A3007 RMK AO2 SLP184 RWY CONST DUST T01390117 KAFN 300752Z AUTO VRB04KT 10SM CLR 14/12 A2995 RMK AO2 SLP141 T01440117 TTPP 300700Z 00000KT 9999 FEW016 24/23 Q1014 NOSIG CWBE 300800Z AUTO 29005KT 15/10 RMK AO1 T01530096 KAEX 300753Z AUTO 00000KT 8SM CLR 23/22 A2993 RMK AO2 SLP136 T02280222 KAFO 300815Z AUTO 16003KT 10SM CLR 15/08 A3024 RMK AO2 TSNO KAFP 300755Z AUTO 09003KT 7SM BKN100 22/20 A2998 RMK AO2 P0001 T02150204 KC75 300815Z AUTO 00000KT 10SM SCT080 15/12 A3003 RMK AO2 T01530122 CWAQ 300800Z AUTO 31002KT 14/12 RMK AO1 SLP205 T01360123 50007 CWAR 300800Z AUTO 20012KT 16/16 RMK AO1 SLP219 T01600160 57013 PFKT 300758Z AUTO 21007KT 10SM OVC004 08/07 A3011 RMK AO2 SLP196 T00780067 CWCA 300800Z 09004KT 15SM BKN070 05/04 A3016 RMK AC6 SLP214 CWBK 300800Z AUTO 18006KT 18/17 RMK AO1 3PAST HR 5009 SLP126 P0001 T01780167 50003 PFKW 300756Z AUTO 10005KT 10SM SCT110 16/12 A2999 RMK AO2 SLP157 T01560117 CWAV 300800Z AUTO 11003KT 13/11 RMK AO1 SLP187 T01330110 56013 KAFW 300753Z 18003KT 10SM FEW250 22/19 A2998 RMK AO2 SLP136 T02220194 CWCF 300800Z AUTO 36004KT 10/07 RMK AO1 SLP216 T01020067 53003 CWBO 300800Z AUTO 11008KT 15/13 RMK AO1 SLP189 T01540133 58004 CWCI 300700Z AUTO 22009KT 12/10 RMK AO1 SLP125 T01150101 56018 KAIA 300753Z AUTO 13011KT 10SM FEW070 OVC110 16/14 A3011 RMK AO2 RAE11 SLP155 P0001 T01560144 KAGS 300753Z AUTO 17005KT 4SM BR CLR 22/21 A2995 RMK AO2 SLP141 T02170211 CWDA 300700Z AUTO 08005KT 06/06 RMK AO1 4PAST HR 8014 SLP194 P0005 T00590059 50014 CWCJ 300800Z AUTO 20003KT 12/08 RMK AO1 SLP122 T01170081 57009 CWBS 300800Z AUTO 25008KT 17/14 RMK AO1 T01660143 EDMA 300750Z 16004KT 140V210 9999 RA FEW008 BKN039 17/17 Q1017 KAIB 300755Z AUTO 18003KT 10SM TS OVC110 20/10 A3029 RMK AO2 LTG DSNT SE CWBT 300800Z AUTO 08009G15KT 11/11 RMK AO1 8PAST HR 6031 SLP098 P0007 T01110111 50034 KAID 291948Z 31005KT 10SM SCT055 23/11 A3011 CWBU 291900Z AUTO 04008KT 21/12 RMK AO1 SLP218 T02140122 53003 CWDC 300800Z AUTO 08002KT 11/07 RMK AO1 SLP226 T01120073 55003 CWBV 300800Z AUTO 18012KT 14/ RMK AO1 SLP139 T0144 56015 KAHN 300751Z AUTO 00000KT 10SM CLR 21/21 A2996 RMK AO2 SLP135 T02110206 EDLN 300750Z VRB07G17KT 9999 BKN020 BKN060 17/13 Q1012 CWCO 302300Z AUTO 32008KT 22/06 RMK AO1 SLP151 T02160058 56004 KAIG 300815Z AUTO 00000KT 10SM CLR 10/10 A3001 RMK AO2 T01020096 CWBY 300800Z AUTO 08012KT 10/10 RMK AO1 5025 PK WND 07017/0701 SLP084 T00960096 50018 EDLP 300750Z 22010KT 9999 SCT022 SCT035 16/13 Q1013 KAHQ 300815Z AUTO 00000KT 10SM CLR 20/19 A2994 RMK AO2 T02010188 CWBZ 300800Z AUTO 24004KT 15/14 RMK AO1 SLP134 T01490143 52001 UMBB 300800Z 22003MPS CAVOK 26/12 Q1016 R29/CLRD// NOSIG OOMS 300750Z 07011KT 8000 SCT030 BKN100 33/25 Q0999 NOSIG KD07 300756Z AUTO 31007KT 15/13 A3008 RMK AO1 SLP171 T01500128 CWDJ 300800Z AUTO 08009KT 14/11 RMK AO1 SLP229 T01440106 53010 KAIK 300815Z AUTO 00000KT 7SM CLR 21/21 A3000 RMK AO2 KBAB 300758Z AUTO 19005KT 10SM CLR 21/13 A2980 RMK AO2 SLP093 T02050130 403830187 $ CWEB 300800Z AUTO 31013KT 13/12 RMK AO1 SLP232 T01320124 51016 CWDK 300800Z AUTO 09002KT 17/15 RMK AO1 SLP198 T01690150 56003 CWCT 300800Z AUTO 12007KT 15/14 RMK AO1 SLP220 T01490140 54000 KBAC 300815Z AUTO 36009G14KT 10SM BKN085 OVC110 16/16 A3004 RMK AO2 KBAD 300758Z AUTO 07003KT 10SM CLR 24/22 A2998 RMK AO2 SLP153 T02350217 CWDM 300800Z AUTO 04009KT 08/08 RMK AO1 0PAST HR 6023 SLP147 P0004 T00780076 50012 EDLV 300750Z 20009KT 9999 SCT013 BKN020 16/14 Q1011 PFNO 300758Z AUTO 33004KT 10SM CLR 17/09 A3004 RMK AO2 SLP172 T01720089 CWEE 300700Z AUTO 08/08 RMK AO1 SLP111 T00780075 58005 EDLW 300750Z 22011KT 180V240 9999 FEW017 BKN065 16/12 Q1012 KBAF 300753Z 02003KT 10SM CLR 17/14 A2994 RMK AO2 SLP135 T01720139 KAIO 300815Z AUTO 17007KT 10SM BKN050 OVC060 21/19 A2994 RMK AO2 CWEF 300700Z AUTO 17022G28KT 16/15 RMK AO1 PK WND 18030/0622 SLP139 T01570152 57009 CWDO 300800Z AUTO 14008KT 11/10 RMK AO1 6PAST HR 8021 SLP188 P0014 T01050099 50080 EDMO 300750Z 20004KT 9999 -RA SCT052 BKN075 16/16 Q1018 KAJG 300815Z AUTO 00000KT 10SM CLR 15/14 A3006 RMK AO2 T01470137 CWDQ 300800Z AUTO 00000KT 13/12 RMK AO1 SLP127 T01280119 57002 CWEH 300800Z AUTO 08008KT 13/11 RMK AO1 SLP217 T01340112 56001 EEEI 300650Z VRB02KT CAVOK 20/17 Q1012 NOSIG KBAK 300145Z 00000KT 10SM FEW060 19/15 A3005 RMK LAST KAIT 300813Z AUTO 00000KT 10SM SCT110 15/12 A2994 RMK AO2 KBBB 300814Z AUTO 00000KT 10SM CLR 14/12 A2996 RMK AO2 CWDT 300600Z AUTO 33003KT 13/12 RMK AO1 SLP125 T01280122 58010 CWEK 300800Z AUTO 22010KT 13/12 RMK AO1 SLP205 T01300118 55001 CWEL 300800Z AUTO 15013KT 16/14 RMK AO1 SLP197 T01590141 51012 NWWW 300800Z AUTO 35001KT 9999 FEW037 SCT072 19/13 Q1018 NOSIG CWDV 300800Z AUTO 30002KT 14/14 RMK AO1 SLP134 T01410139 53001 CWFD 300800Z AUTO ///// FEW042 OVC055 04/ A2979 RMK SLP135 KBAN 300752Z AUTO 00000KT 10SM CLR 12/M04 A3026 RMK AO2 SLP132 T01221039 403110089 $ KAJO 300756Z AUTO 27006KT 10SM CLR 20/17 A2987 RMK AO2 SLP118 T02000172 403500189 $ KBBF 300815Z AUTO 23007KT 10SM FEW025 SCT038 OVC046 29/23 A2991 RMK A01 KBBG 300755Z AUTO 00000KT 10SM OVC065 20/19 A3005 RMK AO2 ULLI 300800Z 15002MPS 110V240 9999 FEW033 24/14 Q1015 R88/090060 NOSIG CWFF 300800Z AUTO 15003KT 11/07 RMK AO1 SLP257 T01070067 51007 KD25 300815Z AUTO 00000KT 1 1/4SM BR OVC048 10/10 A2999 RMK AO2 T01040104 CWEP 300800Z AUTO 17011KT 16/15 RMK AO1 SLP135 T01560149 55009 KAKH 300754Z AUTO 03005KT 7SM CLR 21/19 A2999 RMK AO2 SLP145 T02110194 TSNO KAIZ 300756Z AUTO 11004KT 10SM CLR 20/17 A3003 RMK AO2 SLP177 T02000172 CWDZ 300800Z AUTO 15007KT 17/14 RMK AO1 T01660138 CWEQ 300800Z AUTO 31002KT 09/08 RMK AO1 SLP242 T00880076 53002 KAJR 300815Z AUTO 02005KT 10SM CLR 21/18 A3000 RMK AO2 T02110182 CWER 300800Z AUTO 30001KT RMK AO1 CWFJ 300700Z AUTO 16002KT 16/12 RMK AO1 T01550117 KALB 300751Z 27003KT 10SM FEW080 17/13 A2997 RMK AO2 SLP147 T01670133 KBCB 300815Z AUTO 00000KT 10SM OVC085 18/14 A3012 RMK AO2 T01760140 TSNO CWGB 300800Z AUTO 11007KT 18/16 RMK AO1 SLP194 T01800162 51013 CWEU 300800Z 14017KT 15SM FEW007 FEW015 BKN040 03/M00 A2951 RMK SF1SC1SC5 SLP995 CWGD 300800Z AUTO 09003KT 09/07 RMK AO1 SLP169 T00930074 55002 KBCE 300753Z AUTO 26006KT 10SM CLR 11/09 A3034 RMK AO2 SLP150 T01060094 CWEW 300800Z AUTO 29001KT 13/12 RMK AO1 SLP139 T01290115 53001 KAKO 300753Z AUTO 23009KT 10SM -RA FEW075 FEW110 17/12 A3014 RMK AO2 RAB50 SLP146 P0000 T01720122 KBAX 300814Z AUTO 00000KT 10SM CLR 11/06 A3002 RMK AO2 T01060063 KBBP 300815Z AUTO 00000KT 10SM SCT021 25/23 A2996 RMK AO2 LTG DSNT SE EDOP 300750Z 18010KT CAVOK 19/11 Q1011 EDNY 300750Z VRB02KT 9999 -RA SCT039 OVC083 18/17 Q1017 KBAZ 300751Z AUTO 03004KT 10SM CLR 24/22 A2994 RMK AO2 SLP130 T02440222 KAJZ 300815Z AUTO 00000KT 10SM CLR 20/11 A3021 RMK AO2 T01980114 KAKQ 300754Z AUTO 00000KT 10SM SCT044 BKN100 OVC120 22/19 A3001 RMK AO2 RAE02 SLP160 P0000 T02170194 TSNO CWEZ 300800Z AUTO 23011KT 13/10 RMK AO1 SLP196 T01330103 52003 CWFQ 300800Z AUTO 16002KT 15/15 RMK AO1 SLP138 T01470147 53002 KALI 300753Z AUTO 21005KT 10SM CLR 24/23 A2993 RMK AO2 SLP131 T02390228 $ KAKR 300754Z AUTO 00000KT 10SM CLR 13/11 A3007 RMK AO2 SLP178 T01280106 KAMA 300753Z AUTO 00000KT 10SM CLR 22/16 A3013 RMK AO2 LTG DSNT NE AND SE SLP143 T02220161 ULMM 300800Z 20002MPS 9999 SCT040 18/07 Q1016 R31/090070 NOSIG RMK QFE754 KD39 300813Z AUTO 00000KT 10SM CLR 14/11 A2997 RMK AO2 T01350108 KBCK 300815Z AUTO 00000KT 10SM SCT050 10/10 A2999 RMK AO2 T00970097 KALK 300756Z AUTO 28005KT 10SM SCT120 19/17 A3015 RMK AO2 SLP118 T01940167 CWGL 300800Z AUTO 33003KT 14/10 RMK AO1 SLP159 T01390103 55000 KALM 300815Z AUTO 14009KT 10SM CLR 26/10 A3013 RMK AO2 CWGM 300800Z AUTO 24002KT 09/08 RMK AO1 T00880080 KBBW 300753Z AUTO 00000KT 10SM CLR 16/14 A3002 RMK AO2 SLP146 T01560144 KBDE 300753Z AUTO 33003KT 10SM FEW085 14/13 A2997 RMK AO2 SLP151 T01440128 TSNO KALN 300815Z AUTO 00000KT 10SM CLR 15/13 A3006 RMK AO2 T01450125 KALO 300754Z AUTO 16004KT 10SM FEW060 18/16 A3000 RMK AO2 SLP155 T01780156 KAMG 300802Z AUTO 00000KT 7SM BKN003 22/22 A2997 RMK AO2 T02220217 KBDG 300815Z AUTO 33008KT 10SM BKN110 19/12 A3028 RMK AO1 T01900116 KBDH 300815Z AUTO 00000KT 10SM CLR 18/14 A2997 RMK AO2 NZAA 300800Z AUTO 17010KT 9999 SCT014/// BKN065/// 12/11 Q1008 TEMPO 6000 SHRA OOSA 300750Z 19008KT 1800 DZ SCT005 BKN010 OVC018 27/26 Q1004 TEMPO 3500 CWHI 300700Z AUTO 11005KT 13/12 RMK AO1 T01340122 CWGR 300800Z AUTO 19016G23KT 16/16 RMK AO1 PK WND 18023/0738 SLP123 T01610161 56009 ZSAM 300800Z 24004MPS 180V270 9999 FEW023 FEW023TCU FEW033CB 29/27 Q1010 NOSIG KALS 300752Z AUTO 18005KT 10SM CLR 11/09 A3036 RMK AO2 SLP184 T01110094 KBEA 300815Z AUTO 00000KT 10SM CLR 25/25 A2993 RMK AO2 T02510251 KBCT 300247Z 18003KT 10SM CLR 28/24 A3004 RMK LAST. KANB 300753Z AUTO 22003KT 10SM CLR 21/16 A2997 RMK AO2 SLP139 T02060161 KD50 300815Z AUTO 05004KT 10SM FEW055 13/13 A3019 RMK AO2 DNIB 291800Z 15010KT 9999 SCT012 27/23 Q1013 CWGT 300800Z AUTO 21014KT 18/13 RMK AO1 PK WND 22017/0701 SLP195 T01780127 53007 KBDL 300751Z 30003KT 10SM CLR 18/14 A2993 RMK AO2 SLP134 T01780139 CWHL 300800Z AUTO 19001KT 13/12 RMK AO1 SLP207 T01270117 55003 KAND 300756Z AUTO 10003KT 10SM CLR 21/19 A2997 RMK AO2 SLP139 T02110189 KBED 300756Z AUTO 00000KT 10SM CLR 16/13 A2990 RMK AO2 SLP134 T01560133 CWID 300700Z AUTO 12002KT 16/12 RMK AO1 SLP177 T01550122 58004 CWHM 300800Z AUTO 19001KT 13/11 RMK AO1 T01250113 KALW 300753Z AUTO 20013KT 10SM CLR 23/11 A2999 RMK AO2 SLP145 T02280106 403560194 EDQM 300750Z 19006KT CAVOK 17/12 Q1016 KANE 300814Z AUTO 00000KT 10SM CLR 16/14 A2996 RMK AO2 KBDN 300815Z AUTO 00000KT 10SM CLR 14/07 A3016 RMK AO2 KAMN 300812Z AUTO 26006KT 10SM CLR 08/08 A3004 RMK AO2 T00770075 CWGW 300800Z AUTO 02005KT 16/11 RMK AO1 SLP190 T01590108 56004 CWHN 300800Z AUTO 18004KT 140V230 9SM CLR 14/10 A3022 RMK SLP241 KALX 300815Z AUTO 00000KT 10SM CLR 23/22 A2996 RMK AO2 T02250221 CWGX 300800Z AUTO 24004KT 03/02 RMK AO1 SLP229 T00330022 57003 CWHO 300800Z AUTO 00027KT 10/06 RMK AO1 SLP197 T00980064 55010 KD55 300815Z AUTO 36010G19KT 10SM SCT011 13/13 A3012 RMK AO2 PFSH 300758Z AUTO 23007KT 10SM CLR 16/12 A3006 RMK AO2 SLP195 T01560122 CWIG 300800Z AUTO 01001KT RMK AO1 CWGY 300800Z AUTO 10010KT 15/13 RMK AO1 SLP224 T01520130 50001 KBEH 300753Z AUTO 10003KT 10SM FEW065 11/09 A3005 RMK AO2 SLP175 T01060089 CWGZ 300000Z 20004KT 150V210 15SM OVC006 01/M00 A2976 RMK ST8 6.5/0.4/1/0 LAST STFD OB/NEXT 301200 SLP085 ULPB 300800Z AUTO 11002MPS 050V190 9999 // NCD 22/15 Q1015 RMK QFE758/1010 CWHQ 300800Z AUTO 22002KT 14/14 RMK AO1 T01420142 KBDR 300752Z 34006KT 10SM CLR 21/14 A2994 RMK AO2 SLP138 T02060139 KD57 300815Z AUTO RMK AO2 PNO PWINO TSNO CWII 300800Z AUTO 02010G17KT 14/10 RMK AO1 PK WND 01017/0755 T01350095 KANJ 300755Z AUTO 07003KT 10SM OVC070 13/07 A2997 RMK AO2 SLP145 T01280067 CWIJ 300800Z AUTO 19006KT 14/06 RMK AO1 SLP212 T01370056 57003 KD60 300755Z AUTO 06005KT 10SM CLR 12/12 A3021 RMK AO2 KANK 300815Z AUTO 23008KT 10SM BKN120 15/07 A3044 RMK AO1 T01460072 OPKC 300755Z 18008KT 4000 FU SCT020 34/23 Q1000 NOSIG CWHT 291300Z AUTO 08001KT 01/M00 RMK AO1 SOG 67 0000 SLP229 T00141002 CWIK 300800Z AUTO 10001KT 12/10 RMK AO1 T01150099 53014 CWJB 300800Z AUTO 00000KT 14/14 RMK AO1 T01410136 EDSB 300750Z 20012KT 9999 SCT049 SCT070 20/17 Q1015 KBDU 300816Z AUTO 13004KT 10SM CLR 19/10 A3016 RMK AO2 UKWW 300800Z 36006MPS 9999 SCT033 25/17 Q1014 R31/0///65 NOSIG DNIL 291100Z 27005KT 9999 BKN010 26/22 Q1017 ULOO 300800Z 15003MPS 090V210 P5000 NSC 24/16 Q1015 R19/090070 NOSIG RMK QFE757 CWIL 300800Z AUTO 21010KT 05/ A3008 RMK SLP194 KBFD 300804Z AUTO 00000KT 3SM BR CLR 07/06 A3008 RMK AO2 T00670056 DNIM 291100Z 30005KT 9999 BKN013 29/24 Q1015 NOSIG CWJD 300800Z AUTO 04005KT 11/07 RMK AO1 SLP244 T01140069 53007 CWHV 300800Z AUTO 32001KT 14/14 RMK AO1 SLP124 T01440144 53002 KAMW 300753Z AUTO 12003KT 10SM SCT039 BKN060 BKN085 18/17 A2998 RMK AO2 SLP144 T01830172 UMGG 300800Z 34005G08MPS 9999 BKN024 25/17 Q1015 R28/CLRD// NOSIG NZAP 300800Z 16009KT 30KM BKN095 07/03 Q1009 RMK ALT VATSIM USE ONLY KBFF 300753Z AUTO 17005KT 10SM CLR 17/13 A3011 RMK AO2 WSHFT 0646 SLP150 T01670133 CXAF 300700Z AUTO 12006KT 15/12 RMK AO1 T01490122 TUPJ 300200Z 11008KT 9999 SCT019 SCT260 28/23 Q1019 RMK A3010 CXAG 300700Z AUTO 12008KT 15/12 RMK AO1 T01460118 CWIP 300800Z AUTO 12002KT 11/ RMK AO1 6PAST HR M P0006 T0112 50028 KAOH 300753Z AUTO 00000KT 10SM CLR 14/12 A3006 RMK AO2 SLP176 T01440122 KANQ 300855Z AUTO 00000KT 10SM 13/06 A3006 RMK OPLA 300755Z 00000KT 5000 HZ SCT040 SCT100 40/27 Q1000/A29.55 TEMPO 05030KT 1500 TSRA FEW030CB CWJH 300800Z AUTO 22001KT 06/05 RMK AO1 SLP260 T00620050 53002 KBFI 300753Z 24005KT 10SM CLR 16/13 A3018 RMK AO2 SLP221 T01560133 402330139 CWJI 300800Z AUTO 05006KT 13/11 RMK AO1 SLP227 T01300106 50005 KAPA 300753Z 18007KT 10SM FEW120 BKN200 18/10 A3022 RMK AO2 SLP153 T01780100 PHBK 300756Z AUTO 03003KT 10SM CLR 26/21 A3006 RMK AO2 SLP180 T02560206 CXBA 300700Z AUTO 15006KT 15/13 RMK AO1 T01540133 CXAJ 300700Z AUTO 11003KT 15/11 RMK AO1 T01500113 CWIS 300800Z AUTO 23003KT 10/10 RMK AO1 SLP119 T00990099 56003 EEKA 300750Z 16007KT 9999 FEW009 SCT018CB 19/17 Q1011 CXAK 300700Z AUTO 13012KT 16/14 RMK AO1 T01550138 KBFL 300754Z AUTO 35004KT 10SM CLR 26/10 A2983 RMK AO2 SLP093 T02610100 404220256 KAPC 300754Z AUTO 22009KT 8SM OVC013 13/12 A2989 RMK AO2 SLP113 T01330117 402280100 KBGD 300751Z AUTO 07007KT 10SM VCTS -RA FEW055 SCT090 OVC110 22/19 A3012 RMK AO2 LTG DSNT E-S TSE44 SLP151 P0019 T02220189 KBFM 300816Z 00000KT 9SM CLR 23/23 A2994 RMK AO2 T02330228 CWKD 300700Z AUTO 30003KT 12/11 RMK AO1 SLP124 T01170111 56011 KBGE 300815Z AUTO 00000KT 10SM CLR 23/22 A2995 RMK AO2 KANW 300815Z AUTO 28007KT 10SM CLR 17/16 A3005 RMK AO2 T01650155 CWIW 300800Z AUTO 05004KT 10/08 RMK AO1 SLP247 T00980082 53007 KAPF 300753Z AUTO 07004KT 10SM CLR 25/23 A2997 RMK AO2 SLP149 T02500233 KAOO 300753Z AUTO 24003KT 10SM CLR 12/10 A3010 RMK AO2 SLP189 T01170100 EEKE 300750Z 25009KT 210V290 9999 FEW008 19/15 Q1012 KBGF 300815Z AUTO 00000KT 6SM CLR 14/14 A3004 RMK KAPG 292345Z 31003KT 7SM FEW060 25/14 A2994 CWIX 300700Z AUTO 26003KT 14/13 RMK AO1 SLP109 T01420132 58003 CWJO 300800Z AUTO 27006KT 14/14 RMK AO1 SLP120 T01420137 55001 NZCH 300800Z AUTO 26006KT 230V290 9999 FEW028/// SCT050/// 06/04 Q1020 NOSIG NZCI 300748Z 21012KT 20KM SCT045 BKN060 10/05 Q1012 RMK NZNR VATSIM USE ONLY CWIY 300800Z AUTO 21003KT 15/15 RMK AO1 SLP100 T01530149 55003 CWKG 300800Z AUTO 18005KT 18/18 RMK AO1 SLP125 T01830175 55007 CWKH 300800Z AUTO 16/04 RMK AO1 SLP189 T01570042 53005 CWIZ 300800Z AUTO 17003KT 13/12 RMK AO1 T01250124 CXBI 300800Z AUTO 29004KT 10/07 RMK AO1 SLP165 T00990073 50001 CWJR 300800Z AUTO 23002KT 21/10 RMK AO1 SLP139 T02070097 50003 CXCA 300800Z AUTO 35001KT 14/14 RMK AO1 SLP111 T01400135 55002 KBHB 300817Z AUTO 00000KT 2SM BR OVC003 16/16 A2987 RMK AO2 NZCM 300555Z 00000KT 9999 -SN SCT040 BKN120 M26/M31 A2901 RMK SLP831 CXAT 300700Z AUTO 34003KT 04/01 RMK AO1 SLP121 T00440013 CWKK 300700Z AUTO 29006KT 14/13 RMK AO1 SLP110 T01370133 58004 CWJT 300800Z AUTO 00000KT 09/09 RMK AO1 SLP139 T00860086 51002 CWLB 300800Z AUTO 16007KT 17/09 RMK AO1 SLP216 T01740093 50000 CXBK 300800Z AUTO 04007KT 11/10 RMK AO1 SLP220 T01060095 53008 KBHC 300815Z AUTO 00000KT 7SM CLR 22/22 A2997 RMK AO2 PNO EDTL 300750Z 19010KT 9999 FEW012 BKN070 19/15 Q1016 CWJU 300700Z AUTO 32007KT 11/11 RMK AO1 2PAST HR 8004 SLP207 P0001 T01130109 50002 CWLC 300800Z AUTO 19003KT 13/13 RMK AO1 T01280128 KBGM 300753Z AUTO 29004KT 10SM CLR 13/12 A3004 RMK AO2 SLP168 T01330117 $ CXCD 300700Z AUTO 36002KT 14/14 RMK AO1 T01440135 CWJV 300800Z AUTO 10004KT 19/15 RMK AO1 SLP133 T01890148 53004 CWKM 300800Z AUTO 36005KT 04/ A3020 RMK SLP231 KBFW 300816Z AUTO 00000KT 10SM -RA BKN090 BKN110 16/15 A2991 RMK AO2 KAPN 300754Z AUTO 00000KT 10SM CLR 07/04 A3001 RMK AO2 SLP162 T00670039 DNKN 300700Z 25007KT CAVOK 25/23 Q1016 NOSIG CWLE 300800Z AUTO 10007KT 12/10 RMK AO1 SLP237 T01210104 51006 CWJW 300800Z AUTO 03004KT 18/11 RMK AO1 SLP150 T01830106 56011 CWKO 300800Z AUTO 06002KT 13/12 RMK AO1 SLP225 T01250121 50006 VCRI 300710Z 27014KT 220V300 9999 SCT017 SCT280 34/18 Q1008 NOSIG CWJX 300800Z AUTO 10011KT 16/14 RMK AO1 SLP216 T01560135 53003 CXBO 300800Z AUTO 24002KT RMK AO1 UMII 300800Z 36002MPS 9999 BKN026 22/16 Q1016 R05/CLRD// NOSIG UNAA 300800Z VRB01MPS CAVOK 26/14 Q1005 R20/090065 NOSIG RMK QFE731 CWKP 300800Z AUTO 30010KT 07/ A3000 RMK SLP179 CXCH 300800Z AUTO 20/17 RMK AO1 T02020170 KBGR 300753Z 28005KT 1/2SM R15/1800V3000FT FG OVC002 18/16 A2987 RMK AO2 SLP111 T01780161 $ CXBR 300700Z AUTO 30003KT 16/14 RMK AO1 T01620136 CWLI 300800Z AUTO 02009KT 06/ A3010 RMK SLP204 KARA 300753Z AUTO 00000KT 7SM CLR 23/22 A2994 RMK AO2 SLP137 T02330222 KARB 300753Z AUTO 26003KT 10SM CLR 09/08 A3003 RMK AO2 SLP168 T00890078 KBHK 300751Z AUTO 17005KT 10SM CLR 13/11 A3015 RMK AO2 SLP193 T01280106 DNKT 291000Z 32004KT CAVOK 29/18 Q1016 CXDB 300700Z AUTO 19010KT 15/12 RMK AO1 4PAST HR M P0025 T01480122 50064 CXCK 300800Z AUTO 05001KT 14/12 RMK AO1 8002 SLP142 T01440118 50007 NZDN 300739Z 03003KT 20KM SCT050 03/02 Q1021 RMK VATSIM USE ONLY KBHM 300753Z 00000KT 10SM CLR 21/17 A3001 RMK AO2 SLP151 T02110172 $ KBID 300756Z AUTO 29004KT 10SM CLR 18/16 A2992 RMK AO2 SLP134 T01830161 CWLM 300800Z AUTO 25017G26KT 12/10 RMK AO1 PK WND 26026/0756 SLP203 T01230101 51007 KBIE 300815Z AUTO 20004KT 10SM CLR 22/19 A2996 RMK AO2 T02170192 CXBW 300700Z AUTO 09006KT 16/14 RMK AO1 T01640142 CWME 300700Z AUTO 24014KT 15/12 RMK AO1 PK WND 24017/0616 SLP217 T01500117 50002 CXDE 300800Z AUTO 09002KT 09/05 RMK AO1 SLP165 T00900054 55004 CWKW 300800Z AUTO ///// A3006 EDVE 300750Z 21007KT 170V240 9999 FEW045 BKN051 18/11 Q1012 KAQO 300815Z AUTO 07003KT 10SM CLR 24/24 A3003 RMK AO2 KBIF 300758Z AUTO 12005KT 10SM CLR 26/12 A3009 RMK AO2 SLP116 T02620121 CWKX 300800Z AUTO 00000KT 12/10 RMK AO1 SOG 13 1006 SLP186 T01230099 KD95 300813Z AUTO 00000KT 10SM CLR 09/07 A3003 RMK AO2 T00870071 KARG 300815Z AUTO 05003KT 10SM CLR 22/18 A3003 RMK AO1 KAQP 300815Z AUTO 00000KT 10SM SCT110 17/14 A2995 RMK AO2 KAPY 300815Z AUTO 15003KT 10SM CLR 26/21 A2993 RMK AO2 T02580218 OPNH 300800Z 13508KT 7000M FEW035 FEW100 37/26 Q0999 CXCP 300800Z AUTO 25004KT 14/13 RMK AO1 T01420127 CWLP 300800Z AUTO 35001KT 12/11 RMK AO1 SLP236 T01160107 51002 EDTY 300750Z 23005KT CAVOK 17/15 Q1016 KBIH 300756Z AUTO 32006KT 10SM CLR 22/06 A3004 RMK AO2 SLP110 T02220056 403830167 TSNO UNBB 300800Z 25005MPS 9999 BKN040 24/10 Q1003 R24/CLRD66 NOSIG RMK QFE730 KAQR 300815Z AUTO 00000KT 10SM CLR 21/20 A3000 RMK AO2 CXDI 300800Z AUTO 00000KT 06/04 RMK AO1 SLP168 T00570036 58003 OPMT 300759Z 31004KT 4000 HZ SCT040 SCT120 39/24 Q0998 NOSIG KBIJ 300815Z AUTO 00000KT 7SM CLR 24/23 A2995 RMK AO2 CXCS 300700Z AUTO 10007KT 14/12 RMK AO1 T01380115 CWMJ 300800Z AUTO 26002KT 10/10 RMK AO1 SLP136 T01040099 53001 CWLS 300800Z AUTO 00000KT 08/07 RMK AO1 SLP172 T00810066 58002 CXEA 300800Z AUTO 02008KT 11/09 RMK AO1 SLP168 T01120092 52011 CWNB 300700Z AUTO RMK AO1 58003 EDVK 300750Z 20005KT 140V240 9999 FEW020 SCT048 BKN064 17/14 Q1013 CXDK 300800Z AUTO 00000KT 14/14 RMK AO1 SLP157 T01410136 58013 KBJC 300814Z AUTO 18003KT 10SM CLR 18/12 A3020 RMK AO2 KBIL 300753Z 01006KT 10SM FEW150 BKN200 19/09 A3015 RMK AO2 SLP176 T01940089 KE11 300815Z AUTO 17005KT 10SM CLR 22/16 A3009 RMK AO2 T02160158 KAQV 300756Z AUTO 00000KT 5SM BR CLR 22/22 A2995 RMK AO2 SLP138 T02220217 CWNC 300800Z AUTO 32005KT 15/07 RMK AO1 SLP149 T01450067 50000 CXEC 300800Z AUTO 13008KT 19/14 RMK AO1 SLP195 T01880135 57006 KASD 300753Z AUTO 02004KT 9SM CLR 22/22 A2993 RMK AO2 SLP134 T02220222 KCAD 300815Z AUTO 00000KT 10SM CLR 06/04 A3003 RMK AO2 T00630046 KARM 300815Z AUTO 00000KT 5SM BR CLR 23/22 A2994 RMK AO2 T02310221 CWND 300325Z M01/M01 RMK 0003 T10131010 CWMM 300800Z AUTO 17001KT 15/10 RMK AO1 SLP208 T01510103 53008 DNMM 300800Z 27003KT 8000 SCT010 26/24 Q1017 NOSIG KASE 300753Z 13011KT 10SM SCT100 14/08 A3037 RMK AO2 SLP149 T01440083 KAQW 300752Z AUTO 00000KT 8SM BKN028 13/12 A2997 RMK AO2 SLP149 T01330122 KCAE 300756Z 12005KT 7SM CLR 24/22 A2996 RMK AO2 SLP139 T02390222 DNMN 291700Z 20012KT 9999 SCT010 FEW020CB 30/23 Q1009 CWNE 300800Z AUTO 16006KT 13/12 RMK AO1 SLP098 T01310124 56011 KAQX 300815Z AUTO 00000KT 6SM BR BKN002 22/21 A2996 RMK AO2 LTG DSNT E VEBI 300700Z 13010KT 40000 RA SCT020 BKN100 27/23 Q1008 BECMC 5000 BR KASG 300148Z 13004KT 10SM SCT085 26/18 A3004 CWLX 300800Z AUTO 28005KT 08/ A2992 RMK SLP142 KCAG 300753Z AUTO 35004KT 10SM CLR 15/08 A3026 RMK AO2 SLP158 T01500078 CXDP 300700Z AUTO 11007KT 15/14 RMK AO1 T01480143 CXEG 300800Z AUTO 17/14 RMK AO1 T01720135 CWLY 300800Z AUTO 22009G26KT 190V250 9SM CLR 23/12 A2997 RMK SLP145 DENSITY ALT 1700FT KASH 300756Z AUTO 00000KT 10SM CLR 16/14 A2991 RMK AO2 SLP138 T01610139 KE16 300815Z AUTO 00000KT 10SM FEW017 12/10 A2995 RMK AO2 VEAT 300800Z 20004KT 6000 SCT020 BKN100 34/27 Q1001 NOSIG UMKK 300800Z VRB01MPS CAVOK 22/11 Q1015 R24/CLRD70 NOSIG RMK QFE760/1014 CWMQ 300800Z AUTO 03001KT 14/11 RMK AO1 SLP211 T01390110 58001 CWNH 300800Z AUTO 21002KT 10/10 RMK AO1 SLP114 T01020101 55002 ZSHC 300800Z 23004MPS 170V260 9999 FEW023 33/26 Q1007 NOSIG KARR 300752Z AUTO 00000KT 10SM CLR 13/11 A3005 RMK AO2 SLP173 T01330111 KBJI 300812Z AUTO 34005KT 10SM SCT110 15/14 A2997 RMK AO2 T01460136 PFWS 300756Z AUTO 00000KT 10SM CLR 12/10 A3003 RMK AO2 SLP175 T01220100 KASJ 300755Z AUTO 00000KT 5SM BR SCT090 20/20 A3000 RMK AO2 T01980195 KBIS 300752Z AUTO 34004KT 10SM CLR 17/13 A3009 RMK AO2 SLP181 T01670133 KBJJ 300756Z AUTO 00000KT 10SM CLR 11/10 A3008 RMK AO2 SLP183 T01110100 VECC 300800Z 08007KT 3500 HZ SCT018 SCT025 FEW030CB 34/26 Q0999 TEMPO TL0945 2000 TSRA KBKB 300654Z AUTO 00000KT 5SM BR CLR 23/22 A2993 RMK AO2 SLP161 T02280217 KCAK 300751Z 00000KT 10SM CLR 13/09 A3008 RMK AO2 SLP181 T01330094 KART 300756Z AUTO 19005KT 10SM CLR 14/12 A2997 RMK AO2 SLP145 T01440122 VEBN 300800Z 07007KT 6000 SCT025 39/24 Q0999 CWNK 300800Z AUTO 35008KT 12/10 RMK AO1 T01230097 CWMT 300800Z AUTO 16005KT 19/11 RMK AO1 SLP180 T01890107 58003 CWOB 300800Z AUTO 35007KT 07/ A2996 RMK SLP178 KASL 300815Z AUTO 00000KT 7SM CLR 21/20 A3000 RMK AO1 T02110198 CWNL 300700Z AUTO 33002KT 14/11 RMK AO1 SLP154 T01350108 58008 CWOC 300800Z AUTO 21003KT 18/18 RMK AO1 SLP083 T01820178 50001 KBIV 300753Z AUTO 00000KT 10SM CLR 12/11 A3005 RMK AO2 SLP175 T01220106 KARV 300755Z AUTO 00000KT 10SM CLR 14/12 A2999 RMK AO2 LTG DSNT NW T01380120 KBKD 300755Z AUTO 15009KT 7SM CLR 24/18 A3001 RMK AO2 T02400182 CWOD 300800Z AUTO 29005KT 12/12 RMK AO1 SLP101 T01230122 57003 CWNM 300800Z AUTO 23003KT 16/12 RMK AO1 SLP135 T01570115 50003 ZSFZ 300800Z 10004MPS 080V140 9999 FEW008 FEW020TCU 31/26 Q1010 NOSIG KARW 300815Z AUTO 00000KT 1/2SM FG VV005 23/23 A2996 RMK AO2 LTG DSNT E KCBE 300809Z AUTO 06003KT 10SM CLR 13/13 A3012 RMK AO1 KBKE 300753Z AUTO 30005KT 10SM CLR 17/07 A3005 RMK AO2 SLP142 T01720067 403390117 TSNO KASN 300815Z AUTO 00000KT 10SM CLR A2998 RMK AO2 CWOE 300800Z AUTO 07011KT 16/13 RMK AO1 SLP201 T01580131 58002 CXDW 300800Z AUTO 35007KT 12/11 RMK AO1 SLP208 T01160108 53014 KCAO 300755Z AUTO 02010KT 10SM OVC100 18/15 A3022 RMK AO2 LTG DSNT SW SLP149 T01780150 KCBF 300815Z AUTO 15006KT 10SM CLR 21/20 A2994 RMK AO2 KBIX 300758Z AUTO 04003KT 10SM CLR 23/23 A2993 RMK AO2 SLP138 T02330233 KBKF 300758Z 19008KT 7SM SCT150 BKN200 17/11 A3021 RMK AO2A SLP146 T01720111 KCBG 300815Z AUTO 00000KT 10SM CLR 15/10 A2994 RMK AO2 CWNP 300800Z AUTO 07002KT 16/14 RMK AO1 SLP129 T01550135 50002 VEBS 300800Z 05004KT 5000 HZ SCT018 FEW030CB 32/28 Q0998 TEMPO 1500 TSRA CWMZ 300700Z AUTO 26013KT 16/10 RMK AO1 PK WND 27017/0623 SLP154 T01610104 58003 CWNQ 300800Z AUTO 14001KT 13/12 RMK AO1 SLP125 T01290123 55000 KCAR 300754Z AUTO 00000KT 10SM FEW008 OVC015 16/16 A2982 RMK AO2 SLP100 T01610156 KCCA 300815Z AUTO 00000KT 7SM FEW002 A3004 RMK AO2 KAST 300755Z AUTO 33009KT 10SM OVC016 15/11 A3024 RMK AO2 SLP241 T01500111 401720139 KCBK 300755Z AUTO 00000KT 10SM SCT120 20/15 A3014 RMK AO2 CXET 300800Z AUTO 20003KT 08/06 RMK AO1 SLP165 T00840056 50000 KATL 300752Z 25003KT 10SM BKN110 BKN200 BKN250 24/18 A2995 RMK AO2 SLP130 T02390178 EFET 300750Z AUTO 23006KT 180V250 9999 SCT038 19/10 Q1012 KBKL 300753Z 15007KT 10SM CLR 17/09 A3004 RMK AO2 SLP171 T01670094 CWPC 300800Z AUTO 30005KT 17/08 RMK AO1 SLP172 T01660075 51006 KCBM 300758Z AUTO 01004KT 10SM CLR 19/18 A2999 RMK AO2 SLP156 T01910175 $ VEDG 300700Z 07005KT 4500 BR SCT016 SCT020 32/28 Q1001 NOSIG CXFM 300600Z AUTO 11011KT 17/14 RMK AO1 T01730139 CWPD 300800Z AUTO 18002KT 12/12 RMK AO1 SLP089 T01180118 55001 UMMG 300800Z 19003MPS 9999 SCT023 BKN066 24/14 Q1014 R17/CLRD// NOSIG KASW 300815Z AUTO 00000KT 10SM CLR 11/10 A3006 RMK AO2 CWPE 300800Z AUTO 00000KT 12/13 RMK AO1 SLP112 T01240125 56010 KASX 300753Z AUTO 19004KT 10SM CLR 12/11 A2995 RMK AO2 SLP142 T01220111 KBLF 300752Z AUTO 00000KT 10SM BKN055 14/12 A3012 RMK AO2 SLP168 T01440122 KAUG 300753Z AUTO 34004KT 10SM CLR 15/14 A2988 RMK AO2 SLP119 T01500144 CWPF 300815Z AUTO 23015KT 14/10 RMK AO1 PK WND 23020/0804 T01370098 KATP 300815Z AUTO VRB05G13KT 10SM CLR 28/25 A2992 RMK A01 KBLH 300752Z AUTO 21012KT 10SM CLR 33/18 A2978 RMK AO2 SLP075 T03280183 403940311 KAUH 300815Z AUTO 00000KT 10SM CLR 19/18 A2998 RMK AO2 T01870177 PHHI 300758Z AUTO 00000KT 10SM CLR 24/20 A3009 RMK AO2 SLP177 T02360195 $ NZGS 300730Z 19014KT 25KM VCSH SCT025 BKN045 10/08 Q1009 RMK VATSIM USE ONLY CWNZ 300800Z AUTO 24006KT 15/12 RMK AO1 SLP101 T01510122 56006 CXGH 300800Z AUTO 35013G18KT 13/09 RMK AO1 PK WND 36018/0758 T01330087 KBLI 300753Z AUTO 16012KT 10SM CLR 14/10 A3014 RMK AO2 SLP213 T01390100 401940139 OPPS 300800Z 31008KT 4000 HZ FEW100 40/25 Q999 NZHK 300800Z 13007KT 35KM SCT036 10/01 Q1014 RMK ALT VATSIM USE ONLY CXFR 300700Z AUTO 09007KT 16/13 RMK AO1 T01600131 ULWC 300800Z 30001MPS 9999 FEW026 24/12 Q1015 R21/010060 NOSIG RMK QFE751/1002 KATS 300815Z AUTO 21007KT 10SM CLR 23/13 A3010 RMK AO2 KCDA 300815Z AUTO 00000KT M1/4SM DZ OVC001 12/12 A2997 RMK AO2 T01210117 KE38 300815Z AUTO 21006KT 10SM CLR 19/14 A3021 RMK AO2 T01880141 KBKS 300815Z AUTO 00000KT 10SM SCT075 BKN090 25/23 A2993 RMK AO1 T02530231 CXHA 300800Z AUTO 16002KT 14/11 RMK AO1 SLP158 T01360106 58008 UMMM 300800Z 26001MPS 9999 BKN026 25/13 Q1016 NOSIG RMK QFE742 EFHA 300750Z 20004KT 9999 -SHRA BKN034CB 18/15 Q1013 KBKT 300815Z AUTO 03007KT 10SM CLR 19/17 A3002 RMK AO1 T01900169 PFYU 300816Z 00000KT 7SM CLR 17/11 A2996 RMK AO1 KATT 300751Z AUTO 00000KT 10SM CLR 27/23 A2998 RMK AO2 SLP135 T02670228 UNEE 300800Z VRB02MPS 9999 -TSRA SCT032CB 23/16 Q1002 R05/290155 NOSIG RMK QFE729 CWPK 300800Z AUTO 30001KT 07/06 RMK AO1 SLP132 T00680055 56001 KCDC 300753Z AUTO 00000KT 10SM FEW110 17/10 A3017 RMK AO2 SLP129 T01670100 KAVC 300816Z AUTO 01003KT 10SM CLR 19/18 A3007 RMK AO2 T01940175 KBMC 300815Z AUTO 00000KT 10SM 24/10 A3008 RMK AO1 T02370096 NZHN 300735Z 16010KT 30KM VCSH SCT030 BKN050 09/08 Q1009 RMK VATSIM USE ONLY KCDD 300810Z AUTO 00000KT 4SM BR BKN010 BKN015 12/12 A2995 RMK AO2 KBKV 300753Z 00000KT 10SM CLR 23/22 A2999 RMK AO2 SLP152 T02280222 KBLM 300815Z 28005KT 10SM CLR 17/14 A2999 RMK AO2 SLP300 PWINO FZRANO RVRNO KAUM 300816Z AUTO 18003KT 10SM CLR 16/14 A3000 RMK AO2 CXHD 300700Z AUTO 10005KT 13/12 RMK AO1 T01280124 KBKW 300751Z AUTO 00000KT 10SM CLR 12/11 A3011 RMK AO2 SLP175 T01220111 TSNO $ KAUN 300815Z AUTO 09006KT 10SM CLR 23/06 A2990 RMK AO1 KATW 300815Z AUTO 27007KT 10SM CLR 14/12 A2998 RMK AO2 EDXW 300750Z 20014KT 5000 -SHRA FEW005 BKN007 BKN013 15/14 Q1007 KBKX 300756Z AUTO 14004KT 10SM OVC120 19/17 A2997 RMK AO2 SLP153 T01940172 KAUO 300756Z AUTO 00000KT 10SM CLR 24/21 A2996 RMK AO2 SLP152 T02390206 KCCO 300815Z AUTO 31003KT 10SM SCT120 23/21 A2997 RMK AO2 T02270206 DNPO 300800Z 00000KT 9999 SCT009 FEW020CB 26/24 Q1015 NOSIG CWPO 300800Z AUTO 01010KT 12/11 RMK AO1 PK WND 01019/0716 SLP213 T01200108 53011 CXHF 300800Z AUTO 12/11 RMK AO1 T01160113 KATY 300753Z AUTO 00000KT 10SM BKN110 19/13 A2999 RMK AO2 SLP143 T01890133 EFHF 300750Z 08004KT 020V120 9999 VCSH FEW020 FEW033CB BKN095 18/16 Q1012 KBMG 300753Z AUTO 00000KT 10SM CLR 14/12 A3007 RMK AO2 SLP179 T01390122 CWOY 300800Z AUTO 12004KT 11/08 RMK AO1 SLP252 T01070075 53010 UMMS 300800Z 36002MPS 220V360 9999 SCT026 26/13 Q1016 R31/CLRD// NOSIG KCDH 300815Z AUTO 00000KT 4SM BR CLR 20/18 A3000 RMK AO2 NZHS 300748Z 21012KT 20KM SCT045 BKN060 10/05 Q1012 RMK NZNR VATSIM USE ONLY CWQH 300800Z AUTO 22003KT 15/14 RMK AO1 T01470142 KCCR 300753Z AUTO 20012KT 10SM CLR 16/10 A2987 RMK AO2 SLP101 T01560100 403220139 KBMI 300756Z AUTO 17004KT 10SM CLR 14/11 A3008 RMK AO2 SLP201 T01440111 NZHT 300800Z 15010KT 90KM SCT070 11/M06 Q1014 RMK ALT VATSIM USE ONLY CWPR 300800Z AUTO 17001KT 16/06 RMK AO1 SLP171 T01580057 52009 KAUS 300753Z 00000KT 10SM CLR 24/23 A2996 RMK AO2 SLP133 T02390228 KCDJ 300752Z AUTO 17008G23KT 110V200 21/17 A2998 RMK AO1 SLP143 P0010 T02110172 KBNA 300753Z 33003KT 10SM CLR 19/13 A3004 RMK AO2 SLP166 T01890133 CWPS 300700Z AUTO 18/10 RMK AO1 SLP167 T01800102 50003 ZSJN 300725Z 10002MPS 020V160 9999 FEW030CB SCT033 26/20 Q1002 NOSIG CWRA 300800Z AUTO 22014G21KT 14/13 RMK AO1 PK WND 22021/0744 SLP242 T01430129 56015 KAVK 300815Z AUTO 25005KT 10SM CLR 22/20 A2999 RMK AO2 LTG DSNT SW AND W CWQK 300800Z AUTO 27035KT 12/12 RMK AO1 PK WND 27044/0704 SLP203 T01150121 53005 CXIB 300800Z AUTO 36003KT 16/14 RMK AO1 SLP154 T01570141 55005 KBML 300752Z AUTO 00000KT 9SM FEW001 11/09 A2994 RMK AO2 SLP137 T01060094 KBLU 300752Z AUTO 07003KT 10SM CLR 22/M15 A3016 RMK AO2 SLP096 T02171150 402670200 TSNO $ EFHK 300750Z 14013KT 9999 VCSH FEW016 FEW050CB BKN100 19/15 Q1013 TEMPO NSC KCCU 300815Z AUTO 19008KT 10SM SCT070 OVC100 08/03 A3066 RMK AO2 KAVL 300754Z AUTO 00000KT 10SM FEW085 17/14 A3006 RMK AO2 SLP159 T01720144 KCEC 300808Z AUTO 15004KT 7SM SCT010 12/11 A3005 RMK AO2 T01170106 EEPU 300750Z 19005KT 130V230 9999 FEW016 20/17 Q1013 OPRN 300800Z 27012KT 8000 FEW040 BKN100 39/22 Q1002.1/29.59 KBLV 300758Z AUTO 06001KT 10SM CLR 15/15 A3005 RMK AO2 SLP176 T01540151 CXHM 300800Z AUTO 26001KT 12/08 RMK AO1 SLP160 T01220079 51004 KCDN 300815Z AUTO 00000KT 5SM BR OVC009 23/22 A2997 RMK AO2 LTG DSNT SE PGRO 300750Z 06007KT 7SM FEW012 28/23 A2982 KAUW 300754Z AUTO 07003KT 10SM CLR 13/12 A2999 RMK AO2 SLP156 T01280117 KCEF 300811Z AUTO 18002KT 10SM CLR 14/14 A2993 RMK AO2 PHJH 300245Z 05018G24KT 15SM FEW040 FEW065 29/19 A3002 CWQO 300800Z AUTO 21005KT 09/08 RMK AO1 T00870081 CWPX 300800Z AUTO 24012KT 06/ A3000 RMK SLP177 CWRF 300800Z AUTO ///// 06/ A3001 RMK SLP181 KAWG 300815Z AUTO 15004KT 10SM SCT060 17/15 A3002 RMK AO2 KAVP 300754Z AUTO 00000KT 10SM CLR 14/12 A3003 RMK AO2 SLP165 T01390122 KCCY 300815Z AUTO 17005KT 10SM BKN003 16/16 A3001 RMK AO2 CXHP 300800Z AUTO 09006KT 17/14 RMK AO1 T01660138 CWQP 300800Z AUTO 28008KT 16/13 RMK AO1 SLP154 T01590130 53003 KBMQ 300753Z AUTO 00000KT 10SM CLR 25/21 A3002 RMK AO2 SLP146 T02500211 KAVQ 300815Z AUTO 01012G19KT 22/20 A3002 RMK AO2 P0002 T02220197 CWPZ 300800Z AUTO 00000KT 08/07 RMK AO1 SLP179 T00840069 51002 CWRH 300800Z AUTO ///// 08/ A3004 RMK SLP196 KCDR 300753Z AUTO 00000KT 10SM CLR 17/14 A3011 RMK AO2 SLP173 T01720139 CXHR 300700Z AUTO 11011KT 15/13 RMK AO1 T01480130 CWQR 300800Z AUTO 08017KT 09/ RMK AO1 PK WND 09022/0706 T0085 KCDS 300753Z AUTO 19007KT 10SM CLR 23/18 A3002 RMK AO2 SLP136 T02330183 OPSK 300800Z 13008KT 5000 HZ SCT200 41/25 QNH 0997 KAXA 300815Z AUTO 15007KT 10SM CLR 18/17 A2997 RMK AO2 CWQS 300700Z AUTO 29014KT 12/12 RMK AO1 2PAST HR 3005 PK WND 29018/0619 SLP214 P0001 T01190118 50002 CWRJ 300800Z AUTO 10005KT 13/11 RMK AO1 SLP231 T01260114 51006 CWSA 300800Z AUTO 17016KT 3/8SM FG VV002 16/15 A3004 RMK SLP172 EGAA 300750Z 22009KT 9999 FEW014 SCT048 12/10 Q1005 KBMT 300815Z AUTO 00000KT 10SM CLR 24/22 A2994 RMK AO2 T02400221 CYAB 300000Z 25007KT 25SM FEW030 FEW200 SCT230 07/02 A2981 RMK SC1CI1CI1 CALLOUT LAST STFD OBS/NXT 301100Z SLP098 CWRK 300800Z AUTO 30001KT 06/06 RMK AO1 SLP160 T00620057 52001 KBNL 300815Z AUTO 00000KT 10SM CLR 22/22 A2998 RMK AO2 LTG DSNT E ORBD 300755Z 32011KT 9999 CLR 45/03 A2962 RMK SLP028 WND DATA/ALSTG/SLP ESTMD EGAC 300750Z 21008KT 9999 FEW022 13/10 Q1005 UMOO 300800Z 03002MPS 9999 BKN017 22/17 Q1016 R31/CLRD// NOSIG KAWM 300753Z AUTO 00000KT 10SM CLR 20/18 A3001 RMK AO2 SLP158 T02000183 PGSN 300754Z 07009KT 10SM SCT020 30/24 A2981 RMK AO2 SLP115 T03000239 KCFD 300815Z AUTO 00000KT 10SM CLR 23/23 A2997 RMK AO2 T02310231 CWSD 300800Z AUTO 17010KT 19/18 RMK AO1 SLP108 T01890177 56016 CWQV 300800Z AUTO 07003KT RMK AO1 CWRM 300800Z AUTO 11005KT 15/13 RMK AO1 SLP182 T01530131 58008 KCDW 300753Z AUTO 00000KT 10SM CLR 17/14 A2998 RMK AO2 SLP157 T01720139 TSNO KCFE 300815Z AUTO 00000KT 10SM CLR 15/12 A2997 RMK AO2 T01500117 EGAE 300750Z 23010KT 190V250 9999 FEW014 BKN035 13/10 Q1003 CWRN 300800Z AUTO 17014KT 15/15 RMK AO1 PK WND 17020/0749 SLP155 T01490148 56011 KAVX 300751Z AUTO 05004KT M1/4SM FG VV001 16/15 A2991 RMK AO2 SLP102 T01560150 402830156 KBNO 300753Z AUTO 27007KT 10SM CLR 20/02 A3008 RMK AO2 SLP138 T02000022 403440139 KAWO 300815Z AUTO 01005KT 10SM SCT033 12/06 A3021 RMK AO1 CWRO 300800Z AUTO 13007KT 13/ RMK AO1 SLP203 T0130 58003 CWSF 300800Z AUTO 28014KT 12/12 RMK AO1 PK WND 28017/0753 SLP076 T01190116 55012 NZKI 300800Z 23024G36KT 8000 SHRA SCT020 07/05 Q1017 RMK ALT VATSIM USE ONLY CWSG 300800Z AUTO 25011KT 11/11 RMK AO1 SLP087 T01110110 50003 PHJR 300753Z 06003KT 10SM CLR 25/19 A3009 RMK AO2 SLP194 T02500194 KAXH 300815Z AUTO 30003KT 7SM SCT036 24/24 A2993 RMK AO2 T02440240 ORBI 300800Z 35014KT CAVOK 44/13 Q1002 NOSIG CYAH 300800Z AUTO 07004KT 9SM CLR 08/05 A2984 RMK SLP115 KBOI 300753Z 04006KT 10SM CLR 31/04 A2989 RMK AO2 WSHFT 0640 RAB30E39 SLP079 P0000 T03110044 PGUA 300808Z AUTO 06009KT 10SM SCT019 28/24 A2983 RMK AO2 $ NZKK 300800Z 16011KT 25KM VCSH FEW011 SCT014 12/11 Q1008 RMK NZAA VATSIM USE ONL KCFJ 300815Z AUTO 00000KT 10SM CLR 10/10 A3008 RMK AO2 T01030103 OPST 300800Z 27006KT 4000 FU FEW040 39/26 Q1000 NOSIG RH50 CXKA 300800Z AUTO 22009KT 15/10 RMK AO1 SLP088 T01490095 56011 KBOK 300756Z AUTO 00000KT 8SM CLR 12/10 A3006 RMK AO2 SLP192 T01170100 401890100 CYBB 300200Z 07006KT 20SM VCSH BKN027 BKN120 09/06 A2996 RMK SC6AC1 LAST STFD OB NEXT 301200Z SLP150 CWSK 300800Z AUTO 16001KT 16/14 RMK AO1 SLP190 T01630141 53011 CWRT 300800Z AUTO 21001KT 14/12 RMK AO1 T01370118 EGBB 300750Z 22004KT 180V250 9999 FEW008 14/12 Q1008 KCEU 300754Z AUTO 08003KT 10SM CLR 23/19 A2999 RMK AO2 SLP141 T02280189 KCGC 300815Z AUTO 00000KT 10SM CLR 23/22 A2997 RMK AO2 KBPC 300815Z AUTO 21014KT 10SM SCT090 SCT120 20/16 A3005 RMK AO2 CWRU 300700Z AUTO 02007KT 13/11 RMK AO1 SLP237 T01320107 53002 CWSL 300800Z AUTO 09001KT 19/15 RMK AO1 SLP127 T01860149 53003 CYBC 300811Z AUTO 18003KT 5SM RA BR SCT003 SCT007 BKN012 OVC030 11/11 A2981 RMK SLP098 CYBD 300100Z 24013G23KT 15SM FEW090CB BKN120 BKN200 24/12 A3004 RMK CB1ACC5CS1 CB E LAST STFD OBS/NEXT301300UTC/ SLP176 DENSITY ALT 1000FT VDPP 300800Z 24008KT 220V280 5000 -RA SCT015 FEW017CB BKN040 27/25 Q1008 CB CYAM 300800Z 08003KT 070V180 15SM BKN078 09/07 A2996 RMK AC5 SLP149 KAXN 300753Z AUTO 00000KT 10SM CLR 16/12 A2998 RMK AO2 SLP148 T01610117 KCEW 300756Z AUTO 00000KT 3SM BR CLR 23/22 A2995 RMK AO2 LTG DSNT SE T02280217 KCGE 300806Z AUTO 00000KT 10SM CLR 17/16 A3003 RMK AO1 EFIV 300750Z 18005KT 130V240 9999 BKN017 17/13 Q1013 PHKO 300810Z AUTO 21007KT 10SM SCT027 SCT035 OVC046 27/23 A3004 RMK AO2 T02720233 TSNO KBNW 300815Z AUTO 11005KT 10SM BKN036 BKN044 BKN050 18/18 A2995 RMK AO2 KAXO 292115Z 30007KT 7SM SCT020 OVC040 28/25 A2993 RMK LAST KCGF 300245Z 00000KT 10SM FEW100 15/11 A3007 EGBE 300750Z 24007KT 9999 FEW010 15/12 Q1008 CXKE 300800Z AUTO 21001KT 13/12 RMK AO1 SLP137 T01310115 51002 EFKE 300750Z AUTO 19002KT 9999 BKN014 BKN043 20/16 Q1013 CWRX 300800Z AUTO 21015KT 05/ A2987 EFJO 300750Z 14005KT 100V190 9999 FEW030TCU 19/17 Q1015 KCEY 300815Z AUTO 00000KT 10SM CLR 15/15 A3004 RMK AO1 KBPG 300815Z AUTO 13007KT 10SM CLR 22/14 A3009 RMK AO2 T02150140 CWTG 300800Z AUTO 03008G16KT 11/10 RMK AO1 PK WND 03019/0703 SLP088 T01060101 56009 CWSP 300800Z AUTO 28020KT 11/11 RMK AO1 PK WND 28027/0704 SLP222 T01110107 55000 CWRY 300800Z AUTO 23004KT 15/14 RMK AO1 SLP190 T01500135 58003 CYBG 300800Z 29008KT 15SM SCT006 OVC017 15/14 A2986 RMK SF4SC4 SLP114 ZSNB 300800Z 20004MPS 160V230 9999 SCT026 35/24 Q1007 NOSIG KCEZ 300753Z AUTO 10007KT 10SM OVC110 18/11 A3025 RMK AO2 LTG DSNT NE SLP155 T01830111 PHLI 300753Z 05012KT 10SM BKN016 BKN024 24/22 A3010 RMK AO2 SLP190 T02440217 VEGT 300700Z 00000KT 6000 SCT020 BKN100 33/27 Q1002 NOSIG CWRZ 300800Z AUTO 20010KT 14/14 RMK AO1 SLP080 T01440144 56015 KCGI 300753Z AUTO 00000KT 10SM CLR 17/14 A3004 RMK AO2 SLP170 T01720144 KBPI 300753Z AUTO 24004KT 10SM CLR 14/07 A3030 RMK AO2 SLP159 T01390072 CXKI 300800Z AUTO 11/10 RMK AO1 SLP126 T01140097 58005 CWSR 300800Z AUTO 15004KT 07/06 RMK AO1 SLP242 T00650060 53006 KCHA 300753Z AUTO 32004KT 10SM CLR 19/13 A3000 RMK AO2 SLP150 T01940133 EFKI 300750Z AUTO 11005KT 070V140 CAVOK 19/16 Q1014 KBOS 300754Z 32008KT 10SM BKN100 21/14 A2989 RMK AO2 SLP122 T02060144 $ KCFS 300814Z AUTO 00000KT 10SM CLR 08/07 A3002 RMK AO2 T00810068 KAXS 300815Z AUTO 12005KT 7SM CLR 23/20 A3001 RMK AO2 T02320198 NZMC 302300Z 30015G35KT 8000 SCT050 04/// Q0989 RMK VIS 50KM TO SOUTH VATSIM USE EGBJ 300750Z 24007KT 9999 FEW014 16/13 Q1008 CWSS 300800Z AUTO 09001KT 15/15 RMK AO1 SLP109 T01530150 56010 KBPK 300753Z AUTO 00000KT 10SM CLR 21/19 A3004 RMK AO2 SLP162 T02110194 KE80 300815Z AUTO 16011G16KT 10SM OVC090 25/08 A3017 RMK AO2 T02500083 CWST 300800Z AUTO 24003KT 12/11 RMK AO1 SLP112 T01180113 56004 CYBK 300800Z 34011KT 20SM FEW080 FEW220 11/10 A3007 RMK AC1CI1 SLP185 CYAT 300808Z AUTO 33006KT 9SM BKN009 OVC014 10/08 A2983 RMK SLP102 CYCB 300800Z 25008KT 15SM VCFG FEW210 03/02 A3003 RMK CI2 VIS SW-NW 3 SLP173 EFKK 300750Z AUTO 09004KT 040V190 //// SCT090 22/14 Q1012 PGUM 300754Z 09011KT 10SM FEW023 31/24 A2981 RMK AO2 SLP087 T03060239 KAZC 300815Z AUTO 10SM CLR 19/11 A3017 RMK AO2 LTG DSNT SW CYBL 300400Z 31005KT 30SM SCT070 BKN100 BKN240 22/13 A3008 RMK AC3AC2CI2 LAST OBS/NEXT 301300 UTC SLP189 DENSITY ALT 1000FT KCHD 300347Z 16005KT 15SM BKN120 38/15 A2980 RMK LAST CXLC 300800Z AUTO 20004KT 17/12 RMK AO1 SLP194 T01680120 58002 KCFV 300752Z AUTO 17004KT 10SM CLR 23/18 A2997 RMK AO2 SLP140 T02330183 EGCC 300750Z 22007KT CAVOK 14/11 Q1007 KAXV 300814Z AUTO 00000KT 10SM CLR 12/12 A3007 RMK AO2 NZMF 300705Z 35008KT 60KM FEW050 04/M02 Q1020 RMK NZQN VATSIM USE ONLY CYCD 300400Z 08004KT 040V160 30SM FEW260 21/14 A3007 RMK CI1 LAST OBS/NEXT 301300 UTC SLP185 DENSITY ALT 500FT CXKM 300700Z AUTO 11006KT 14/13 RMK AO1 T01420128 VEGY 300800Z 12010KT 6000 SCT018 SCT025 BKN250 36/23 Q1000 KBOW 300815Z AUTO 00000KT 10SM CLR 22/ A2999 RMK AO2 KAZE 300815Z AUTO 00000KT 10SM CLR 23/23 A2996 RMK AO2 T02280228 CWSW 300100Z 15006G15KT 120V190 20SM BKN065TCU BKN130 26/11 A3008 RMK TCU6AC1 AC TR LAST STFD OBS/NEXT 301300Z SLP172 DENSITY ALT 5700FT CYAW 292100Z 18006KT 1/8SM -DZ FG VV001 17/17 A3001 RMK FG8 DA496FT LAST OBS/NEXT 301000 UTC SLP162 CWTN 300800Z AUTO 27001KT 13/13 RMK AO1 SLP119 T01330130 56001 CYBN 300800Z AUTO 23003KT 9SM CLR 05/04 A3002 RMK SLP169 EETN 300750Z 19007KT 150V220 9999 FEW026CB 22/16 Q1012 NOSIG KAXX 300615Z AUTO 00000KT 10SM BKN110 09/09 A3049 RMK AO2 T00930087 ZSNJ 300800Z 24003MPS 9999 FEW033 32/26 Q1006 NOSIG CYCG 300400Z 03004KT 340V050 15SM FEW082 23/14 A2991 RMK AC1 LAST OBS/NEXT 301300UTC SLP125 DENSITY ALT 2900FT EFJY 300750Z 16005KT CAVOK 20/13 Q1013 CYAY 300800Z AUTO 04006KT 3SM -RA BR OVC004 07/06 A3009 RMK SLP192 CYAZ 300100Z 29019G27KT 15SM FEW012 SCT020 BKN240 16/11 A3022 RMK CF2CF1CC2 LAST STFD OBS/NEXT 301300UTC SLP235 CYBQ 300800Z AUTO 23008KT 9SM CLR 13/02 A3017 RMK SLP227 TVSC 291900Z 09014KT 9999 FEW019 30/23 Q1015 CYBR 300800Z 01005KT 15SM SCT090 BKN240 10/09 A3019 RMK AC3CI2 SLP232 KCGS 300805Z AUTO 00000KT 10SM SCT070 15/13 A3003 RMK AO1 PHMK 300754Z AUTO 04012G19KT 10SM CLR 24/21 A3009 RMK AO2 SLP188 T02440211 TSNO KAYS 300815Z AUTO 00000KT 4SM BR BKN002 24/24 A2997 RMK AO2 T02350235 CYDA 300300Z 23012KT 20SM VCSH SCT045TCU BKN055CB BKN090 21/09 A2995 RMK TCU4CB2AC1 CLIMAT 25.4/8.0/0.0 LAST STFD OBS/NXT 301300Z SLP152 DENSITY ALT 2100FT VEIM 300600Z 19005KT 6000 FEW010 SCT018 BKN090 25/23 Q1008 NOSIG EFKS 300750Z AUTO 14004KT 100V190 9999 FEW018 SCT020 17/12 Q1015 EFMA 300750Z 21006KT 150V250 9999 FEW011 SCT044 18/15 Q1010 KBPT 300753Z AUTO 34003KT 10SM CLR 24/23 A2992 RMK AO2 SLP130 T02440233 KBQK 300815Z AUTO 00000KT 7SM CLR 23/23 A2997 RMK AO2 LTG DSNT SE KCHK 300815Z AUTO 00000KT 10SM CLR 22/20 A3000 RMK AO2 CWTT 300800Z AUTO 25005KT 16/15 RMK AO1 T01620150 CXKT 300800Z AUTO 18002KT 19/17 RMK AO1 SLP121 T01880173 58007 CYDB 300800Z AUTO 28004KT 260V330 9SM BKN100 OVC120 14/07 A2995 RMK LTNG DIST N SLP156 DENSITY ALT 3100FT CYCK 300800Z AUTO 16004KT 9SM CLR 13/10 A3003 RMK SLP169 ZSOF 300800Z 16005MPS CAVOK 30/26 Q1005 NOSIG EFKT 300750Z 12007KT 070V170 9999 VCSH RA BKN065TCU 17/14 Q1013 KCIC 300815Z AUTO 00000KT 10SM CLR 27/10 A2984 RMK AO1 CYDC 300100Z 27007G15KT 220V320 25SM TS BKN050CB OVC160 27/09 A3002 RMK CB6AS2 OCNL -SHRA LAST STFD OBS/NEXT 301300 UTC SLP154 DENSITY ALT 4000FT CXLL 300800Z AUTO 05002KT 15/15 RMK AO1 SLP153 T01530148 55002 CWTU 300800Z AUTO ///// 06/ A3010 RMK SLP212 CYBU 300800Z AUTO 32003KT 9SM CLR 08/06 A3026 RMK SLP259 EETU 300750Z 18008KT 9999 FEW040 23/14 Q1014 KCID 300752Z AUTO 11003KT 10SM -RA FEW021 BKN045 OVC060 18/17 A3001 RMK AO2 LTG DSNT W RAB07 SLP159 P0036 T01780172 EFKU 300750Z AUTO 10006KT 080V150 9999 FEW030 23/16 Q1014 KBRD 300753Z AUTO 00000KT 10SM CLR 15/12 A2997 RMK AO2 SLP144 T01500122 CYBV 292100Z 02010G19KT 350V050 15SM SCT025 19/12 A3002 RMK SC4 LAST OBS/NEXT 301200Z SLP169 DENSITY ALT 1200FT CXMD 300800Z AUTO 36009KT 13/10 RMK AO1 SLP200 T01280101 52016 CWVD 300800Z AUTO 31006KT 07/ A2991 RMK SLP161 CYBW 300800Z AUTO 18006KT 150V220 9SM OVC160 14/12 A3015 RMK SLP200 DENSITY ALT 4400FT KAZO 300753Z AUTO 00000KT 10SM CLR 11/08 A3005 RMK AO2 SLP175 T01060078 KCHO 300753Z AUTO 00000KT 10SM BKN055 BKN080 17/14 A3006 RMK AO2 SLP171 T01670139 EGCN 300750Z 24010KT 9999 FEW025 16/10 Q1007 PHNG 300757Z 07008KT 10SM BKN020 BKN024 26/22 A3007 RMK AO2 SLP177 T02560217 $ CYBX 300800Z 07021KT 3SM -RA BR OVC005 07/07 A3004 RMK ST8 SLP174 CYCO 300800Z VRB02KT 15SM SCT040TCU SCT100 BKN240 15/12 A3000 RMK TCU4AC1CS1 AC TR SLP162 CYDF 300800Z 06005KT 3SM -RA BR OVC005 11/10 A3002 RMK ST8 SLP168 CWVF 300815Z AUTO 13019KT 14/ RMK AO1 PK WND 13022/0804 T0142 KF05 300815Z AUTO 18006KT 10SM CLR 24/19 A2999 RMK AO1 T02350185 KBQP 300815Z AUTO 00000KT 10SM CLR 23/21 A2999 RMK AO2 T02260205 CYCP 300100Z VRB02KT 15SM SCT070CB SCT250 28/13 A2998 RMK CB3CI1 LAST OBS/NEXT 301300 UTC SLP152 DENSITY ALT 4100FT CXMG 300600Z AUTO 10003KT 16/14 RMK AO1 T01570139 CWTY 300800Z AUTO 20007KT 16/15 RMK AO1 SLP121 T01620153 53001 CWUP 300800Z AUTO 21016KT 08/ A2989 RMK SLP140 EFLP 300750Z AUTO 18005KT 060V240 CAVOK 22/12 Q1015 KCGZ 300815Z AUTO 11025G34KT 4SM VCTS FEW090 28/20 A2997 RMK AO1 LTG DSNT SE TSB03 CYCQ 300100Z 06004KT 030V110 35SM SCT060TCU BKN130 BKN200 25/12 A3001 RMK TCU3AS2CS2 DIST PCPN E-S+NW LAST STFD OBS/NEXT 301300Z SLP168 DENSITY ALT 3500FT CWVH 300800Z AUTO 02011KT A3012 CWVI 300800Z AUTO 11007KT 17/11 RMK AO1 SLP201 T01720107 56001 CXMI 300800Z AUTO 14007KT 16/15 RMK AO1 SLP134 T01560153 56014 ZSPD 300800Z 21005MPS CAVOK 32/24 Q1007 NOSIG EFMI 300750Z AUTO 12007KT 030V170 CAVOK 23/13 Q1014 KCHS 300756Z 30005KT 8SM -RA FEW010 SCT024 BKN038 25/23 A2996 RMK AO2 RAB41 SLP144 OCNL LTGIC DSNT E CB DSNT E P0003 T02500233 KDAA 300758Z AUTO 00000KT 10SM FEW065 17/15 A3004 RMK AO2 SLP175 T01650145 CYCS 292200Z 31010KT 15SM SCT250 22/04 A3003 RMK CI3 22.8/10.7/0/NIL LAST STFD OBS/NEXT 30 1200 SLP172 DENSITY ALT 700FT CWWA 300800Z AUTO 11003KT 15/10 RMK AO1 SLP199 T01490097 50002 CWUS 300800Z AUTO 28003KT 18/09 RMK AO1 SLP144 T01830088 53008 KDAB 300753Z 00000KT 10SM CLR 24/23 A2997 RMK AO2 SLP148 T02440233 PHNL 300753Z 07008KT 10SM FEW027 SCT060 27/20 A3007 RMK AO2 SLP183 T02670200 CWWB 300800Z AUTO 25004KT 16/09 RMK AO1 SLP165 T01600088 51003 KBRL 300753Z AUTO 17006KT 10SM OVC085 18/14 A3002 RMK AO2 SLP162 T01830144 EGEC 300750Z 23014KT 9999 FEW018 SCT049 12/09 Q1003 CYDL 300800Z AUTO 00000KT 9SM -RA FEW060 OVC079 13/10 A3005 RMK SLP172 DENSITY ALT 2800FT CXMM 300800Z AUTO 12008KT 17/06 RMK AO1 SLP209 T01650055 57002 EGDM 300750Z 23007KT 9999 SCT007 BKN060 BKN150 14/12 Q1009 GRN BECMG SCT015 CYED 300800Z AUTO 10006KT 9SM SCT076 16/14 A3013 RMK SLP201 KCIN 300815Z AUTO 32006G12KT 10SM FEW017 OVC047 21/20 A2997 RMK AO2 NZNP 300804Z 13011KT 20KM FEW020 SCT075 10/04 Q1012 RMK VATSIM USE ONLY CWVN 300800Z AUTO 02002KT 10/09 RMK AO1 SLP219 T01040090 53007 CWWE 300800Z AUTO 20006KT 13/13 RMK AO1 7011 SLP131 T01340134 50008 CYDN 300800Z AUTO 35004KT 9SM CLR 08/06 A3021 RMK SLP237 KBRO 300753Z AUTO 00000KT 10SM CLR 26/24 A2993 RMK AO2 SLP133 T02610244 PHOG 300754Z 05010KT 10SM SCT055 26/22 A3006 RMK AO2 SLP184 T02560217 $ KBQX 300815Z AUTO 23003KT 10SM CLR 29/24 A2992 RMK A01 NZOH 300749Z 10010KT 30KM SCT025 BKN045 08/05 Q1013 RMK VATSIM USE ONLY CXMO 300700Z AUTO 14009KT 16/13 RMK AO1 T01590130 VDSR 300800Z 12005KT 9000 -RA SCT015 FEW017CB BKN040 28/26 Q1006 CB CWWF 300800Z AUTO 10009KT 14/12 RMK AO1 SLP222 T01420122 53011 CWUX 300800Z AUTO 28006KT 14/14 RMK AO1 5002 SLP110 T01410137 50002 CYCX 300800Z 23003KT 200V260 2SM BR OVC002 16/16 A2984 RMK SF8 DA683FT SLP107 KDAG 300750Z AUTO 22013KT 10SM CLR 33/M01 A2985 RMK AO2 SLP071 T03331011 404390267 NZNR 300748Z 21012KT 20KM SCT045 BKN060 10/05 Q1012 RMK VATSIM USE ONLY CYDP 300800Z VRB03KT 15SM FEW210 FEW240 04/01 A3010 RMK CI1CS1 SLP195 CWVP 300800Z AUTO 11006KT 13/09 RMK AO1 SLP213 T01320093 58003 CYEG 300800Z 13012KT 15SM SCT100 BKN250 17/13 A3012 RMK AC3CI4 SLP197 DENSITY ALT 2900FT CYCY 300800Z AUTO 07003KT 9SM CLR 03/01 A2988 RMK SLP122 ORER 300800Z 27006KT 9000 NSC 41/08 Q1008 NOSIG VEJS 300700Z 09004KT 4000 HZ SCT015 SCT025 BKN100 32/26 Q1001 NZNS 300749Z VRB03KT 30KM FEW055 FEW070 07/04 Q1015 RMK VATSIM USE ONLY CWVQ 300800Z AUTO 27001KT 13/13 RMK AO1 SLP133 T01310131 51001 CYDQ 300800Z AUTO VRB02KT 9SM CLR 13/11 A2999 RMK SLP162 DENSITY ALT 2200FT KF17 300815Z AUTO 10SM CLR A2997 RMK AO2 KCIR 300815Z AUTO 00000KT 10SM CLR 16/15 A3004 RMK AO2 T01610150 EGDR 300750Z 25006KT 9999 BR FEW002 SCT010 BKN080 14/14 Q1010 GRN TEMPO 1200 BR SCT002 AMB UNKL 300800Z 09003MPS 010V130 9999 SCT040CB 27/14 Q1005 R11/CLRD65 NOSIG RMK QFE728 ZSQD 300800Z 16007MPS 6000 FEW026 30/25 Q1004 NOSIG PGWT 300750Z 08008KT 7SM VCSH SCT015 29/24 A2980 RMK VCSH N KBTA 300815Z AUTO 18006KT 10SM SCT055 21/19 A2994 RMK AO2 T02090194 TVSV 300300Z 09014KT 9999 FEW018 28/24 Q1017 CWXA 300800Z AUTO 00000KT 09/08 RMK AO1 SLP187 T00930083 57012 KCKB 300753Z AUTO 00000KT 10SM CLR 12/11 A3008 RMK AO2 SLP177 T01220111 NZNV 300650Z VRB05KT 10KM BR FEW035 03/01 Q1020 RMK VATSIM USE ONLY CWWK 300800Z AUTO 10003KT 14/11 RMK AO1 SLP207 T01360109 53006 CWVT 300800Z AUTO 16006KT 16/07 RMK AO1 SLP253 T01550074 53001 CYFB 300800Z 00000KT 30SM FEW030 FEW078 FEW120 FEW250 04/02 A3004 RMK SC1AC1AC1CI1 SC TR CI TR SLP176 CYEK 300800Z AUTO 25010KT 9SM CLR 12/09 A3003 RMK SLP171 KDAL 300753Z 12004KT 10SM FEW300 27/20 A2998 RMK AO2 SLP144 T02670200 KCIU 300756Z AUTO 20005KT 10SM BKN075 13/09 A2997 RMK AO2 SLP169 T01330094 KCKC 300813Z AUTO 25005KT 10SM SCT075 13/11 A2994 RMK AO2 VEKO 300600Z 32004KT6000 SCT025 SCT025 BKN100 38/24 Q1000 CWWL 300700Z AUTO 15012KT 13/11 RMK AO1 PK WND 15017/0615 SLP201 T01270112 58008 CWXC 300800Z AUTO 20001KT 13/12 RMK AO1 6003 SLP103 T01250124 50025 CWVU 300800Z AUTO 16008KT 14/13 RMK AO1 8PAST HR 6011 SLP129 P0003 T01350129 50008 CYFC 300804Z AUTO 17004KT 6SM BR SCT003 SCT006 OVC014 17/16 A2984 RMK SLP105 DENSITY ALT 300FT CXNM 300800Z AUTO 23008G17KT 17/17 RMK AO1 PK WND 23017/0755 T01730172 KDAN 300800Z AUTO 00000KT 10SM SCT022 19/19 A3003 RMK AO2 T01940189 CYEN 300800Z 06008KT 15SM FEW040 BKN250 13/12 A3018 RMK SC1CI4 SLP222 PHNY 300756Z AUTO 08006KT 10SM FEW044 22/21 A3013 RMK AO2 SLP182 T02220206 KCKF 300815Z AUTO 19003KT 10SM CLR 25/23 A2997 RMK AO2 T02450228 EGEO 300750Z 22010KT 9999 VCSH FEW018 BKN024 OVC036 11/09 Q1001 EGDX 300750Z 25009KT 9999 FEW009 SCT012 BKN050 15/13 Q1008 GRN EGFF 300750Z 25009KT 9999 BKN010 15/13 Q1009 CXNP 300800Z AUTO 17010KT 19/19 RMK AO1 8012 SLP117 T01910188 50002 CXMY 300800Z AUTO 16/16 RMK AO1 8PAST HR M P0003 T01550161 50018 EGDY 300750Z 20006KT 9999 FEW008 SCT030 15/13 Q1009 BLU TEMPO SCT020 WHT KCKI 300815Z AUTO 00000KT 2 1/2SM BR SCT070 21/20 A2996 RMK AO2 LTG DSNT E AND SE KCJR 300815Z AUTO 00000KT 10SM SCT055 16/15 A3006 RMK AO2 T01600153 CWXI 300800Z AUTO 07018KT 08/07 RMK AO1 4PAST HR 6024 PK WND 06022/0754 SLP154 P0005 T00780071 50016 CYER 300800Z AUTO 33013G22KT 9SM OVC003 04/04 A2997 RMK SLP151 KDCA 300752Z 01005KT 10SM SCT075 19/13 A3004 RMK AO2 SLP172 T01940133 CWWS 300700Z AUTO 03021KT 12/09 RMK AO1 PK WND 02025/0651 SLP207 T01240087 51001 CXPA 300700Z AUTO 11003KT 14/12 RMK AO1 T01350122 NZPM 300805Z 15010G22KT 15KM SCT038 09/04 Q1013 RMK VATSIM USE ONLY CYET 300800Z AUTO 30004KT 280V340 9SM FEW130 12/12 A3009 RMK SLP185 DENSITY ALT 3200FT KBTL 300753Z AUTO 24003KT 10SM CLR 11/08 A3006 RMK AO2 SLP177 T01110083 TSNO CWWU 300700Z 22012KT 3SM BR BKN006 19/18 A3022 RMK SF7 SLP235 CXOL 300700Z AUTO 12007KT 14/12 RMK AO1 T01350123 CWXL 300800Z AUTO 14005KT 15/13 RMK AO1 T01480127 CXPC 300800Z AUTO 15/10 RMK AO1 SLP148 T01510103 56003 KBTM 300753Z AUTO 20006KT 10SM SCT100 16/06 A3019 RMK AO2 LTG DSNT W AND NW SLP159 T01610061 KCKM 300815Z AUTO 00000KT 10SM CLR 21/21 A3001 RMK A01 VELP 300730Z 34004KT 4000 HZ SCT015 SCT025 BKN100 30/25 Q1002 NOSIG CYEV 300800Z 36009KT 280V050 15SM BKN093 12/08 A3006 RMK AC6 SLP185 EGGD 300750Z AUTO 22008KT 9999 BKN005 14/12 Q1009 KDAW 300751Z AUTO 31006KT 10SM CLR 16/14 A2988 RMK AO2 SLP116 T01560144 TSNO KCLE 300751Z 00000KT 10SM BKN250 14/09 A3008 RMK AO2 SLP181 T01390094 $ KCKN 300815Z AUTO 35009KT 10SM BKN110 17/15 A3002 RMK AO2 KDBN 300815Z AUTO 18003KT 10SM CLR 21/20 A2998 RMK AO2 NZPP 300800Z 18014KT 25KM BKN035 09/04 Q1012 RMK ALT VATSIM USE ONLY CYGE 300000Z 36003KT 290V090 20SM SCT075 BKN110 BKN200 31/08 A2999 RMK CU4AC1CI1 CI TR LAST STFD OBS/NEXT 301200Z SLP148 DENSITY ALT 4800FT KBUF 300754Z 25005KT 10SM CLR 16/11 A3003 RMK AO2 SLP165 T01560111 $ VELR 300400Z 09003KT 2500 -RA SCT008 BKN016 FEW025CB OVC080 27/27 Q1004 TEMPO 1500 TSRA CYFO 292300Z 01009G15KT 350V050 15SM FEW045 19/05 A3019 RMK CU2 LAST OBS/ NEXT 30 1100 UTC SLP230 DENSITY ALT 1300FT CWWX 300700Z AUTO 30010KT 15/11 RMK AO1 SLP151 T01480108 56006 KBTP 300815Z AUTO 00000KT 8SM CLR 11/09 A3011 RMK AO1 KCKP 300815Z AUTO 00000KT 7SM SCT085 18/18 A2996 RMK AO2 LTG DSNT S T01800180 KDAY 300756Z 07003KT 10SM FEW065 18/08 A3008 RMK AO2 SLP179 T01780078 KDBQ 300753Z AUTO 20003KT 10SM CLR 14/12 A3003 RMK AO2 SLP167 T01390122 CYGH 300200Z 33004KT 290V360 20SM FEW065TCU FEW100 SCT190 BKN290 28/11 A2995 RMK TCU2AC1AS1CI3 AC TR 28.6/27.3/0.0 LAST STFD OBS/NXT 301300UTC SLP146 DENSITY ALT 1700FT CWWZ 300800Z AUTO 36004KT 18/10 RMK AO1 SLP162 T01770096 50004 KBTR 300753Z AUTO 04003KT 10SM CLR 23/22 A2994 RMK AO2 SLP135 T02280217 TSNO KCLI 300815Z AUTO 00000KT 10SM CLR 12/11 A2999 RMK AO2 CYFR 292200Z 09004KT 15SM FEW060 28/10 A3010 RMK CU1 WND ESTD /0/ LAST STFD OBS/NEXT301400Z SLP199 DENSITY ALT 1900FT CWXR 300800Z AUTO 30007KT 10/ A3000 RMK SLP167 KCMA 300810Z 29003KT 8SM SCT007 17/14 A2986 RMK AO2 T01720139 NZRC 300650Z VRB05KT 10KM BR FEW035 03/01 Q1020 RMK NZNV VATSIM USE ONLY CYHA 291900Z 34004KT 310V010 15SM FEW015 FEW050 FEW250 14/02 A3005 RMK CF1SC1CI1 CF TR SC TR CI TR LAST STFD OBS/NEXT 301200 UTC SLP178 CWZA 300800Z AUTO 12004KT 16/13 RMK AO1 SLP198 T01560129 51009 CWYJ 300800Z AUTO 24005KT 13/10 RMK AO1 SLP200 T01280101 53005 CYFS 300800Z 00000KT 15SM FEW080 BKN210 17/12 A2999 RMK AC1CI4 SLP161 DENSITY ALT 800FT KCLK 300815Z AUTO 15005KT 10SM 22/18 A3002 RMK AO2 LTG DSNT W CYFT 292000Z 10005KT 070V170 15SM FEW030 FEW220 15/03 A3018 RMK CU1CI2 CU TR LAST OBS/NEXT 300900 UTC SLP223 CYGK 300300Z 25004KT 15SM FEW080 18/12 A2995 RMK AC1 LAST STFD OBS/NEXT 301000UTC SLP142 DENSITY ALT 700FT VEMN 300800Z 09004KT 3500 HZ SCT008 SCT018 FEW025CB BKN090 29/27 Q1002 TEMPO 1500 -TSRA CWYK 300800Z AUTO 20016KT 07/ A3006 RMK SLP206 KCLL 300753Z 06003KT 10SM CLR 26/23 A2995 RMK AO2 SLP137 T02560228 KDDC 300752Z AUTO 24013G26KT 10SM FEW080 SCT110 23/17 A3003 RMK AO2 PK WND 20026/0749 LTG DSNT S SLP134 T02330167 NZQN 300705Z 35008KT 60KM FEW050 04/M02 Q1020 RMK VATSIM USE ONLY CXPL 300700Z AUTO 09003KT 14/13 RMK AO1 T01410134 KDCM 300815Z AUTO 00000KT 7SM CLR 21/20 A2999 RMK AO2 CWYL 300800Z AUTO 14/09 RMK AO1 SOG 00 8005 SLP163 T01440087 CYGL 300818Z 00000KT 15SM -SHRA BKN040 OVC080 12/08 A2980 RMK SC6AC2 CVCTV CLD EMBD SLP096 KCLM 300753Z AUTO 28014KT 10SM CLR 13/09 A3018 RMK AO2 SLP221 T01280094 401720122 KCKV 300752Z AUTO 00000KT 10SM CLR 16/14 A3005 RMK AO2 SLP171 T01610139 EFOU 300750Z AUTO VRB03KT CAVOK 21/13 Q1013 KBTV 300754Z AUTO 00000KT 10SM CLR 15/13 A2995 RMK AO2 SLP142 T01500128 KCMD 300815Z AUTO 00000KT 15/15 A3004 RMK AO2 T01530146 PWINO CYHD 300800Z AUTO 02007KT 340V040 9SM FEW034 BKN047 BKN065 13/12 A2996 RMK SLP154 DENSITY ALT 1400FT CWYM 300800Z AUTO 28013KT 05/ A2992 RMK SLP168 KBVE 300751Z AUTO 00000KT 10SM FEW017 26/24 A2993 RMK AO2 SLP134 T02610239 EGHE 300750Z 24007KT 9999 FEW008 BKN028 16/15 Q1011 CYHE 300800Z AUTO 23007KT 9SM CLR 17/14 A3009 RMK SLP191 KF44 300815Z AUTO 00000KT 10SM CLR 22/22 A2997 RMK AO2 CXOX 302200Z AUTO 07008KT 21/05 RMK AO1 SLP240 T02130054 55001 EFPO 300750Z AUTO 15007KT 9999 BKN013/// BKN017/// 18/15 Q1010 CXOY 300700Z AUTO 12008KT 14/13 RMK AO1 T01430130 CWZG 300800Z AUTO 06003KT 12/08 RMK AO1 SLP186 T01190081 58009 CYGP 300800Z 23008KT 180V260 10SM BKN020 OVC080 20/18 A2976 RMK SC5AC3 SLP080 DENSITY ALT 800FT EGGP 300750Z 24007KT 9999 FEW020 SCT034 14/10 Q1007 KCMH 300751Z 00000KT 10SM CLR 16/11 A3007 RMK AO2 SLP178 T01560106 KDDH 300754Z AUTO 14003KT 9SM CLR 12/11 A2997 RMK AO2 SLP146 T01170111 KF46 300815Z AUTO 13004KT 10SM CLR 25/20 A2998 RMK AO2 T02470200 KCKZ 300815Z AUTO 00000KT 10SM CLR 17/14 A3003 RMK AO2 KBVI 300047Z 00000KT 10SM CLR 19/11 A3006 EGHH 300750Z 25007KT 9999 FEW009 SCT012 BKN042 16/14 Q1009 CYGQ 300800Z 32003KT 4SM -SHRA BR OVC008 15/15 A2985 RMK SF8 CIG RAG CVCTV ASOCTD SLP112 DENSITY ALT 1400FT KCMI 300753Z AUTO 00000KT 10SM CLR 15/10 A3007 RMK AO2 SLP179 T01500100 KBUR 300753Z 08004KT 10SM CLR 21/16 A2988 RMK AO2 SLP102 T02110161 403280189 CYHI 300000Z 18008KT 15SM FEW180 BKN210 10/06 A2994 RMK AC2CS5 10.9/9.3 /R TR/ LAST OBS TAKEN/ NEXT 301400Z SLP144 CYGR 300225Z 17014G20KT 1/2SM FG VV002 17/16 A2996 RMK FG8 LAST OBS/NEXT 300900 UTC SLP146 DENSITY ALT 100FT KCLS 300815Z AUTO 00000KT 10SM CLR 10/10 A3022 RMK AO2 EGHI 300750Z VRB02KT 9999 FEW010 SCT019 14/12 Q1009 KCLT 300752Z VRB03KT 10SM FEW060 SCT140 21/19 A2999 RMK AO2 SLP145 T02110194 KCNB 300815Z AUTO 22003KT 10SM BKN120 20/16 A2997 RMK AO2 T01960162 CYGT 292000Z 10004KT 330V110 15SM SCT080 15/08 A2983 RMK AC3 16.4/6.6/0.0/NIL/LAST STFD OBS/NEXT 300900Z SLP106 DENSITY ALT 300FT CXRB 300800Z AUTO 29010KT M00/M00 RMK AO1 SLP083 T10011002 CYHK 300800Z AUTO 28008KT 9SM CLR 05/04 A3007 RMK SLP188 KDCU 300753Z AUTO 01004KT 10SM CLR 17/15 A3002 RMK AO2 SLP157 T01720150 KDEC 300754Z AUTO 00000KT 10SM CLR 15/11 A3007 RMK AO2 SLP178 T01500111 KCNC 300815Z AUTO 15008KT 10SM SCT080 SCT090 19/17 A2998 RMK AO2 KBUU 300815Z AUTO 00000KT 10SM CLR 12/12 A3003 RMK AO2 T01180116 KDED 300615Z AUTO 22006KT 25/23 A2999 RMK AO1 CWZL 300700Z AUTO 36003KT 15/13 RMK AO1 SLP210 T01460134 58004 KBWD 300815Z AUTO 00000KT 10SM BKN040 22/21 A3002 RMK AO2 NZRO 300725Z 17013G30KT 30KM FEW013 BKN070 08/04 Q1008 RMK VATSIM USE ONLY CYHM 300800Z 25004KT 15SM SKC 10/07 A3003 RMK SLP172 CYGV 300813Z AUTO 07014G20KT 9SM SCT008 OVC016 11/11 A2982 RMK SLP102 KCLW 300815Z AUTO 00000KT 10SM CLR 25/23 A2997 RMK AO2 KBVN 300815Z AUTO 00000KT 10SM CLR 18/13 A2996 RMK AO2 T01810125 PHSF 300756Z AUTO 17010KT 10SM BKN200 15/08 A3040 RMK AO2 SLP165 T01520082 $ CWZN 300700Z AUTO 17020KT 15/14 RMK AO1 PK WND 18023/0638 SLP203 T01470135 58013 CYGW 300800Z AUTO 14003KT 110V190 9SM OVC120 10/05 A2978 RMK SLP086 KBVO 300753Z AUTO 22005KT 10SM FEW075 23/18 A2998 RMK AO2 SLP140 T02280183 TSNO EGGW 300750Z AUTO 23005KT 190V260 9999 SCT013 16/13 Q1009 CWZO 300800Z AUTO 18001KT RMK AO1 CYGX 300800Z 25005KT 15SM SKC 03/02 A3019 RMK SLP234 ZSSS 300800Z 24003MPS CAVOK 33/25 Q1007 NOSIG KBWG 300753Z AUTO 00000KT 10SM CLR 16/13 A3005 RMK AO2 SLP171 T01560133 KBUY 300754Z AUTO 00000KT 7SM FEW050 BKN070 19/19 A3000 RMK AO2 SLP153 T01940189 KDCY 300815Z AUTO 00000KT 10SM CLR 14/14 A3005 RMK AO2 T01380138 CWYY 300800Z AUTO 31006KT 26/11 RMK AO1 SLP124 T02560109 52005 KDEH 300815Z AUTO 18004KT 5SM BR FEW050 16/15 A3001 RMK AO2 EGHQ 300750Z 25011KT 9999 FEW008 14/13 Q1010 UNNT 300800Z 19004MPS 9999 BKN043CB 23/11 Q1002 R16/090070 R07/090070 NOSIG RMK QFE741/0989 CWZQ 300800Z AUTO 17011G16KT 21/18 RMK AO1 PK WND 15021/0724 SLP139 T02090181 56009 CXRH 300800Z AUTO 16007KT 10/18 RMK AO1 18 0713Z T00950182 KBWI 300754Z 00000KT 10SM CLR 17/13 A3002 RMK AO2 SLP165 T01670133 $ KCMR 300815Z AUTO 15010KT 10SM BKN090 OVC110 18/10 A3034 RMK AO2 KCNI 300755Z AUTO 00000KT 10SM CLR 20/14 A2999 RMK AO2 KBXA 300815Z AUTO 00000KT 1 1/2SM BR OVC002 22/20 A2996 RMK AO2 T02200204 KBVS 300815Z AUTO 18004KT 10SM SCT017 12/10 A3020 RMK A01 EGJA 300750Z 26008KT 0150 R26/0250 FG OVC000 14/14 Q1011 CWZS 300800Z AUTO 34005KT 12/12 RMK AO1 SLP091 T01210117 56002 EFSA 300750Z AUTO 18003KT CAVOK 22/13 Q1015 KCNK 300755Z AUTO 29004KT 10SM CLR 22/19 A2997 RMK AO2 SLP133 T02170189 EGJB 300750Z 24012KT 0500 R27/0600 FG OVC000 14/14 Q1011 KBVU 300815Z AUTO 06008KT 10SM CLR 32/13 A2988 RMK AO2 CXSC 300700Z AUTO 10006KT 13/12 RMK AO1 4PAST HR M P0002 T01320115 50004 UNOO 300800Z 23005MPS 9999 SCT013 BKN026CB 18/16 Q0996 R25/290250 NOSIG RMK QFE739 CXRL 300800Z AUTO 14005KT 12/10 RMK AO1 T01220099 CYHU 300800Z AUTO 22005KT 9SM CLR 14/14 A2991 RMK SLP132 KCNM 300753Z AUTO 19008KT 10SM CLR 24/14 A3007 RMK AO2 SLP121 T02390144 KCOD 300815Z AUTO 12007KT 10SM BKN080 18/10 A3019 RMK AO1 CWZV 300700Z AUTO 29020KT 12/ RMK AO1 PK WND 29023/0650 SLP214 T0119 56002 KDEN 300753Z 19011KT 10SM SCT120 BKN200 18/11 A3019 RMK AO2 SLP136 T01780106 $ KCOE 300815Z AUTO 09004KT 10SM CLR 16/08 A2994 RMK AO1 NZTG 300617Z 15016KT 25KM BKN065 SCT025 13/06 Q1007 RMK VATSIM USE ONLY NZSP 300550Z 01015KT 0800 IC BLSN FEW000 FEW010 M55/ A2821 RMK BLSN FEW000 CLN AIR 01016G23KT ALL WNDS GRID SDN/HDN CXSE 300800Z AUTO 27018KT M00/M01 RMK AO1 PK WND 27024/0730 SLP111 T10011012 52009 CWZW 300800Z AUTO 05002KT 11/10 RMK AO1 SLP172 T01120095 55006 CYIN 300800Z AUTO 31010G15KT 9SM BKN095 19/03 A3006 RMK SLP153 DENSITY ALT 4800FT KCNO 300753Z AUTO 29007KT 7SM CLR 21/16 A2988 RMK AO2 SLP111 T02110161 403890189 $ KCMX 300753Z AUTO 00000KT 10SM OVC110 16/11 A2992 RMK AO2 SLP128 T01610111 TSNO KBVX 300815Z AUTO 00000KT 10SM CLR 19/18 A3004 RMK AO1 KCOF 300758Z AUTO 19005KT 10SM CLR 26/23 A2997 RMK AO2 SLP153 T02580233 $ KBVY 300753Z AUTO 31006KT 10SM CLR 16/15 A2989 RMK AO2 SLP115 T01560150 EFRO 300750Z AUTO 15004KT 110V180 9999 FEW006 SCT009 BKN011 BKN014 16/14 Q1014 CYIO 300818Z AUTO 22006KT 5SM BR OVC002 06/05 A2984 RMK SLP111 KBWP 300815Z AUTO 32006KT 10SM CLR 15/11 A2998 RMK AO1 KCMY 300815Z AUTO 00000KT 10SM SCT065 10/10 A3001 RMK AO2 T01040099 CYHY 300800Z 24004KT 220V020 15SM FEW100 SCT230 13/11 A3004 RMK AC1CS3 SLP180 ZUCK 300800Z 05002MPS 020V100 3000 -SHRA BR FEW003 SCT009 OVC033 23/22 Q1002 RESHRA NOSIG KDEQ 300753Z AUTO 00000KT 10SM CLR 24/21 A2999 RMK AO2 SLP149 T02390211 CXSH 300800Z AUTO 30001KT 14/13 RMK AO1 SLP123 T01370128 58001 CYHZ 300800Z 14008KT 1/2SM R23/3000V5000FT/D R14/5000VP6000FT/D -SHRA FG VV001 17/17 A2992 RMK FG8 SLP133 DENSITY ALT 700FT KDFI 300753Z AUTO 00000KT 10SM CLR 14/12 A3006 RMK AO2 SLP176 T01390117 CWZZ 300818Z AUTO 27006KT 11/ A3006 EFSI 300750Z AUTO 10005KT 9999 SHRA BKN001 BKN006 14/13 Q1012 EGKA 300750Z 28002KT 9999 SCT007 BKN009 16/14 Q1009 CYKA 300800Z 27006KT 230V310 40SM BKN120 26/09 A2992 RMK AC7 SLP125 DENSITY ALT 2600FT KDET 300753Z 00000KT 10SM CLR 16/11 A3002 RMK AO2 SLP164 T01610106 EGJJ 300750Z 25013KT 0600 R26/0900 -DZ FG BKN000 15/15 Q1012 TEMPO 1200 VCFG BKN001 KF70 300815Z AUTO 18005KT 10SM CLR 20/14 A2989 RMK AO1 KBXK 300815Z AUTO 10010KT 10SM OVC120 33/15 A2986 RMK AO1 EGKB 300750Z VRB03KT 9999 SCT006 15/14 Q1009 KCPC 300755Z AUTO 00000KT 10SM OVC022 21/20 A2997 RMK AO2 T02080197 KCNU 300752Z AUTO 17006KT 10SM CLR 22/19 A2997 RMK AO2 SLP135 T02220194 EHAK 300755Z AUTO 22017KT 9999 FEW010/// SCT016/// 14/11 Q1005 CXSL 302200Z AUTO 09006KT 25/14 RMK AO1 T02450142 KCOM 300815Z AUTO 00000KT 10SM CLR 23/19 A3004 RMK AO2 T02290186 CYKD 292300Z 33008G15KT 15SM FEW080 SCT120 18/12 A3004 RMK AC2AC1 CU TR/0.0/LAST STFD OBS/NXT 301300Z SLP175 DENSITY ALT 200FT KCNW 300350Z 00000KT 10SM SKC 24/20 A2999 CXTD 300800Z AUTO 16007KT 18/18 RMK AO1 SLP160 T01840177 55007 CYIV 300800Z 02008G17KT 15SM FEW016 07/05 A3017 RMK SC1 SC TR SLP227 KDEW 300753Z AUTO 27006KT 10SM CLR 16/09 A2996 RMK AO2 SLP130 T01560094 403440094 KCON 300751Z AUTO 00000KT 10SM CLR 16/13 A2991 RMK AO2 SLP128 T01610133 PHTO 300753Z 23004KT 10SM CLR 24/22 A3010 RMK AO2 SLP191 T02440222 $ EHAM 300755Z 22011KT 190V250 9999 FEW008 SCT019 BKN040 16/15 Q1010 TEMPO 6000 CZBF 300800Z VRB02KT 15SM FEW030 SCT080 SCT100 SCT240 18/17 A2979 RMK SC1AC2AC1CC1 CC TR SLP088 DENSITY ALT 700FT CYKF 300800Z AUTO 00000KT 9SM CLR 06/05 A3004 RMK SLP173 KBYG 300753Z AUTO 10SM BKN100 BKN120 18/10 A3023 RMK AO2 LTG DSNT SW SLP171 T01830100 KCNY 300753Z AUTO 09006KT 10SM FEW070 FEW100 SCT120 22/13 A3012 RMK AO2 RAE00B26E38 SLP131 P0000 T02220128 CYKG 292100Z 12011KT 15SM FEW110 11/01 A3002 RMK AS1 LAST STFD OBS/NEXT 301200 UTC SLP175 KBYH 292150Z 34004KT 10SM FEW100 29/17 A3003 RMK LAST CXSP 300700Z AUTO 09005KT 15/09 RMK AO1 T01530087 KCOQ 300815Z AUTO 00000KT 10SM BKN100 13/12 A2995 RMK AO2 LTG DSNT N CXTH 300700Z AUTO 10011KT 16/09 RMK AO1 T01610091 VEPT 300800Z 12008KT 5000 HZ SCT018 BKN100 34/26 Q0999 NOSIG KBYI 300753Z AUTO 25004KT 10SM CLR 17/11 A3000 RMK AO2 SLP110 T01670111 CXSR 300800Z AUTO 15011KT 14/10 RMK AO1 PK WND 14017/0726 SLP165 T01350104 56015 VERC 300800Z 12006KT 5000 HZ SCT015 SCT025 32/24 Q1004 NOSIG KCOS 300754Z 07008KT 10SM BKN170 BKN220 16/08 A3027 RMK AO2 SLP159 T01610083 NZTU 300800Z 19010KT 30KM SCT065 07/02 Q1020 RMK ALT VATSIM USE ONLY CYLA 291900Z 11009KT 15SM SCT052 BKN230 15/02 A3005 RMK SC3CS3 LAST STFD OBS/NEXT 301200UTC SLP180 CYKJ 300800Z AUTO 21004KT 9SM CLR 10/05 A3025 RMK SLP258 KCOT 300753Z AUTO 15005KT 10SM CLR 26/22 A2994 RMK AO2 SLP130 T02610217 $ KCQB 300815Z AUTO 00000KT 10SM CLR 21/20 A3000 RMK AO2 KCPK 300755Z AUTO 03003KT 10SM BKN120 21/20 A3000 RMK AO2 T02070198 KBYL 300755Z AUTO 00000KT 1/4SM VV002 13/13 A3005 RMK AO1 CYJT 300800Z 15010KT 15SM FEW009 BKN020 18/16 A2997 RMK SF1SC6 SLP151 DENSITY ALT 400FT KCQC 300753Z AUTO 11004KT 10SM CLR 18/08 A3032 RMK AO2 SLP158 T01780078 EGKK 300750Z 30004KT 270V360 9999 SCT008 BKN012 15/14 Q1009 KCOU 300754Z AUTO 12006KT 10SM CLR 19/15 A3003 RMK AO2 SLP160 T01890150 EHBK 300755Z AUTO 22013KT 180V240 9999 BKN017 BKN021 OVC025 17/13 Q1012 NOSIG CYLC 292000Z 20005KT 130V250 15SM FEW100 SCT350 11/02 A3001 RMK AC2CI1 10.3/4.0/0.0/0 LASTSTFD/NXTSTFD301200Z SLP169 CYKL 300800Z AUTO 01003KT 9SM 04/04 A3000 RMK CLD MISG SLP175 EGLC 300750Z 24007KT 9999 SCT009 BKN016 16/13 Q1009 CYLD 300100Z 24005KT 15SM SKC 18/07 A2997 RMK LAST OBS/NEXT 30 1000Z SLP157 DENSITY ALT 2100FT KDFW 300753Z 14004KT 10SM CLR 27/19 A2998 RMK AO2 SLP140 T02670189 $ KCQF 300815Z AUTO 00000KT 7SM CLR 22/22 A2993 RMK AO2 CYKO 292000Z 24007KT 15SM FEW012 BKN220 12/04 A3001 RMK SC1CI4 SLP166 EGLF 300750Z 26006KT 230V300 9999 SCT010 15/12 Q1009 CXTO 300800Z AUTO 15/08 RMK AO1 SLP163 T01490075 51002 CXTP 300800Z AUTO 19002KT 17/16 RMK AO1 SLP203 T01660155 56014 CYKP 300800Z AUTO 36008KT 310V020 9SM OVC014 11/08 A2988 RMK SLP118 EFTP 300750Z 11007KT 9999 FEW015 SCT075 17/15 Q1012 OSDI 300800Z 23006KT CAVOK 31/06 Q1012 CYKQ 292100Z 32004KT 290V350 15SM FEW300 23/03 A2988 RMK CI2 LAST OBS/NEXT 301300 UTC SLP121 DENSITY ALT 1000FT KCPR 300753Z AUTO 01007KT 10SM CLR 14/11 A3022 RMK AO2 LTG DSNT NE SLP165 T01390106 NZWB 300700Z 14017KT 20KM FEW030 SCT050 09/02 Q1015 RMK VATSIM USE ONLY KCPS 300753Z AUTO 00000KT 10SM CLR 16/12 A3005 RMK AO2 SLP173 T01610122 TSNO KBYS 300755Z AUTO 28023G27KT 10SM CLR 32/00 A2988 RMK AO2 SLP043 T03231005 PWINO $ CYLJ 300000Z 08007KT 15SM FEW056 SCT300 24/09 A3018 RMK CU2CS1 LAST STFD OB/NXT 30 1200UTC SLP227 DENSITY ALT 2600FT CYMA 300800Z 24003KT 210V270 20SM BKN045 OVC080 14/13 A2997 RMK SC6AS2 FU SLP158 DENSITY ALT 1800FT EFVA 300750Z AUTO 12006KT 9999 -RA FEW053/// BKN074/// OVC087/// 16/13 Q1011 KCPT 300815Z AUTO 00000KT 10SM CLR 24/22 A3001 RMK AO2 CZDB 300800Z AUTO 16004KT 18/17 RMK AO1 6PAST HR 7014 SLP131 P0002 T01770172 50006 ORMM 300800Z 32006KT CAVOK 47/02 Q1000 NOSIG KCPU 300815Z AUTO 12003KT 10SM CLR 18/08 A2987 RMK AO2 T01810083 CYLL 300800Z AUTO 14006KT 9SM CLR 14/11 A3021 RMK SLP234 DENSITY ALT 2200FT EGMC 300750Z 19007KT 9999 -RA SCT007 BKN035 15/13 Q1009 EFTU 300750Z AUTO 17004KT 100V230 9999 -RA FEW011/// SCT069/// OVC080/// 18/15 Q1011 EGLL 300750Z 27004KT 220V340 9999 SCT010 SCT016 16/14 Q1009 KCQM 300814Z AUTO 00000KT 10SM -VCTSRA SCT005 BKN045 OVC060 15/14 A2995 RMK AO2 LTG DSNT E AND SE VERP 300630Z 06009KT 6000 SCT025 33/25 Q1001 NOSIG CXTV 300700Z AUTO 03008KT 10/08 RMK AO1 SLP185 T01010078 52010 KCRE 300753Z AUTO 01004KT 9SM BKN020 BKN027 22/21 A2995 RMK AO1 LTG DSNT SE AND S SLP144 T02220211 KDHN 300753Z AUTO 00000KT 10SM CLR 24/23 A2999 RMK AO2 SLP148 T02390228 KDGW 300753Z AUTO A3020 RMK AO2 LTG DSNT NW SLPNO PWINO $ EGMD 300750Z 22016KT 4000 -DZ BR OVC003 15/15 Q1009 KCPW 300818Z AUTO 22009KT 10SM SCT100 08/00 A3067 RMK AO2 LTG DSNT SE AND W KBZN 300756Z AUTO 23007KT 10SM CLR 17/12 A3015 RMK AO2 SLP166 T01720117 KCRG 300753Z AUTO 00000KT 10SM CLR 23/22 A2997 RMK AO2 SLP149 T02330217 $ KBYY 300815Z AUTO 00000KT 5SM BR CLR 24/24 A2993 RMK AO2 T02430242 CYKY 300800Z 12009KT 15SM SKC 15/13 A3021 RMK VIA CYYC SLP227 DENSITY ALT 2400FT CZCP 300800Z AUTO 32006KT 9SM 03/ A3006 RMK SLP187 ORNI 300800Z 34019KT 7000 NSC 44/09 Q1001 NOSIG CYMH 300817Z AUTO 07005KT 2 1/2SM BR OVC003 05/05 A3014 RMK SLP210 CYKZ 300800Z 00000KT 15SM SKC 12/07 A3001 RMK SLP164 NZWK 300725Z 17013G30KT 30KM FEW013 BKN070 08/04 Q1008 RMK NZRO VATSIM USE ONLY CZCR 300800Z AUTO 28004KT 16/15 RMK AO1 0001 SLP088 T01640154 50002 KDIJ 300756Z AUTO 05006KT 10SM FEW120 15/07 A3023 RMK AO2 SLP157 T01500072 CYMJ 292200Z 08005KT 15SM BKN040CB 22/16 A3011 RMK CB5 CB S MOVG SE SLP200 CYNA 300817Z AUTO 08012G18KT 3SM -RA BR OVC010 10/10 A2987 RMK SLP116 KDHT 300753Z AUTO 06008KT 10SM BKN095 BKN110 22/15 A3016 RMK AO2 SLP145 T02170150 KCQT 300747Z AUTO 00000KT 9SM CLR 19/16 A2987 RMK AO2 SLP111 T01890161 403000189 KDIK 300756Z AUTO 36005KT 10SM SCT110 14/11 A3011 RMK AO2 SLP188 T01390111 CYLT 300800Z 19022G28KT 15SM FEW030 FEW100 FEW200 10/04 A2950 RMK CU1AC0CI1 CUSL OVR RDG SE SLP993 CXWB 300700Z AUTO 29008KT 10/09 RMK AO1 SLP149 T01000091 52004 EFUT 300750Z 15011KT 130V190 9999 FEW037 22/12 Q1014 CYNC 292000Z 21009KT 180V240 15SM FEW220 20/M05 A2991 RMK CI2 LAST OBS/NEXT 301300Z SLP130 DENSITY ALT 700FT EGNC 300750Z 25008KT 210V280 9999 BKN019 13/// Q1004 NZWN 300800Z AUTO 19030KT 9999 SCT029/// BKN046/// 11/06 Q1015 NOSIG TXKF 300755Z 19007KT 9999 FEW009 SCT020 BKN180 BKN300 25/24 Q1021 EHDL 300755Z AUTO 21010KT 170V240 9999 -RA FEW006 SCT008 BKN009 FEW015CB 15/14 Q1010 RERA REDZ GRN CYND 300100Z 00000KT 15SM FEW080 19/14 A2991 RMK AC1 LAST OBS/NEXT 301100 UTC SLP129 DENSITY ALT 700FT CXVM 300700Z AUTO 13002KT 12/10 RMK AO1 T01220103 CYMM 300800Z AUTO 12008KT 9SM FEW100 17/07 A3014 RMK SLP214 DENSITY ALT 1400FT KCQW 300815Z AUTO 00000KT 9SM FEW018 22/21 A2997 RMK AO2 LTG DSNT SE AND S NZWP 300800Z 16011KT 25KM VCSH FEW011 SCT014 12/11 Q1008 RMK NZAA VATSIM USE ONL CXVN 300800Z AUTO 22004KT 14/08 RMK AO1 SLP156 T01410075 51003 CYNE 300800Z AUTO 05005KT 350V090 9SM BKN140 09/06 A3023 RMK SLP246 CYLW 300800Z AUTO 18004KT 9SM FEW130 SCT160 22/08 A2996 RMK SLP137 DENSITY ALT 2400FT KCQX 300752Z AUTO 30003KT 8SM CLR 19/18 A2988 RMK AO2 SLP118 T01890183 CYMO 300814Z AUTO 25004KT 9SM -RA OVC100 17/13 A2976 RMK SLP079 DENSITY ALT 300FT KCSG 300751Z AUTO 00000KT 10SM CLR 24/22 A2994 RMK AO2 SLP132 T02390217 KCRP 300751Z 22004KT 10SM FEW050 SCT250 25/23 A2992 RMK AO2 SLP132 T02500233 $ NZWR 300800Z 16011KT 25KM VCSH FEW011 SCT014 12/11 Q1008 RMK NZAA VATSIM USE ONL KCRQ 300753Z AUTO 19004KT 8SM OVC009 19/18 A2987 RMK AO2 SLP111 T01940178 402390189 TSNO $ NZWS 300800Z 15012KT 35KM SCT038 11/02 Q1012 RMK ALT VATSIM USE ONLY EGNH 300750Z 25014KT 9999 FEW017 15/10 Q1006 EHEH 300804Z AUTO 22011KT 180V250 9999 FEW011 SCT014 BKN054 16/14 Q1011 GRN 20010KT 9999 SCT015 BKN020 TEMPO FEW010 SCT014 BKN020 KCRS 300753Z AUTO 00000KT 10SM CLR 26/21 A2998 RMK AO2 SLP147 T02560206 KEBA 300755Z AUTO 00000KT 10SM SCT070 BKN075 26/25 A2998 RMK AO2 T02550245 PWINO NZWU 300749Z 10010KT 30KM SCT025 BKN045 08/05 Q1013 RMK NZOH VATSIM USE ONLY CYOA 292300Z 24009KT 15SM FEW060 21/12 A3014 RMK SC1 LAST OB/NEXT 301100Z CZFA 300100Z 26003KT 30SM SCT078 OVC090 15/13 A3007 RMK AC4AS4 CLIMAT 21.5/9.1/0.6MM LAST STFD OBS/NXT 301300Z SLP201 DENSITY ALT 2700FT EGNJ 300750Z 24009KT 9999 FEW020 16/10 Q1007 KCTB 300756Z AUTO 10004KT 10SM CLR 17/10 A3016 RMK AO2 LTG DSNT N AND NW SLP182 T01670100 KDKB 300815Z AUTO 17004KT 10SM CLR 12/11 A3005 RMK AO2 T01220105 CYMT 300100Z 03004KT 15SM FEW030 17/07 A2988 RMK CU1 LAST OBS/NEXT 301000 UTC SLP123 DENSITY ALT 1800FT CYMU 292100Z 31006KT 270V350 15SM FEW070 SCT100 20/02 A2991 RMK AC2AC2 LAST OBS/ NEXT 301200Z SLP133 DENSITY ALT 900FT CYOC 292000Z 24004KT 190V270 35SM SCT024 SCT036 23/07 A3003 RMK CU3CF1 CLIMAT 23.6/12.6/0.0MM/LAST STFD OBS/NXT 301300Z SLP177 DENSITY ALT 1800FT CZEL 300800Z AUTO 35005KT 10/06 RMK AO1 SLP172 T01020061 50000 KCSM 300753Z AUTO 18012KT 10SM CLR 24/19 A3003 RMK AO2 SLP140 T02440189 CZEM 292000Z 32005KT 270V340 15SM FEW230 19/02 A2991 RMK CC1 LAST STFD OBS/NEXT011300UTC SLP131 DENSITY ALT 500FT EHFD 300755Z AUTO 23016KT 9999 FEW008/// 14/11 Q1006 CXWM 300700Z AUTO 11005KT 16/14 RMK AO1 T01570136 CYNM 300800Z AUTO VRB02KT 9SM CLR 06/05 A2984 RMK SLP113 CYOD 300800Z 10005KT 15SM FEW250 16/09 A3022 RMK CI1 SLP237 EGNM 300750Z 25009KT 210V290 9999 SCT020 14/09 Q1006 KCRW 300754Z 00000KT 10SM FEW000 14/13 A3007 RMK AO2 SLP176 FG FEW000 T01390128 KEAN 300815Z AUTO 00000KT 10SM CLR 14/12 A3018 RMK AO2 T01390118 EHDV 300755Z AUTO 25014KT 180V310 9999 NSC 14/11 Q1006 EGMW 300650Z 24008KT 190V270 9999 BKN012 15/12 Q1008 CXVW 300700Z AUTO 11010KT 16/13 RMK AO1 T01630134 CXWN 300800Z AUTO 34007KT 13/09 RMK AO1 SLP186 T01300093 51009 KCRX 300815Z AUTO 00000KT 10SM CLR 17/16 A3002 RMK AO2 EGNO 300750Z 26011KT 9999 SCT020 14/10 Q1006 CYMX 300800Z 00000KT 25SM SCT082 SCT230 11/11 A2993 RMK AC3CI1 SLP138 KEBG 300815Z AUTO 00000KT 10SM OVC120 27/24 A2994 RMK AO2 T02680240 KCSQ 300815Z AUTO 15008KT 10SM CLR 19/18 A2998 RMK AO2 UNTT 300800Z 17003MPS 9999 -TSRA FEW037CB 21/16 Q1001 R21/190055 NOSIG RMK QFE736 KEAR 300815Z AUTO 35009KT 10SM CLR 18/17 A3002 RMK AO1 EGNR 300750Z 23008KT 9999 FEW024 15/11 Q1008 KCTJ 300815Z AUTO 00000KT 10SM CLR 22/15 A3001 RMK AO2 T02230153 CYPA 300800Z 00000KT 15SM SKC 09/07 A3027 RMK SLP259 CYOJ 300800Z AUTO 11004KT 9SM CLR 18/11 A3002 RMK SLP170 DENSITY ALT 1500FT KDKK 300753Z AUTO 20005KT 10SM CLR 13/11 A3004 RMK AO2 SLP172 T01280111 KCUB 300753Z AUTO 00000KT 8SM FEW005 24/22 A2997 RMK AO2 SLP146 T02390222 EGNS 300750Z 34011KT 220V360 9999 FEW014 13/10 Q1006 NOSIG EGPA 300750Z 24010KT 9999 FEW028 14/09 Q0998 KEAT 300755Z AUTO 31015KT 10SM CLR 23/09 A2998 RMK AO2 SLP141 T02280094 403610206 EGPB 300750Z 25004KT 190V290 9999 R27/1300 FEW002 12/11 Q0997 TEMPO BKN005 EGNT 300750Z 25009KT 210V280 9999 SCT023 14/09 Q1004 KEAU 300813Z AUTO 00000KT 2 1/2SM BR CLR 13/13 A2996 RMK AO2 VIS 1V5 T01280128 CYPC 292300Z 35005KT 290V010 15SM BKN035 BKN100 19/10 A2996 RMK SC6AC1 AC TR 22.7/12.3/0/LAST OBS/NXT 301300Z SLP149 DENSITY ALT 400FT ZUGY 300800Z 20007MPS 9999 BKN030 29/21 Q1008 NOSIG KCSV 300753Z AUTO 00000KT 10SM CLR 13/11 A3007 RMK AO2 SLP166 T01330111 EGPC 300750Z 25008KT 9999 SCT019 14/08 Q0998 CZFM 292300Z 33010G18KT 310V010 35SM BKN100 25/12 A2997 RMK AC6 28.1/17.4/0.0/LAST OBS/NXT 301300Z SLP152 DENSITY ALT 1200FT EGOM 300750Z AUTO 26014KT 8000 BR SCT003/// SCT011/// 10/10 Q1003 RERA CZEV 300800Z AUTO 01012G17KT 12/08 RMK AO1 PK WND 02018/0749 SLP189 T01200077 53015 EGPD 300750Z 24008KT 200V280 CAVOK 15/07 Q1000 NOSIG EGNV 300750Z 21013KT 9999 FEW025 15/10 Q1005 CYPD 300800Z AUTO 14007KT 1/4SM -RA VV002 17/ A2998 RMK TD MISG SLP155 DENSITY ALT 600FT CZFN 292300Z 12005KT 070V180 30SM SCT050 SCT250 28/14 A2997 RMK CU3CI1 29.1/28.2/0 LAST STFD OBS/NEXT 301500UTC SLP152 DENSITY ALT 1800FT CYPE 300800Z 00000KT 15SM FEW070 SCT250 17/12 A3003 RMK AC2CI2 SLP172 DENSITY ALT 2400FT EGPE 300750Z 24009KT 9999 FEW012 SCT048 12/10 Q0999 KDLF 300758Z AUTO 10006KT 10SM CLR 26/19 A2996 RMK AO2 SLP130 T02590187 CYOO 300800Z AUTO 25003KT 9SM CLR 14/07 A3000 RMK SLP161 EGNX 300750Z 23006KT 190V260 9999 FEW012 15/12 Q1008 EGPF 300750Z AUTO 24012KT 9999 -RA FEW007 BKN038 12/10 Q1003 KECG 300754Z AUTO 35005KT 10SM SCT120 22/20 A2999 RMK AO2 RAE0659 SLP156 P0000 T02170200 CYPG 292200Z 36010KT 15SM FEW037TCU FEW150 BKN250 22/16 A3000 RMK TCU1AC2CI4 DA2084FT LAST OBS/NEXT 301100 UTC SH S SLP161 EGOP 300750Z 26007KT 9999 BKN038 15/12 Q1009 BLU EHGG 300755Z AUTO 21011KT 5000 BR SCT006 BKN009 BKN010 15/14 Q1009 REDZ TEMPO 6000 RADZ BKN008 KDLH 300755Z 00000KT 10SM FEW060 16/13 A2995 RMK AO2 SLP139 OCNL LTG DSNT N T01610128 KCUH 300815Z AUTO 18003KT 10SM CLR 22/20 A2998 RMK AO2 T02180197 CYPH 300800Z AUTO 03004KT 9SM OVC140 09/08 A2986 RMK SLP114 EGPH 300750Z AUTO 24014KT 9999 BKN018 OVC047 13/09 Q1002 KDKR 300755Z AUTO 00000KT 5SM BR CLR 22/22 A3000 RMK AO2 EGPI 300750Z 23011KT 210V270 9999 FEW012 BKN041 12/10 Q1002 KEBS 300815Z AUTO 11005KT 10SM SCT036 BKN043 OVC049 19/17 A2996 RMK AO2 KDMA 300813Z AUTO VRB04KT 10SM -TSRA FEW035 SCT080 SCT095 22/22 A3003 RMK AO2 LTG DSNT NE-E EGQA 300750Z 21009KT 9999 FEW012 SCT023 13/// Q0999 WHT CZFS 300700Z AUTO 15003KT 20/12 RMK AO1 SLP162 T01960117 51002 EGOS 300750Z 22008KT 9999 FEW015 15/11 Q1007 BLU TEMPO SCT020 WHT CYQA 300800Z AUTO 00000KT 9SM CLR 08/07 A3000 RMK SLP163 KCVB 300815Z AUTO 32003KT 7SM SCT048 23/21 A2998 RMK AO2 T02260208 EHFS 300755Z AUTO 20015KT 9999 FEW007/// SCT009/// BKN010/// 16/15 Q1010 CYQB 300800Z 00000KT 2 1/2SM -DZ BR VV003 14/13 A2989 RMK FG8 SLP125 EGPK 300750Z 23013KT 210V290 9999 SCT022 13/09 Q1004 KCUL 300756Z AUTO 00000KT 10SM CLR 14/14 A3005 RMK AO2 KCVC 300755Z AUTO 00000KT 10SM CLR 23/22 A2994 RMK AO2 KDLL 300755Z AUTO 00000KT 10SM CLR 13/11 A3002 RMK AO2 T01340105 KEDC 300755Z AUTO 00000KT 10SM 25/23 A2998 RMK AO2 CYPL 300200Z 02008G17KT 330V060 15SM SCT040 BKN100 OVC250 18/11 A2990 RMK SC3AC4CI1 CU ASOCTD LAST STFD OBS/NEXT 301100Z SLP132 DENSITY ALT 1900FT CXZC 300800Z AUTO 25002KT 17/12 RMK AO1 SLP078 T01700121 55000 EGPL 300750Z 25014KT 9999 -RA FEW009 SCT015 BKN040 11/10 Q0999 KEDE 300755Z AUTO 00000KT 10SM CLR 22/22 A2999 RMK AO2 T02200220 VGEG 300700Z 21015KT 5000 SCT016 BKN090 33/26 Q1002 NOSIG CYQD 300800Z 08002KT 15SM SKC 08/06 A3025 RMK SLP250 KDLN 300753Z AUTO 09004KT 10SM CLR 13/09 A3016 RMK AO2 SLP154 T01330089 EGPM 300750Z VRB03KT 9999 SCT010 13/11 Q0996 TEMPO BKN006 EGOV 300750Z 24009KT 9999 FEW018 SCT060 14/09 Q1007 BLU NOSIG EGOW 300750Z 23011KT 9999 SCT022 15/10 Q1007 WHT EGPN 300750Z 25013KT 9999 FEW012 SCT020 14/10 Q1001 CYOW 300800Z 23005KT 15SM SKC 13/12 A2993 RMK SLP138 KDKX 300815Z AUTO 00000KT 10SM CLR 16/16 A3001 RMK A01 CYQF 300800Z 14011KT 15SM FEW070 BKN150 17/13 A3012 RMK AC2AC3 SLP198 DENSITY ALT 3600FT KECP 300804Z 00000KT 10SM SCT022 SCT037 24/23 A2992 RMK AO2 T02440233 KCTY 300753Z AUTO 00000KT 24/22 A2995 RMK AO1 SLP142 T02390222 KCVG 300752Z 11003KT 10SM CLR 15/12 A3006 RMK AO2 SLP173 T01500122 EGPO 300750Z 20010KT 9999 -RA FEW009 SCT012 FEW018CB 12/11 Q0997 CYPO 300806Z AUTO 32011G17KT 3SM OVC005 03/ A2986 RMK TD MISG SLP114 KDLP 300815Z AUTO 17005KT 10SM SCT021 SCT029 BKN075 28/25 A2991 RMK A01 CYQG 300800Z 16003KT 090V160 15SM FEW260 15/11 A3002 RMK CI2 SLP164 KCTZ 300755Z AUTO 00000KT 10SM CLR 22/22 A2998 RMK AO2 T02150215 KCVH 300810Z AUTO 29003KT 7SM CLR 12/12 A2994 RMK AO1 KDMH 300754Z AUTO 20/13 A3003 RMK AO1 SLP167 T02000128 CYOY 300818Z AUTO 23003KT 200V280 2 1/2SM OVC003 14/13 A2988 CYPQ 300800Z AUTO 00000KT 9SM CLR 08/07 A3000 RMK SLP162 CYQH 300800Z 04003KT 15SM OVC110 13/11 A3000 RMK AC8 SLP171 DENSITY ALT 2400FT EHFZ 300755Z AUTO 22013KT 9999 NCD ///// Q1007 CYQI 300811Z 18009KT 9SM -SHRA BKN003 OVC009 16/16 A2988 RMK SF5ST3 CVCTV CLD EMBD SLP119 DENSITY ALT 300FT CYPR 300808Z AUTO 19002KT 9SM BKN005 BKN060 OVC070 12/12 A3014 RMK SLP209 KDLS 300653Z AUTO A3001 RMK AO2 SLPNO PWINO TSNO $ EHGR 300755Z AUTO 21009KT 160V270 9999 SCT007 SCT009 BKN011 16/14 Q1011 GRN 22009KT 8000 -RA FEW008 BKN010 OVC012 TEMPO 3500 RADZ FEW003 SCT005 BKN008 OVC010 KECS 300815Z AUTO 00000KT 10SM SCT095 16/11 A3019 RMK AO2 KEDJ 300815Z AUTO 14003KT 10SM CLR 12/09 A3008 RMK AO1 KCWA 300815Z AUTO 00000KT 10SM CLR 12/12 A3001 RMK AO2 CYRA 300000Z 05005KT 010V090 15SM FEW055 FEW070 26/09 A3009 RMK CU1AC2 CU TR 27.3/20.7/0/0 LAST STFD OBS/NEXT 301400 UTC SLP194 DENSITY ALT 1900FT KCUT 300753Z AUTO 00000KT 10SM SCT085 BKN110 13/09 A3024 RMK AO2 SLP192 T01330089 EGQK 300650Z AUTO 23009KT 9999 BKN060/// 13/09 Q0999 CYRB 300800Z 30007KT 1/8SM R35/1200FT/N FG VV001 00/00 A2979 RMK FG8 SLP094 CYQK 300800Z 01006KT 15SM FEW020 SCT038 14/12 A2999 RMK SC1SC3 SLP160 DENSITY ALT 1400FT KCWC 300815Z AUTO 16006KT 10SM CLR 24/19 A3000 RMK AO2 T02350188 KECU 300755Z AUTO 00000KT 10SM CLR 22/18 A3007 RMK AO2 CYQL 300800Z AUTO VRB04KT 9SM BKN095 BKN120 15/13 A3012 RMK LTNG DIST SW W SLP191 DENSITY ALT 3500FT EGPU 300750Z AUTO 25012KT 9999 NCD 13/10 Q1000 KEED 300756Z AUTO 21007KT 10SM CLR 37/14 A2977 RMK AO2 SLP038 T03670144 404560322 EGQL 300750Z 26013KT 9999 FEW017 BKN100 14/09 Q1001 BLU CYQM 300800Z 17006KT 6SM -TSRA BR FEW009 BKN039CB OVC100 19/18 A2984 RMK SF2CB5AC1 SLP107 DENSITY ALT 800FT KDMN 300753Z AUTO 01004KT 10SM FEW120 24/12 A3011 RMK AO2 SLP110 T02440117 TSNO KCVN 300815Z AUTO 03011KT 10SM FEW090 BKN120 20/13 A3015 RMK AO1 LTG DSNT N KEDN 300815Z AUTO 00000KT 10SM SCT038 SCT100 22/22 A2995 RMK AO2 EGQM 300750Z AUTO 24015KT 9999 FEW110/// 14/10 Q1003 CYPW 300200Z 28005KT 50SM FEW050 FEW160 SCT270 22/13 A3008 RMK CU1AC1CI2 LAST STFD OBS/NEXT 301300 UTC SLP188 DENSITY ALT 1100FT KDMO 300753Z AUTO 13007KT 10SM CLR 21/17 A3001 RMK AO2 SLP153 T02060167 KCVO 300815Z 30010KT 10SM 13/09 A3020 RMK AO1 KCWF 300815Z AUTO 01003KT 10SM CLR 22/22 A2993 RMK AO2 T02280220 CYPX 300800Z AUTO 05008KT 9SM OVC011 09/08 A2997 RMK SLP152 CYPY 300800Z AUTO 15004KT 9SM CLR 18/07 A3010 RMK SLP198 DENSITY ALT 1000FT KDLZ 300814Z AUTO 00000KT 10SM CLR 11/11 A3007 RMK AO2 KCWI 300756Z AUTO 13003KT 10SM CLR 16/14 A3003 RMK AO2 SLP188 T01560139 CYQQ 300800Z 00000KT 20SM FEW060 17/15 A3013 RMK SC2 SLP202 KCVS 300758Z 21009KT 10SM FEW110 22/13 A3014 RMK AO2A SLP140 T02220132 $ CYQR 300800Z 07010KT 15SM SKC 14/11 A3021 RMK SLP236 DENSITY ALT 1900FT CYRJ 300800Z 25004KT 25SM BKN025 13/12 A2987 RMK SC7 SLP119 EGQS 300750Z 24011KT 9999 FEW035 BKN050 13/08 Q0999 BLU NOSIG EHJA 300755Z AUTO 23013KT 9999 NSC 14/12 Q1007 OTBD 300800Z 34009KT 290V010 8000 NSC 44/07 Q0999 NOSIG CYQT 300800Z 00000KT 15SM OVC012 15/14 A2990 RMK SC8 SLP126 DENSITY ALT 700FT CYSB 300800Z 22005KT 15SM SKC 12/07 A2995 RMK SLP144 KDNL 300753Z AUTO 14006KT 10SM SCT039 23/21 A2997 RMK AO2 SLP143 T02330211 KEDU 300815Z AUTO 14004KT 9SM CLR 15/11 A2982 RMK AO1 CYRL 300200Z 01005KT 350V060 15SM SCT020TCU BKN060 16/14 A2997 RMK TCU3SC4 LAST STFD OBS/ NEXT 30 0900UTC SLP156 DENSITY ALT 1500FT EGSC 300750Z 24007KT 190V260 9999 SCT012 16/13 Q1008 UOOO 300800Z 02011G16MPS 9999 SCT065CB 16/07 Q1011 R01/0///60 NOSIG RMK QFE743 CYQU 300800Z VRB02KT 25SM FEW160 FEW240 14/12 A3000 RMK AC1CI1 SLP161 DENSITY ALT 2400FT CYSC 300800Z AUTO 20003KT 9SM BKN020 14/13 A2993 RMK SLP136 DENSITY ALT 800FT KEFD 300750Z 00000KT 10SM FEW030 SCT250 27/23 A2994 CXZV 300800Z AUTO 24002KT 11/11 RMK AO1 9PAST HR 6014 SLP096 P0007 T01050113 50029 CYQV 300800Z AUTO 32003KT 9SM CLR 10/09 A3023 RMK SLP247 KDMW 300805Z AUTO 00000KT 10SM CLR 16/14 A3005 RMK AO2 KEEN 300815Z AUTO 00000KT 1SM CLR 12/11 A2996 RMK AO1 KCXE 300815Z AUTO 00000KT 10SM SCT034 BKN060 20/18 A3002 RMK AO1 T02040182 KCWN 300758Z AUTO 23001KT 10SM BKN160 17/05 A3026 RMK AO2 SLP062 T01710051 $ KEDW 300758Z AUTO 21009KT 10SM CLR 28/00 A2988 RMK AO2 SLP085 T02800002 404120221 KDNN 300755Z AUTO 33004KT 10SM SCT075 20/16 A2998 RMK AO2 CYQW 300800Z AUTO 11009KT 9SM CLR 12/11 A3024 RMK SLP246 KEEO 300753Z AUTO 00000KT 10SM CLR 17/08 A3026 RMK AO2 SLP147 T01670083 KCVX 300814Z AUTO 00000KT 10SM CLR 12/09 A3002 RMK AO2 T01150090 EHHW 300755Z AUTO 26010KT 210V300 9999 FEW008/// SCT011/// BKN029/// 16/13 Q1008 CYQX 300800Z 17009KT 15SM OVC009 17/17 A3011 RMK SC8 SLP199 DENSITY ALT 600FT CYSF 300800Z AUTO VRB02KT 9SM SCT210 BKN230 OVC250 11/08 A3019 RMK SLP233 OTBH 300758Z 31006KT 8000 HZ CLR 43/11 A2951 RMK AO2A SLP993 T04260106 $ CZHY 300800Z AUTO 27001KT 13/12 RMK AO1 SLP176 T01250119 57009 CYQY 300807Z 20011G17KT 3/4SM R07/P6000FT/D BR OVC002 16/16 A3000 RMK ST8 SLP162 DENSITY ALT 300FT CYQZ 300804Z AUTO VRB02KT 9SM -RA OVC085 16/14 A3002 RMK LTNG DIST NE S SW SLP167 DENSITY ALT 2100FT CYRQ 300800Z AUTO VRB02KT 9SM CLR 12/11 A2990 RMK SLP126 EGSH 300750Z 25006KT 220V280 9999 FEW009 BKN012 15/13 Q1008 BECMG SCT025 KDPA 300752Z 00000KT 10SM CLR 14/11 A3004 RMK AO2 SLP170 T01390111 KDNS 300815Z AUTO 02006KT 10SM FEW046 FEW065 19/19 A2994 RMK AO2 CYSJ 300800Z 23005KT 180V270 3/4SM R23/5000VP6000FT/D -SHRA BR VV002 15/15 A2986 RMK FG8 SLP114 DENSITY ALT 500FT KEET 300753Z AUTO 00000KT 10SM CLR 22/18 A2997 RMK AO2 SLP142 T02220183 ORSU 300800Z 04006KT CAVOK 39/03 Q1011 OSKL 300800Z 20008KT CAVOK 27/10 Q1008 KEFK 300815Z AUTO 23003KT 1/4SM FG OVC001 11/11 A2996 RMK AO2 T01120112 CYSK 300600Z VRB02KT 15SM BKN030 BKN050 08/03 A2980 RMK SC5SC2 CALL OUT LAST OBS/NEXT 301200UTC SLP094 CYRT 300800Z 06002KT 15SM -SHRA BKN080 BKN120 OVC250 15/09 A3000 RMK AC5AC2CI1 ACC EMBD SLP161 EGTC 300750Z 22004KT 9999 FEW016 16/12 Q1008 KCWV 300815Z AUTO 00000KT 4SM BR CLR 22/22 A2996 RMK AO2 T02150215 KDNV 300815Z AUTO 00000KT 7SM CLR 12/11 A3004 RMK AO2 T01150110 CZKD 300800Z AUTO 32003KT 06/05 RMK AO1 SLP236 T00560046 53001 CYRV 300800Z AUTO 03005KT 9SM FEW120 SCT170 SCT250 21/15 A2993 RMK LTNG DIST ALQDS SLP131 DENSITY ALT 2400FT CYSM 300800Z VRB02KT 15SM VCSH BKN050 BKN250 17/11 A3011 RMK SC7CI1 CI TR SLP200 DENSITY ALT 800FT EHKD 300808Z AUTO 24012KT 210V270 9999 SCT010 BKN012 BKN016 16/14 Q1009 GRN 24015KT 9999 SCT012 BKN015 TEMPO 3000 -RADZ SCT008 BKN010 KEGE 300815Z AUTO 29003KT 10SM CLR 18/09 A3032 RMK AO1 CYSN 300100Z 19011KT 15SM SKC 21/12 A2997 RMK LAST STFD OBS/NEXT 30 1100UTC SLP148 DENSITY ALT 1000FT EGTE 300750Z 21006KT 9999 FEW007 SCT020 15/14 Q1009 CYTE 300800Z AUTO 00000KT 9SM CLR 04/03 A2997 RMK SLP152 KCXO 300753Z AUTO 05003KT 10SM CLR 23/22 A2994 RMK AO2 SLP135 T02330222 KDPG 292300Z 21016G24KT 02SM TSRA OVC120CB 24/15 A3012 RMK SLP152 T02350153 KCXP 300815Z AUTO 28003KT 10SM CLR 21/M05 A3012 RMK AO2 CYSP 292100Z VRB04KT 15SM FEW036 FEW130 SCT160 BKN240 14/08 A2996 RMK SC1AC1AC2CI1 LAST STFD OBS/NEXT 301200UTC SLP156 DENSITY ALT 1100FT CYTH 300800Z VRB02KT 15SM SKC 00/M01 A3025 RMK SLP255 KEGI 300758Z AUTO 02003KT 10SM FEW023 SCT031 BKN140 24/23 A2993 RMK AO2 SLP136 T02410231 $ EHJR 300755Z AUTO 23013G15KT //// ///////// 15/12 Q1008 W14/H12 KEHA 300808Z AUTO 08006KT 19/15 RMK AO1 PK WND 07 000 T01890151 OSLK 300800Z 21012KT 8000 SCT026 29/22 Q1011 EGSS 300750Z AUTO 24006KT 200V280 9999 BKN011 16/13 Q1009 KEFT 300815Z AUTO 21004KT 10SM CLR 16/11 A3003 RMK AO2 EGTK 300750Z 23006KT 9999 SCT012 15/13 Q1008 CYUB 300500Z 01009KT 15SM FEW015 FEW030 SCT220 11/07 A3007 RMK SC1SC2CI2 SC TR LAST OBS/NXT 301300UTC SLP183 KDPL 300805Z AUTO 00000KT 10SM SCT120 21/20 A2998 RMK AO2 T02100200 KEHC 300815Z AUTO 08008KT 10SM FEW019 28/23 A2991 RMK A01 EGUB 300750Z 24006KT 9999 FEW014 SCT016 BKN250 16/12 Q1008 WHT TEMPO FEW06 BLU CYTL 300815Z AUTO 36008KT 330V030 4SM -RA BR BKN007 OVC010 05/04 A3001 RMK SLP175 KDOV 300758Z AUTO 28005KT 10SM CLR 19/17 A3000 RMK AO2 SLP162 T01870167 VISNO RWY19 CHINO RWY19 $ KCXY 300756Z AUTO 00000KT 10SM CLR 18/12 A3002 RMK AO2 SLP166 T01780117 CYSY 292300Z 33015KT 15SM OVC004 03/01 A2996 RMK ST8 LAST OBS/NEXT 301300Z SLP156 KDQH 300815Z AUTO 00000KT 5SM BR CLR 22/21 A2998 RMK AO2 VGHS 300800Z 13012KT 5000 HZ SCT015 BKN100 35/25 Q1001 NOSIG CYTQ 291900Z 03010KT 15SM SCT024 BKN046 18/04 A3004 RMK SC3SC2 LAST STFD OBS NEXT/301200 UTC SLP176 DENSITY ALT 300FT CYTR 300800Z 29004KT 15SM SKC 15/08 A2998 RMK SLP153 KCYS 300753Z AUTO 07005KT 10SM CLR 14/12 A3025 RMK AO2 SLP156 T01390117 $ KDRA 300753Z AUTO 10010KT 10SM CLR 29/07 A2995 RMK AO2 SLP081 T02890072 404110239 CYTS 300800Z 21004KT 15SM FEW120 12/08 A2987 RMK AC1 SLP118 EHMA 300755Z AUTO 26010KT 220V280 9999 FEW007 SCT010 BKN016 16/14 Q1008 EGVA 300813Z 22007KT 9999 SCT012 BKN023 BKN160 15/15 A2979 RMK AO2A CIG 023V160 BKN023 V SCT PWINO VISNO RWY09 $ KCZL 300815Z AUTO 01004KT 10SM CLR 23/13 A2997 RMK AO2 T02250128 EICK 300800Z 22007KT 9999 -RA FEW015 SCT026 BKN070 11/11 Q1008 NOSIG CYUL 300800Z 24003KT 15SM BCFG SCT080 15/15 A2992 RMK AC3 SLP134 CYVC 300800Z 25002KT 15SM FEW250 06/05 A3027 RMK CI1 SLP262 KEGV 300815Z AUTO 00000KT 10SM CLR 11/11 A2999 RMK AO2 T01130110 EGUL 300803Z AUTO 25007KT 9999 SCT014 16/13 A2976 RMK AO2 CZMD 300800Z AUTO 36005KT 320V020 2 1/2SM -RA BR OVC007 06/05 A3007 RMK SLP193 EHKV 300755Z AUTO 23014KT //// // FEW007 SCT010 14/13 Q1008 RE// EGUN 300758Z AUTO 26006KT 9999 BKN013 16/15 A2976 RMK AO2 BKN V OVC SLP081 T01580151 KEHO 300755Z AUTO 03005KT 7SM CLR 20/20 A3000 RMK AO2 T01960196 EGUO 300750Z 21006KT 9999 FEW012 14/13 Q1010 BLU EHMG 300755Z AUTO 25014KT 9999 SCT008 SCT012 15/12 Q1008 CYTZ 300800Z AUTO 28005KT 9SM CLR 16/09 A3001 RMK SLP164 DENSITY ALT 300FT KEHR 300815Z AUTO 00000KT 10SM CLR 16/13 A3004 RMK AO1 KDRI 300815Z AUTO 00000KT 10SM BKN050 23/22 A2997 RMK AO2 T02310223 CZMJ 300800Z AUTO 05001KT 12/10 RMK AO1 SLP238 T01160098 51007 CYUS 300800Z AUTO 32008KT CLR 02/ A3006 RMK SLP183 CYWA 300800Z AUTO 25002KT 9SM CLR 10/09 A2994 RMK SLP142 KEIK 300814Z AUTO 00000KT 10SM CLR 17/13 A3015 RMK AO2 T01720129 KCZT 300815Z AUTO 19004KT 10SM CLR 26/21 A2994 RMK AO2 CYUT 292200Z 18008KT 45SM FEW040 FEW130 FEW220 17/07 A2992 RMK CU1AC1CI1 CU TR AC TR CI TR 20.1/7.2/0.0/0.0/SNW CVR/NIL/LST STDF OBS/NXT 301200 SLP135 DENSITY ALT 200FT EIDL 300800Z 23010KT 9999 SCT020 SCT026 BKN036 13/10 Q1004 EGWC 300750Z 23005KT 9999 FEW015 SCT140 13/12 Q1008 BLU CYVL 300800Z AUTO 27004KT 9SM CLR 18/12 A2998 RMK SLP160 DENSITY ALT 1300FT KDRM 300814Z AUTO 00000KT 10SM SCT065 09/09 A2998 RMK AO2 T00930089 CYVM 300800Z AUTO 20010KT 9SM OVC150 06/03 A2993 RMK SLP137 CYWE 300800Z AUTO 00000KT 9SM CLR 17/11 A3009 RMK SLP199 DENSITY ALT 1400FT KDRO 300753Z AUTO 34006KT 10SM SCT100 16/09 A3030 RMK AO2 LTG DSNT NW SLP165 T01610089 $ EHLW 300755Z AUTO 23007KT 190V250 9999 FEW006 SCT007 BKN009 16/14 Q1008 GRN 22008KT 9999 SCT015 BKN030 TEMPO 4000 RA SCT010 SCT015CB BKN020 EGVN 300750Z 23005KT 9999 FEW010 BKN018 15/12 Q1008 WHT BECMG SCT035 BLU EGUW 300809Z 26007KT 9999 BKN018 16/12 Q1008 WHT KFAF 300758Z AUTO 05003KT 10SM FEW120 22/18 A3000 RMK AO2 RAB10E20DZB20E22 SLP162 P0000 T02210180 $ CYVO 300400Z AUTO 20002KT 9SM CLR 11/07 A2992 RMK SLP139 CYUX 300800Z AUTO 25006KT 9SM OVC150 08/08 A2990 RMK SLP129 KEHY 300815Z AUTO 00000KT 10SM 12/05 A3029 RMK AO2 EGVO 300750Z 26004KT 9999 FEW006 BKN008 BKN035 14/12 Q1009 GRN BECMG FEW008 SCT035 BLU EGVP 300750Z 23006KT 9999 SCT008 BKN060 15/13 Q1009 GRN BECMG SCT015 WHT CYUY 300800Z 00000KT 15SM FEW150 FEW260 10/ A2989 RMK AC1CI1 AC TR CI TR WND ESTD VIA CYQB SLP128 CYWG 300800Z 34009KT 15SM BKN025 11/10 A3010 RMK SC6 SLP196 CYVP 300800Z CCA 04005KT 15SM SCT087 SCT130 BKN180 BKN240 10/04 A2999 RMK AC4AC1CI1CI2 AC TR SLP157 KCZZ 300752Z AUTO 03004KT 18/11 A2993 RMK AO1 SLP093 T01830106 403890150 CYWH 300400Z 24020G28KT 15SM FEW250 14/10 A3011 RMK CI1 LAST STFD OBS/NEXT 301300 SLP196 CYVQ 300800Z 09006KT 30SM FEW040 FEW090 BKN310 21/14 A2992 RMK SC1AC2CI3 SC TR TCU TOPS DIST E SLP135 DENSITY ALT 900FT KEIR 300815Z AUTO 21008KT 170V230 10SM FEW020 SCT032 BKN060 28/23 A2994 RMK A01 CYVR 300800Z 11010KT 30SM FEW240 14/11 A3012 RMK CI1 SLP201 KDTA 300755Z AUTO 01005KT 10SM CLR 20/08 A3009 RMK AO1 CYWJ 292300Z 13007KT 40SM FEW054 FEW090 24/11 A3002 RMK CU1AC1 AC TR TCU ASCTD 24.8/11.6/0/0 LAST STFD OB/NXT 301300UTC SLP173 DENSITY ALT 1700FT KDRT 300753Z AUTO 09005KT 10SM CLR 27/18 A2995 RMK AO2 SLP124 T02670183 CZMT 300000Z 34004KT 12SM -SHRA FEW005 OVC012 14/12 A3018 RMK CF1CU8 CF TR VIS S 3 BR LAST OBS/NEXT 301300 UTC SLP220 CYVT 300400Z 12003KT 15SM FEW240 20/11 A3020 RMK CI1 CI TR LAST STFD OBS/NEXT 301200UTC SLP235 DENSITY ALT 1900FT CYWK 300800Z AUTO 03006KT 9SM OVC014 10/08 A2991 RMK SLP140 CZMU 300700Z AUTO 11005KT 14/12 RMK AO1 T01370116 CYXC 300800Z 28007KT 25SM FEW110 20/08 A3003 RMK AC2 SLP148 DENSITY ALT 4200FT CYWL 300800Z 32007KT 15SM FEW040CB SCT100 15/13 A3003 RMK CB1AC4 CB TR SLP162 DENSITY ALT 3700FT KDSM 300754Z 18007KT 10SM FEW045 FEW080 OVC200 21/18 A2996 RMK AO2 SLP140 FRQ LTGIC DSNT NW-NE CB DSNT NW-NE MOV E T02110178 KFAM 300756Z AUTO 00000KT 10SM CLR 17/14 A3007 RMK AO2 SLP208 T01670144 EGXC 300750Z 26007KT 9999 FEW018 SCT240 16/12 Q1007 BLU NOSIG CYVV 300800Z 18005KT 15SM SKC 10/09 A3001 RMK SLP165 EGXE 300750Z 23007KT 9999 FEW028 16/09 Q1005 BLU NOSIG CYXE 300800Z 10008KT 15SM SKC 13/10 A3025 RMK SLP252 EIDW 300800Z 22008KT 9999 FEW012 BKN050 BKN100 12/09 Q1006 NOSIG KFBG 300758Z AUTO 00000KT 10SM SCT150 BKN170 22/21 A2996 RMK AO2 SLP146 T02160208 $ CYXH 300800Z AUTO 06006KT 9SM CLR 16/14 A3013 RMK SLP199 DENSITY ALT 2700FT KFAR 300753Z 34005KT 10SM SCT110 17/15 A2999 RMK AO2 SLP151 T01720150 KDUA 300815Z AUTO 00000KT 10SM CLR 22/19 A3000 RMK AO2 KELA 300815Z AUTO 00000KT 5SM BR CLR 24/24 A2994 RMK AO2 T02430240 CYXJ 300800Z 36002KT 15SM FEW130 SCT240 15/12 A3001 RMK AC2CI2 SLP164 DENSITY ALT 2600FT KFAT 300753Z 30012KT 10SM CLR 26/12 A2981 RMK AO2 SLP090 T02560122 404110233 KDUB 300815Z AUTO 00000KT 10SM SCT110 13/07 A3034 RMK AO2 CYYB 300800Z AUTO 26006KT 9SM CLR 14/10 A2995 RMK SLP142 DENSITY ALT 1300FT KFBL 300814Z AUTO 17005KT 10SM CLR 17/16 A2998 RMK AO2 KDTL 300815Z AUTO 31003KT 10SM CLR 16/15 A3000 RMK AO2 KDUC 300815Z AUTO 00000KT 21/19 A3000 RMK AO2 PWINO TSNO KEKM 300050Z 00000KT 10SM CLR 20/08 A3006 RMK AO2 LAST CZOL 300700Z AUTO 13002KT 17/14 RMK AO1 T01690144 EGWU 300750Z 26005KT 9999 SCT012 BKN050 16/12 Q1009 GRN BECMG FEW018 BLU CYYC 300800Z 14008KT 15SM FEW160 17/13 A3014 RMK AC2 SLP198 DENSITY ALT 4400FT CZPC 300815Z AUTO 16004KT 070V210 9SM TS OVC060 16/12 A3017 RMK LTNG DIST E SLP198 DENSITY ALT 4500FT CYXL 300806Z 36007KT 330V040 15SM -SHRA FEW018 OVC028 14/12 A2995 RMK SC2SC6 SLP149 DENSITY ALT 1300FT KELD 300753Z AUTO 34004KT 10SM CLR 21/21 A3000 RMK AO2 SLP155 T02110206 KDSV 300754Z AUTO 00000KT 10SM CLR 12/11 A3005 RMK AO2 SLP183 T01220106 EGYD 300750Z 24009KT 9999 FEW012 SCT250 14/11 Q1007 BLU NOSIG CYYD 300805Z AUTO 30003KT 9SM CLR 12/12 A3006 RMK SLP179 KDTN 300753Z AUTO 00000KT 10SM CLR 24/21 A2998 RMK AO2 SLP149 T02390211 KEKN 300751Z AUTO 00000KT 1/4SM FG VV002 11/11 A3012 RMK AO2 SLP198 T01110106 TSNO CYXN 292200Z 29009KT 15SM FEW018 FEW240 22/07 A3007 RMK CF1CI2 CF TR 22.1/5.2/0/0 LAST STFD OB/NXT 301200Z SLP184 DENSITY ALT 600FT EGYE 300750Z 25010KT 9999 FEW005 ///// Q1007 BLU CYYE 300800Z 04003KT 15SM FEW080 BKN150 16/14 A2997 RMK AC2AC3 SLP153 DENSITY ALT 1600FT KDTO 300753Z AUTO 00000KT 10SM CLR 21/19 A2998 RMK AO2 SLP144 T02110194 KEKO 300756Z AUTO VRB03KT 10SM CLR 23/07 A3007 RMK AO2 SLP110 T02330067 403610167 OTHH 300800Z 02009KT 8000 NSC 40/16 Q0999 NOSIG CYYF 300800Z VRB02KT 15SM SCT140 16/12 A2996 RMK AC3 SLP143 DENSITY ALT 1400FT KFAY 300753Z AUTO 00000KT 10SM CLR 22/21 A2997 RMK AO2 SLP142 T02220206 KDUG 300756Z AUTO 16007KT 10SM CLR 21/18 A3011 RMK AO2 SLP121 T02060178 CYWY 292200Z 15008KT 15SM FEW045TCU FEW240 30/13 A2999 RMK TCU1CI1 30.3/20.1/0/0 LAST OB/NXT 301400Z SLP158 DENSITY ALT 2200FT CYXP 292200Z 27006KT 15SM FEW040 SCT070 BKN240 08/04 A2987 RMK SC1AC2CS4 8.6/3.4/09.0 LAST STFD OBS/NEXT 301100Z SLP118 EGXP 300750Z 25008KT 9999 FEW012 SCT200 15/12 Q1007 BLU CYYG 300800Z 18011KT 12SM OVC011 19/18 A2988 RMK SC8 SLP121 DENSITY ALT 700FT KDUH 300815Z AUTO 00000KT 10SM CLR 14/11 A3005 RMK AO2 T01370112 KEKQ 300756Z AUTO 00000KT 10SM CLR A3007 RMK AO2 SLPNO $ KFCH 300815Z AUTO 10SM CLR 25/11 A2981 RMK A01 EHPG 300755Z AUTO 21016KT 9999 FEW004 SCT015 OVC020 15/14 Q1009 CYXQ 292200Z 25005KT 170V270 30SM -RA BKN035TCU 16/12 A3007 RMK TCU6 CLIMAT 20.0/15.0/0.6 MM/LAST STFD OBS/NXT 301600Z SLP201 DENSITY ALT 2500FT EGYH 300750Z 25008KT 9999 FEW015 16/13 Q1008 BLU CYYH 300800Z 34005KT 15SM VCSH FEW035 FEW090 FEW210 BKN230 06/03 A3004 RMK SC1AS1CI1CS3 SC TR SLP176 KFCI 300755Z AUTO 05003KT 10SM SCT041 BKN060 OVC070 22/09 A3005 RMK AO1 KFBR 300815Z AUTO 34009KT 10SM SCT070 OVC100 17/09 A3030 RMK AO2 T01720086 CYXR 300800Z AUTO 00000KT 9SM CLR 13/08 A2990 RMK SLP129 KDUJ 300753Z AUTO 00000KT 10SM CLR 11/09 A3008 RMK AO2 SLP181 T01060089 KDTS 300753Z AUTO 00000KT 5SM RA BR SCT028 BKN055 BKN085 26/25 A2993 RMK AO2 RAB09 SLP135 P0018 T02610250 TSNO KEKS 300815Z AUTO 09004KT 10SM CLR 12/09 A3023 RMK A01 EGXS 300750Z 23009KT 9999 FEW035 SCT250 15/11 Q1007 BLU CYYJ 300800Z 30011KT 30SM FEW250 17/09 A3011 RMK CI1 SLP197 CYXS 300817Z AUTO 09005KT 6SM RA VCTS BR BKN060 OVC081 15/14 A3004 RMK LTNG DIST NE E SE PRESFR SLP175 DENSITY ALT 2600FT KELK 300815Z AUTO 20006KT 10SM CLR 23/19 A3001 RMK AO2 LTG DSNT W T02270188 EGXT 300750Z 24008KT 9999 FEW009 BKN160 14/12 Q1008 BLU CYXT 300800Z 20014G20KT 10SM SCT100 16/09 A3009 RMK AC4 SLP193 EGXU 300750Z 26012KT 9999 FEW028 15/08 Q1006 BLU NOSIG CYYL 300800Z AUTO 24004KT 9SM CLR 07/05 A3025 RMK SLP256 CYXU 300800Z 00000KT 15SM SKC 08/08 A3003 RMK SLP173 KFCM 300753Z 21004KT 10SM CLR 18/14 A2996 RMK AO2 SLP140 T01830139 KELM 300809Z AUTO 00000KT 1/4SM FG VV003 09/09 A3004 RMK AO2 T00940089 RVRNO KELN 300753Z AUTO 31020G30KT 10SM CLR 19/09 A3001 RMK AO2 PK WND 32034/0723 SLP148 T01890089 403280183 KDTW 300753Z 36003KT 10SM SCT090 OVC250 16/08 A3003 RMK AO2 SLP165 T01560083 $ EGXV 300750Z AUTO 26009KT 9999 FEW021/// 15/10 Q1006 EGYM 300750Z 24006KT 9999 FEW008 BKN018 15/13 Q1008 WHT TEMPO SCT025 BLU CYZE 300800Z AUTO 30004KT 9SM CLR 14/09 A2998 RMK SLP154 CYYN 300800Z AUTO 12008KT 9SM CLR 13/12 A3021 RMK SLP228 DENSITY ALT 2700FT EGXW 300750Z 25007KT 9999 FEW015 15/11 Q1007 BLU NOSIG KELO 300813Z AUTO 23007KT 10SM RA SCT030 BKN075 OVC085 15/14 A2993 RMK AO2 EHQE 300755Z AUTO ///14KT 9999 FEW007 SCT016 BKN020 15/13 Q1008 CYZF 300800Z 11004KT 15SM FEW050 FEW240 17/10 A3008 RMK SC1CI1 CI TR SLP193 DENSITY ALT 900FT CYXX 300800Z 25007KT 10SM BKN073 14/10 A3013 RMK AC5 SLP204 KELP 300751Z 12008KT 10SM FEW090 BKN250 27/13 A3009 RMK AO2 SLP108 T02670133 CYZG 292100Z 03012KT 15SM FEW030 BKN100 13/01 A3000 RMK CU1AC5 CU TR LAST STFD OBS/NEXT 301200 UTC SLP174 CYXY 300800Z 18004KT 30SM FEW065 BKN180 16/08 A2996 RMK SC2AC5 SLP156 DENSITY ALT 2800FT EGYP 300750Z 29015KT CAVOK 02/M00 Q0996 BLU CYXZ 300000Z 21004KT 190V260 15SM FEW300 14/06 A2999 RMK CI1 LAST OBS/NEXT 301100UTC SLP163 EGXZ 300750Z 24013KT CAVOK 15/09 Q1006 BLU CYYQ 300800Z 28009KT 15SM FEW270 09/05 A3013 RMK CI1 SLP207 CYZH 300800Z AUTO 10003KT 9SM CLR 16/13 A3009 RMK SLP193 DENSITY ALT 2200FT CYYR 300800Z 11006KT 15SM -RA BKN068 OVC100 09/06 A3007 RMK AC6AC2 SLP184 KFCS 300758Z AUTO 09004KT 10SM BKN170 15/08 A3024 RMK AO2 SLP182 T01540083 $ CZPS 300700Z AUTO 11006KT 14/11 RMK AO1 T01350108 KFDK 300805Z AUTO 12003KT 7SM CLR 13/13 A3007 RMK AO2 KDVK 300815Z AUTO 00000KT 10SM CLR 14/12 A3007 RMK AO2 KEMK 300815Z AUTO 24006KT 10SM SCT022 SCT030 28/24 A2991 RMK A01 CYYT 300800Z 23014G19KT 15SM BKN007 OVC200 19/18 A3021 RMK SF5CI3 SLP232 DENSITY ALT 600FT KDVL 300756Z AUTO 36007KT 10SM BKN021 15/14 A3011 RMK AO2 SLP205 T01500139 CYYU 300800Z 24007KT 15SM FEW040 SCT095 15/09 A2983 RMK SC2AC2 SLP103 DENSITY ALT 900FT KEND 300758Z AUTO 18007KT 10SM CLR 23/20 A2998 RMK AO2 RAB0658 SLP139 P0000 T02250198 $ KEMM 300755Z AUTO 34007KT 10SM 15/07 A3031 RMK AO2 KDVN 300752Z AUTO 18003KT 10SM FEW085 17/15 A3003 RMK AO2 SLP165 T01670150 EHRD 300755Z AUTO 23013KT 190V260 3700 DZ FEW010 SCT017 BKN022 15/14 Q1010 TEMPO 9999 CYYW 300800Z AUTO 34003KT 270V030 9SM -RA SCT009 BKN013 BKN020 OVC060 14/13 A2990 RMK SLP122 DENSITY ALT 1100FT KDVO 300815Z AUTO 00000KT 9SM CLR 12/10 A2990 RMK AO2 KDUX 300815Z AUTO 07006KT 10SM RA OVC085 22/17 A3014 RMK AO2 T02220165 KEMP 300753Z AUTO 16006KT 10SM CLR 22/18 A2996 RMK AO2 SLP133 T02220178 KELY 300753Z AUTO 17010KT 10SM CLR 13/09 A3021 RMK AO2 SLP129 T01330089 403110133 TSNO KDVP 300817Z AUTO 15004KT 7SM CLR 17/17 A2998 RMK AO2 LTG DSNT NE T01720170 CYZP 300810Z AUTO 26009KT 9SM BKN026 OVC050 14/12 A3013 RMK SLP204 CYYY 300800Z 01005KT 3/8SM R06/3000FT/N -RA FG VV002 10/10 A2983 RMK FG8 SLP103 KELZ 300756Z AUTO 00000KT 10SM CLR 12/08 A3009 RMK AO2 SLP184 T01170078 $ CYYZ 300800Z 29003KT 15SM SKC 15/07 A3002 RMK SLP166 KFDR 300753Z AUTO 17005KT 10SM CLR 23/21 A2997 RMK AO2 SLP130 T02280211 TSNO CYZR 300800Z AUTO 19004KT 9SM CLR 12/07 A3002 RMK SLP166 KFFA 300755Z AUTO 06004KT 7SM SCT045 22/21 A3000 RMK AO2 T02170207 KEMT 300245Z 21007KT 10SM CLR 27/16 A2985 EHSA 300755Z AUTO 22013G15KT 9999 ///////// 15/13 Q1009 W15/H13 CYZS 300800Z 03004KT 15SM FEW080 FEW210 08/06 A2995 RMK AC1CI1 CI TR SLP148 KDVT 300753Z AUTO 08010KT 10SM SCT100 28/17 A2987 RMK AO2 RAB09E27 SLP087 P0000 T02830172 CYZT 300800Z 19002KT 15SM OVC021 13/11 A3023 RMK SC8 SLP239 KFFC 300753Z AUTO 28003KT 10SM CLR 23/21 A2996 RMK AO2 SLP137 T02280206 KENL 300815Z AUTO 00000KT 10SM CLR 15/14 A3005 RMK AO2 T01520139 CYZU 300400Z 08006KT 15SM SCT130 BKN220 20/14 A3012 RMK AC4CI3 LAST OBS/NEXT 301200Z SLP198 DENSITY ALT 3500FT EHSC 300755Z AUTO 24018G20KT 9999 ///////// 15/13 Q1009 W17/H12 KEMV 300815Z AUTO 00000KT 20/19 A3001 RMK AO2 PWINO CYZV 300815Z 34003KT 250V350 1 1/2SM -SHRADZ BR BKN006 OVC015TCU 12/11 A2980 RMK FG2ST5TCU1 CIG VRB 4-8 SLP095 KFDW 300815Z AUTO 12003KT 7SM SCT003 22/21 A2997 RMK AO1 KEOE 300815Z AUTO 00000KT 10SM SCT017 BKN075 23/21 A2999 RMK AO2 LTG DSNT E CYZW 300100Z CCA 30008KT 30SM VCSH OVC035TCU 19/08 A3004 RMK TCU8 CLIMAT 23.3/18.6/0.0/LAST STFD OBS/NXT 301300 Z PRESRR SLP182 DENSITY ALT 3100FT CYZX 300800Z 00000KT 8SM -SHRA BKN014 OVC120 21/20 A2988 RMK SC5AC3 WNDY HILL 18007KT SLP117 KFDY 300753Z AUTO 16003KT 10SM CLR 14/10 A3004 RMK AO2 SLP167 T01440100 KFEP 300815Z AUTO 00000KT 10SM CLR 12/11 A3005 RMK AO2 T01180112 CZRP 300800Z AUTO 27014G19KT 02/M01 RMK AO1 PK WND 27021/0715 SLP093 T00221008 51024 CYZY 300800Z AUTO 35005KT 320V030 9SM FEW120 BKN140 OVC210 15/12 A3003 RMK SLP174 DENSITY ALT 2600FT KDYA 300835Z AUTO 01003KT A2995 RMK AO2 PWINO KDYB 300815Z AUTO 00000KT 10SM SCT017 SCT024 BKN070 22/22 A2997 RMK AO1 LTG DSNT NE AND E CZSJ 300811Z AUTO 35005KT 320V040 3SM -RA BR BKN009 OVC013 06/05 A3010 RMK SLP204 KEOK 300815Z AUTO 14004KT 10SM OVC110 19/14 A3001 RMK AO2 KFET 300815Z AUTO 14004KT 10SM CLR 22/20 A2994 RMK AO2 T02150196 CZTB 300800Z AUTO 27003KT 15/14 RMK AO1 SLP125 T01470144 53003 KDWU 300815Z AUTO 00000KT 5SM CLR 15/14 A3005 RMK AO1 KFFL 300815Z AUTO 16005KT 10SM OVC100 19/15 A3001 RMK AO2 PWINO KENV 300815Z AUTO 04008KT 10SM CLR 24/09 A3004 RMK AO1 KFFM 300814Z AUTO 02003KT 10SM CLR 16/13 A2995 RMK AO2 CZSM 300700Z AUTO 02002KT 20/07 RMK AO1 SLP195 T02010071 54000 KENW 300753Z AUTO 00000KT 10SM CLR 14/11 A3004 RMK AO2 SLP170 T01390106 KFEW 300758Z AUTO 10005KT 10SM BKN160 14/12 A3027 RMK AO2 SLP171 T01360121 $ KDWX 300815Z AUTO 12004KT 10SM SCT095 OVC110 15/09 A3030 RMK AO2 T01490087 KFFO 300758Z AUTO 34001KT 10SM CLR 14/12 A3007 RMK AO2 SLP182 T01430116 VHHH 300800Z 16012KT 120V200 9999 FEW022 SCT030 33/25 Q1008 NOSIG PLCH 300800Z 10012KT 9999 FEW020 26/23 Q1012 CZSP 300800Z AUTO 15008KT 18/18 RMK AO1 SLP130 T01840175 56015 KEPH 300753Z AUTO 31022G28KT 10SM CLR 24/08 A2989 RMK AO2 PK WND 30030/0718 SLP110 T02440083 403560172 ZUUU 300800Z VRB02MPS 7000 FEW026 28/23 Q1004 NOSIG KDXR 300753Z AUTO 23003KT 10SM CLR 14/13 A2998 RMK AO2 SLP149 T01440128 KH78 291040Z 24007KT 12SM DZ BKN009 27/22 2994 RMK SEAS 1-2 KEQA 300755Z AUTO 21004KT 10SM CLR 23/19 A2998 RMK AO2 KFHB 292010Z AUTO 15007G30KT 040V210 M1/4SM TS OVC003 26/22 A3000 RMK AO1 LTG DSNT ALQS KFFT 300753Z AUTO 00000KT 10SM FEW050 14/12 A3005 RMK AO2 SLP171 T01440122 KDZB 300815Z AUTO 00000KT 10SM SCT038 23/21 A2999 RMK AO2 T02300210 CZST 300100Z 05004KT 030V120 15SM SCT075TCU BKN240 OVC300 20/18 A3001 RMK TCU4CS2CI2 LAST STFD OBS/NEXT301300Z SLP165 DENSITY ALT 500FT KDYL 300754Z AUTO 00000KT 10SM CLR 15/13 A3000 RMK AO2 SLP156 T01500133 FABL 300801Z VRB02KT CAVOK 13/01 Q1029 NOSIG FABM 300644Z 20001KT CAVOK 05/M01 Q1029 KFGN 300814Z AUTO 35012KT 10SM CLR 16/13 A2998 RMK AO2 KDXX 300813Z AUTO 21003KT 10SM BKN110 18/14 A2995 RMK AO2 KFFX 300813Z AUTO 00000KT 10SM CLR 10/10 A3003 RMK AO2 T01000100 EIKN 300800Z 19006KT 150V230 9999 FEW014 SCT040 OVC080 11/09 Q1004 NOSIG KFFZ 300318Z 36015KT 40SM VCSH SCT100 BKN200 A2979 RMK LTG OHD PKMJ 292358Z 03006KT 15SM FEW015 SCT050 BKN300 29/24 A2984 KDYR 300815Z AUTO 00000KT 10SM CLR 18/16 A3004 RMK AO1 KDYS 300758Z AUTO 16004KT 10SM CLR 22/18 A3002 RMK AO2 SLP118 P2400 T02160180 $ KDYT 300814Z AUTO 21003KT 10SM CLR 17/14 A2994 RMK AO2 LTG DSNT N VIAG 300730Z VRB02KT 6000 SCT025 SCT035 40/23 Q999 NOSIG CZUM 300800Z AUTO 09012G17KT 9SM -RA SCT019 SCT040 BKN060 OVC077 09/08 A2997 RMK SLP160 EIME 300800Z 22009KT 9999 FEW015 BKN090 BKN140 13/10 Q1006 KFGX 300815Z AUTO 11003KT 10SM CLR 14/13 A3008 RMK AO2 T01410132 KFIG 300754Z AUTO 20003KT 8SM SCT001 11/09 A3009 RMK AO2 SLP186 T01060094 EIKY 300800Z 21005KT 9999 -RA SCT023 BKN047 13/11 Q1006 PKMR 300750Z 08006KT 15SM FEW016 SCT050 BKN300 29/26 A2982 RMK SLP100 T02910258 KFHR 300753Z AUTO VRB04KT 10SM CLR 12/09 A3014 RMK AO2 SLP206 T01220094 402060094 KERI 300751Z 19006KT 10SM CLR 14/11 A3005 RMK AO2 SLP174 T01390106 FACT 300800Z 02011KT 9999 FEW025 11/07 Q1017 NOSIG EHVK 300812Z AUTO 22012KT 180V250 9999 FEW011 SCT014 BKN017 16/15 Q1011 GRN 22010KT 9999 FEW009 SCT012 BKN015 TEMPO FEW015 BKN022 KESC 300815Z 25003KT 10SM FEW075 13/11 A2995 RMK AO1 KFHU 300758Z AUTO 00000KT 9SM FEW110 19/18 A3014 RMK AO2 LTG DSNT NW SLP133 T01940178 $ CZVL 300818Z AUTO 14010G17KT 9SM TS SCT070 OVC085 19/14 A3011 RMK LTNG DIST NW SLP192 DENSITY ALT 3000FT EHVL 300810Z AUTO 25015KT 9999 FEW011 BKN041 BKN046 17/14 Q1008 BLU KGAD 300756Z AUTO 34005KT 10SM CLR 21/16 A2999 RMK AO2 SLP162 T02060156 FACV 300810Z 16003KT CAVOK 16/M02 Q1020 KFIN 300815Z AUTO 00000KT 10SM CLR 23/23 A2997 RMK AO2 T02320232 KESF 300753Z AUTO 00000KT 6SM BR CLR 23/21 A2994 RMK AO2 SLP138 T02280211 KGAF 300815Z AUTO 35012G19KT 10SM BKN100 15/14 A3008 RMK AO2 VIAR 300800Z VRB02KT 2500 HZ SCT035 SCT090 38/26 Q1000 NOSIG KEQY 300811Z AUTO 00000KT 10SM SCT008 BKN120 21/19 A2998 RMK AO2 P0001 T02060189 TSNO $ KGAG 300753Z AUTO 22003KT 10SM CLR 22/19 A3004 RMK AO2 LTG DSNT NW SLP143 T02170194 KI16 300815Z AUTO 2 1/2SM BR OVC001 14/13 A3013 RMK AO2 T01400125 KGAI 300815Z AUTO 00000KT 10SM CLR 14/12 A3008 RMK AO1 KFKA 300814Z AUTO 19005KT 10SM CLR 15/13 A3002 RMK AO2 T01470133 KFIT 300752Z AUTO 35003KT 10SM CLR 18/14 A2993 RMK AO2 SLP132 T01830139 KI19 300813Z AUTO 00000KT 10SM CLR 13/12 A3009 RMK AO2 KETB 300750Z AUTO 00000KT 10SM CLR 13/11 A3002 RMK AO2 KETC 300755Z AUTO 00000KT 10SM SCT120 21/21 A3000 RMK AO2 T02140206 FAEL 300817Z 01005KT CAVOK 22/04 Q1019 KGBD 300815Z AUTO 00000KT 10SM CLR 22/16 A3000 RMK AO1 KERV 300815Z AUTO 00000KT 10SM CLR 21/19 A3002 RMK AO2 T02050187 VICG 300730Z 26006KT 5000 BR FEW025 FEW030TCU SCT250 30/28 Q1001 TEMPO TS KESN 300811Z AUTO 00000KT 10SM SCT070 19/19 A3006 RMK AO2 T01910185 KGAO 300815Z AUTO 00000KT 4SM BR CLR 20/19 A2992 RMK AO2 T01950186 EINN 300800Z 17009KT 9000 -RA FEW015 SCT040 OVC060 12/10 Q1006 NOSIG FAEO 300756Z 31006KT CAVOK 14/M01 Q1031 VIBR 300600Z 14006KT 8000 SCT030 34/20 Q1007 EHWO 300804Z AUTO 21006KT 170V240 9999 SCT008 BKN009 BKN010 16/14 Q1011 GRN 21008KT 9999 SCT008 BKN014 OVC040 TEMPO 4000 -RADZ -SHRA SCT006 BKN008 SCT015CB BKN030 KERY 300815Z AUTO 20006KT 10SM CLR 13/11 A2994 RMK AO2 T01250107 KGBG 300815Z AUTO 15003KT 10SM SCT110 16/14 A3004 RMK AO2 T01580135 FADY 300750Z 06003KT CAVOK 12/M03 Q1026 KETH 300816Z AUTO 00000KT 10SM CLR 16/13 A2999 RMK AO2 VIDD 300800Z 23004KT 3000 HZ SCT035 BKN100 39/25 Q0999 NOSIG KEST 300752Z AUTO 18005KT 10SM CLR 17/17 A2997 RMK AO2 SLP143 T01720167 KGBK 300815Z AUTO 18015KT 10SM FEW023 SCT032 BKN045 27/23 A2992 RMK A01 KGCC 300753Z AUTO 21003KT 10SM CLR 16/10 A3018 RMK AO2 SLP173 T01610100 KFKL 300815Z 18004KT 10SM CLR 09/07 A3010 RMK AO1 KFLD 300753Z AUTO 21005KT 10SM BKN060 16/13 A3001 RMK AO2 SLP158 T01610128 KGCD 300815Z AUTO 27009G14KT 10SM CLR 20/05 A3011 RMK AO2 T01980046 KFKN 300815Z AUTO 00000KT 10SM BKN085 OVC110 21/20 A3000 RMK AO2 T02090197 KEUF 300758Z AUTO 00000KT 8SM BKN110 22/21 A2994 RMK AO2 SLP134 T02220211 KEUG 300754Z AUTO 00000KT 10SM CLR 13/09 A3019 RMK AO2 SLP223 T01330094 402830094 TSNO KI35 300815Z AUTO 00000KT BKN001 15/13 A3006 RMK AO1 KFLG 300757Z AUTO 23007KT 10SM BKN110 16/10 A3032 RMK AO2 SLP154 T01560100 TSNO FAGG 300800Z 32003KT 9999 11/05 Q1015 KFKR 300815Z AUTO 00000KT 10SM CLR A3008 RMK AO2 KFKS 300812Z AUTO 00000KT 10SM CLR 12/11 A3001 RMK AO2 T01220111 KEVB 300150Z 17005KT 10SM SCT050 27/23 A3000 RMK LAST KGCK 300807Z AUTO 29007G18KT 10SM FEW055 SCT090 BKN110 21/15 A3001 RMK AO2 WSHFT 0747 T02110150 KGDB 300812Z AUTO 18007KT 10SM SCT120 19/17 A2997 RMK AO2 LTG DSNT SE T01880167 KI39 300815Z AUTO 00000KT 10SM CLR 14/13 A3006 RMK AO2 VIDN 300800Z 09004KT 5000 HZ SCT030 BKN080 33/27 Q1002 KFLL 300753Z 17004KT 10SM FEW023 SCT190 BKN250 28/24 A2998 RMK AO2 SLP151 T02780239 KEUL 300756Z AUTO 28011KT 10SM CLR 24/11 A2989 RMK AO2 SLP091 T02440111 KGCM 300815Z AUTO RMK AO2 P TSNO PWINO FAGM 291300Z VRB03KT 9000 HZ NSC 18/M04 Q1029 VIDP 300800Z 18004KT 3500 HZ SCT100 39/24 Q1000 NOSIG KFME 300806Z AUTO 00000KT 5SM CLR 13/13 A3006 RMK AO1 KGCN 300754Z 00000KT 10SM CLR 13/11 A3027 RMK AO2 SLP146 T01330111 KFLO 300753Z AUTO 07003KT 10SM SCT016 BKN022 23/21 A2997 RMK AO2 SLP146 T02280211 KFLP 300815Z AUTO 00000KT 10SM CLR 20/18 A3002 RMK AO1 KFMH 300815Z AUTO 29003KT 6SM BR CLR 18/18 A2989 RMK AO2 KGDJ 300815Z AUTO 00000KT 10SM CLR 22/19 A3000 RMK AO2 T02190192 CZZJ 300800Z AUTO 32002KT 12/11 RMK AO1 SLP190 T01150111 58017 KEWB 300753Z AUTO 00000KT 10SM CLR 18/16 A2988 RMK AO2 SLP119 T01830161 KFNB 300753Z AUTO 14005KT 10SM CLR 21/19 A2992 RMK AO2 SLP123 T02110194 URFF 300800Z 29002MPS 9999 FEW023CB BKN043 26/20 Q1009 R19/010095 TEMPO -TSRA BKN020CB KGED 300754Z AUTO 30003KT 10SM CLR 19/15 A3002 RMK AO2 SLP165 T01890150 KEVM 300813Z AUTO 25004KT 10SM SCT080 14/14 A2995 RMK AO2 LTG DSNT N T01420135 KFMM 300815Z AUTO 01006G25KT 10SM CLR 18/12 A3018 RMK AO2 T01820120 KFMN 300753Z AUTO VRB03KT 10SM FEW120 23/08 A3018 RMK AO2 SLP146 T02280078 KGDP 300751Z AUTO 00000KT 10SM CLR 21/13 A3024 RMK AO2 SLP154 T02110128 KGEG 300753Z 18004KT 10SM FEW070 23/07 A2996 RMK AO2 SLP122 T02280072 403440172 KFLY 300815Z AUTO 32003KT 10SM CLR 14/09 A3031 RMK AO2 T01350089 KFOA 300815Z AUTO 00000KT 10SM CLR 16/14 A3007 RMK AO2 T01620141 KGFA 300758Z AUTO 08001KT 10SM CLR 18/12 A3012 RMK AO2 LTG DSNT S SLP177 T01780117 TSNO $ FAHS 300800Z AUTO 02007KT //// // ////// 22/08 Q1028 FAJB 300800Z AUTO 33002KT //// // ////// 16/M00 Q1031 KFNL 300815Z AUTO 36010KT 10SM CLR 17/11 A3018 RMK AO1 KGDV 300815Z AUTO 02005KT 10SM CLR 16/09 A3017 RMK AO1 KEVV 300754Z AUTO 00000KT 10SM CLR 16/14 A3005 RMK AO2 SLP174 T01610139 KFOD 300815Z AUTO 12005KT 10SM SCT037 BKN060 18/16 A2997 RMK AO1 DRRM 300800Z 24006KT CAVOK 29/24 Q1016 VIGG 300730Z 18002KT 5000 HZ SCT035 SCT080 32/25 Q1005 KEVW 300753Z AUTO 33005KT 10SM FEW110 15/08 A3028 RMK AO2 SLP151 T01500083 KFOE 300753Z AUTO 15005KT 10SM FEW075 23/21 A2994 RMK AO2 LTG DSNT SE SLP129 T02280206 KEWN 300802Z AUTO 00000KT 1/2SM FG VV002 22/21 A2999 RMK AO2 VIS 1/4V5 T02170206 KI63 300815Z AUTO 15004KT 10SM BKN080 BKN110 16/14 A3003 RMK AO2 LTG DSNT W T01620142 DRRN 300800Z 20007KT 160V220 CAVOK 27/23 Q1015 NOSIG KFMY 300753Z AUTO 00000KT 10SM CLR 25/24 A2997 RMK AO2 SLP152 T02500239 EISG 300800Z 18004KT 130V230 9999 BKN033 OVC048 12/10 Q1004 EKAH 300750Z AUTO 19007KT 150V230 9999NDV -SHRA BKN014/// 15/13 Q1008 KEWR 300751Z 29005KT 10SM CLR 21/14 A2996 RMK AO2 SLP146 T02060144 KI67 300815Z AUTO 00000KT 10SM CLR 13/12 A3005 RMK AO1 FAIR 300728Z 36003KT CAVOK 16/02 Q1031 KFNT 300753Z 00000KT 10SM CLR 11/07 A3003 RMK AO2 SLP169 T01110072 KFOK 300753Z AUTO 32003KT 10SM CLR 15/13 A2995 RMK AO2 SLP141 T01500133 TSNO KGFK 300753Z AUTO 35009KT 10SM BKN100 17/14 A3003 RMK AO2 SLP168 T01670139 TSNO KI69 300814Z AUTO 00000KT 10SM CLR 13/13 A3006 RMK AO2 T01310126 KGEU 300247Z VRB04KT 20SM FEW090 SCT150 BKN200 41/13 A2980 DRRT 300800Z 22012KT 9999 FEW023 27/23 Q1016 KGFL 300806Z AUTO 00000KT 3SM BR CLR 14/13 A2997 RMK AO2 T01390128 KGEV 300800Z AUTO 00000KT 10SM SCT026 SCT032 BKN075 16/14 A3012 RMK AO2 T01590135 KEYE 300753Z AUTO 00000KT 10SM CLR 18/13 A3007 RMK AO2 SLP176 T01780128 KGGE 300815Z AUTO 00000KT 5SM TS BR BKN015 BKN033 BKN045 22/22 A2997 RMK AO2 LTG DSNT E THRU S KEYF 300800Z AUTO 00000KT 10SM CLR 20/20 A2997 RMK AO2 T02040197 VIGR 300600Z 00000KT 4000 HZ FEW020 SCT025 39/25 Q1001 KGEY 300802Z AUTO 30010G32KT 280V360 10SM -RA SQ BKN075 OVC100 26/06 A3011 RMK AO2 PK WND 30032/0755 P0000 T02560056 $ KGGG 300753Z AUTO 34003KT 10SM CLR 22/21 A2998 RMK AO2 SLP143 T02170211 KI75 300815Z AUTO 16006KT 10SM CLR 20/18 A2998 RMK AO2 T02000175 KGEZ 300753Z AUTO 33004KT 10SM CLR 14/11 A3006 RMK AO2 SLP174 T01390111 TSNO KGGI 300815Z AUTO 06003KT 10SM -RA BKN041 OVC060 18/16 A3001 RMK AO2 T01770155 EKBI 300750Z AUTO 23008KT 190V250 4400NDV RA OVC005/// 14/13 Q1007 FALA 300800Z 00000KT CAVOK 14/02 Q1032 KFPK 300815Z AUTO 00000KT 10SM CLR 11/08 A3003 RMK AO2 T01050083 KFOT 300815Z AUTO 30004KT 6SM OVC007 11/10 A3006 RMK AO1 KGHB 300815Z AUTO 00000G10KT 5SM HZ FEW006 SCT023 BKN038 26/24 A2992 RMK A01 KFQD 300755Z AUTO 00000KT 10SM SCT012 SCT020 20/20 A3002 RMK AO2 T02010201 FAKM 300800Z 36011KT CAVOK 14/M00 Q1027 KEXX 300755Z AUTO 00000KT 10SM SCT120 20/19 A3000 RMK AO2 T01970191 FALE 300800Z VRB02KT CAVOK 20/10 Q1022 NOSIG FAKN 300800Z 24004KT CAVOK 15/03 Q1028 NOSIG KEZF 300755Z AUTO 00000KT 10SM BKN060 18/16 A3004 RMK AO2 T01810164 KGGP 300756Z AUTO 00000KT 10SM CLR 12/10 A3008 RMK AO2 KGHG 300815Z AUTO VRB05KT 10SM CLR 20/15 A2988 RMK AO2 KFOZ 300812Z AUTO 00000KT 10SM SCT060 SCT100 15/14 A2996 RMK AO2 WAAA 300800Z 19006KT 160V220 9999 FEW020 31/25 Q1009 NOSIG EKCH 300750Z 21012KT CAVOK 17/12 Q1011 NOSIG KFPR 300753Z AUTO 00000KT 10SM CLR 24/23 A2999 RMK AO2 SLP153 T02390233 TSNO PKWA 300800Z AUTO 10005KT 10SM CLR 29/23 A2984 RMK AO2 T02910231 KGIC 300815Z AUTO 27005KT 10SM SCT080 BKN120 22/08 A3002 RMK AO1 KEZM 300815Z AUTO 00000KT 10SM CLR 22/22 A2999 RMK AO2 T02240224 FALM 300600Z VRB03KT 7000 NSC 10/// Q1029 KEYW 300753Z AUTO 15005KT 10SM FEW022 29/24 A2998 RMK AO2 SLP151 T02890244 KGGW 300753Z AUTO 06008KT 10SM CLR 16/12 A3015 RMK AO2 SLP203 T01560122 KGIF 300753Z AUTO 20003KT 10SM CLR 24/22 A2999 RMK AO2 SLP153 T02390222 KFRG 300255Z 32006KT 30SM FEW070 24/14 A2994 RMK LAST URKA 300800Z 19004MPS 150V220 9999 SCT///CB 26/21 Q1009 R22/010070 RMK QFE752/1003 KFRI 300758Z AUTO 36001KT 10SM CLR 22/22 A2994 RMK AO2 SLP127 T02180217 KEZS 300815Z AUTO 23003KT 10SM CLR 14/12 A2999 RMK AO2 T01350120 EKEB 300750Z AUTO 20009KT 170V230 9999NDV RERA SCT008/// BKN037/// BKN075/// 16/14 Q1007 KFRM 300815Z AUTO 15005KT 10SM BKN090 17/16 A2996 RMK AO1 KFSD 300756Z AUTO 13004KT 10SM CLR 21/18 A2996 RMK AO2 SLP136 T02060183 VIJP 300800Z VRB03KT 6000 BKN030 39/20 Q1001 NOSIG FAMM 300800Z 01011KT CAVOK 17/02 Q1029 NOSIG KHAE 300755Z AUTO 15005KT SCT075 BKN110 20/12 A3004 RMK AO2 PWINO KGHW 300814Z AUTO 00000KT 10SM CLR 16/12 A2997 RMK AO2 KFSE 300815Z AUTO 34007KT 10SM CLR 14/13 A3000 RMK AO2 FALW 300800Z AUTO 05003KT //// // ////// 08/06 Q1019 KHAF 300815Z AUTO 00000KT 4SM BR OVC008 12/12 A2996 RMK AO2 PMDY 300756Z AUTO 11009KT 10SM FEW023 SCT031 26/21 A3017 RMK AO2 SLP217 T02560206 EIWF 292030Z 33006KT CAVOK 14/08 Q1006 URKK 300800Z 20003MPS 160V240 CAVOK 27/21 Q1010 R23C/CLRD60 TEMPO -TSRA BKN020CB RMK QFE754 KFRR 300815Z AUTO 20003KT 10SM CLR 14/13 A3006 RMK AO1 KHAI 300815Z AUTO 00000KT 10SM CLR 10/08 A3006 RMK AO2 T01020081 KFSI 300758Z AUTO 17006KT 10SM CLR 22/20 A2998 RMK AO2 SLP142 T02230195 VIJU 300730Z 24006KT 6000 FEW030 SCT100 38/23 Q0999 NOSIG USCC 300800Z 30005MPS 9999 SCT020 17/10 Q1005 R27/000060 NOSIG RMK QFE734 VILD 300800Z 32001KT 1500 HZ FEWCB030 SCT030 35/27 Q1000 FAOB 300800Z AUTO 02003KT //// // ////// 12/05 Q1015 KFSM 300753Z 06005KT 10SM FEW100 22/18 A3001 RMK AO2 SLP157 T02220183 VILH 300730Z 23004KT 6000 CTHT FEW060 SCT090 29/M07 Q1021 NOSIG KHAO 300753Z AUTO 00000KT 10SM CLR 13/12 A3007 RMK AO2 SLP179 T01330122 KFSO 300815Z AUTO 00000KT 10SM CLR 15/15 A2994 RMK AO2 T01470146 KFTG 300247Z 14008KT 10SM SCT085 BKN110 20/10 A3022 KHBG 300753Z AUTO 00000KT 10SM CLR 23/21 A2996 RMK AO2 SLP140 T02280211 VILK 300800Z VRB02KT 5000 HZ SCT020 SCT025 BKN100 39/25 Q0998 NOSIG KHBI 300755Z AUTO 35003KT 10SM SCT100 20/20 A3001 RMK AO2 T02000200 KGKJ 300753Z AUTO 00000KT 10SM CLR 09/07 A3007 RMK AO2 SLP182 T00940072 TSNO WADD 300800Z 09009KT 9999 FEW017 30/25 Q1008 NOSIG USCM 300800Z 33006MPS 9999 BKN034CB 18/09 Q1008 R19/090065 NOSIG RMK QFE718 USDD 300800Z 04011MPS CAVOK 17/11 Q1014 R04/110060 NOSIG RMK QFE755/1006 KFST 300753Z AUTO 16006KT 10SM CLR 22/16 A3007 RMK AO2 SLP129 T02220156 $ KGJT 300753Z AUTO 08006KT 10SM CLR 22/09 A3017 RMK AO2 SLP137 T02170094 KFTK 300758Z AUTO 33001KT 10SM CLR 13/12 A3004 RMK AO2 SLP172 T01280122 KGLD 300753Z AUTO 00000KT 10SM CLR 17/13 A3010 RMK AO2 SLP148 T01670133 KHCD 300814Z AUTO 00000KT 10SM CLR 17/15 A2997 RMK AO2 LTG DSNT S T01650146 URMG 300800Z VRB01MPS CAVOK 30/18 Q1009 R26/000070 NOSIG RMK QFE742/09989 KGLE 300755Z AUTO 00000KT 10SM CLR 23/19 A3001 RMK AO2 T02280190 KFSW 300815Z AUTO 17008KT 10SM BKN120 19/13 A3002 RMK AO2 KFTN 300815Z AUTO RMK A01 FAPE 300818Z 34003KT CAVOK 16/06 Q1016 NOSIG KGLH 300753Z AUTO 03004KT 9SM CLR 21/18 A2999 RMK AO2 SLP160 T02110183 KHBR 300753Z AUTO 18007KT 9SM CLR 22/20 A3001 RMK AO2 SLP142 T02220200 $ URML 300800Z 02006MPS 9999 NSC 31/21 Q1008 R32/01//70 NOSIG RMK QFE756/1008 WADL 300800Z 11005KT 070V130 8000 SCT016 30/25 Q1009 NOSIG FAOR 300800Z 33010KT 300V010 CAVOK 14/M03 Q1032 NOSIG URMM 300800Z VRB01MPS 9999 NSC 27/19 Q1010 R30/000070 NOSIG RMK QFE729/0973 DRZA 300800Z 26006KT CAVOK 32/21 Q1015 KGKT 300815Z AUTO 00000KT 10SM CLR 16/15 A3001 RMK FBFT 300800Z 10007KT 050V140 CAVOK 18/09 Q1028 URMN 300800Z 36002MPS 9999 SCT110 28/15 Q1010 R24/010070 NOSIG RMK QFE721 KFUL 300753Z 16004KT 9SM OVC013 21/17 A2986 RMK AO2 SLP110 T02110172 403170194 $ KHDC 300815Z AUTO 01004KT 7SM CLR 22/21 A2994 RMK AO2 URMO 300800Z 32002MPS 9999 NSC 26/17 Q1011 R10/010070 NOSIG RMK QFE714/0953 KHBV 300755Z AUTO 21003KT 10SM CLR 24/22 A2996 RMK AO2 T02410221 ZWSH 300800Z 10003MPS CAVOK 36/11 Q1010 NOSIG KFVE 300805Z AUTO 28006KT 10SM OVC005 14/13 A2983 RMK AO2 CIG 002V008 T01390128 KFTW 300753Z 14005KT 10SM CLR 26/19 A2998 RMK AO2 SLP141 T02610194 KHDE 300815Z AUTO 24008G16KT 10SM CLR 19/16 A3005 RMK AO2 LTG DSNT SE AND SW T01880164 FAPN 300500Z AUTO 00000KT //// // ////// 02/00 Q1028 KHCO 300814Z AUTO 35010KT 10SM SCT013 14/13 A3005 RMK AO2 KFTY 300753Z 00000KT 10SM BKN120 23/16 A2995 RMK AO2 SLP130 T02330156 KGKY 300753Z AUTO 00000KT 10SM CLR 23/21 A2999 RMK AO2 SLP145 T02280211 $ FAPP 300800Z 00000KT 8000 NSC 15/06 Q1030 NOSIG URMT 300800Z 12002MPS 070V180 9999 FEW030 29/17 Q1011 R07/010070 NOSIG RMK QFE718 KGLR 300753Z AUTO 24003KT 10SM CLR 11/05 A3002 RMK AO2 SLP164 T01060050 KGLS 300752Z AUTO 06003KT 10SM CLR 27/23 A2993 RMK AO2 SLP134 T02670233 KFWA 300754Z 20003KT 10SM BKN200 15/11 A3006 RMK AO2 SLP177 T01500111 KGMJ 300815Z AUTO 00000KT 10SM CLR 21/19 A3001 RMK AO2 KGNA 300556Z AUTO 25004KT 10/09 A2991 RMK AO1 SLP128 60033 T01000094 10167 20083 402060078 58010 KFWB 300755Z AUTO 17003KT 10SM CLR 22/19 A3004 RMK AO2 KFWC 300710Z AUTO 00000KT 10SM CLR 16/14 A3006 RMK AO1 T01550135 KGNC 300815Z AUTO 00000KT 10SM CLR 21/16 A3011 RMK AO2 T02100158 KHDN 300815Z AUTO 07005KT 10SM CLR 13/06 A3028 RMK AO1 KGLW 300755Z AUTO 00000KT 10SM CLR 15/15 A3005 RMK AO2 T01450145 PWINO KHDO 300751Z AUTO 36005KT 9SM CLR 22/20 A2998 RMK AO2 SLP137 T02170200 TSNO KHEF 300815Z 00000KT 10SM SCT060 16/15 A3005 RMK AO1 KGLY 300815Z AUTO 00000KT 10SM BKN085 22/20 A2999 RMK AO2 ZYCC 300800Z 17003MPS 130V220 3000 -TSRA BR FEW010 BKN023 FEW023CB 19/16 Q1003 NOSIG KHEI 300753Z AUTO 30004KT 10SM CLR 12/11 A3012 RMK AO2 SLP185 T01220106 DRZR 300800Z 22008KT CAVOK 30/23 Q1017 FASB 300633Z 34006KT CAVOK 15/M04 Q1021 KGMU 300753Z AUTO 04004KT 10SM CLR 22/19 A2999 RMK AO2 SLP144 T02170194 KHFD 300753Z AUTO 31004KT 10SM CLR 22/14 A2994 RMK AO2 SLP137 T02170144 KFWN 300753Z AUTO 00000KT 10SM CLR 14/14 A3000 RMK AO2 SLP158 T01440139 KFXE 300753Z 15004KT 10SM FEW024 27/23 A2998 RMK AO2 SLP155 T02720228 KHFF 300756Z AUTO 04001KT 10SM BKN140 22/20 A2997 RMK AO2 LTG DSNT SE SLP161 T02160200 $ KFVX 300815Z AUTO 02005KT 10SM OVC044 20/17 A3003 RMK AO2 T02000165 KHEQ 300815Z AUTO 02005KT 18/16 A3012 RMK AO2 LTG DSNT NE PWINO KGNR 300756Z AUTO VRB05KT 14/12 A2987 RMK AO1 SLP115 T01390122 KFWS 300755Z AUTO 00000KT 7SM CLR 22/21 A3000 RMK AO2 T02170208 KHFJ 300755Z AUTO 15004KT 10SM BKN110 21/18 A3002 RMK AO2 DTKA 300800Z 25005KT 210V300 9999 FEW020 27/21 Q1012 NOSIG KGOK 300753Z AUTO 18004KT 10SM CLR 24/19 A2999 RMK AO2 SLP144 T02390194 EKKA 300750Z 18008KT 150V230 9999 BKN007 BKN034 15/15 Q1006 BECMG 6000 RA BKN012 KGNT 300815Z AUTO 00000KT 10SM CLR 18/06 A3028 RMK AO2 T01810062 FCBB 300800Z 27003KT 220V310 7000 BKN016 24/20 Q1018 NOSIG KGNV 300753Z AUTO 00000KT 10SM CLR 23/22 A2997 RMK AO2 SLP143 T02330222 KGON 300756Z AUTO 00000KT 10SM CLR 19/17 A2991 RMK AO2 SLP129 T01890167 $ FBKE 300800Z 09012KT CAVOK 22/10 Q1027 USHH 300800Z 06005G10MPS 9999 SCT033CB 21/14 Q1001 R06/290055 TEMPO 2000 SHRA BKN007CB RMK QFE747 KGOO 300825Z AUTO 00000KT 10SM CLR 23/02 A3000 RMK AO1 KFYG 300755Z AUTO 00000KT 10SM SCT060 17/15 A3004 RMK AO2 KGOP 300750Z AUTO 00000KT 10SM CLR 24/22 A3002 RMK AO2 KGPH 300815Z AUTO 12005KT 10SM CLR 21/18 A2996 RMK AO2 LTG DSNT N AND NE VIPT 300730Z 09006KT 4000 HZ FEW030 BKN100 33/26 Q1002 FATH 300749Z 25002KT 3500 HZ FEW028 18/08 Q1028 KGPI 300755Z AUTO 00000KT 10SM CLR 17/12 A3001 RMK AO2 SLP142 T01720122 $ KFYJ 300815Z AUTO 00000KT 10SM SCT050 BKN070 19/17 A3005 RMK AO2 T01860172 KGOV 300814Z AUTO 00000KT 10SM CLR 05/04 A3003 RMK AO2 T00470038 KGPM 300815Z AUTO 00000KT 10SM CLR 26/21 A3000 RMK AO2 T02580205 KFYM 300815Z AUTO 36003KT 10SM CLR 17/14 A3003 RMK A01 KHHF 300815Z AUTO 24006KT 10SM VCTS SCT085 24/21 A3005 RMK AO2 LTG DSNT N SE AND SW T02410205 KFZG 300815Z AUTO 00000KT 10SM CLR 24/24 A2998 RMK AO2 T02390239 KHHG 300815Z AUTO 00000KT 10SM CLR A3007 RMK AO2 KFXY 300755Z AUTO 00000KT 10SM SCT033 16/16 A2999 RMK AO2 WAHS 300800Z 35005KT 8000 FEW017 30/24 Q1008 NOSIG UTAA 300800Z 10008KT 070V140 9999 SKC 41/05 Q1005 NOSIG KHGR 300753Z AUTO 00000KT 10SM CLR 17/12 A3005 RMK AO2 SLP182 T01720122 KHIB 300817Z AUTO 00000KT 1 3/4SM BR CLR 13/13 A2994 RMK AO2 LTG DSNT NE T01280128 KGRB 300753Z 00000KT 10SM FEW065 14/12 A2999 RMK AO2 SLP153 T01440122 KGPT 300753Z AUTO 01004KT 10SM CLR 23/22 A2992 RMK AO2 SLP132 T02330217 DTMB 300800Z 16011KT 130V190 CAVOK 26/22 Q1016 NOSIG KFYV 300753Z AUTO 00000KT 10SM CLR 19/19 A3004 RMK AO2 SLP157 T01890189 KGRD 300756Z AUTO 00000KT 10SM CLR 22/19 A2999 RMK AO2 SLP145 T02220194 KHIE 300806Z AUTO 00000KT 7SM FEW001 11/09 A2995 RMK AO2 T01060089 KGRF 300758Z AUTO 17004KT 10SM CLR 13/11 A3019 RMK AO2 SLP227 T01270112 402320127 $ KHIF 300758Z AUTO VRB04KT 10SM SCT110 BKN140 23/09 A3010 RMK AO2 SLP120 T02280092 URRR 300800Z 18003MPS 140V210 9999 FEW/// 27/20 Q1009 R22/CLRD70 NOSIG RMK QFE749/0999 FAUP 300800Z 36012KT CAVOK 17/M03 Q1023 NOSIG KGPZ 300756Z AUTO 00000KT 6SM BR SCT100 15/14 A2998 RMK AO2 RAE17 SLP149 P0001 T01500144 WAJJ 300800Z 00000KT 8000 -RA FEW012 26/24 Q1008 UTAK 300800Z 34012KT CAVOK 37/09 Q1006 NOSIG KHHR 300753Z AUTO 00000KT 9SM CLR 19/16 A2987 RMK AO2 SLP114 T01940161 402560189 KGRI 300753Z AUTO 24003KT 10SM CLR 19/16 A3000 RMK AO2 SLP147 T01890161 KHII 300755Z AUTO 17004KT 10SM CLR 36/13 A2977 RMK AO2 VISM 300630Z 27006KT 5000 HZ SCT030 27/21 Q1012 UTAM 300800Z 30008KT 260V330 CAVOK 40/12 Q1005 NOSIG ZWWW 300800Z 04005MPS 350V080 CAVOK 34/08 Q1008 NOSIG KGSB 300758Z AUTO 05003KT 10SM OVC110 22/22 A2996 RMK AO2 SLP147 T02190219 $ KGRK 300758Z AUTO 10005KT 10SM CLR 26/22 A2999 RMK AO2 SLP143 T02550219 KIAB 300758Z AUTO 22005KT 10SM CLR 23/19 A2998 RMK AO2 SLP139 T02300187 $ FAWB 300800Z AUTO 00000KT //// // ////// 16/01 Q1030 FAUT 300800Z 03001KT 9000 NSC 15/05 Q1023 KIAD 300752Z 00000KT 10SM SCT080 14/13 A3005 RMK AO2 SLP172 T01440128 KHHV 300815Z AUTO 24012KT 10SM BKN021 BKN028 BKN070 28/23 A2991 RMK A01 KHHW 300815Z AUTO 00000KT 10SM CLR 23/21 A3000 RMK AO2 T02330205 FBMN 300800Z 10006KT CAVOK 19/07 Q1027 KHIO 300753Z AUTO 32005KT 10SM CLR 13/08 A3020 RMK AO2 SLP225 T01280083 402670094 VISR 300630Z 18003KT 6000 FEW025 SCT200 30/19 Q1012 NOSIG KIAG 300753Z AUTO 19005KT 8SM CLR 14/11 A3002 RMK AO2 SLP164 T01390111 KFZY 300754Z AUTO 00000KT 10SM CLR 15/12 A3000 RMK AO2 SLP157 T01500117 URSS 300800Z 23004MPS 9999 FEW030TCU BKN100 29/20 Q1009 WS ALL RWY R02/090070 R06/090070 NOSIG RMK R06/23004G07MPS MT OBSC QFE755 ZYHB 300800Z 25006MPS 9999 BKN030 FEW030TCU 22/18 Q1000 NOSIG KGSH 300753Z AUTO 00000KT 10SM CLR 11/08 A3007 RMK AO2 SLP179 T01110083 KIAH 300753Z 00000KT 10SM FEW035 SCT250 26/24 A2993 RMK AO2 SLP133 T02560239 KHJH 300815Z AUTO 30003KT 10SM CLR 21/19 A2999 RMK AO2 LTG DSNT SW T02090193 UTAT 300800Z VRB04KT CAVOK 40/19 Q1006 NOSIG RMK MOD TURB 10000-0FT DTNH 300800Z 19004KT 140V250 9999 R27///// FEW013 SCT020 26/21 Q1016 KGRR 300753Z AUTO 17004KT 10SM CLR 12/08 A3005 RMK AO2 SLP172 T01170083 KHKA 300753Z AUTO 08004KT 10SM CLR 21/16 A3004 RMK AO2 SLP169 T02060161 UTAV 300800Z 00000KT CAVOK 39/07 Q1004 NOSIG KGTB 300758Z AUTO 23007KT 10SM FEW075 16/13 A2996 RMK AO2 SLP144 T01550127 FAWK 300800Z AUTO 01005KT //// // ////// 16/M00 Q1031 EKOD 300750Z 18008KT 140V210 9999 -RA NSC 15/14 Q1009 FAVV 300800Z AUTO /////KT //// // ////// 14/M00 Q1029 KHJO 300753Z AUTO 31010KT 10SM CLR 26/09 A2981 RMK AO2 SLP093 T02610094 404170194 KGTF 300753Z 08008KT 10SM CLR 17/11 A3012 RMK AO2 SLP171 T01670111 KGSO 300754Z 01004KT 10SM BKN070 21/20 A3001 RMK AO2 SLP152 T02060200 KGSP 300753Z AUTO 36003KT 10SM CLR 20/19 A2998 RMK AO2 SLP137 T02000189 KGRY 300815Z AUTO 20008G14KT 10SM FEW020 SCT025 BKN120 27/24 A2992 RMK A01 WALL 300800Z 08006KT 050V130 9999 FEW020 31/25 Q1008 NOSIG UTDD 300800Z VRB02MPS 9999 NSC 37/13 Q1008 R09/CLRD// NOSIG RMK QFE688/0917 KHLC 300800Z AUTO 01025G33KT 10SM BKN065 OVC110 21/17 A3010 RMK AO2 PK WND 36033/0758 WSHFT 0740 T02110167 TSNO KGUC 300815Z AUTO 00000KT 10SM BKN120 13/07 A3041 RMK AO1 KIBM 300815Z AUTO 09006KT 10SM CLR 15/14 A3017 RMK AO2 T01530142 KHLG 300753Z AUTO 00000KT 10SM CLR 14/11 A3008 RMK AO2 SLP185 T01440111 URWA 300800Z 10004MPS 060V160 CAVOK 33/12 Q1010 R09/010070 NOSIG RMK QFE759/1012 UTDK 300800Z 24003MPS 9999 NSC 39/11 Q1007 0109//70 RMK QFE698/0931 KGTR 300815Z 01006KT 10SM CLR A2999 RMK AO1 UTDL 300800Z 25006MPS 9999 FEW230 38/07 Q1006 NOSIG RMK QFE717/0956 88CLRD70 KHKS 300753Z AUTO 00000KT 10SM CLR 23/22 A2997 RMK AO2 SLP140 T02330217 KIDA 300753Z AUTO 36006KT 10SM FEW100 16/10 A3012 RMK AO2 RAB04E16 SLP150 P0000 T01560100 WAMM 300800Z VRB02KT 9999 FEW022 30/24 Q1008 NOSIG KGUL 291310Z AUTO 00000KT 10SM CLR 32/23 A2997 RMK A01 KGTU 300815Z 00000KT 10SM FEW047 24/21 A2998 RMK AO1 KICL 300815Z AUTO 10SM 20/19 A2996 RMK AO2 PWINO KHME 292255Z AUTO 09006KT //// // ////// 27/M02 Q//// KHLN 300753Z AUTO 28006KT 10SM CLR 19/11 A3009 RMK AO2 SLP167 T01940106 KGVE 300755Z AUTO 00000KT 10SM BKN055 16/15 A3004 RMK AO1 T01560152 URWI 300800Z 15004MPS 120V180 CAVOK 31/16 Q1009 KHKY 300814Z AUTO 00000KT 10SM FEW022 BKN030 OVC035 21/20 A3002 RMK AO2 T02060200 KGUP 300753Z AUTO 33006KT 10SM BKN100 22/07 A3026 RMK AO2 SLP033 T02220067 $ UTFA 292100Z 00000KT 8000 NSC 22/17 Q1006 R88/09//70 UTDT 300800Z 19003MPS 150V230 9999 NSC 38/12 Q1005 35////// RMK QFE714/0953 KICR 300753Z AUTO 26006KT 10SM CLR 17/14 A3004 RMK AO2 SLP157 T01670144 KGUR 300815Z AUTO 00000KT 10SM CLR 17/13 A3018 RMK AO2 T01730130 PWINO KIDI 300815Z AUTO 00000KT 9SM FEW001 11/11 A3012 RMK A01 KHLR 300758Z AUTO 10002KT 10SM CLR 25/21 A2997 RMK AO2 SLP136 T02510212 KGUS 300813Z AUTO 00000KT 9SM R23/5500FT CLR 13/10 A3006 RMK AO2 KICT 300753Z 20004KT 10SM FEW200 22/19 A2997 RMK AO2 SLP132 T02220189 KHNB 300815Z AUTO 00000KT 10SM CLR 14/12 A3005 RMK AO1 KGWB 300815Z AUTO 00000KT 10SM CLR 13/10 A3006 RMK AO2 USNN 300800Z 08007MPS 9999 SCT036CB 23/16 Q1000 R03/0///65 NOSIG RMK QFE746 KGVL 300753Z AUTO 00000KT 10SM CLR 23/19 A3000 RMK AO2 SLP139 T02280189 UTFF 300800Z 35004KT 230V360 9999 NSC 36/11 Q1006 R18/CLRD70 KHND 300756Z 03013G21KT 10SM CLR 33/13 A2992 RMK AO2 SLP092 T03280128 404280256 KHMN 300758Z AUTO 16012KT 10SM CLR 26/11 A3010 RMK AO2 SLP115 T02610107 $ KHLX 300815Z AUTO 04004KT 10SM OVC027 17/15 A3009 RMK AO2 T01730145 KGUY 300753Z AUTO 02014KT 10SM CLR 21/16 A3009 RMK AO2 SLP140 T02110156 KIDP 300815Z AUTO 19006KT 1/2SM HZ BKN060 23/17 A2996 RMK AO2 WBGB 300800Z 32006KT 260V060 9999 FEW016 BKN300 33/25 Q1008 KGXA 300655Z AUTO 31007KT 10SM CLR 28/M04 A2996 RMK AO2 SLP073 WND DATA ESTMD T02801043 TSNO $ KIFA 300815Z AUTO 15006KT 5SM +RA SCT024 BKN036 OVC050 18/16 A3001 RMK AO2 P0010 T01800164 KHOB 300815Z AUTO 17004KT 10SM CLR 21/15 A3013 RMK AO2 KGVT 300815Z AUTO 00000KT 10SM CLR 22/21 A2999 RMK AO2 URWW 300800Z 12005MPS 080V170 2400 -TSRA SCT008 BKN040CB 19/16 Q1011 RETSRA R11/290240 TEMPO 0800 +TSRAGR EKSB 300750Z 19008KT 160V220 9999 -RA SCT030 BKN065 15/13 Q1008 EKRK 300750Z AUTO 20010KT 160V240 9999NDV BKN055/// 17/12 Q1010 UTFN 300800Z VRB01KT 9999 NSC 36/17 Q1005 R28/CLRD70 NOSIG WAOO 300800Z 34004KT 9999 SCT017 35/25 Q1007 WBGG 300800Z 07006KT 020V110 9999 SCT020 BKN300 32/23 Q1008 NOSIG KIEN 300752Z AUTO 28004KT 10SM CLR 16/13 A3012 RMK AO2 SLP169 T01560133 KHOE 300755Z AUTO 17004KT 1SM BR OVC002 22/22 A2997 RMK AO2 KGWO 300753Z AUTO 00000KT 10SM CLR 19/17 A2999 RMK AO2 SLP153 T01940167 EKRN 300750Z AUTO 19008KT 9999NDV FEW110/// SCT140/// 19/15 Q1013 KGXF 300758Z AUTO 10021KT 10SM BKN180 35/14 A2984 RMK AO2 LTG DSNT E SLP089 T03450144 KHMZ 300815Z AUTO 00000KT 7SM CLR 10/10 A3009 RMK AO2 T01020095 KGWR 300815Z AUTO 36006KT 10SM BKN095 BKN120 17/15 A3001 RMK AO1 KIER 300815Z AUTO 00000KT 10SM CLR 23/23 A2997 RMK AO2 T02290229 KHNR 300815Z AUTO 00000KT 10SM CLR 20/19 A2998 RMK AO2 DTTA 300800Z 15004KT 090V190 9999 FEW026 29/15 Q1014 NOSIG KGYB 300815Z AUTO 00000KT 10SM CLR 24/23 A2999 RMK AO2 T02440229 DTTB 300800Z 12009KT 090V150 9999 FEW020 30/15 Q1014 FBSK 300700Z VRB01KT CAVOK 12/02 Q1029 NOSIG WAPP 292200Z 34003KT 9999 SCT019 24/24 Q1012 USPP 300800Z 29003MPS 9999 OVC008 14/13 Q1009 R21/150055 NOSIG RMK QFE746 DTTD 300800Z VRB06KT 9999 FEW026 SCT030 35/08 Q1016 RMK SIROCCO KHON 300755Z AUTO 29004KT 10SM OVC110 18/13 A2997 RMK AO2 SLP142 T01780133 KGWW 300800Z AUTO 00000KT 10SM BKN110 21/21 A2999 RMK AO2 T02060206 EKSN 300750Z 17012KT 5000 SHDZ SCT014 BKN026 14/13 Q1006 WBGR 300800Z 33007KT 9999 FEW016 BKN300 32/27 Q1007 DTTF 300800Z 02012KT 9999 FEW026 28/16 Q1012 NOSIG KIFP 300815Z AUTO 16012KT 10SM CLR 37/14 A2975 RMK AO2 KHOP 300758Z AUTO 36004KT 10SM CLR 16/13 A3005 RMK AO2 SLP173 T01630134 FBSP 300800Z 09011KT CAVOK 19/12 Q1028 WBGS 300800Z 19003KT 9999 SCT018 SCT150 BKN300 34/24 Q1007 DTTG 300800Z 07010KT 030V100 9999 FEW020 29/12 Q1014 NOSIG EKSP 300750Z 19012KT 160V230 9999 BKN010 BKN021 15/13 Q1008 TEMPO 4000 -RADZ KGYH 300815Z AUTO 09004KT 10SM CLR 21/19 A2999 RMK AO2 KHNZ 300800Z AUTO 00000KT 7SM CLR 19/18 A3002 RMK AO2 T01850178 KGYI 300755Z AUTO 11004KT 10SM CLR 24/20 A3001 RMK AO2 T02410196 DTTJ 300800Z 13009KT 100V160 CAVOK 30/17 Q1014 NOSIG KHOT 300753Z AUTO 00000KT 8SM CLR 21/19 A3003 RMK AO2 SLP162 T02060194 DTTK 300800Z 09002KT 9999 SCT023 28/18 Q1016 KHOU 300753Z 31003KT 10SM BKN033 BKN250 27/24 A2992 RMK AO2 SLP136 T02720244 KGYL 300815Z AUTO 00000KT 10SM CLR 17/16 A2996 RMK AO2 T01710155 DTTL 300800Z VRB06KT 9999 SCT020 25/21 Q1016 KIGM 300751Z AUTO 22005KT 10SM CLR 29/09 A2998 RMK AO2 SLP067 T02890089 $ WBGY 300800Z 31002KT 9999 FEW022 BKN300 33/25 Q1007 KHPN 300756Z 31007KT 10SM CLR 18/13 A2996 RMK AO2 SLP140 T01780133 WAQQ 300800Z 11005KT 9999 SCT015 29/25 Q1008 DTTN 300800Z 33003KT 9999 SCT020 29/18 Q1014 KGXY 300815Z 05007KT 10SM FEW120 18/12 A3017 RMK AO1 KHQG 300815Z AUTO 12008KT 10SM CLR 20/16 A3007 RMK AO2 LTG DSNT E AND S T01950160 KGZH 300753Z AUTO 00000KT 10SM BKN095 22/21 A2995 RMK AO2 SLP138 T02220211 TSNO KIGQ 300815Z AUTO 18003KT 10SM CLR 14/08 A3005 RMK AO2 T01370078 KGYR 300347Z 02010KT 10SM FEW100 SCT170 BKN220 37/16 A2980 RMK LTG DSNT N E. LAST KHQI 300815Z AUTO 00000KT 10SM SCT042 SCT049 28/23 A2991 RMK A01 DTTR 300800Z 13015KT 9999 BKN026 36/07 Q1014 KK88 300815Z AUTO 17005KT 10SM CLR 22/19 A2998 RMK AO1 T02210191 KIIB 300815Z AUTO 22003KT 10SM CLR 17/16 A3002 RMK AO2 KGZL 300815Z AUTO 12003KT 10SM CLR 23/18 A3000 RMK AO2 KHQM 300753Z AUTO 27013G19KT 8SM OVC014 14/12 A3022 RMK AO2 SLP238 T01390117 401670122 KGZN 300800Z AUTO 16006KT 10SM CLR 23/21 A3004 RMK AO2 EKVD 300650Z 19012KT 9999 -RA BKN006 14/13 Q1008 KIGX 300815Z AUTO 30003KT 6SM BR BKN003 OVC100 21/19 A3000 RMK AO2 T02060189 WARR 300800Z 13003KT 100V170 9999 -RA FEW020CB 26/25 Q1009 TEMPO TL0800 8000 -RA USRR 300800Z 07007G12MPS 7000 -SHRA SCT037CB 20/15 Q1001 R07/290055 NOSIG RMK QFE746 DTTX 300800Z 13005KT 050V170 9999 FEW023 28/16 Q1016 NOSIG KGYY 300815Z AUTO 00000KT 10SM CLR 14/12 A3005 RMK AO2 T01350123 EKVG 300750Z AUTO 15006KT 9999NDV NCD 11/09 Q0996 DTTZ 300800Z 09023KT 7000 BKN033 30/16 Q1011 NOSIG KHRI 300753Z AUTO 24013KT 10SM CLR 22/12 A2996 RMK AO2 PK WND 25026/0721 SLP139 T02220117 403670200 KHSA 300052Z 00000KT 7SM CLR 23/21 2995 KHRJ 291205Z AUTO 00000KT 5SM BR 22/20 A2996 RMK AO2 T02160197 UUBC 300800Z VRB01MPS CAVOK 20/16 Q1015 R31/190055 NOSIG RMK QFE745/0993 KGZS 300815Z AUTO 00000KT 10SM CLR 15/15 A3003 RMK A01 EKVJ 300650Z 20012KT 9999 SCT010 BKN016 15/14 Q1006 KHSB 300815Z AUTO 10SM 15/14 A3006 RMK AO2 T01480141 KHRL 300752Z 19005KT 10SM CLR 26/24 A2992 RMK AO2 SLP132 T02610239 KJAC 300815Z 00000KT 10SM FEW120 13/07 A3025 RMK AO1 KHQU 300815Z AUTO 16003KT 10SM CLR 23/23 A3000 RMK AO1 T02330231 KIJD 300752Z AUTO 00000KT 10SM CLR 17/14 A2993 RMK AO2 SLP134 T01720144 KHSD 300815Z AUTO 19007KT 10SM CLR 24/19 A3000 RMK A01 KHSE 300751Z AUTO 25003KT 10SM FEW015 25/23 A2999 RMK AO2 SLP154 T02500233 TSNO KHRO 300753Z AUTO 00000KT 10SM CLR 21/19 A3005 RMK AO2 SLP159 T02060189 ELLX 300750Z 21008KT 180V270 9999 FEW011 SCT016 BKN022 17/13 Q1015 NOSIG KHSG 300755Z AUTO 27026G35KT 10SM OVC100 17/11 A3018 RMK AO2 T01710112 USSS 300800Z 28005MPS 9999 OVC010CB 14/14 Q1006 R26R/290037 NOSIG RMK QFE734/0978 KHQZ 300815Z AUTO 13003KT 10SM CLR 24/20 A2998 RMK AO1 T02360203 WBKK 300800Z 29003KT 9999 FEW014 SCT140 BKN270 33/26 Q1008 NOSIG KHSI 300753Z AUTO 26003KT 10SM CLR 19/17 A3001 RMK AO2 RAE0655 SLP147 P0000 T01940167 WBKL 300800Z 32003KT 9999 FEW012 FEW014CB SCT140 BKN280 30/25 Q1008 KL18 300815Z AUTO 00000KT 7SM OVC004 18/16 A2989 RMK AO2 KHRT 300801Z AUTO 33004KT 10SM -DZ FEW050 26/23 A2992 RMK AO2 RAB0758E01DZB01 CIG 150 RWY18 $ UUBP 300800Z 09003MPS CAVOK 25/16 Q1014 R34/CLRD70 NOSIG RMK QFE743/0991 KJAN 300754Z AUTO 00000KT 10SM CLR 23/21 A2997 RMK AO2 SLP142 T02280211 KHRX 300815Z AUTO 27011G16KT 10SM BKN110 24/13 A3014 RMK AO2 LTG DSNT SW AND W T02390133 USTR 300800Z 31006MPS 270V350 9999 SCT020CB BKN043 20/16 Q1000 R21/CLRD65 NOSIG RMK QFE740/0987 KIIY 300815Z AUTO 00000KT 10SM CLR 24/23 A2996 RMK AO2 KHSP 300755Z AUTO 09006KT 10SM SCT019 BKN048 OVC050 14/11 A3014 RMK AO2 T01400111 WBKS 300800Z 05002KT 9999 FEW015 FEW017CB BKN260 32/25 Q1007 KJAQ 300815Z AUTO 01005KT 10SM CLR 22/10 A2989 RMK AO1 T02240102 WATT 300800Z 10014KT 9999 SCT017 31/22 Q1011 NOSIG WBKT 300800Z 03007KT 340V100 9999 FEW014 SCT034 BKN270 31/25 Q1009 KJAS 300815Z AUTO 00000KT 7SM CLR 22/21 A2998 RMK AO2 T02200212 KJCA 300815Z AUTO 00000KT 10SM SCT120 20/20 A2997 RMK AO2 KHUA 300758Z AUTO 02005KT 10SM CLR 18/15 A3000 RMK AO2 SLP153 UUDD 300800Z 09002MPS 050V170 9999 FEW040 25/10 Q1016 R88/010095 NOSIG KIKK 300815Z AUTO 00000KT 10SM CLR 13/11 A3006 RMK AO2 T01330109 KHST 300758Z AUTO 00000KT 10SM FEW070 BKN190 26/23 A2998 RMK AO2 LTG DSNT W DZB11E14RAB14E23DZB23E27 SLP155 P0000 T02590233 UUBW 300800Z 07003MPS CAVOK 25/10 Q1015 R30/010060 NOSIG WBKW 300800Z 18006KT 9999 SCT017 BKN140 29/26 Q1008 KHTL 300753Z AUTO 06003KT 10SM CLR 07/06 A3004 RMK AO2 SLP173 T00720061 KHSV 300753Z AUTO 34003KT 10SM CLR 18/14 A3001 RMK AO2 SLP154 T01830139 KILE 300756Z AUTO 00000KT 10SM CLR 24/22 A2999 RMK AO2 SLP158 T02390222 KHUF 300753Z 00000KT 10SM CLR 14/13 A3008 RMK AO2 SLP181 T01440128 KJAX 300756Z 00000KT 10SM R08/3000VP6000FT FEW180 23/23 A2995 RMK AO2 SLP141 T02280228 $ KHTO 300815Z AUTO 33003KT 10SM CLR 16/15 A2993 RMK AO2 T01630149 KIJX 300815Z AUTO 14004KT 10SM SCT095 BKN120 16/12 A3005 RMK AO2 T01570122 KILG 300751Z 32007KT 10SM CLR 17/13 A3001 RMK AO2 SLP163 T01720133 $ KL35 300815Z AUTO 00000KT 10SM CLR 12/02 A3027 RMK AO2 KJBR 300753Z AUTO 04005KT 10SM CLR 22/18 A3003 RMK AO2 SLP164 T02170178 UUDL 300800Z 36003MPS 9999 FEW033 23/11 Q1016 R23/010095 NOSIG RMK QFE754 KHTS 300751Z 00000KT 9SM CLR 16/14 A3006 RMK AO2 SLP174 T01560139 KL38 300815Z AUTO 00000KT 10SM CLR 23/23 A2993 RMK AO2 P0001 T02300230 KIKT 300815Z AUTO 20007KT 180V320 10SM CLR 28/23 A2992 RMK A01 UUEE 300800Z 03002MPS 310V090 CAVOK 24/11 Q1015 R06L/000062 R06R/////// NOSIG KHUL 300753Z AUTO 24003KT 6SM BR OVC002 16/15 A2983 RMK AO2 SLP101 T01560150 KILM 300753Z 00000KT 10SM CLR 22/21 A2997 RMK AO2 SLP147 T02220206 KJDD 300815Z AUTO 00000KT 8SM CLR 22/21 A3000 RMK AO2 KHUM 300815Z AUTO 00000KT 3SM BR CLR 23/23 A2992 RMK AO2 T02330232 KIKV 300815Z AUTO RMK AO2 PNO PWINO KIKW 300814Z AUTO 00000KT 10SM CLR 09/08 A3002 RMK AO2 T00850079 KILN 300754Z AUTO 00000KT 10SM CLR 12/09 A3007 RMK AO2 SLP180 T01220094 FCPP 300800Z 12004KT 4000 BR FEW008 BKN020 24/22 Q1017 BECMG 6000 NSW KHUT 300752Z AUTO 23004KT 10SM CLR 23/18 A2998 RMK AO2 SLP127 T02330183 KJCT 300751Z AUTO 29003KT 8SM CLR 20/16 A3003 RMK AO2 SLP132 T02000156 UTNN 300800Z 22007KT CAVOK 38/08 Q1006 R33/CLRD60 NOSIG EKYT 300750Z 18012KT 9999 FEW008 BKN012 16/14 Q1006 KIML 300753Z AUTO 10004KT 10SM CLR 17/16 A3011 RMK AO2 SLP167 T01720156 KHWD 300754Z AUTO 00000KT 8SM BKN011 14/10 A2992 RMK AO2 SLP141 T01390100 401890133 KIND 300754Z 33003KT 10SM BKN170 16/12 A3007 RMK AO2 SLP177 T01610122 KJDN 300748Z AUTO 00000KT 15/12 A3014 RMK AO1 SLP195 T01500117 KHVN 300753Z AUTO 34005KT 10SM CLR 20/14 A2994 RMK AO2 SLP137 T02000139 KJEF 300753Z AUTO 12004KT 10SM CLR 20/14 A3002 RMK AO2 SLP152 T02000144 KINF 300815Z AUTO 00000KT 10SM CLR 23/23 A2998 RMK AO2 ZYTL 300800Z 25003MPS 220V300 9999 SCT026 27/15 Q1003 NOSIG KHVR 300753Z AUTO 09011KT 10SM CLR 18/13 A3012 RMK AO2 SLP184 T01780133 UTNU 300800Z 25003KT CAVOK 39/07 Q1006 R31/CLRD70 NOSIG KHVS 300815Z AUTO 00000KT 5SM BKN009 BKN014 21/21 A2997 RMK AO2 KIMS 300811Z AUTO 00000KT 10SM CLR 14/12 A3008 RMK AO1 KINJ 300758Z AUTO 00000KT 10SM CLR 23/20 A2999 RMK AO2 KINK 300753Z AUTO 11006KT 10SM CLR 23/17 A3005 RMK AO2 SLP126 T02330172 TSNO KIMT 300754Z AUTO 00000KT 10SM FEW050 13/10 A2997 RMK AO2 SLP148 T01330100 TSNO KIOB 300815Z AUTO 00000KT 10SM SCT050 13/13 A3008 RMK AO2 KINL 300755Z AUTO 31005KT 10SM BKN100 14/14 A2995 RMK AO2 SLP142 T01440139 KHXD 300815Z AUTO 9SM FEW024 23/23 A2996 RMK AO2 LTG DSNT NE AND SE KHWO 300753Z AUTO 14003KT 10SM CLR 27/24 A3000 RMK AO2 SLP157 T02720239 TSNO KJER 300753Z AUTO 05012KT 10SM CLR 23/08 A3001 RMK AO2 SLP112 T02280078 KHYA 300756Z AUTO 33003KT 10SM CLR 19/17 A2987 RMK AO2 SLP114 T01940172 KJES 300815Z AUTO 00000KT 5SM BR SCT001 23/23 A2996 RMK AO2 KINS 300758Z AUTO 25004KT 10SM CLR 29/07 A2996 RMK AO2 SLP088 T02850065 403950241 KJFK 300751Z 33005KT 10SM CLR 22/13 A2996 RMK AO2 SLP146 T02170133 KINT 300754Z AUTO 00000KT 9SM CLR 19/18 A3003 RMK AO2 SLP156 T01940183 ZYTX 300800Z 17004MPS 150V210 9999 FEW026TCU BKN030 26/20 Q1002 BECMG TL0930 35007MPS -TSRA ENAL 300750Z 08008KT 9999 FEW050 BKN080 13/10 Q0998 KHWV 300756Z AUTO 32005KT 10SM CLR 18/15 A2995 RMK AO2 SLP140 T01780150 TSNO KINW 300756Z AUTO 21012KT 10SM CLR 24/09 A3013 RMK AO2 SLP112 T02390094 ENAN 300750Z 11007KT CAVOK 14/11 Q1009 KHWY 300815Z AUTO 00000KT 10SM SCT055 16/13 A3004 RMK AO2 T01550129 KJGG 300815Z AUTO 00000KT 10SM CLR 21/19 A3002 RMK AO1 KHYI 300815Z 33005KT 10SM CLR 23/22 A2997 RMK AO1 KIPJ 300805Z AUTO 00000KT 7SM BKN046 20/20 A3001 RMK AO2 T02020199 FDLB 300700Z AUTO 30003KT //// // ////// 17/03 Q1028 ENAT 300750Z 15006KT 9999 FEW019 SCT066 BKN140 18/14 Q1011 RMK WIND 700FT 16010KT KIPL 300753Z AUTO 13010KT 10SM CLR 32/21 A2973 RMK AO2 SLP067 T03170211 404280294 ENBL 300750Z 13004KT 9999 VCSH FEW045 BKN060 13/07 Q0998 KIOW 300752Z AUTO 16005KT 10SM FEW055 SCT070 OVC090 19/15 A3002 RMK AO2 SLP164 T01940150 KHZE 300815Z AUTO 00000KT 10SM SCT110 13/12 A3013 RMK AO2 ENBN 300750Z 14004KT 090V210 CAVOK 21/10 Q1005 RMK WIND THR22 12008G20KT KJFX 300815Z AUTO 00000KT 17/17 A3000 RMK AO2 PWINO ENBO 300750Z 09016KT 9999 FEW040 19/11 Q1006 NOSIG UTSA 300800Z 11003KT 9999 NSC 39/04 Q1005 R25/CLRD70 NOSIG KJFZ 300815Z AUTO 06007KT 10SM BKN049 16/12 A3010 RMK AO2 T01610115 UTSB 300800Z 34010KT CAVOK 38/07 Q1005 R01/CLRD70 NOSIG WBSB 300800Z 33007KT 9999 FEW016 FEW017CB SCT140 BKN280 32/25 Q1008 NOSIG KHYR 300753Z AUTO 00000KT 10SM CLR 12/10 A2997 RMK AO2 SLP149 T01170100 ENBR 300750Z 11009KT 9999 FEW030 BKN060 16/08 Q0995 TEMPO SHRA BECMG 16015KT RMK WIND 1200FT 11021KT KHYS 300815Z AUTO 00000KT 10SM CLR 22/15 A3000 RMK AO1 ENBS 300650Z 15014KT 9999 -SHRA SCT025 BKN055 15/12 Q1013 KIPT 300754Z AUTO 34004KT 10SM CLR 15/13 A3003 RMK AO2 SLP167 T01500128 KHZL 300815Z AUTO 00000KT 1/2SM FG VV005 11/11 A3008 RMK AO2 ENBV 300750Z VRB03KT 9999 VCSH FEW020 BKN043 15/14 Q1013 KHYW 300815Z AUTO 00000KT 7SM VCTS SCT016 BKN033 SCT039 20/20 A2996 RMK AO2 LTG DSNT SE AND S KJHN 300815Z AUTO 06008KT 10SM CLR 20/14 A3004 RMK AO2 LTG DSNT E THRU S T01970139 ENCN 300750Z 22012KT 9999 SCT018 BKN024 15/12 Q1003 KHYX 300814Z AUTO 22004KT 10SM CLR 11/08 A3002 RMK AO2 UTSK 300800Z 30005KT 240V360 CAVOK 38/07 Q1005 R16/CLRD70 KHZR 300755Z AUTO 00000KT 7SM CLR 22/22 A2995 RMK AO2 T02200217 KIRK 300755Z AUTO 14006KT 10SM BKN100 19/16 A3003 RMK AO2 SLP165 T01890156 KJHW 300815Z AUTO 00000KT 10SM CLR 12/09 A3007 RMK AO1 KHZX 300814Z AUTO 00000KT 10SM SCT060 OVC100 16/14 A2996 RMK AO2 KHZY 300753Z AUTO 00000KT 10SM CLR 09/08 A3007 RMK AO2 SLP181 T00890083 TSNO UTSS 300800Z 09009KT 010V150 9999 NSC 35/05 Q1008 R88/CLRD70 NOSIG UTST 300800Z 30009KT 270V330 CAVOK 38/06 Q1004 R88/CLRD70 NOSIG VLLB 300800Z 36002KT 9999 SCT018 SCT060 BKN080 32/25 Q1004 NOSIG ENDR 300750Z AUTO 14015KT 14/08 Q1000 KJKA 300815Z AUTO 00000KT 10SM CLR 23/23 A2992 RMK AO2 T02340234 KIRS 300815Z AUTO 00000KT 10SM CLR 10/08 A3005 RMK AO2 T01000081 FDMS 300700Z 30004KT CAVOK 16/06 Q1026 NOSIG KM19 300756Z AUTO 07003KT 10SM CLR 22/22 A3004 RMK AO2 T02160216 SLP168 ENFB 300750Z AUTO 14013KT 9999NDV -RA OVC062/// 12/10 Q0997 W///S4 ENEK 300750Z 23024KT 9999 SCT018TCU 13/10 Q1002 W14/S5 KM21 300815Z AUTO 00000KT 10SM CLR 14/14 A3005 RMK AO2 T01360135 ENDU 300750Z 08002KT 9999 SCT060 BKN200 19/11 Q1009 NOSIG KISM 300756Z AUTO 19003KT 10SM CLR 24/23 A2999 RMK AO2 SLP155 T02390233 KISN 300752Z AUTO 03004KT 10SM CLR 14/13 A3015 RMK AO2 SLP201 T01440128 KISO 300755Z AUTO 09004KT 10SM CLR 22/21 A2999 RMK AO2 T02160211 FEFF 300800Z VRB03KT 9999 BKN007 27/23 Q1017 NOSIG KM25 300815Z AUTO 06003KT 10SM CLR A3006 RMK AO2 KISP 300756Z AUTO 34006KT 10SM CLR 18/15 A2994 RMK AO2 SLP137 T01830150 LBBG 300800Z 34013KT 9999 FEW032 27/18 Q1014 NOSIG KISQ 300815Z AUTO 00000KT 10SM CLR 12/11 A2995 RMK AO2 T01210114 KITH 300756Z AUTO 08005KT 10SM CLR 11/10 A3005 RMK AO2 SLP171 T01110100 TSNO UTTT 300800Z 23005KT CAVOK 38/07 Q1006 R08L/CLRD70 NOSIG KJKJ 300814Z AUTO 00000KT 10SM SCT120 17/16 A3000 RMK AO2 KM30 300815Z AUTO 00000KT 10SM CLR 15/15 A3005 RMK AO2 T01500146 VLLN 300800Z 36004KT 9999 FEW020 FEW100 FEW200 33/25 Q1006 NOSIG KJKL 300753Z AUTO 00000KT 10SM CLR 18/13 A3006 RMK AO2 SLP168 T01780133 ENGC 300750Z 14009KT 9999 -SHRA FEW010 BKN050 11/10 Q0997 W10/S4 ENFL 300750Z 16003KT 110V200 9999 -RA FEW025 SCT040 BKN065 13/11 Q0998 ENEV 300750Z 26003KT 160V310 CAVOK 18/12 Q1008 RMK WIND 1400FT 11010KT KISW 300801Z AUTO 00000KT 3SM BR CLR 12/11 A3001 RMK AO2 T01220106 KM33 300815Z AUTO 01005KT 10SM CLR 18/14 A3006 RMK A01 KITR 300753Z AUTO 23007KT 10SM CLR 17/13 A3011 RMK AO2 SLP142 T01670133 KM40 300815Z AUTO 00000KT 5SM HZ CLR 16/07 A3002 RMK AO2 FEFT 300800Z 11410KT 2000 BR OVC005 20/20 Q1016 UUMO 300800Z 18003MPS CAVOK 24/12 Q1015 R26/090060 NOSIG RMK QFE746/0995 ENGM 300750Z 15011KT 9999 SCT015 BKN054 14/11 Q1005 TEMPO SHRA BKN012 KJLN 300753Z AUTO 18008KT 10SM CLR 23/18 A3000 RMK AO2 SLP146 T02330178 ENHD 300750Z 15020KT 9999 -RADZ FEW011CB SCT015 BKN035 14/12 Q0995 ENHE 300750Z 14028KT CAVOK 14/09 Q1001 W///S4 ENHF 300750Z VRB02KT 9999 FEW049 SCT098 17/11 Q1010 RMK WIND 1254FT 17013KT FDPP 300600Z AUTO 30004KT //// // ////// 14/03 Q1030 UUOB 300800Z 04003MPS 9999 SCT046 22/19 Q1012 R11/090060 NOSIG KIWA 300815Z AUTO 16021G25KT 10SM CLR 26/19 A2993 RMK AO2 LTG DSNT E AND S ENHK 300550Z 11013KT CAVOK 16/12 Q1010 KIWD 300815Z AUTO 24005KT 10SM FEW050 15/13 A2994 RMK AO1